Now boarding.
Please wait.

menu

Important!

Any data obtained from this website should not be used in real world navigation/ flight!

Weather Service

METAR Weather Service:

GlobalOne Weather Service with live information directly from Vatsim. To get your latest METAR simply enter the ICAO of your desired destination.


Enter ICAO code to obtain METAR from Vatsim:

ICAO code:



Metar and TAF for
METAR

Please issue an ICAO code.

TAF

AGGH 220505Z 2206/2306 07012KT 9999 SCT018 T 30 27 25 23 Q 1007 1009 1010 1008 ANYN 220345Z 2206/2306 09010KT 9999 -SHRA SCT018 SCT030 BKN120 INTER 2206/2212 5000 SHRA BKN008 T 28 26 25 25 Q 1006 1008 1007 1005= AYPY 220330Z 2206/2306 16008KT 9999 SCT018 SCT140= BGSF 220550Z 2206/2312 VRB08KT 9999 FEW060 TEMPO 2206/2215 BKN060 BGTL 221030Z 2210/2315 15015G20KT 9999 FEW030 SCT150 QNH2992INS TEMPO 2211/2215 12020G30KT 520009 BECMG 2214/2215 13020G30KT 9999 FEW020 BKN035 620409 520009 QNH2989INS BECMG 2221/2222 14020G30KT 9999 BKN020 OVC035 620409 520009 QNH2985INS BECMG 2303/2304 14020G30KT 9999 FEW020 BKN150 520009 QNH2978INS TX08/2217Z TN05/2304Z BIAR 220719Z 2209/2309 35005KT 9999 SCT025 OVC035 TX15/2216Z TN09/2305Z TEMPO 2209/2212 -RADZ BKN015 OVC025 BIEG 220719Z 2209/2309 36014KT 9999 -RADZ BKN005 OVC010 TX10/2215Z TN08/2306Z PROB40 TEMPO 2209/2211 2000 RADZ BR OVC003 BECMG 2212/2215 SCT010 OVC020 BECMG 2220/2222 36005KT BIKF 220719Z 2209/2309 05004KT 9999 FEW020 BKN040 TX16/2216Z TN10/2300Z TEMPO 2213/2218 27010KT BECMG 2218/2221 BKN010 TEMPO 2220/2309 3000 BR OVC005 BIRK 220719Z 2209/2309 09005KT 9999 FEW020 BKN040 TX16/2215Z TN10/2303Z PROB40 TEMPO 2213/2218 SHRA BKN020CB BECMG 2213/2215 29012KT BECMG 2219/2221 27005KT SCT015 BKN025 TEMPO 2300/2309 5000 BR BKN005 BKPR 220530Z 2206/2306 36008KT 9999 FEW050 TEMPO 2211/2219 5000 -TSRA FEW030CB PROB30 TEMPO 2213/2216 4000 TSRA SCT030CB CBBC 220038Z 2201/2205 24005KT P6SM FEW040 BKN120 BKN140 RMK FCST BASED ON AUTO OBS. NXT FCST WILL BE ISSUED AT 221245Z CWSA 220809Z 2208/2220 32012G22KT 6SM BR SCT003 OVC025 TEMPO 2208/2210 3/4SM -DZ BR OVC003 FM221000 32012G22KT P6SM SCT007 TEMPO 2210/2213 5SM BR BKN007 FM221600 28012KT P6SM SKC BECMG 2218/2220 24010KT RMK FCST BASED ON AUTO OBS. NXT FCST BY 221400Z CWWU 220800Z 2208/2306 14005KT P6SM OVC006 TEMPO 2208/2210 4SM -SHRA BR BKN006 OVC012 FM221200 14005KT P6SM SCT012 BKN025 TEMPO 2212/2214 4SM BR OVC010 FM221500 30006KT P6SM SCT012 BKN030 FM230000 VRB03KT P6SM SCT040 FM230300 27005KT P6SM SKC RMK NXT FCST BY 221200Z CYAM 220738Z 2208/2220 31007KT P6SM SCT180 BECMG 2209/2211 SKC FM221500 30012KT P6SM SCT050 RMK NXT FCST BY 221400Z CYAT 220838Z 2209/2219 30012G22KT 4SM -RA BR OVC020 TEMPO 2209/2219 P6SM NSW OVC030 RMK FCST BASED ON AUTO OBS. NXT FCST BY 221500Z CYAY 220748Z 2208/2220 12012KT P6SM OVC006 TEMPO 2208/2218 2SM -SHRA BR OVC003 BECMG 2216/2218 36008KT RMK FCST BASED ON AUTO OBS. NXT FCST BY 221400Z CYBC 220738Z 2208/2220 32008KT P6SM SCT120 BECMG 2212/2214 26008KT FM221800 22012KT P6SM SKC RMK FCST BASED ON AUTO OBS. NXT FCST BY 221400Z CYBG 220530Z 2206/2306 28010KT P6SM BKN060 BECMG 2206/2208 FEW060 FM221500 28010KT P6SM SCT050 SCT240 FM222100 28010KT P6SM BKN080 BECMG 2300/2302 28005KT RMK NXT FCST BY 221200Z CYBK 220539Z 2206/2218 18005KT P6SM FEW110 FM221200 18005KT P6SM BKN030 TEMPO 2212/2217 P6SM -SHRA OVC030 FM221700 27010KT P6SM -RA OVC020 RMK NXT FCST BY 221200Z CYBL 220038Z 2201/2204 09005KT P6SM FEW050 FEW110 SCT250 RMK NXT FCST WILL BE ISSUED AT 221445Z CYBN 221015Z 2210/2222 VRB03KT P6SM SCT050 BKN140 BKN250 BECMG 2214/2216 33012KT RMK FCST BASED ON AUTO OBS. NXT FCST BY 221200Z CYBR 220539Z 2206/2218 VRB03KT P6SM SKC PROB30 2209/2213 1/2SM FG VV002 BECMG 2213/2215 28008KT RMK NXT FCST BY 221200Z CYBX 220748Z 2208/2220 07008KT 6SM BR SCT007 OVC012 TEMPO 2208/2219 11/2SM -RA BR OVC007 PROB30 2208/2219 3/4SM -RA BR OVC002 FM221900 31012KT P6SM BKN020 RMK NXT FCST BY 221400Z CYCA 220846Z 2208/2220 FCST CNCLD DUE NO OBS RMK FCST BASED ON AUTO OBS. NXT FCST BY 221400Z CYCB 220638Z 2207/2219 30012KT P6SM BKN020 TEMPO 2207/2219 SCT020 RMK NXT FCST BY 221300Z CYCG 220038Z 2201/2204 VRB03KT P6SM FEW070 RMK NXT FCST WILL BE ISSUED AT 221445Z CYCO 220638Z 2207/2219 09005KT P6SM BKN060 FM221300 09005KT P6SM BKN040 TEMPO 2213/2219 P6SM -RA BKN020 RMK NXT FCST BY 221300Z CYCX 220915Z 2209/2221 32005KT P6SM FEW080 BKN260 TEMPO 2209/2212 3SM BR FM221500 27008KT P6SM SCT030 SCT230 TEMPO 2215/2221 BKN030 BKN160 RMK NXT FCST BY 221200Z CYCY 220714Z 2207/2219 16005KT 1/2SM FG VV002 TEMPO 2207/2219 P6SM NSW SCT001 BECMG 2210/2212 15015KT RMK FCST BASED ON AUTO OBS. NXT FCST BY 221300Z CYDB 220553Z 2206/2218 VRB03KT P6SM SCT030 BKN050 TEMPO 2206/2213 5SM -SHRA BR BKN030 PROB30 2209/2213 2SM BR FM221300 30005KT P6SM BKN040 TEMPO 2213/2218 P6SM -SHRA FEW020 OVC040 RMK FCST BASED ON AUTO OBS. NXT FCST BY 221200Z CYDF 220748Z 2208/2220 25005KT P6SM OVC012 TEMPO 2208/2212 5SM -RA -DZ BR OVC005 FM221400 30010KT P6SM BKN015 TEMPO 2214/2216 BKN025 FM221600 30010G20KT P6SM SKC RMK NXT FCST BY 221400Z CYDN 220539Z 2206/2218 24008KT P6SM SKC PROB30 2210/2214 2SM BR RMK FCST BASED ON AUTO OBS. NXT FCST BY 221200Z CYDP 221010Z 2210/2222 07008KT 6SM -RA BR SCT005 OVC015 TEMPO 2210/2222 2SM -RA BR OVC005 RMK NXT FCST BY 221400Z CYDQ 220056Z 2201/2205 14007KT P6SM SCT060 TEMPO 2201/2204 P6SM -SHRA BKN060 PROB30 2201/2204 VRB15G25KT 5SM TSRA BKN060CB FM220400 10006KT P6SM SCT050 RMK FCST BASED ON AUTO OBS. NXT FCST WILL BE ISSUED AT 221245Z CYEG 220838Z 2209/2306 13008KT P6SM SKC BECMG 2215/2217 17012KT FM230300 12008KT P6SM SCT180 RMK NXT FCST BY 221200Z CYEK 220539Z 2206/2218 22008KT P6SM BKN060 TEMPO 2206/2209 SCT060 FM220900 27008KT P6SM FEW060 BECMG 2216/2218 18015KT RMK FCST BASED ON AUTO OBS. NXT FCST BY 221200Z CYER 220838Z 2209/2219 32012G22KT P6SM SCT020 OVC030 TEMPO 2209/2215 BKN020 OVC030 BECMG 2215/2217 FEW030 RMK FCST BASED ON AUTO OBS. NXT FCST BY 221500Z CYEV 220638Z 2207/2219 VRB03KT P6SM BKN050 TEMPO 2207/2213 P6SM -SHRA BKN020 FM221300 VRB03KT P6SM FEW015 SCT030 RMK NXT FCST BY 221300Z CYFB 220627Z 2206/2306 15007KT P6SM SCT012 OVC030 TEMPO 2206/2215 2SM -DZ BR BKN006 OVC012 FM221500 15007KT P6SM SCT006 BKN025 TEMPO 2215/2303 BKN006 OVC020 FM230300 14007KT P6SM SCT006 OVC012 TEMPO 2303/2306 1SM -DZ BR BKN006 OVC012 RMK NXT FCST BY 221200Z CYFC 220538Z 2206/2218 28005KT P6SM SCT100 TEMPO 2206/2210 BKN100 PROB30 2206/2210 3/4SM BR BKN003 FM221000 26005KT P6SM FEW040 BECMG 2213/2215 28010KT RMK FCST BASED ON AUTO OBS. NXT FCST BY 221200Z CYFS 220658Z 2206/2218 35008KT P6SM SCT050 TEMPO 2206/2210 5SM TSRA BKN030CB FM221000 VRB03KT P6SM FEW050 TEMPO 2210/2215 P6SM -SHRA BKN050 FM221500 34006KT P6SM SCT050 TEMPO 2215/2218 P6SM -SHRA VCTS BKN050CB RMK NXT FCST BY 221200Z CYGL 220542Z 2206/2306 22012KT 6SM -RA BR OVC008 TEMPO 2206/2213 2SM -DZ BR OVC005 BECMG 2206/2207 26015G25KT FM221300 26015KT P6SM OVC012 TEMPO 2213/2216 5SM BR BKN007 BECMG 2300/2302 32012KT RMK NXT FCST BY 221200Z CYGP 220738Z 2208/2220 28005KT P6SM SKC PROB30 2208/2210 3/4SM BR FM221600 32010KT P6SM FEW060 RMK NXT FCST BY 221400Z CYGQ 220738Z 2208/2220 26005KT P6SM SCT050 BKN080 FM221200 31010G20KT P6SM SKC RMK NXT FCST BY 221400Z CYGV 220738Z 2208/2220 04005KT 1/2SM FG VV002 TEMPO 2208/2211 6SM BR SCT002 BKN100 FM221100 32005KT P6SM FEW100 BECMG 2212/2214 22008KT BECMG 2216/2218 26012G22KT RMK FCST BASED ON AUTO OBS. NXT FCST BY 221400Z CYGW 220835Z 2208/2218 22010KT 6SM BR SCT004 OVC010 TEMPO 2208/2215 11/2SM -RA -DZ BR BKN003 OVC005 FM221500 15006KT P6SM OVC012 RMK FCST BASED ON AUTO OBS. NXT FCST BY 221200Z CYGX 220638Z 2207/2219 34008KT P6SM OVC080 TEMPO 2207/2212 VRB15G25KT P6SM -SHRA VCTS OVC060CB FM221200 34006KT P6SM FEW020 BKN060 FM221700 28008KT P6SM FEW060 RMK NXT FCST BY 221300Z CYHD 220738Z 2208/2220 25006KT P6SM SKC FM221500 30012KT P6SM FEW050 FM221800 32012G22KT P6SM SCT040 TEMPO 2218/2220 P6SM -SHRA BKN040 RMK FCST BASED ON AUTO OBS. NXT FCST BY 221400Z CYHK 220539Z 2206/2218 FCST NOT AVBL DUE NO OBS RMK FCST BASED ON AUTO OBS. NXT FCST BY 221200Z CYHM 220538Z 2206/2306 30006KT P6SM SCT070 OVC130 TEMPO 2206/2212 P6SM -SHRA BKN070 BKN140 FM221300 03005KT P6SM BKN100 FM222000 02012KT P6SM BKN040 TEMPO 2220/2301 P6SM -SHRA FM230300 31006KT P6SM SCT060 RMK NXT FCST BY 221200Z CYHU 220538Z 2206/2306 02005KT P6SM FEW100 SCT240 FM221100 04008KT P6SM BKN080 FM222300 36005KT P6SM -SHRA OVC050 FM230400 01012KT 3SM -SHRA BR BKN020 OVC040 RMK FCST BASED ON AUTO OBS. NXT FCST BY 221200Z CYHY 221042Z 2210/2218 VRB03KT P6SM SCT120 TEMPO 2210/2215 5SM FU RMK NXT FCST BY 221200Z CYHZ 220939Z 2209/2306 28008KT P6SM SCT005 TEMPO 2209/2212 5SM BR BKN005 FM221600 30012KT P6SM SKC FM230000 16005KT P6SM FEW040 BKN120 RMK NXT FCST BY 221200Z CYIO 220638Z 2207/2219 07005KT P6SM SCT050 TEMPO 2207/2219 BKN050 RMK FCST BASED ON AUTO OBS. NXT FCST BY 221300Z CYIV 220638Z 2207/2219 FCST NOT AVBL DUE INSUFFICIENT DATA RMK NXT FCST BY 221300Z CYJT 220614Z 2206/2306 34005KT P6SM BKN025 TEMPO 2206/2208 BKN015 FM220800 26008KT 6SM BR SCT006 OVC012 TEMPO 2208/2215 11/2SM -DZ BR OVC006 PROB30 2208/2215 OVC005 FM221500 30010KT 6SM BR SCT006 OVC012 FM222100 24012KT P6SM OVC006 FM230200 21006KT P6SM SCT006 RMK NXT FCST BY 221200Z CYKA 220638Z 2207/2219 VRB03KT P6SM SKC BECMG 2216/2218 10008KT RMK NXT FCST BY 221300Z CYKF 220738Z 2208/2220 30006KT P6SM BKN090 OVC130 TEMPO 2208/2212 P6SM -SHRA BKN070 FM221300 03005KT P6SM BKN100 RMK FCST BASED ON AUTO OBS. NXT FCST BY 221400Z CYKJ 220938Z 2210/2222 25006KT P6SM SKC BECMG 2216/2218 28010KT SCT220 RMK FCST BASED ON AUTO OBS. NXT FCST BY 221300Z CYKL 220748Z 2208/2220 VRB03KT P6SM BKN040 TEMPO 2208/2214 BKN020 RMK FCST BASED ON AUTO OBS. NXT FCST BY 221400Z CYLL 220540Z 2206/2218 15007KT P6SM SKC PROB30 2211/2213 1SM BR BECMG 2213/2215 18012KT RMK FCST BASED ON AUTO OBS. NXT FCST BY 221200Z CYLW 220638Z 2207/2219 VRB03KT P6SM SKC BECMG 2216/2218 33006KT BKN100 RMK FCST BASED ON AUTO OBS. NXT FCST BY 221300Z CYMA 220553Z 2206/2218 28006KT P6SM BKN120 BECMG 2210/2212 VRB03KT RMK NXT FCST BY 221200Z CYMH 220838Z 2209/2221 08005KT 2SM -RA BR BKN005 OVC010 TEMPO 2209/2214 6SM BR SCT005 OVC010 FM221400 11008KT P6SM OVC010 TEMPO 2214/2221 2SM -DZ BR OVC005 RMK FCST BASED ON AUTO OBS. NXT FCST BY 221400Z CYMM 220639Z 2207/2219 30006KT P6SM SCT240 BECMG 2209/2211 VRB03KT FM221800 16008KT P6SM SKC RMK FCST BASED ON AUTO OBS. NXT FCST BY 221300Z CYMO 220542Z 2206/2218 VRB03KT P6SM BKN080 FM221000 28012KT P6SM OVC030 FM221500 29012G22KT P6SM -RA OVC015 TEMPO 2215/2218 4SM -RA BR OVC006 RMK FCST BASED ON AUTO OBS. NXT FCST BY 221200Z CYMX 220538Z 2206/2306 34005KT P6SM SCT240 FM221000 03005KT P6SM BKN080 FM222100 08005KT P6SM FEW060 BKN100 FM230100 VRB03KT P6SM -SHRA BKN040 OVC120 FM230300 VRB03KT 6SM BR SCT004 PROB30 2303/2306 2SM BR BKN004 RMK NXT FCST BY 221200Z CYNA 220738Z 2208/2220 VRB03KT 1/2SM FG VV002 TEMPO 2208/2212 6SM BR SCT002 BKN060 FM221200 36005KT P6SM FEW060 BECMG 2212/2214 26008KT BECMG 2216/2218 26012G22KT RMK FCST BASED ON AUTO OBS. NXT FCST BY 221400Z CYNE 220638Z 2207/2219 26005KT P6SM SKC BECMG 2212/2214 28010KT RMK FCST BASED ON AUTO OBS. NXT FCST BY 221300Z CYOD 220530Z 2206/2306 VRB03KT P6SM FEW250 FM221000 VRB03KT P6SM SKC PROB30 2210/2214 11/2SM BR FM221700 17008KT P6SM FEW040 BECMG 2223/2301 VRB03KT RMK NXT FCST BY 221200Z CYOJ 220639Z 2207/2219 VRB03KT P6SM FEW120 SCT220 TEMPO 2207/2215 21/2SM FU FM221500 15006KT P6SM FEW060 TEMPO 2215/2219 4SM FU RMK FCST BASED ON AUTO OBS. NXT FCST BY 221300Z CYOO 220738Z 2208/2220 34005KT P6SM SCT070 OVC130 TEMPO 2208/2213 P6SM -SHRA BKN070 FM221500 01007KT P6SM SCT070 BKN180 FM221800 01008KT P6SM BKN050 BKN140 RMK FCST BASED ON AUTO OBS. NXT FCST BY 221400Z CYOW 220838Z 2209/2306 05006KT P6SM SCT070 BKN240 FM221000 03008KT P6SM BKN050 FM230000 36005KT P6SM FEW030 BKN120 BECMG 2300/2302 VRB03KT RMK NXT FCST BY 221200Z CYOY 221015Z 2210/2222 VRB03KT P6SM SKC FM221500 21005KT P6SM SCT050 SCT220 BECMG 2216/2218 24010KT RMK FCST BASED ON AUTO OBS 221000-221300Z. NXT FCST BY 221200Z CYPA 220638Z 2207/2219 22005KT P6SM SKC PROB30 2209/2213 1/2SM FG VV002 RMK NXT FCST BY 221300Z CYPE 220639Z 2207/2219 VRB03KT P6SM FEW100 BKN200 TEMPO 2207/2214 P6SM VCSH BKN100 BKN200 PROB30 2211/2214 2SM BR FM221400 VRB03KT P6SM FEW200 SCT220 RMK NXT FCST BY 221300Z CYPH 220542Z 2206/2218 12012KT P6SM BKN040 BECMG 2206/2208 06010KT RMK FCST BASED ON AUTO OBS. NXT FCST BY 221200Z CYPQ 220938Z 2210/2222 VRB03KT P6SM BKN240 FM221400 36012KT P6SM BKN030 OVC100 FM222000 32010KT P6SM -SHRA OVC040 RMK FCST BASED ON AUTO OBS. NXT FCST BY 221400Z CYPR 220638Z 2207/2219 VRB03KT P6SM SCT015 SCT070 TEMPO 2207/2214 BKN015 BKN070 FM221500 VRB03KT P6SM SCT080 TEMPO 2215/2219 BKN080 RMK FCST BASED ON AUTO OBS. NXT FCST BY 221300Z CYPX 220539Z 2206/2218 09007KT P6SM BKN030 TEMPO 2206/2218 5SM -RA BR OVC020 BECMG 2213/2215 03010KT RMK FCST BASED ON AUTO OBS. NXT FCST BY 221200Z CYPY 220350Z 2203/2206 VRB03KT P6SM SKC TEMPO 2203/2206 4SM FU HZ SCT080 RMK FCST BASED ON AUTO OBS. NXT FCST WILL BE ISSUED AT 221145Z CYQB 220538Z 2206/2306 VRB03KT P6SM BKN080 FM221500 22005KT P6SM BKN060 BECMG 2216/2218 24010KT FM222200 29005KT P6SM BKN100 RMK NXT FCST BY 221200Z CYQD 220638Z 2207/2219 26008KT P6SM SKC RMK FCST BASED ON AUTO OBS. NXT FCST BY 221300Z CYQF 220540Z 2206/2218 17007KT P6SM SKC BECMG 2215/2217 17012KT RMK NXT FCST BY 221200Z CYQG 221014Z 2210/2306 02005KT P6SM SCT020 OVC070 TEMPO 2210/2213 P6SM -SHRA BKN020 FM221400 04008KT P6SM BKN090 FM221600 36008KT P6SM BKN180 FM222100 34012KT P6SM BKN060 FM230000 02012KT P6SM SCT080 RMK FCST BASED ON AUTO OBS. NXT FCST BY 221200Z CYQH 220553Z 2206/2218 31005KT P6SM SCT040 BKN050 TEMPO 2206/2212 P6SM -SHRA VCTS BKN030CB FM221200 VRB03KT P6SM FEW008 SCT020 BKN040 TEMPO 2212/2218 P6SM -SHRA VCTS SCT008 OVC020CB RMK NXT FCST BY 221200Z CYQI 220538Z 2206/2218 34005KT P6SM FEW120 PROB30 2206/2211 3/4SM BR SCT003 FM221500 27008KT P6SM FEW040 RMK NXT FCST BY 221200Z CYQK 220738Z 2208/2220 30006KT P6SM SKC FM221800 31010G20KT P6SM SCT050 RMK NXT FCST BY 221400Z CYQL 220540Z 2206/2218 18006KT P6SM SKC BECMG 2207/2209 26005KT BECMG 2215/2217 VRB03KT RMK FCST BASED ON AUTO OBS. NXT FCST BY 221200Z CYQM 220717Z 2207/2306 23008KT 3/8SM FG VV002 TEMPO 2207/2210 6SM BR SCT002 FM221000 26008KT P6SM FEW008 SCT040 FM221800 27012KT P6SM FEW040 SCT220 FM230000 24008KT P6SM FEW040 BKN160 FM230300 20005KT P6SM BKN040 OVC120 RMK NXT FCST BY 221200Z CYQQ 220539Z 2206/2306 VRB03KT P6SM FEW120 SCT250 BECMG 2217/2219 14015KT FM230000 18008KT P6SM FEW050 RMK NXT FCST BY 221200Z CYQR 220539Z 2206/2306 VRB03KT P6SM SKC PROB30 2209/2213 1/2SM FG VV002 BECMG 2213/2215 16010KT RMK NXT FCST BY 221200Z CYQT 220738Z 2208/2220 22005KT P6SM SKC BECMG 2210/2212 30010G20KT BECMG 2212/2214 32012G22KT RMK NXT FCST BY 221400Z CYQU 220639Z 2207/2219 32005KT P6SM FEW100 SCT200 TEMPO 2207/2208 BKN100 BKN200 FM221100 27005KT P6SM FEW100 SCT220 PROB30 2211/2214 1/2SM FG FM221800 09008KT P6SM SKC RMK NXT FCST BY 221300Z CYQW 220539Z 2206/2218 14006KT P6SM SKC PROB30 2210/2215 1/2SM FG VV002 BECMG 2216/2218 16012KT RMK FCST BASED ON AUTO OBS. NXT FCST BY 221200Z CYQX 220835Z 2208/2306 17005KT 11/2SM -RA BR OVC003 TEMPO 2208/2212 6SM BR OVC012 FM221200 31008KT P6SM SCT008 OVC012 TEMPO 2212/2214 BKN008 FM221800 33012KT P6SM -SHRA BKN030 FM222100 33012KT P6SM FEW020 BECMG 2302/2304 28005KT RMK NXT FCST BY 221200Z CYQY 220538Z 2206/2218 34008KT 11/2SM -SHRA BR OVC002 BECMG 2206/2208 6SM BR SCT002 OVC040 FM220800 30008KT P6SM FEW004 SCT060 TEMPO 2208/2210 5SM BR BKN004 OVC060 RMK NXT FCST BY 221200Z CYQZ 220056Z 2201/2206 14006KT P6SM FEW080 SCT200 TEMPO 2201/2204 P6SM -SHRA BKN080 BECMG 2202/2204 VRB03KT RMK FCST BASED ON AUTO OBS. NXT FCST WILL BE ISSUED AT 221145Z CYRB 221005Z 2210/2306 20012KT 1/4SM -DZ FG VV001 TEMPO 2210/2218 P6SM NSW BKN003 OVC020 BECMG 2213/2215 27020KT FM221800 27020KT P6SM SCT008 BKN020 TEMPO 2218/2303 2SM -DZSN BR OVC008 FM230300 27015KT P6SM OVC006 TEMPO 2303/2306 1/2SM -SN FG VV002 RMK NXT FCST BY 221200Z CYRQ 220738Z 2208/2220 36005KT P6SM SKC FM221800 20005KT P6SM BKN060 OVC100 RMK FCST BASED ON AUTO OBS. NXT FCST BY 221400Z CYRT 220539Z 2206/2218 34005KT P6SM FEW060 BECMG 2216/2218 20010KT RMK NXT FCST BY 221200Z CYSB 220738Z 2208/2220 02005KT P6SM BKN070 BECMG 2208/2210 36005KT FEW070 FM221500 34010KT P6SM SCT050 RMK NXT FCST BY 221400Z CYSF 220540Z 2206/2218 27003KT P6SM SKC TEMPO 2206/2217 4SM FU BECMG 2215/2217 27010KT FM221700 27010KT P6SM SCT080 SCT220 TEMPO 2217/2218 BKN080 BKN220 RMK FCST BASED ON AUTO OBS. NXT FCST BY 221200Z CYSJ 220538Z 2206/2218 VRB03KT 1/2SM FG SCT002 BKN120 TEMPO 2206/2210 6SM BR FEW002 SCT120 FM221000 32005KT P6SM FEW040 BECMG 2214/2216 27008KT BECMG 2216/2218 20010KT RMK NXT FCST BY 221200Z CYSM 220540Z 2206/2218 16005KT 6SM FU SCT100 TEMPO 2206/2218 2SM FU RMK NXT FCST BY 221200Z CYTE 220638Z 2207/2219 20010KT 2SM -RA BR SCT001 OVC020 TEMPO 2207/2219 P6SM NSW SCT012 OVC025 BECMG 2207/2209 09007KT RMK FCST BASED ON AUTO OBS. NXT FCST BY 221300Z CYTH 220638Z 2207/2219 VRB03KT P6SM FEW070 SCT200 TEMPO 2207/2210 SCT060 BKN120 FM221400 30008KT P6SM FEW060 RMK NXT FCST BY 221300Z CYTL 220738Z 2208/2220 32010KT P6SM SKC FM221500 32012G22KT P6SM SCT100 RMK FCST BASED ON AUTO OBS. NXT FCST BY 221400Z CYTR 220530Z 2206/2306 34005KT P6SM BKN080 FM220900 03005KT P6SM SCT030 BKN080 TEMPO 2209/2214 P6SM -SHRA BKN030 BKN080 BECMG 2216/2218 21010KT FM222000 21010KT P6SM BKN050 BKN150 TEMPO 2220/2224 P6SM -SHRA FM230000 VRB03KT P6SM SCT050 RMK NXT FCST BY 221200Z CYTS 220738Z 2208/2220 VRB03KT P6SM SKC PROB30 2208/2212 1SM BR FM221200 27007KT P6SM FEW050 FM221500 29010KT P6SM SCT050 RMK NXT FCST BY 221400Z CYTZ 220738Z 2208/2308 28005KT P6SM SCT070 OVC130 TEMPO 2208/2213 P6SM -SHRA BKN070 FM221500 01007KT P6SM SCT070 BKN180 FM221800 01008KT P6SM BKN040 BKN140 TEMPO 2220/2224 P6SM -SHRA FM230000 34010KT P6SM FEW050 RMK FCST BASED ON AUTO OBS. NXT FCST BY 221400Z CYUB 220038Z 2201/2205 16008KT P6SM SCT020 OVC080 TEMPO 2201/2205 P6SM -SHRA BKN020 OVC080 RMK NXT FCST WILL BE ISSUED AT 221445Z CYUL 220838Z 2209/2306 03008KT P6SM SCT100 BKN240 FM221100 04008KT P6SM BKN080 FM222200 VRB03KT P6SM -SHRA OVC050 FM230300 36008KT 5SM -SHRA BR FEW020 OVC040 RMK NXT FCST BY 221200Z CYUX 220917Z 2209/2219 36005KT P6SM SKC TEMPO 2209/2213 5SM BR BECMG 2210/2212 14010KT RMK FCST BASED ON AUTO OBS. NXT FCST BY 221300Z CYUY 220538Z 2206/2218 26003KT P6SM SKC PROB30 2206/2212 1SM BR FM221500 26010KT P6SM SCT050 RMK NXT FCST BY 221200Z CYVC 220638Z 2207/2219 VRB03KT P6SM SKC RMK NXT FCST BY 221300Z CYVM 220638Z 2207/2219 05008KT 4SM -RA BR OVC005 TEMPO 2207/2219 P6SM NSW SCT005 BKN030 RMK FCST BASED ON AUTO OBS. NXT FCST BY 221300Z CYVO 220538Z 2206/2218 26003KT P6SM SKC BECMG 2214/2216 28010KT SCT050 RMK FCST BASED ON AUTO OBS. NXT FCST BY 221200Z CYVP 220542Z 2206/2218 VRB03KT P6SM FEW040 BKN240 PROB30 2208/2211 2SM BR BKN004 FM221500 02005KT P6SM BKN025 RMK NXT FCST BY 221200Z CYVQ 220553Z 2206/2218 VRB03KT P6SM SCT080 TEMPO 2206/2214 5SM FU FM221400 14005KT P6SM SCT060 RMK NXT FCST BY 221200Z CYVR 220838Z 2209/2312 10008KT P6SM SCT090 TEMPO 2209/2218 BKN080 BECMG 2213/2215 10012KT FM221800 14015KT P6SM SKC BECMG 2220/2222 14010KT FM230200 13010KT P6SM SCT070 BECMG 2304/2306 10008KT RMK NXT FCST BY 221200Z CYVT 220038Z 2201/2204 19008KT P6SM FEW060 FEW250 RMK NXT FCST WILL BE ISSUED AT 221345Z CYWA 220530Z 2206/2218 VRB03KT P6SM SCT220 BECMG 2212/2214 FEW050 BKN180 RMK FCST BASED ON AUTO OBS. NXT FCST BY 221200Z CYWG 220539Z 2206/2306 28010KT P6SM SKC RMK NXT FCST BY 221200Z CYWK 220748Z 2208/2220 VRB03KT P6SM BKN040 TEMPO 2208/2215 BKN020 BECMG 2215/2217 25010KT RMK FCST BASED ON AUTO OBS. NXT FCST BY 221400Z CYWL 220638Z 2207/2219 11006KT P6SM FEW100 RMK NXT FCST BY 221300Z CYXC 220638Z 2207/2219 28006KT P6SM SKC BECMG 2213/2215 VRB03KT SCT100 RMK NXT FCST BY 221300Z CYXE 220539Z 2206/2306 16006KT P6SM SKC PROB30 2210/2214 1/2SM FG BECMG 2214/2216 18010KT RMK NXT FCST BY 221200Z CYXH 220625Z 2206/2218 18010G20KT P6SM SKC BECMG 2209/2211 18010KT RMK FCST BASED ON AUTO OBS. AUTO OBS REP NON-REPRESENTATIVE WND. NXT FCST BY 221200Z CYXJ 220639Z 2207/2219 VRB03KT P6SM FEW160 SCT220 PROB30 2211/2214 1/2SM FG RMK NXT FCST BY 221300Z CYXL 220738Z 2208/2220 30006KT P6SM FEW050 BECMG 2214/2216 30012KT FM221800 32012G22KT P6SM SCT050 TEMPO 2218/2220 P6SM -SHRA BKN050 RMK NXT FCST BY 221400Z CYXS 220638Z 2207/2219 VRB03KT P6SM FEW090 TEMPO 2210/2213 3SM BR FM221300 33005KT P6SM SCT100 RMK FCST BASED ON AUTO OBS. NXT FCST BY 221300Z CYXT 220638Z 2207/2219 36008KT P6SM SCT060 TEMPO 2210/2213 3SM BR PROB30 2210/2213 1/2SM FG FM221300 36008KT P6SM FEW060 RMK NXT FCST BY 221300Z CYXU 220538Z 2206/2306 VRB03KT P6SM SCT020 OVC080 TEMPO 2206/2211 P6SM -SHRA BECMG 2206/2208 02006KT FM221500 27005KT P6SM BKN180 FM222000 02012KT P6SM BKN040 TEMPO 2220/2224 P6SM -SHRA FM230200 34010KT P6SM SCT060 RMK NXT FCST BY 221200Z CYXX 220539Z 2206/2306 VRB03KT P6SM SCT250 BECMG 2208/2210 SCT080 BECMG 2216/2218 22010KT FM230000 22012KT P6SM SCT050 SCT200 BECMG 2303/2305 20006KT RMK NXT FCST BY 221200Z CYXY 220553Z 2206/2306 17008KT P6SM SCT020 BKN040 TEMPO 2206/2217 4SM -SHRA BR SCT008 BKN020 FM221700 13005KT P6SM FEW020 BKN050 TEMPO 2217/2224 P6SM -SHRA VCTS BKN020CB FM230000 36006KT P6SM -SHRA FEW015 BKN050 RMK NXT FCST BY 221200Z CYYB 220738Z 2208/2220 03012KT P6SM BKN070 BECMG 2208/2210 FEW070 FM221500 28010KT P6SM SCT050 RMK FCST BASED ON AUTO OBS. NXT FCST BY 221400Z CYYC 220838Z 2209/2306 18008KT P6SM SKC BECMG 2210/2212 21005KT BECMG 2216/2218 16010KT FM222200 16010KT P6SM SCT140 SCT220 TEMPO 2222/2304 BKN140 BKN220 BECMG 2304/2306 26006KT RMK NXT FCST BY 221200Z CYYD 220056Z 2201/2206 VRB03KT P6SM BKN060 TEMPO 2201/2206 VRB15G25KT 5SM TSRA BKN060CB RMK NXT FCST WILL BE ISSUED AT 221345Z CYYE 221018Z 2210/2219 VRB03KT 2SM BR SCT002 BKN100 TEMPO 2210/2213 1/2SM FG BECMG 2213/2215 P6SM NSW FEW005 FM221500 27005KT P6SM FEW020 SCT050 RMK NXT FCST BY 221300Z CYYF 220638Z 2207/2219 VRB03KT P6SM SCT250 BECMG 2215/2217 35010KT BKN100 RMK NXT FCST BY 221300Z CYYG 221008Z 2210/2218 29008KT 3/8SM FG VV002 TEMPO 2210/2211 2SM BR OVC004 BECMG 2211/2213 6SM BR FEW004 SCT060 RMK NXT FCST BY 221200Z CYYH 220539Z 2206/2218 20010KT P6SM BKN040 BKN080 FM220900 21010KT P6SM SCT020 BKN040 TEMPO 2209/2215 3SM -RA BR BKN020 BKN040 BECMG 2210/2212 32012KT FM221500 32015KT P6SM FEW030 BKN120 RMK NXT FCST BY 221200Z CYYJ 220539Z 2206/2306 VRB03KT P6SM SCT250 BECMG 2206/2208 28006KT BECMG 2213/2215 VRB03KT FM221800 12010KT P6SM SCT150 BECMG 2222/2224 22012KT BECMG 2301/2303 26010KT RMK NXT FCST BY 221200Z CYYL 220638Z 2207/2219 FCST NOT AVBL DUE NO OBS RMK FCST BASED ON AUTO OBS. NXT FCST BY 221300Z CYYN 220539Z 2206/2218 16008KT P6SM SKC BECMG 2208/2210 16012KT RMK FCST BASED ON AUTO OBS. NXT FCST BY 221200Z CYYQ 220539Z 2206/2306 14005KT P6SM BKN060 TEMPO 2206/2209 P6SM -SHRA OVC060 PROB30 2206/2209 VRB15G25KT 4SM TSRA OVC060CB FM221400 VRB03KT P6SM SCT060 FM222000 09008KT P6SM FEW120 RMK NXT FCST BY 221200Z CYYR 220707Z 2207/2306 VRB03KT P6SM FEW003 FEW050 OVC080 TEMPO 2207/2209 P6SM -SHRA BKN003 BKN050 OVC080 FM220900 VRB03KT P6SM SCT008 BKN050 TEMPO 2209/2212 FEW003 BKN008 OVC050 BECMG 2210/2212 31008KT FM221200 31008KT P6SM FEW012 BKN060 FM221700 31012KT P6SM BKN060 BECMG 2223/2301 VRB03KT RMK NXT FCST BY 221200Z CYYT 220538Z 2206/2306 15012KT 1/2SM -RA FG VV002 TEMPO 2206/2214 2SM -DZ BR OVC004 FM221400 31012KT 6SM BR OVC004 FM221800 31015KT P6SM OVC012 FM222100 31015KT P6SM BKN015 FM230200 31010KT P6SM SKC RMK NXT FCST BY 221200Z CYYU 220738Z 2208/2220 26007KT P6SM BKN080 TEMPO 2208/2209 P6SM -SHRA FM220900 27008KT P6SM FEW070 FM221500 30012KT P6SM SCT050 RMK NXT FCST BY 221400Z CYYY 220738Z 2208/2220 24008KT P6SM SCT060 TEMPO 2208/2210 BKN060 FM221800 22012KT P6SM SKC RMK NXT FCST BY 221400Z CYYZ 220838Z 2209/2312 VRB03KT P6SM SCT070 OVC130 TEMPO 2209/2213 P6SM -SHRA BKN070 BKN140 BECMG 2209/2211 34010KT FM221500 01007KT P6SM SCT070 BKN180 FM221800 01008KT P6SM BKN040 BKN140 TEMPO 2220/2224 P6SM -SHRA FM230000 34010KT P6SM FEW050 RMK NXT FCST BY 221200Z CYZE 220938Z 2210/2222 05012KT P6SM SCT060 BKN220 FM221200 05012KT P6SM FEW060 BECMG 2216/2218 28012KT SCT060 RMK FCST BASED ON AUTO OBS. NXT FCST BY 221400Z CYZF 220553Z 2206/2306 VRB03KT P6SM SCT060 TEMPO 2206/2212 P6SM -SHRA VCTS BKN060CB BECMG 2210/2212 02010KT FM221200 02010KT P6SM SCT060 RMK NXT FCST BY 221200Z CYZH 220639Z 2207/2219 10005KT P6SM SKC BECMG 2215/2216 10010KT RMK FCST BASED ON AUTO OBS. NXT FCST BY 221300Z CYZP 220911Z 2209/2219 32006KT P6SM SCT030 SCT090 TEMPO 2209/2211 SCT005 BKN020 BKN040 PROB30 2209/2211 BKN005 FM221100 32008KT P6SM BKN005 TEMPO 2212/2215 SCT005 SCT060 BECMG 2215/2217 SCT012 SCT080 BKN250 RMK FCST BASED ON AUTO OBS. NXT FCST BY 221300Z CYZR 220738Z 2208/2220 03008KT P6SM SCT070 OVC110 TEMPO 2208/2210 P6SM -SHRA BKN070 BKN140 FM221000 04008KT P6SM BKN090 FM221300 36008KT P6SM BKN180 RMK FCST BASED ON AUTO OBS. NXT FCST BY 221400Z CYZS 220638Z 2207/2219 02017KT P6SM SCT010 BKN040 BECMG 2216/2218 05010KT RMK NXT FCST BY 221300Z CYZT 220638Z 2207/2219 VRB03KT P6SM SCT100 BECMG 2216/2218 09008KT RMK NXT FCST BY 221300Z CYZV 220538Z 2206/2306 33005KT P6SM SCT100 TEMPO 2206/2210 BKN100 BECMG 2212/2214 22008KT FM221800 22012G22KT P6SM FEW060 BECMG 2222/2224 24008KT BECMG 2304/2306 04005KT RMK NXT FCST BY 221200Z CYZX 220536Z 2206/2306 25005KT 6SM BR SCT003 BECMG 2206/2208 1/2SM FG OVC003 FM220800 24005KT 1/2SM FG OVC003 TEMPO 2208/2212 2SM BR SCT003 BKN006 FM221200 30007KT P6SM SCT008 FM221600 24010KT P6SM FEW025 BKN260 FM222200 VRB03KT P6SM SCT080 OVC120 FM230400 VRB03KT 6SM -RA BR BKN015 OVC040 RMK NXT FCST BY 221200Z CYZY 220638Z 2207/2209 36005KT P6SM FEW060 TEMPO 2207/2209 3SM BR RMK FCST BASED ON AUTO OBS. NXT FCST WILL BE ISSUED AT 221445Z CZBF 220838Z 2209/2221 27008KT P6SM FEW100 RMK FCST BASED ON AUTO OBS. NXT FCST BY 221400Z CZMD 220938Z 2210/2222 VRB03KT P6SM SKC FM221500 32012KT P6SM OVC030 TEMPO 2215/2218 P6SM -SHRA FM221800 32010G20KT P6SM -SHRA OVC025 TEMPO 2218/2222 5SM -SHRA BR OVC020 PROB30 2218/2222 2SM TSRA BR BKN020CB RMK FCST BASED ON AUTO OBS. NXT FCST BY 221600Z CZSJ 220938Z 2210/2222 27005KT P6SM SKC FM221500 34010KT P6SM FEW040 BKN070 TEMPO 2215/2222 P6SM -SHRA PROB30 2218/2222 2SM TSRA BR BKN020CB RMK FCST BASED ON AUTO OBS. NXT FCST BY 221600Z CZUM 220748Z 2208/2220 32005KT P6SM BKN030 TEMPO 2208/2214 BKN020 RMK FCST BASED ON AUTO OBS. NXT FCST BY 221400Z CZVL 220540Z 2206/2218 15006KT P6SM SKC BECMG 2215/2217 17012KT RMK FCST BASED ON AUTO OBS. NXT FCST BY 221200Z DAAE 220500Z 2206/2306 10012KT 8000 FEW020 PROB30 TEMPO 2206/2208 21006KT 3000 BR BKN015 PROB30 TEMPO 2212/2218 FEW023TCU BECMG 2218/2220 19008KT PROB30 TEMPO 2300/2306 3000 BR BKN015 DAAG 220500Z 2206/2306 VRB02KT 6000 FEW013 SCT100 PROB30 TEMPO 2206/2208 4000 BR BECMG 2208/2211 02010KT PROB30 TEMPO 2208/2214 FEW023TCU BECMG 2218/2221 VRB02KT DAAJ 220500Z 2206/2306 08008KT CAVOK PROB30 TEMPO 2208/2212 4000 HZ DAAS 220500Z 2206/2306 17008KT CAVOK BECMG 2210/2212 06012KT PROB30 TEMPO 2212/2218 FEW026TCU BECMG 2219/2221 31008KT DAAT 220500Z 2206/2306 08010KT 9999 SCT046 PROB30 TEMPO 2206/2212 FEW046TCU TEMPO 2214/2220 22012KT PROB40 TEMPO 2215/2218 22015G25KT FEW046CB DAAV 220500Z 2206/2306 07013KT CAVOK PROB30 TEMPO 2212/2218 FEW023TCU BECMG 2219/2221 27008KT PROB30 TEMPO 2300/2306 3000 BR BKN015 DABB 220500Z 2206/2306 23008KT 6000 FEW026 TEMPO 2206/2209 2000 BR BKN015 BECMG 2209/2211 05012KT PROB30 TEMPO 2212/2218 FEW023TCU BECMG 2219/2221 27008KT DABC 220500Z 2206/2306 15008KT CAVOK BECMG 2209/2212 08012KT PROB30 TEMPO 2212/2218 FEW026TCU BECMG 2221/2223 VRB02KT DABS 220500Z 2206/2306 11008KT CAVOK BECMG 2209/2211 03013KT PROB30 TEMPO 2212/2218 FEW030TCU BECMG 2219/2221 11008KT DABT 220500Z 2206/2306 23008KT CAVOK BECMG 2209/2212 08013KT PROB40 TEMPO 2212/2218 FEW023TCU BECMG 2220/2222 02008KT DAOB 220500Z 2206/2306 VRB02KT CAVOK PROB30 TEMPO 2208/2214 FEW026TCU PROB40 TEMPO 2214/2218 20015G30KT 5000 -TSRA FEW023CB BECMG 2218/2221 VRB02KT DAOI 220500Z 2206/2306 VRB02KT 9999 FEW026 PROB30 TEMPO 2206/2208 4000 BR BKN010 BECMG 2210/2213 35012KT BECMG 2220/2223 VRB02KT DAON 220500Z 2206/2306 34010KT 6000 SCT010 PROB30 TEMPO 2206/2208 3000 BR BKN010 BECMG 2210/2213 02012KT PROB30 TEMPO 2215/2223 -TSRA FEW026CB BKN030 BECMG 2220/2223 VRB02KT DAOO 220500Z 2206/2306 VRB02KT 8000 SCT013 PROB30 TEMPO 2206/2208 3000 BR BKN010 BECMG 2210/2213 34012KT BECMG 2220/2223 VRB02KT DAUA 220500Z 2206/2306 08014KT CAVOK PROB30 2208/2214 11024KT 4000 DRSA DAUB 220500Z 2206/2306 16010KT 9999 FEW040 PROB30 TEMPO 2212/2218 FEW030TCU DAUG 220500Z 2206/2306 08008KT 8000 NSC PROB30 TEMPO 2208/2212 FEW033TCU PROB30 TEMPO 2215/2218 08015G25KT 5000 -TSRA FEW033CB DAUH 220500Z 2206/2306 06010KT CAVOK PROB30 2214/2217 06022KT 5000 DRSA DAUI 220500Z 2206/2306 04014KT 8000 NSC PROB40 TEMPO 2209/2214 08024KT 3000 DRSA DAUZ 220500Z 2206/2306 06010KT CAVOK DBBB 220500Z 2206/2312 22010KT 9999 SCT010 PROB30 2214/2219 TS BKN012 FEW023CB DFFD 220500Z 2206/2312 20008KT 9999 SCT020 TEMPO 2210/2218 09025G45KT 2500 SQ TSRA SCT020 SCT033CB DFOO 220500Z 2206/2306 18008KT 9999 SCT016 TEMPO 2214/2224 4000 TSRA SCT016 SCT030CB DGAA 220530Z 2206/2312 24010KT 9999 BKN014 BKN020 TEMPO 2206/2210 5000 BR PROB30 TEMPO 2209/2213 8000 RA BKN010 BECMG 2212/2214 19015KT SCT012 BECMG 2219/2221 BKN014 DIAP 220902Z 2209/2312 23006KT 9999 SCT012 PROB40 TEMPO 2209/2212 4000 RA BKN010 BKN030 TEMPO 2222/2304 BKN012 PROB30 TEMPO 2306/2312 4000 DZ BKN012 DIBK 220500Z 2206/2306 18004KT 8000 SCT013 TEMPO 2206/2210 BKN013 PROB30 TEMPO 2218/2224 TS BKN013 FEW025CB DIYO 220500Z 2206/2306 24004KT 8000 SCT013 TEMPO 2206/2210 4000 RA BKN013 PROB30 TEMPO 2218/2224 TS BKN013 FEW025CB DNMM 220350Z 2206/2312 VRB02KT 9999 SCT008 BECMG 2208/2210 27010KT BKN013 FEW020CB PROB30 TEMPO 2213/2217 5000 -TSRA BKN008 FEW019CB DRRN 220500Z 2206/2312 14010KT 6000 -TSRA SCT026 FEW030CB FM220800 24008KT 8000 NSC PROB30 TEMPO 2216/2219 4000 TSSHRA FEW026 FEW030CB DRZA 220500Z 2206/2306 26008KT 6000 NSC PROB40 TEMPO 2214/2218 TS SCT030 FEW033CB DRZR 220500Z 2206/2306 26008KT 8000 FEW026 PROB30 TEMPO 2213/2217 4000 TSRA SCT020 FEW026CB DTMB 220500Z 2206/2306 20002KT 8000 NSC BECMG 2215/2217 09012KT PROB30 TEMPO 2303/2306 09002KT 4000 BR FEW014 DTTA 220500Z 2206/2306 11005KT 9999 FEW040 BECMG 2215/2217 06015KT BECMG 2301/2303 VRB03KT DTTJ 220500Z 2206/2306 07004KT 9999 FEW026 DTTX 212300Z 2200/2224 09005KT 9999 FEW030 DTTZ 212300Z 2200/2224 10016KT CAVOK BECMG 2215/2217 09005KT DXNG 220500Z 2206/2306 24005KT 9999 FEW008 TEMPO 2206/2210 TS BKN006 FEW018CB TEMPO 2218/2224 TS BKN006 FEW016CB DXXX 220500Z 2206/2312 26005KT 9999 SCT010 TEMPO 2206/2208 BKN008 BECMG 2208/2210 20013KT TEMPO 2214/2222 TS BKN012 FEW020CB EBBR 220510Z 2206/2312 24007KT CAVOK= EDDF 220500Z 2206/2312 VRB03KT CAVOK BECMG 2208/2210 24005KT BECMG 2215/2217 31005KT BECMG 2219/2222 04004KT EBCI 220510Z 2206/2312 24007KT CAVOK EBLG 220510Z 2206/2312 24007KT CAVOK EBOS 220510Z 2206/2312 21009KT CAVOK BECMG 2210/2212 27010KT BECMG 2219/2221 21004KT EDDB 220500Z 2206/2306 27006KT CAVOK BECMG 2217/2219 20004KT BECMG 2223/2301 27005KT EDDC 220500Z 2206/2306 21004KT CAVOK BECMG 2207/2209 30007KT BECMG 2217/2219 23004KT EDDE 220500Z 2206/2306 23006KT CAVOK BECMG 2207/2210 29008KT BECMG 2221/2224 23005KT EDDF 220500Z 2206/2312 VRB03KT CAVOK BECMG 2208/2210 24005KT BECMG 2215/2217 31005KT BECMG 2219/2222 04004KT EDDG 220500Z 2206/2306 VRB03KT CAVOK TEMPO 2208/2218 24009KT EDDH 220500Z 2206/2312 21007KT 9999 FEW040 BECMG 2217/2219 28004KT EDDK 220500Z 2206/2312 VRB03KT CAVOK TEMPO 2208/2218 28006KT EDDL 220638Z 2206/2312 22008KT CAVOK TEMPO 2216/2304 VRB03KT BECMG 2304/2307 16008KT EDDM 220500Z 2206/2312 VRB03KT CAVOK BECMG 2208/2211 30005KT BECMG 2217/2219 VRB02KT BECMG 2308/2310 06005KT EDDN 220500Z 2206/2306 12004KT CAVOK BECMG 2208/2210 30006KT BECMG 2217/2218 VRB02KT EDDP 220500Z 2206/2306 23003KT CAVOK BECMG 2208/2211 29007KT BECMG 2218/2221 23005KT EDDR 220500Z 2206/2306 VRB03KT CAVOK TEMPO 2209/2218 32005KT BECMG 2221/2224 05005KT EDDS 220500Z 2206/2306 VRB03KT CAVOK BECMG 2210/2213 36005KT BECMG 2219/2221 VRB03KT EDDT 220500Z 2206/2306 27004KT CAVOK EDDV 220500Z 2206/2306 20004KT CAVOK BECMG 2208/2210 27007KT BECMG 2219/2221 VRB02KT EDDW 220500Z 2206/2306 17004KT CAVOK BECMG 2206/2209 25008KT BECMG 2218/2220 VRB03KT BECMG 2223/2302 2000 BR PROB40 TEMPO 2302/2305 0500 FG OVC001 BECMG 2305/2306 9999 EDFH 220500Z 2206/2306 14004KT CAVOK BECMG 2207/2209 28005KT BECMG 2219/2222 13005KT EDLP 220500Z 2206/2306 20005KT CAVOK BECMG 2206/2208 26008KT BECMG 2217/2219 VRB03KT EDLV 220500Z 2206/2306 VRB03KT CAVOK TEMPO 2208/2218 24008KT EDLW 220500Z 2206/2306 18008KT CAVOK BECMG 2206/2208 26009KT BECMG 2219/2221 18004KT EDNY 220500Z 2206/2306 04004KT CAVOK BECMG 2209/2211 24005KT BECMG 2216/2218 03004KT EDSB 220500Z 2206/2306 VRB03KT CAVOK TEMPO 2210/2219 35005KT EEEI 220530Z 2206/2306 17006KT 9999 SCT040 TEMPO 2206/2210 4000 SHRA BKN007 SCT020CB PROB30 TEMPO 2207/2210 TSRA TEMPO 2210/2219 VRB20KT 3000 TSRA BKN008 SCT020CB BECMG 2212/2214 34007KT TEMPO 2220/2304 2000 BR BKN003 EETN 220522Z 2206/2306 17006KT 9999 BKN030 TEMPO 2206/2209 5000 SHRA BKN012 SCT020CB BECMG 2209/2211 34008KT TEMPO 2209/2218 VRB15KT 4000 TSRA BKN008 SCT020CB TEMPO 2220/2305 1500 BR BKN002 EFHK 220837Z 2209/2309 14009KT 9999 FEW025 SCT080 BECMG 2209/2211 FEW030CB BKN080 PROB30 TEMPO 2211/2216 7000 SHRA BECMG 2216/2218 NSC PROB30 TEMPO 2222/2303 SCT030CB BKN080 EFJY 220837Z 2209/2309 12007KT CAVOK PROB30 2302/2304 0700 FG NSC EFKU 220829Z 2209/2309 12003KT CAVOK TEMPO 2209/2214 FEW050TCU EFOU 220820Z 2209/2309 14006KT CAVOK EFRO 220820Z 2209/2309 19006KT CAVOK EFTP 220837Z 2209/2309 10007KT CAVOK PROB30 2212/2214 FEW060CB EFTU 220837Z 2209/2309 16010KT 9999 SCT020 TEMPO 2209/2213 SCT020CB BKN200 PROB30 TEMPO 2209/2213 TS PROB40 2222/2305 2000 BCFG BKN002 BECMG 2307/2309 22005KT EFVA 220837Z 2209/2309 13006KT CAVOK TEMPO 2209/2213 FEW060TCU EGAA 220458Z 2206/2306 21020G32KT 9999 SCT010 TEMPO 2206/2211 BKN010 PROB30 TEMPO 2206/2209 7000 -RADZ BKN007 BECMG 2213/2216 20012KT EGBB 220504Z 2206/2306 21011KT 9999 BKN009 TEMPO 2206/2208 SCT012 BECMG 2208/2211 FEW035 BECMG 2219/2222 VRB03KT PROB30 2302/2306 8000 BKN008 EGCC 220957Z 2209/2312 23012KT 9999 SCT025 BKN045 TEMPO 2209/2216 24015G25KT PROB30 TEMPO 2221/2310 BKN012 BECMG 2300/2303 VRB03KT BECMG 2309/2312 18010KT EGCN 220457Z 2206/2306 19010KT 9999 SCT025 TEMPO 2206/2216 24015G25KT EGFF 220902Z 2209/2306 28010KT 9999 BKN007 BECMG 2209/2212 SCT012 BECMG 2219/2222 VRB03KT BKN006 PROB40 2222/2306 3000 BR BKN003 EGGD 220638Z 2206/2306 21010KT 9999 FEW010 SCT025 TEMPO 2206/2211 8000 BKN010 PROB30 TEMPO 2206/2208 BKN005 BECMG 2210/2213 27010KT BECMG 2221/2224 BKN007 TEMPO 2300/2306 2000 BR BKN003 PROB40 2302/2306 0300 FG VV/// EGGP 220457Z 2206/2306 22010KT 9999 SCT025 BKN045 TEMPO 2206/2216 19016G26KT PROB30 TEMPO 2221/2303 BKN012 PROB30 2303/2306 VRB03KT EGGW 220503Z 2206/2306 22012KT 9999 SCT030 PROB40 TEMPO 2206/2209 BKN010 TEMPO 2301/2306 5000 HZ BKN005 PROB30 2303/2306 2000 BR BKN001 EGKK 220451Z 2206/2312 22007KT 9999 FEW013 BECMG 2223/2302 6000 PROB40 TEMPO 2300/2308 1200 BR MIFG BKN002 EGLL 220502Z 2206/2312 22010KT 9999 SCT040 BECMG 2300/2303 VRB03KT 6000 PROB30 2303/2307 3000 BR BKN003 BECMG 2309/2312 13010KT EGNM 220503Z 2206/2306 24013KT 9999 BKN012 BECMG 2206/2209 SCT020 TEMPO 2206/2216 24018G28KT PROB40 TEMPO 2300/2306 BKN012 EGNT 220457Z 2206/2306 23015KT 9999 SCT030 TEMPO 2206/2218 24020G35KT PROB30 TEMPO 2221/2303 BKN012 EGNX 220504Z 2206/2306 21011KT 9999 FEW015 SCT030 PROB40 TEMPO 2206/2209 BKN011 BECMG 2219/2222 VRB03KT PROB30 2302/2306 8000 BKN008 EGPD 220525Z 2206/2306 16009KT 9999 SCT025 BECMG 2206/2208 23012KT BECMG 2219/2222 17007KT PROB30 TEMPO 2302/2306 6000 EGPF 221006Z 2210/2306 22025KT 9999 SCT008 BKN016 TEMPO 2210/2215 7000 -RA BKN008 BECMG 2215/2218 20009KT PROB40 TEMPO 2300/2306 BKN012 EGPH 220502Z 2206/2306 23015KT 9999 FEW012 SCT030 TEMPO 2206/2215 24018G30KT 7000 -RA BKN012 PROB30 TEMPO 2206/2212 4000 RADZ BKN008 EGPK 220502Z 2206/2306 20015G25KT 9999 SCT014 BKN025 TEMPO 2206/2212 7000 -RA BKN012 PROB40 TEMPO 2206/2209 21020G35KT BKN008 BECMG 2215/2218 19009KT PROB30 TEMPO 2303/2306 BKN008 EGQS 221024Z 2210/2303 26008KT 9999 FEW018 SCT035 PROB30 TEMPO 2210/2302 SCT018 PROB30 TEMPO 2219/2303 24015G25KT EGSS 220503Z 2206/2312 22011KT 9999 SCT030 PROB40 TEMPO 2206/2209 BKN010 BECMG 2300/2303 VRB03KT 7000 PROB40 TEMPO 2302/2308 1500 BR MIFG EGUB 220733Z 2209/2303 21010KT 9999 BKN025 TEMPO 2209/2210 SCT016 BECMG 2223/2302 5000 BR BECMG 2302/2303 3000 EGUL 220800Z 2208/2311 23012G20KT 9999 SCT020 QNH3009INS BECMG 2213/2214 24012KT 9999 SCT040 QNH3010INS TX29/2216Z TN16/2305Z EGUN 220400Z 2204/2310 22012KT 9999 BKN050 QNH3009INS BECMG 2205/2206 25012G20KT 9999 BKN020 QNH3011INS BECMG 2218/2219 27012KT 9999 FEW060 QNH3011INS TX27/2214Z TN17/2304Z EGVN 220958Z 2209/2309 22010KT 9999 SCT020 BECMG 2209/2212 SCT025 PROB30 TEMPO 2300/2302 7000 HZ SCT010 BECMG 2302/2304 5000 BR BKN007 PROB40 2302/2307 3000 BKN004 BECMG 2307/2309 9999 NSW FEW008 EGVO 220744Z 2209/2221 23012KT 9999 FEW010 BKN018 PROB30 2209/2210 SCT010 BECMG 2210/2212 SCT025 EGWU 220746Z 2209/2303 23010KT 9999 SCT035 PROB40 TEMPO 2209/2210 SCT018 BECMG 2301/2303 6000 BR EGXC 220749Z 2209/2303 23014KT 9999 SCT025 TEMPO 2209/2213 24016G26KT PROB30 TEMPO 2209/2211 SCT023 PROB30 2301/2303 6000 BR EGXW 220748Z 2209/2303 24015G25KT 9999 FEW015 SCT030 TEMPO 2209/2212 BKN020 BECMG 2215/2218 24012KT EGYP 220722Z 2209/2303 28015KT 9999 FEW018 PROB40 TEMPO 2209/2303 29018G28KT -SHRA BKN018 PROB30 TEMPO 2209/2303 4000 -SHRASN SCT014CB EHAM 220416Z 2206/2312 21010KT CAVOK BECMG 2206/2209 25015KT BECMG 2215/2218 24010KT BECMG 2218/2221 19005KT EHBK 220457Z 2206/2312 21005KT CAVOK EHEH 220518Z 2206/2312 23007KT CAVOK PROB40 TEMPO 2209/2214 25010G22KT BECMG 2218/2220 VRB03KT BECMG 2307/2310 13005KT EHGG 220457Z 2206/2312 18006KT CAVOK BECMG 2207/2209 24015KT BECMG 2218/2220 20004KT PROB30 TEMPO 2301/2306 6000 EHGR 220843Z 2209/2221 24008KT CAVOK TEMPO 2209/2215 25010G22KT BECMG 2219/2221 VRB01KT EHKD 220841Z 2209/2221 24017G27KT CAVOK BECMG 2215/2217 22012KT EHLW 220840Z 2209/2221 24015G25KT CAVOK BECMG 2215/2217 24012KT EHRD 220415Z 2206/2312 21010KT CAVOK BECMG 2206/2209 25015KT BECMG 2215/2218 24010KT BECMG 2218/2221 19005KT EHVK 220819Z 2209/2221 25010KT CAVOK TEMPO 2209/2215 25010G22KT BECMG 2219/2221 VRB02KT EHWO 220846Z 2209/2221 25012G22KT CAVOK BECMG 2214/2216 27005KT BECMG 2219/2221 VRB01KT EICK 220500Z 2206/2306 22014KT 5000 -DZ SCT002 BKN007 TEMPO 2206/2210 2000 BR BKN002 PROB40 TEMPO 2206/2210 0400 -RADZ FG BKN001 BECMG 2210/2213 19013KT 9999 NSW SCT003 BKN010 TEMPO 2213/2216 20015G25KT PROB40 TEMPO 2213/2220 2000 -DZ BR BKN003 TEMPO 2220/2306 2000 -DZ BR BKN003 EIDW 220500Z 2206/2306 23015G26KT 9999 FEW014 BKN020 PROB40 TEMPO 2206/2209 23018G31KT BECMG 2209/2212 22014KT TEMPO 2213/2218 22015G26KT BECMG 2221/2224 21009KT BECMG 2302/2305 VRB03KT PROB30 TEMPO 2303/2306 3000 -DZ BR BKN003 EIKN 220500Z 2206/2306 21017G28KT 8000 -DZ SCT003 BKN008 TEMPO 2206/2209 3000 BR BKN003 PROB30 TEMPO 2206/2209 0400 -RADZ FG BKN002 BECMG 2209/2212 9999 NSW SCT005 BKN012 BECMG 2213/2216 SCT012 BKN020 TEMPO 2216/2220 BKN012 BECMG 2220/2223 18013KT SCT005 BKN010 TEMPO 2221/2306 4000 -DZ BKN005 PROB30 TEMPO 2300/2304 2000 BR BKN003 EINN 220500Z 2206/2306 20013KT 9999 FEW014 BKN020 PROB40 TEMPO 2206/2209 BKN014 TEMPO 2214/2218 19015G25KT BECMG 2221/2224 16013KT TEMPO 2221/2304 -DZ BKN010 EKAH 220504Z 2206/2306 25008KT 9999 SCT020 BECMG 2216/2218 2500 BR RADZ BKN006 TEMPO 2218/2221 4000 -RADZ BKN010 BECMG 2221/2223 -RADZ BKN015 TEMPO 2223/2306 4000 BR EKBI 220955Z 2209/2306 21008KT 9999 SCT020 TEMPO 2210/2214 BKN008 BECMG 2214/2216 2500 BR RADZ BKN006 BECMG 2216/2218 6000 NSW BKN020 TEMPO 2218/2222 2500 BR BECMG 2222/2224 2500 BR PROB40 2302/2306 0500 FG VV002 EKCH 220504Z 2206/2306 27008KT 9999 SCT020 BECMG 2221/2223 BKN008 BECMG 2223/2301 BKN020 TEMPO 2301/2305 4000 BR BKN008 EKKA 220800Z 2209/2309 19012KT 9999 BKN100 TEMPO 2209/2215 4000 RA BKN012 TEMPO 2215/2221 2500 -RADZ BR BKN004 BECMG 2218/2221 24010KT TEMPO 2221/2307 2500 BR BKN004 EKSP 220808Z 2209/2309 20010KT 9999 FEW015 BKN050 BECMG 2209/2211 7000 -RA TEMPO 2211/2214 4000 RA BKN012 TEMPO 2214/2220 2500 -RADZ BR BKN004 BECMG 2217/2219 26010KT TEMPO 2220/2306 2000 BR BKN003 BECMG 2307/2309 9999 NSW EKYT 220800Z 2209/2309 20010KT 9999 BKN100 TEMPO 2209/2216 18015KT 4000 RA BKN012 TEMPO 2216/2222 2500 -RADZ BR BKN004 BECMG 2219/2222 24010KT TEMPO 2222/2308 3000 BR BKN006 TEMPO 2308/2309 BKN012 ELLX 220500Z 2206/2312 31007KT CAVOK BECMG 2221/2223 04008KT ENAN 2206/2306 25015KT 9999 FEW040 BKN070 TEMPO 2206/2210 21005KT TEMPO 2208/2215 SHRA BKN014 SCT020CB BECMG 2222/2301 01008KT ENBO 220851Z 2208/2306 27010KT 9999 FEW008 BKN020 TEMPO 2208/2212 24020KT 3000 RADZ BR SCT002 BKN003 BECMG 2214/2217 07005KT ENBR 220500Z 2206/2306 15008KT 9999 FEW015 BKN030 TEMPO 2207/2214 RA BECMG 2213/2215 SCT004 BKN010 TEMPO 2213/2224 3000 RADZ BR BKN004 ENDU 220500Z 2206/2306 VRB05KT 9999 FEW030TCU SCT070 TEMPO 2209/2215 24010KT TEMPO 2212/2221 SHRA BKN030CB PROB40 TEMPO 2212/2221 TS ENGC 220800Z 2209/2309 16030KT 3000 RADZ SCT003 BKN008 TEMPO 2209/2216 0200 FG VV002 BECMG 2213/2215 21018KT BECMG 2215/2218 27020KT 9999 SCT020 BKN080 BECMG 2300/2303 17015KT 3000 RADZ BKN005 ENGM 2206/2306 VRB05KT 9999 FEW030 BECMG 2206/2208 20010KT BECMG 2217/2219 BKN006 PROB40 2218/2224 1200 RADZ BR VV002 PROB40 2300/2306 0400 FG VV001 ENNA 2206/2306 18015KT 9999 FEW030 SCT060 TEMPO 2211/2221 FEW030 SCT040CB BECMG 2215/2218 34010KT ENOA 220800Z 2209/2309 16025KT 6000 SCT003 BKN008 TEMPO 2209/2216 2000 RADZ OVC003 PROB40 2209/2216 0200 DZ FG VV001 BECMG 2213/2215 25012KT SCT020 BKN080 BECMG 2301/2303 15015KT 3000 RADZ BKN005 ENOL 220500Z 2206/2306 14008KT 9999 FEW010 SCT080 BECMG 2300/2302 24015KT PROB40 2303/2306 RADZ BKN008 ENRY 220500Z 2206/2306 21010KT 9999 FEW030 TEMPO 2212/2215 20015G25KT BECMG 2214/2216 BKN008 PROB40 2216/2222 2000 RADZ BR VV002 PROB40 2222/2306 27005KT 0600 FG VV001 ENSB 220500Z 2206/2306 25008KT 9999 SCT007 BKN020 PROB40 TEMPO 2206/2215 4000 -RA BR BKN007 ENTC 220946Z 2209/2306 VRB05KT 9999 SCT050 TEMPO 2209/2215 30012KT ENTO 220500Z 2206/2306 27008KT 9999 FEW030 BECMG 2209/2211 21015KT BECMG 2213/2215 BKN008 PROB40 2215/2221 2000 RADZ BR VV002 PROB40 2221/2306 0600 FG VV001 BECMG 2222/2224 27008KT ENVA 220500Z 2206/2306 VRB05KT 9999 FEW020 BKN050 PROB40 2300/2306 2000 -RADZ BR BKN005 ENZV 2208/2306 15012KT 9999 -RA SCT007 BKN015 TEMPO 2208/2218 3000 RADZ BR BKN007 TEMPO 2303/2306 3000 RADZ BR BKN005 EPBY 220530Z 2206/2306 28010KT 9999 SCT030 TEMPO 2208/2217 30015G25KT BECMG 2302/2304 4500 RA BKN005 BKN013 EPGD 220530Z 2206/2306 27010KT 9999 SCT025 TEMPO 2208/2217 29016G26KT TEMPO 2219/2306 BKN013 PROB40 2302/2306 4500 RA BR BKN005 EPKK 220830Z 2209/2309 25006KT CAVOK BECMG 2221/2224 BKN013 TEMPO 2221/2309 4000 RA BR BKN006 OVC012 EPKT 220530Z 2206/2306 29002KT CAVOK BECMG 2206/2209 31012KT TEMPO 2210/2216 SCT040TCU BECMG 2217/2220 25005KT BECMG 2300/2302 BKN014 BECMG 2302/2304 4000 RA BR BKN004 OVC010 EPLL 220530Z 2206/2306 22002KT CAVOK BECMG 2208/2211 30012KT PROB40 TEMPO 2209/2215 30015G25KT SCT035TCU EPMO 220530Z 2206/2306 26004KT CAVOK BECMG 2206/2209 32010KT PROB40 TEMPO 2210/2215 32015G25KT BECMG 2219/2222 VRB03KT EPPO 220530Z 2206/2306 VRB02KT 9999 SCT040 BECMG 2206/2209 31013KT TEMPO 2209/2218 31015G25KT BKN035TCU BECMG 2222/2301 24006KT 4000 RADZ BR BKN013 TEMPO 2301/2306 2000 RADZ BR BKN004 EPRZ 220530Z 2206/2306 30012KT 9999 OVC004 BECMG 2206/2208 SCT030 TEMPO 2211/2218 31015G25KT SHRA BKN030CB BECMG 2218/2220 24006KT BECMG 2302/2304 SCT007 BKN014 TEMPO 2304/2306 4000 BR BKN006 OVC012 EPSC 220530Z 2206/2306 28007KT CAVOK BECMG 2216/2218 RA BKN013 TEMPO 2218/2224 4500 RA BR BKN005 BECMG 2300/2302 4000 BR BKN004 EPWA 220830Z 2209/2309 28012KT CAVOK TEMPO 2210/2215 32015G25KT PROB40 TEMPO 2303/2309 -RA BKN010 EPWR 220830Z 2209/2309 30012KT 9999 SCT048 TEMPO 2209/2217 BKN040TCU BECMG 2219/2222 28002KT TEMPO 2300/2307 4000 RA BR SCT009 BKN013 BECMG 2307/2309 31012KT ESGG 220724Z 2207/2306 26010KT 9999 SCT017 PROB40 2207/2209 BKN012 BECMG 2215/2217 20008KT 4500 -RA BKN012 TEMPO 2220/2224 1400 RA BR BKN003 PROB40 2300/2306 1400 BR BKN003 ESKN 220530Z 2206/2306 28012KT 9999 BKN020 PROB40 2206/2207 BKN010 BECMG 2218/2220 27002KT ESMS 220504Z 2206/2306 27008KT 9999 SCT020 BECMG 2222/2224 2500 BR BKN006 TEMPO 2300/2306 BKN004 ESSA 220530Z 2206/2306 VRB03KT 9999 SCT010 BKN015 TEMPO 2206/2210 BKN009 TEMPO 2210/2213 4000 SHRA BKN015CB BECMG 2210/2212 24012KT TEMPO 2213/2216 BKN025TCU BECMG 2216/2218 VRB02KT ETAD 220400Z 2204/2310 VRB06KT 9999 SCT160 QNH3019INS BECMG 2210/2211 28006KT 9999 FEW160 QNH3023INS TX28/2214Z TN14/2204Z ETAR 221005Z 2210/2316 25009KT 9999 FEW200 QNH3022INS BECMG 2213/2214 VRB06KT 9999 FEW250 QNH3019INS BECMG 2307/2308 10009KT 9999 SKC QNH3011INS TX29/2214Z TN15/2303Z ETEB 221020Z 2210/2311 28009KT 9999 FEW150 QNH3017INS BECMG 2217/2218 VRB06KT 9999 FEW100 QNH3018INS TX29/2214Z TN12/2304Z ETIC 220607Z 2206/2312 VRB06KT 9999 SCT050 QNH3021INS BECMG 2208/2209 28009KT 9999 FEW080 BKN140 QNH3020INS BECMG 2217/2218 VRB06KT 9999 BKN100 QNH3019INS TEMPO 2302/2304 8000 BR TX27/2213Z TN11/2304Z ETIK 221022Z 2210/2312 30012KT 9999 FEW150 QNH3017INS BECMG 2217/2218 VRB06KT 9999 FEW100 QNH3018INS TX29/2212Z TN09/2304Z ETNG 220800Z 2209/2224 26010G15KT CAVOK BECMG 2215/2217 25004KT ETNW 220416Z 2205/2305 22005KT 9999 NSW SCT050 BKN140 TEMPO 2213/2218 25008KT 7000 -RA SCT030 BKN050 BECMG 2223/2302 VRB03KT 5000 BR SCT140 BKN300 PROB30 2302/2305 VRB02KT 0500 FG FEW300 BY ETGL ETOU 220307Z 2203/2309 VRB06KT 9999 FEW060 QNH3019INS BECMG 2208/2209 33009KT 9999 FEW150 QNH3017INS BECMG 2217/2218 VRB06KT 9999 FEW100 QNH3016INS TX29/2215Z TN14/2204Z EVLA 220802Z 2209/2309 27007KT 9999 BKN015 TEMPO 2209/2215 27015G25KT BKN010 SCT020CB BECMG 2219/2221 VRB02KT TEMPO 2222/2304 0700 FG BKN002 EVRA 220800Z 2209/2309 30007KT 9999 BKN020 TEMPO 2209/2218 -TSRA BKN010 BKN017CB TEMPO 2221/2304 3000 BR BKN005 PROB40 TEMPO 2221/2304 0600 FG BKN002 EYKA 220500Z 2206/2306 28010KT 9000 BKN005 BECMG 2206/2208 BKN025 TEMPO 2209/2215 29015G25KT TSRA SCT015CB EYPA 220500Z 2206/2306 28014KT 9000 SCT010 BKN015 TEMPO 2206/2215 SHRA BKN010 BKN018CB TEMPO 2222/2304 VRB04KT 3000 BR SCT005 BECMG 2304/2305 NSC EYVI 220504Z 2206/2306 30015KT 9000 BKN005 BKN020 TEMPO 2206/2209 3000 SHRA BKN015CB FM220900 BKN020 TEMPO 2209/2218 VRB25KT 3000 TSRA SCT005 BKN015CB BECMG 2218/2219 VRB05KT OVC005 TEMPO 2300/2306 3000 BR FABL 220400Z 2206/2306 01010KT CAVOK TX17/2213Z TNM01/2305Z= FAOR 220600Z 2206/2312 34010KT CAVOK TX16/2213Z TN03/2305Z BECMG 2218/2220 VRB03KT FM230700 34012KT CAVOK FACT 220400Z 2206/2312 03015KT 9999 FEW015 BKN020 TX16/2212Z TN10/2206Z PROB30 TEMPO 2206/2208 BKN014 FM220800 33020KT 8000 -RA SCT015 BKN025 PROB40 TEMPO 2210/2224 35020G30KT PROB40 TEMPO 2214/2224 4000 BKN012 TEMPO 2300/2312 34030G40KT 3500 RA BKN008 FAGG 220900Z 2206/2306 22007KT CAVOK TX24/2212Z TN10/2305Z BECMG 2216/2218 33017KT FALA 220600Z 2206/2306 VRB03KT CAVOK TX18/2213Z TN02/2305Z BECMG 2207/2209 32010KT BECMG 2215/2217 VRB03KT FALE 220400Z 2206/2312 34005KT CAVOK TX26/2312Z TN08/2304Z BECMG 2209/2211 04010KT BECMG 2218/2220 32003KT BECMG 2308/2310 02008KT FAOR 220600Z 2206/2312 34010KT CAVOK TX16/2213Z TN03/2305Z BECMG 2218/2220 VRB03KT FM230700 34012KT CAVOK FAPE 220400Z 2206/2306 33007KT CAVOK TX25/2212Z TN11/2303Z BECMG 2212/2214 23013KT BECMG 2221/2223 34005KT FAUP 220400Z 2206/2306 36015G25KT CAVOK TX24/2213Z TN09/2305Z BECMG 2216/2218 36010KT FBSK 220300Z 2206/2312 03020KT CAVOK FCBB 220500Z 2206/2312 26004KT 7000 FEW018 PROB40 2304/2308 3000 BR FCPP 220500Z 2206/2306 20004KT 6000 SCT015 BECMG 2303/2304 3000 BR FEFF 220500Z 2206/2312 VRB02KT 9999 SCT010 BECMG 2208/2210 BKN013 BECMG 2211/2213 BKN020 FEW033CB PROB30 TEMPO 2214/2218 TS BECMG 2219/2221 BKN010 BECMG 2302/2304 4000 BR SCT006 FGBT 220500Z 2206/2306 22006KT 9999 SCT010 TEMPO 2210/2216 BKN010 FEW020CB FGSL 220500Z 2206/2312 24006KT 9999 TS BKN010 FEW020CB TEMPO 2207/2213 3000 TSRA BKN008 FEW016CB BECMG 2213/2215 NSW SCT012 FEW020CB BECMG 2218/2220 TS FIMP 220520Z 2206/2312 VRB03KT 9999 SCT018 TEMPO 2207/2218 7000 -SHRA BKN015 BECMG 2209/2211 18015G35KT PROB30 TEMPO 2209/2212 3000 SHRA FEW010 FEW012TCU BKN014 FIMR 220525Z 2206/2300 07008KT 9999 FEW018 PROB30 TEMPO 2218/2300 7000 -SHRA BKN015 FJDG 220900Z 2209/2315 36015KT 9999 VCSH SCT015 QNH2960INS BECMG 2211/2213 35015G20KT 8000 RA SCT015 BKN020 QNH2958INS TEMPO 2213/2216 3200 RA BKN010 BECMG 2218/2219 34015G20KT 9999 NSW FEW020 QNH2966INS TX30/2305Z TN25/2219Z FKKD 220500Z 2206/2312 24005KT 9999 BKN013 FEW016CB TEMPO 2206/2210 4000 RADZ FKKL 220500Z 2206/2218 VRB08KT 9999 SCT035 PROB30 2215/2218 TS SCT035 FEW045CB FKKR 220500Z 2206/2218 VRB07KT 9999 SCT030 PROB30 2214/2218 TS BKN016 FEW023CB FKYS 220500Z 2206/2306 26005KT 9999 BKN006 BECMG 2206/2210 BKN016 PROB30 2215/2222 4000 TSRA BKN013 FEW016CB BECMG 2222/2224 BKN006 FLCP 220400Z 2206/2312 12010KT 9999 SCT020 BECMG 2211/2213 SCT045 FM221800 08005KT CAVOK FLHN 220400Z 2206/2312 10010KT 9999 FEW025 BECMG 2212/2214 08005KT 9000 HZ FM221800 VRB03KT CAVOK FLJK 220400Z 2206/2312 09010KT 9999 SCT020 BECMG 2212/2214 FEW048 FM221600 VRB04KT CAVOK FLKK 220400Z 2206/2312 09010KT 9999 SCT020 BECMG 2212/2214 FEW048 FM221600 VRB04KT CAVOK FLKS 220400Z 2206/2312 08010KT 9999 SCT020 BECMG 2211/2213 FEW045 FM221800 VRB04KT CAVOK FLMF 220400Z 2206/2312 12010KT 9999 SCT020 BECMG 2211/2213 SCT045 FM221800 08005KT CAVOK FLRZ 220400Z 2206/2312 09010KT 9999 SCT020 BECMG 2212/2214 FEW048 FM221600 VRB04KT CAVOK FLSK 220400Z 2206/2312 11010KT 9999 SCT025 BECMG 2212/2214 07005KT 9000 FU NSC FM221800 VRB02KT CAVOK FLSW 220400Z 2206/2312 07005KT 9000 HZ SKC FM221800 VRB03KT CAVOK FMCH 220928Z 2209/2312 22022G35KT 9999 FEW020 FMCZ 220500Z 2206/2306 20025G35KT 9999 SCT025 BECMG 2212/2214 20015G25KT FMEE 220500Z 2206/2312 11007KT 9999 FEW026 SCT050 BKN090 BECMG 2304/2306 11018KT TEMPO 2306/2312 11018G28KT FMMI 220500Z 2206/2312 14008KT 9999 SCT020 FMMS 220500Z 2206/2306 18015KT 9999 SCT017 SCT033 PROB40 TEMPO 2206/2220 4000 SHRA PROB40 TEMPO 2210/2218 18025G35KT FMMT 220500Z 2206/2306 20012KT 9999 FEW017 BKN033 PROB40 TEMPO 2206/2212 4000 SHRA FMNA 220500Z 2206/2306 14010KT 9999 SCT020 BKN040 PROB30 TEMPO 2303/2306 14020G30KT FMNM 220500Z 2206/2306 20010KT 9999 FEW020 BECMG 2215/2218 14010KT FMNN 220500Z 2206/2306 VRB04KT 9999 SCT020 SCT040 PROB30 TEMPO 2300/2305 4000 RA FMSD 220500Z 2206/2306 24010KT 9999 SCT017 SCT033 BECMG 2210/2212 14010KT FMST 220500Z 2206/2306 14012KT 9999 SCT017 SCT040 FNLU 220500Z 2206/2312 15005KT 5000 BR BKN020 BECMG 2210/2212 28010KT 9999 FEW020 BECMG 2218/2220 21005KT 8000 NSC TEMPO 2303/2307 4000 BR BKN020 FOOG 220452Z 2206/2306 16008KT 7000 SCT008 BKN028 TEMPO 2206/2209 BKN010 OVC030 FOOL 220440Z 2206/2312 17008KT 9999 FEW012 PROB30 TEMPO 2216/2220 4500 RADZ BKN008 OVC030 FQMA 220400Z 2206/2312 34004KT CAVOK TX27/2213Z TN17/2303Z TEMPO 2212/2218 35010G20KT 9999 FEW020 FSIA 220502Z 2206/2306 15010KT 9999 SCT022 BECMG 2223/2306 17015G25KT FTTJ 220500Z 2206/2312 22006KT CAVOK TEMPO 2212/2219 VRB16G25KT 3000 TSRA PROB30 TEMPO 2304/2312 VRB18G35KT 3000 TSRA FWCL 220430Z 2206/2312 16010KT 9999 FEW015 BECMG 2210/2214 SCT025 BECMG 2220/2222 CAVOK FWKI 220405Z 2206/2312 18014KT 9999 BKN015 BKN080 BECMG 2207/2209 18010G20KT 9999 BKN020 BKN080 FYKT 220400Z 2206/2306 01011KT CAVOK BECMG 2210/2212 29018KT FYWB 220400Z 2206/2306 02003KT 0500 FG OVC003 BECMG 2207/2209 9999 NSW OVC010 BECMG 2209/2211 23009KT CAVOK FYWH 220400Z 2206/2306 26005KT CAVOK BECMG 2207/2209 35012KT FZAA 220500Z 2206/2312 24004KT 3000 BR BKN014 BECMG 2210/2212 34006KT 6000 NSW FEW022 BECMG 2219/2221 4000 BR FZNA 220500Z 2206/2312 09006KT 5000 HZ FEW016 BECMG 2208/2210 21008KT FEW018 BECMG 2211/2213 SCT020 FEW024CB PROB30 2213/2216 -TSRA FZQA 220500Z 2206/2312 18010KT 9000 NSC TEMPO 2213/2218 09008KT CAVOK GABS 220500Z 2206/2312 22006KT 9999 FEW026 PROB40 TEMPO 2214/2218 08020G35KT 4000 TSRA SCT020 FEW030CB GAGO 220500Z 2206/2306 18010KT 6000 SCT030 PROB40 TEMPO 2215/2221 08020G40KT 2000 BLDU TSRA BKN030 SCT040CB GBYD 220530Z 2206/2312 28012KT 9999 SCT010 TEMPO 2207/2213 18013KT 4500 TSRA BKN010 FEW020CB GCFV 220800Z 2209/2309 05015KT 9999 SCT020 TX26/2214Z TN20/2305Z BECMG 2219/2221 35012KT GCGM 220800Z 2209/2309 23007KT 9999 FEW015 TX27/2214Z TN19/2305Z GCHI 220800Z 2209/2309 36017KT 9999 SCT020 TX26/2214Z TN20/2305Z GCLA 220800Z 2209/2309 03012KT 9999 SCT030 TX27/2214Z TN20/2305Z GCLP 220800Z 2209/2309 01025KT 9999 SCT020 TX27/2214Z TN21/2305Z PROB40 TEMPO 2209/2221 01025G35KT GCRR 220800Z 2209/2309 01017KT 9999 FEW020 TX27/2214Z TN20/2305Z GCTS 220800Z 2209/2309 04007KT 9999 FEW020 TX28/2214Z TN21/2305Z BECMG 2209/2211 09020KT BECMG 2220/2223 03005KT GCXO 221004Z 2210/2309 30018KT 9999 FEW005 TX22/2214Z TN16/2305Z TEMPO 2210/2212 BKN007 PROB40 TEMPO 2219/2309 1500 BCFG BKN002 GEML 220800Z 2209/2309 05006KT 9999 SCT020 TX28/2215Z TN24/2305Z TEMPO 2209/2213 SCT008 BKN012 GFLL 220500Z 2206/2312 31005KT 9999 TS BKN009 FEW027CB TEMPO 2212/2216 28005KT BKN012 TEMPO 2219/2223 VRB03KT 7000 TSRA BKN016 FEW026CB BECMG 2310/2312 18009KT TS BKN013 FEW927CB GGOV 212300Z 2200/2224 26008KT 9999 SCT014 PROB40 TEMPO 2202/2206 08015G30KT 2000 TSRA SCT005 BKN014 FEW020CB GLRB 220400Z 2206/2312 VRB02KT 8000 RA/TSRA BKN017 FEW027CB TEMPO 2206/2210 23007KT 6000 TSRA BECMG 2211/2213 04010KT 9999 SCT010 GMAD 220500Z 2206/2312 12006KT 8000 BKN013 BECMG 2212/2216 28016KT CAVOK GMAG 220500Z 2206/2312 26006KT 4000 BR BKN010 BECMG 2208/2210 8000 NSW NSC GMFF 220500Z 2206/2312 32012KT CAVOK BECMG 2214/2216 FEW030 FEW040CB BECMG 2218/2220 20006KT CAVOK GMFK 220500Z 2206/2312 05007KT 7000 NSC TEMPO 2211/2220 18018G28KT GMFM 220500Z 2206/2312 VRB03KT 6000 NSC PROB30 TEMPO 2206/2210 3000 BR SCT010 BECMG 2212/2216 30010KT SCT023TCU GMFO 220500Z 2206/2312 08006KT 8000 SCT016 PROB30 214/2216 34017KT 9999 TSRA SCT026 FEW040CB GMME 220500Z 2206/2312 22008KT 7000 SCT010 BKN016 TEMPO 2218/2224 30004KT SCT020 GMMH 220500Z 2206/2312 01024KT 8000 BKN010 BECMG 2212/2214 SCT020 GMMI 220500Z 2206/2312 36010KT 8000 NSC GMML 220500Z 2206/2312 03020KT 9999 OVC015 BECMG 2210/2212 NSC BECMG 2222/2224 BKN010 GMMN 220500Z 2206/2312 18003KT 9999 BKN010 BECMG 2209/2211 34012KT CAVOK BECMG 2221/2223 30005KT TEMPO 2223/2308 8000 BKN008 BECMG 2309/2311 35010KT CAVOK GMMW 220500Z 2206/2312 03004KT 4000 BR SCT008 BKN020 BECMG 2208/2210 8000 NSW NSC GMMX 220500Z 2206/2312 24005KT 8000 NSC TEMPO 2215/2220 32015KT SCT030 GMMZ 220500Z 2206/2312 14003KT CAVOK TEMPO 2211/2219 16018G28KT 8000 SCT040 GMTA 220500Z 2206/2312 VRB02KT 5000 SCT013 GMTT 220500Z 2206/2312 25005KT 8000 NSC TEMPO 2208/2211 09015G25KT CAVOK GOBD 220530Z 2206/2312 31014KT 8000 NSC GOGS 220530Z 2206/2306 27006KT 9999 SCT015 TEMPO 2207/2213 12012KT 4500 TSRA BKN013 FEW025CB GOOY 220530Z 2206/2312 32012KT 9999 SCT010= GOBD 220530Z 2206/2312 31014KT 8000 NSC GOSS 220530Z 2206/2306 32012KT CAVOK GQNO 220530Z 2206/2312 29012KT 7000 NSC GQPP 220530Z 2206/2306 36015KT 7000 NSC GUCY 220500Z 2206/2312 26006KT 9999 SCT015 SCT110 TEMPO 2216/2222 30006KT 6000 -TSRA BKN013 FEW023CB BKN100 TEMPO 2302/2308 VRB02KT 8000 -RA BKN012 BKN100 GVAC 220500Z 2206/2312 36012KT 9999 SCT015 TEMPO 2206/2210 VRB03KT BKN015 GVBA 212300Z 2200/2306 05004KT 9999 SCT015 BECMG 2212/2216 35012KT TEMPO 2216/2222 35016KT GVNP 220500Z 2206/2312 01010KT 9999 FEW016 BECMG 2307/2309 03020KT GVSV 220500Z 2206/2312 05012KT 9999 FEW020 BECMG 2301/2303 FEW018 BKN025 BECMG 2307/2309 05022KT HAAB 220330Z 2206/2312 27007KT 9999 BKN020 BKN060 BECMG 2207/2214 27007KT 8000 -SHRA FEWCB020 SCT060 BECMG 2215/2221 24007KT BKN020 BKN050 HADR 220330Z 2206/2312 14009KT 9999 FEW040 FEW090 BECMG 2206/2212 14007KT FEW050 FEW090 BECMG 2217/2223 14009KT SCT018 SCT070 HBBA 220500Z 2206/2312 36005KT 5000 HZ FEW030 SCT100 BECMG 2208/2 210 18010G24KT 8000 NSC BECMG 2217/2219 00000KT CAVOK BECMG 2303/2305 36003KT 4000 HZ NCC BECMG 2308/2310 18010KT 7000 FEW035 HDAM 220500Z 2206/2306 27010G15KT 8000 HZ SCT133 BECMG 2212/2215 08010KT BECMG 2215/2218 VRB05KT FEW133 BECMG 2300/2306 00000KT SCT133 HEAL 220500Z 2206/2312 30010KT 9999 FEW020 HEAR 220500Z 2206/2312 32008KT 9999 FEW025= HEAX 220500Z 2206/2312 31010KT 9999 FEW020 HEAT 220500Z 2206/2312 33012KT CAVOK TEMPO 2210/2215 4000 SA NSC HEAX 220500Z 2206/2312 31010KT 9999 FEW020 HEBA 220500Z 2206/2312 31010KT 9999 FEW020 HEBL 220500Z 2206/2312 01012KT CAVOK TEMPO 2210/2215 4000 SA NSC HECA 220500Z 2206/2312 01008KT 6000 SCT025 PROB30 TEMPO 2206/2208 VRB03KT 4000 HZ BECMG 2210/2212 CAVOK HEGN 220500Z 2206/2312 34018G28KT CAVOK TEMPO 2206/2212 4000 SA NSC HELX 220500Z 2206/2312 33015KT CAVOK TEMPO 2206/2208 VRB03KT 6000 NSC TEMPO 2210/2215 4000 SA NSC HEMA 220500Z 2206/2312 01015G25KT CAVOK HEMM 220500Z 2206/2312 30010KT 9999 FEW020 HEOW 220500Z 2206/2312 01015KT 6000 NSC TEMPO 2210/2215 4000 SA NSC HEPS 220500Z 2206/2312 33008KT 9999 SCT025 HESC 220500Z 2206/2312 34010KT CAVOK HESG 220500Z 2206/2312 33012KT CAVOK HESH 220500Z 2206/2312 03015KT CAVOK HESN 220500Z 2206/2312 33015KT CAVOK TEMPO 2210/2215 4000 SA NSC HETB 220500Z 2206/2312 04015KT CAVOK HETR 220500Z 2206/2312 31018G28KT CAVOK TEMPO 2206/2212 4000 SA NSC HKML 220500Z 2206/2306 18010KT 9999 SCT025 BECMG 2218/2222 20005KT FEW022 BECMG 2300/2306 00000KT FEW020 HKMO 220500Z 2206/2312 18010KT 9999 SCT024 BECMG 2218/2222 18005KT FEW022 BECMG 2300/2306 23005KT FEW019 HLGD 220500Z 2206/2306 06012KT 8000 FEW025 BECMG 2214/2216 36012KT HLGT 220500Z 2206/2306 15012KT CAVOK BECMG 2212/2214 09012KT BECMG 2220/2220 VRB02KT BECMG 2300/2302 08012KT HLKF 220500Z 2206/2306 35012KT CAVOK HLLB 220500Z 2206/2306 36015KT 8000 FEW025= HLLM 220500Z 2206/2306 10012KT 8000 NSC BECMG 2210/2212 07014KT CAVOK HLLQ 220500Z 2206/2306 35012KT 8000 FEW020 HLMS 220500Z 2206/2306 04012KT 9999 FEW030 BECMG 2212/2214 36012KT HLON 220500Z 2206/2306 04012KT CAVOK HLTD 220500Z 2206/2306 06012KT CAVOK BECMG 2218/2220 36012KT BECMG 2300/2302 06014KT HLTQ 220500Z 2206/2306 35012KT 8000 FEW030 HLUB 220500Z 2206/2306 08012KT CAVOK BECMG 2118/2120 VRB02KT BECMG 2300/2302 08012KT HRYR 220500Z 2206/2312 34003KT 9999 FEW026 SCT100 FM220900 12006KT SCT025 TEMPO 2211/2214 18016KT BKN025 FM 222100 32004KT FEW026 SCT100 BECMG 2302/2305 00000KT 8000 SCT026 SCT100 FM 230900 17006KT 9999 BKN025 HSKA 220500Z 2206/2312 VRB03KT 9999 SCT040 BKN140 TEMPO 2216/2302 6000 TSRA FEW045CB HSOB 220500Z 2206/2312 20016G26KT 9999 SCT040 BKN140 TEMPO 2217/2302 6000 TSRA FEW045CB HSPN 220500Z 2206/2312 27008KT CAVOK TEMPO 2206/2209 6000 BECMG 2212/2214 05012G22KT HSSJ 220500Z 2206/2312 27005KT 9999 SCT030 BKN120 TEMPO 2209/2215 28008KT 9999 FEW040 SCT140 TEMPO 2215/2221 VRB05G15KT 4000 TSRA FEW040CB BKN090 HSSS 220500Z 2206/2312 20016G26KT CAVOK TEMPO 2210/2215 9999 FEW040 SCT140 TEMPO 2217/2302 6000 TSRA FEW045CB HTAR 220500Z 2206/2306 09018KT 9999 BKN024 BECMG 2210/2212 15007KT FEW030 HTDA 220500Z 2206/2312 18010KT 9999 SCT023= HTDO 220500Z 2206/2306 00000KT 9999 NSC HTGW 220500Z 2206/2306 12015KT 9999 FEW026 HTKJ 220500Z 2206/2306 12010KT 9999 BKN026 BECMG 2209/2212 SCT028 HTMT 220500Z 2206/2306 18010KT 9999 FEW023 BKN070 BECMG 2210/2213 SCT025 HTMW 220500Z 2206/2306 13010KT 9999 FEW023 BECMG 2211/2213 33010KT FEW027 FEW028CB FM221700 00000KT BECMG 2302/2305 12010KT HTTB 220500Z 2206/2306 16005KT CAVOK HTZA 220500Z 2206/2306 18010G20KT 9999 FEW016 SCT080 HUEN 220455Z 2206/2312 35013KT 9999 FEW022 FEW024CB HUSO 220500Z 2206/2306 05004KT 9999 SCT019 BKN100 BECMG 2208/2212 32008KT TS SCT021 FEW023CB FM221600 08005KT 9000 -TSRA BKN020 FEW022CB BECMG 2302/2306 07003KT 9999 SCT018 BKN090 KABE 220521Z 2206/2306 31009KT P6SM SHRA SCT100 BKN200 FM220700 VRB04KT P6SM FEW120 BKN200 FM221800 24008KT P6SM SHRA VCTS SCT040 OVC060CB FM230000 31004KT 4SM SHRA BR SCT015 OVC025 KABI 220520Z 2206/2306 13010KT P6SM SKC FM221400 24012KT P6SM FEW040 SCT250 FM221600 36014KT P6SM SCT040 SCT250 FM221800 01013KT P6SM VCTS SCT040CB BKN250 FM222000 03012G20KT P6SM FEW100 KABQ 220534Z 2206/2306 09022G32KT P6SM FEW050 BKN120 FM220900 11012G20KT P6SM SCT050 BKN130 FM221200 09022G32KT P6SM BKN060 BKN100 FM221700 10015G22KT P6SM BKN080 FM222100 12022G32KT P6SM VCSH BKN080 KABR 220532Z 2206/2306 02005KT P6SM SKC FM230200 VRB03KT P6SM SKC KABY 220520Z 2206/2306 VRB04KT P6SM SCT040 SCT250 KACK 220908Z 2209/2306 26004KT P6SM SCT250 FM221500 06006KT P6SM VCSH BKN200 FM222000 10009KT P6SM VCSH BKN030 FM222300 11009KT 6SM BR VCSH BKN015 FM230100 14007KT 3SM BR VCSH OVC008 FM230300 16008KT 1 1/2SM +SHRA BR OVC003 KACT 220912Z 2209/2306 18010KT P6SM SCT250 FM221500 27008KT P6SM SCT050 FM222000 34013KT P6SM VCTS SCT050CB FM222300 01015KT P6SM SCT250 KACV 220520Z 2206/2306 VRB03KT P6SM SCT007 FM220700 13003KT P6SM BKN007 FM221200 12003KT P6SM OVC005 FM221500 33004KT 3SM BR OVC003 FM221800 30007KT P6SM OVC006 FM222100 32010KT P6SM SCT007 KACY 220521Z 2206/2306 27005KT P6SM FEW120 BKN200 FM221400 24008KT P6SM BKN180 FM222200 28008KT 6SM SHRA VCTS SCT050 BKN070CB FM230300 VRB05KT 5SM RA BR SCT015 OVC025 KADF 220520Z 2206/2306 VRB05KT P6SM BKN250 FM221800 29006KT P6SM VCTS SCT025 BKN050CB TEMPO 2220/2224 4SM -SHRA BR BKN025 FM230300 36010KT P6SM SCT050 BKN100 NOT SKED KADW 220900Z 2209/2315 25006KT 9999 FEW035 QNH2983INS BECMG 2214/2215 25010G15KT 9999 SCT040 QNH2981INS TEMPO 2218/2223 26030G40KT 1600 +TSRA BKN025CB BECMG 2303/2304 27010G15KT 8000 -SHRA BKN020 QNH2977INS BECMG 2306/2307 31012KT 6000 -RA BKN015 BKN020 QNH2985INS TEMPO 2307/2310 3200 +RA BKN005 OVC008 TX33/2217Z TN19/2308Z KAEG 220534Z 2206/2306 12010G20KT P6SM FEW070 BKN120 FM221000 04012KT P6SM SCT070 BKN130 FM221300 12015G22KT P6SM BKN060 BKN120 FM222100 10015G22KT P6SM VCSH BKN080 TEMPO 2222/2301 -TSRA OVC050CB KAEX 221022Z 2210/2306 00000KT P6SM BKN004 OVC009 FM221400 VRB05KT P6SM VCTS SCT035CB TEMPO 2216/2220 3SM -TSRA BKN025CB FM230100 VRB03KT P6SM BKN150 KAFW 220912Z 2209/2306 18010KT P6SM SCT250 FM221300 27008KT P6SM SCT050 FM221500 34015KT P6SM SCT050 FM230200 02016KT P6SM SCT250 KAGC 221004Z 2210/2306 19004KT 6SM -SHRA BR BKN003 OVC015 FM221500 22008KT 6SM -SHRA BKN015 FM221900 32007KT P6SM VCSH BKN040 FM222300 35006KT P6SM BKN120 KAGS 220855Z 2209/2306 21004KT P6SM FEW250 FM221600 23010KT P6SM SCT060 SCT250 FM230100 19007KT P6SM BKN200 KAHN 220541Z 2206/2306 00000KT P6SM SCT150 SCT250 FM221500 26005KT P6SM SCT030 SCT120 BKN250 FM221800 25007KT P6SM VCSH SCT040 BKN090 PROB30 2219/2224 6SM TSRA BKN040CB FM230400 22003KT P6SM VCSH BKN040 KAIA 220536Z 2206/2306 10006KT 6SM BR OVC010 FM221500 16008KT P6SM SCT010 BKN020 FM221800 16012KT P6SM SCT020 BKN050 FM230300 15008KT P6SM SCT200 KALB 220534Z 2206/2306 VRB03KT P6SM SCT250 FM221100 VRB03KT P6SM BKN100 BKN250 FM221400 33004KT P6SM VCSH BKN050 OVC080 FM221600 34005KT 5SM -RA BR BKN025 OVC050 FM221900 36007KT 4SM -RA BR OVC015 TEMPO 2219/2223 2SM RA OVC007 FM222300 36005KT 5SM -RA BR BKN007 OVC015 FM230500 00000KT P6SM OVC025 KALI 220522Z 2206/2306 14010KT P6SM FEW025 BKN250 FM221000 15004KT P6SM SCT018 BKN250 TEMPO 2210/2213 5SM BR BKN020 FM221400 17010KT P6SM FEW025 BKN150 FM221900 12012G18KT P6SM SCT035 FM230100 14008KT P6SM SCT035 KALO 220817Z 2208/2306 34005KT P6SM SKC FM221700 35011KT P6SM BKN050 FM230200 30003KT P6SM SKC KALS 220551Z 2206/2306 12025G35KT P6SM VCSH SCT080 BKN140 FM221000 10012KT P6SM SCT120 BKN200 FM221400 VRB06KT P6SM FEW120 SCT200 FM222000 13012KT P6SM VCTS SCT070CB BKN200 FM230200 10008KT P6SM VCSH SCT060 BKN120 KALW 220520Z 2206/2306 14005KT P6SM SCT150 FM221800 25005KT P6SM SCT150 FM230000 27006KT P6SM SCT120 BKN150 FM230300 15005KT P6SM BKN120 KAMA 220904Z 2209/2306 06014G25KT P6SM FEW250 FM221000 04014G23KT P6SM BKN020 FM221200 04014KT P6SM BKN050 FM221800 04013KT P6SM SCT250 KANB 220902Z 2209/2306 23002KT P6SM FEW100 SCT250 FM221100 23002KT P6SM SCT008 BKN020 FM221500 23005KT P6SM SCT030 SCT250 FM222100 24008KT P6SM VCSH SCT030 BKN250 PROB30 2223/2305 2SM TSRA BKN030CB KAND 220538Z 2206/2306 23003KT P6SM FEW250 FM221200 23005KT P6SM SCT040 PROB30 2221/2302 4SM TSRA OVC025CB FM230200 22005KT P6SM VCSH BKN060 KAOO 220857Z 2209/2306 21004KT P6SM VCSH BKN050 TEMPO 2209/2213 5SM -SHRA BR FM221300 20005KT 5SM SHRA BR OVC025 FM221700 34006KT 5SM SHRA BR OVC015 KAPA 220711Z 2207/2306 15005KT P6SM FEW080 SCT120 FM221000 15007KT P6SM BKN020 BKN100 FM221600 12009KT P6SM BKN040 BKN100 FM222200 15012G20KT P6SM SCT050 BKN100 PROB30 2223/2302 VRB20G30KT 5SM TSRA BKN050CB FM230400 16008KT P6SM VCSH SCT050 BKN100 KAPF 220846Z 2209/2306 VRB03KT P6SM SKC FM221400 10008KT P6SM SCT035 FM221700 23008KT P6SM VCTS SCT035CB BKN200 PROB30 2218/2224 TSRA BKN035CB FM230000 VRB03KT P6SM VCSH SCT030 BKN120 KAPN 220520Z 2206/2306 VRB04KT P6SM SCT250 FM220800 VRB04KT P6SM BKN120 FM221200 VRB04KT P6SM SCT180 FM222100 33011KT P6SM FEW250 FM230300 31007KT P6SM SKC KARA 220520Z 2206/2306 14004KT P6SM SKC FM221300 24006KT P6SM VCTS SCT025CB BKN050 PROB30 2216/2222 3SM -TSRA BKN025CB FM230100 VRB03KT P6SM BKN150 KART 220920Z 2209/2306 06004KT P6SM OVC250 FM221000 07005KT P6SM BKN120 FM221500 VRB03KT P6SM BKN040 FM221600 VRB03KT P6SM BKN020 FM230000 VRB03KT P6SM BKN040 KASD 220520Z 2206/2306 00000KT P6SM SCT030 FM221400 25005KT P6SM SCT050 FM221800 24005KT P6SM VCTS BKN030CB FM230200 00000KT P6SM OVC250 KASE 221016Z 2210/2306 14013G20KT P6SM SKC FM221800 32005KT P6SM SCT100 FM222100 32007KT P6SM VCSH SCT100 FM230200 14005KT P6SM SCT120 KASN 220902Z 2209/2306 22003KT P6SM FEW050 FEW100 FM221100 23002KT P6SM SCT008 BKN020 FM221500 23005KT P6SM SCT030 SCT250 FM222100 24008KT P6SM VCSH SCT030 BKN250 PROB30 2223/2305 2SM TSRA BKN030CB KAST 221014Z 2210/2306 15004KT P6SM BKN018 FM221200 VRB03KT P6SM SCT008 OVC012 FM221900 28007KT P6SM SCT100 KATL 220948Z 2210/2312 21004KT P6SM FEW050 SCT250 FM221500 25007KT P6SM SCT030 BKN120 FM221800 24008KT P6SM VCSH SCT040 BKN090 PROB30 2219/2224 6SM TSRA BKN040CB FM230400 24005KT P6SM VCSH BKN040 FM230900 25005KT P6SM BKN010 KATW 220520Z 2206/2306 07010KT P6SM SCT050 BKN120 FM220700 03004KT P6SM BKN040 FM221000 35004KT P6SM SCT100 TEMPO 2210/2212 BKN100 FM221700 34007KT P6SM SCT050 FM222100 31006KT P6SM SCT050 KATY 220717Z 2207/2306 36006KT P6SM SKC TEMPO 2207/2211 2SM BR FM230200 VRB03KT P6SM SKC KAUG 220905Z 2209/2306 VRB03KT P6SM OVC100 FM221800 28005KT P6SM OVC050 FM222200 22003KT P6SM -RA OVC035 KAUS 221015Z 2210/2312 VRB02KT P6SM SCT015 TEMPO 2210/2214 BKN015 FM221400 18006KT P6SM SCT250 FM230500 34005KT P6SM VCSH SCT050 SCT250 KAUW 220520Z 2206/2306 02004KT P6SM BKN100 FM221000 VRB03KT P6SM SCT100 FM221800 32008KT P6SM SCT050 FM230000 30006KT P6SM FEW050 KAVL 220952Z 2210/2306 VRB03KT P6SM FEW003 SCT250 TEMPO 2210/2213 6SM BR BKN002 FM221300 32003KT P6SM SCT027 BKN035 FM221400 20004KT P6SM VCSH BKN027 PROB30 2219/2220 3SM TSRA OVC015CB FM222000 24005KT P6SM -SHRA VCTS BKN040CB FM230300 34003KT 4SM BR VCSH OVC045 KAVP 220832Z 2209/2306 10004KT P6SM BKN035 FM221400 04003KT P6SM -SHRA OVC035 FM221600 03003KT 5SM -SHRA OVC025 FM221900 36005KT 5SM -SHRA OVC015 FM222300 02003KT 5SM -SHRA OVC009 KAXN 220520Z 2206/2306 35006KT P6SM SKC FM221600 33009KT P6SM FEW050 FM230100 32005KT P6SM SKC KAZO 220636Z 2207/2306 02008KT P6SM BKN080 TEMPO 2207/2210 1SM BR FM221800 36010KT P6SM SCT250 FM230100 35005KT P6SM SKC KBAD 221000Z 2210/2316 18006KT 9999 BKN012 QNH2993INS TEMPO 2211/2213 BKN008 BECMG 2214/2215 27010KT 9999 SCT030 QNH2985INS BECMG 2220/2221 27010KT 9999 VCTS BKN040CB QNH2985INS TEMPO 2222/2301 33015G25KT 8000 TSRA OVC010CB BECMG 2302/2303 01006KT 9999 NSW BKN035 QNH2988INS BECMG 2305/2306 02010KT 9999 BKN015 QNH2990INS TX35/2222Z TN23/2211Z KBAF 220542Z 2206/2306 32004KT P6SM SCT250 FM221600 05004KT P6SM VCSH OVC080 FM221800 01007KT P6SM VCSH OVC025 FM222000 02007KT P6SM SHRA OVC015 FM222300 02007KT 5SM +SHRA BR OVC008 FM230200 01006KT 4SM +SHRA BR SCT008 OVC012 KBAM 220521Z 2206/2306 VRB06KT P6SM SCT250 FM222100 VRB06KT P6SM VCTS SCT140CB SCT250 FM230300 05007KT P6SM VCTS BKN140CB NOT SKED KBBD 220520Z 2206/2306 14008KT P6SM SKC FM221700 08008KT P6SM SCT040 SCT100 FM222100 06010KT P6SM VCTS SCT040CB BKN100 FM230100 06008KT P6SM BKN100 KBBG 220821Z 2208/2306 32008KT 4SM -RA BR BKN008 OVC025 FM221500 35010G15KT P6SM OVC015 FM222100 36012KT P6SM SCT090 KBCB 220602Z 2206/2306 VRB03KT P6SM VCSH BKN050 TEMPO 2206/2210 4SM TSRA OVC030CB FM221200 VRB03KT P6SM SCT035 BKN100 FM221800 26007KT 6SM SHRA VCTS BKN040CB FM230000 25004KT P6SM VCSH FEW004 SCT025 OVC100 KBCE 220524Z 2206/2306 26006KT P6SM FEW150 FM221700 19010KT P6SM FEW090 SCT150 FM230100 24008KT P6SM SCT090 SCT150 KBDL 220906Z 2209/2312 04006KT P6SM FEW150 BKN250 FM221900 04007KT P6SM VCSH OVC045 FM222000 02007KT 6SM +SHRA OVC020 FM222100 02007KT 5SM BR VCSH OVC010 FM230300 01006KT 4SM +SHRA BR OVC020 FM230800 36003KT 3SM BR VCSH OVC008 KBDN 220520Z 2206/2306 32005KT P6SM SCT150 FM220800 VRB03KT P6SM FEW120 SCT150 FM221800 32007KT P6SM FEW150 FM222200 33010KT P6SM SCT120 KBDR 220832Z 2209/2306 03005KT P6SM SCT050 BKN150 FM221600 11008KT P6SM BKN050 FM222100 VRB05KT 3SM SHRA BR BKN025 FM230100 35010KT 2SM SHRA BR BKN010 KBED 220542Z 2206/2306 00000KT P6SM SCT250 FM221500 05005KT P6SM BKN100 FM222000 07007KT 6SM +SHRA OVC025 FM222100 06007KT 4SM +SHRA OVC015 FM222300 05008KT 5SM +SHRA BR OVC015 FM230500 02004KT 3SM BR VCSH OVC010 KBFD 220915Z 2209/2306 VRB04KT P6SM BKN040 FM221100 08003KT 5SM SHRA BR OVC015 FM221300 07005KT 3SM SHRA BR OVC007 FM221800 03006KT 5SM BR BKN015 FM222100 36006KT P6SM SCT025 BKN200 KBFF 220536Z 2206/2306 12010KT 6SM BR OVC012 FM220900 11008KT 5SM BR OVC007 FM221600 13008KT P6SM SCT005 BKN020 FM222100 15012KT P6SM SCT020 BKN050 FM230400 13009KT P6SM SCT200 KBFI 220522Z 2206/2306 00000KT P6SM FEW250 FM221900 26006KT P6SM FEW250 FM230400 VRB03KT P6SM SCT250 KBFL 220525Z 2206/2306 VRB04KT P6SM SKC FM221900 31009KT P6SM SCT120 FM230400 VRB04KT P6SM SCT120 KBFM 220520Z 2206/2306 21003KT P6SM VCSH FEW021 SCT028 SCT040 FM221200 VRB03KT P6SM VCSH BKN020 FM221800 19010KT P6SM VCTS SCT030CB SCT200 PROB30 2218/2224 VRB15G25KT 4SM TSRA BKN020CB FM230200 19004KT P6SM FEW040 SCT200 KBGM 220832Z 2209/2306 00000KT P6SM BKN070 FM221300 05003KT 6SM -SHRA OVC035 FM221600 02004KT 5SM -SHRA OVC025 FM221900 35004KT 5SM -SHRA OVC009 FM230200 35004KT P6SM OVC009 KBGR 220520Z 2206/2306 29003KT P6SM SCT070 FM221700 31003KT P6SM BKN100 FM222200 VRB03KT P6SM VCSH BKN060 FM230200 VRB03KT 5SM -RA OVC040 FM230500 02004KT 2SM -RA BR OVC029 KBHB 220520Z 2206/2306 00000KT P6SM SCT080 FM221200 34003KT P6SM SCT090 FM222300 00000KT P6SM VCSH OVC050 FM230200 01003KT 5SM -RA OVC035 FM230400 02005KT 2SM -RA BR OVC030 KBHM 220901Z 2209/2306 19003KT P6SM SCT100 SCT250 FM221100 20003KT P6SM SCT008 BKN020 FM221500 23007KT P6SM SCT030 SCT250 FM222000 23007KT P6SM VCSH SCT030 BKN250 PROB30 2222/2304 2SM TSRA BKN030CB KBIF 220615Z 2206/2312 VRB06KT 9999 FEW100 SCT250 QNH3001INS BECMG 2216/2217 11012KT 9999 BKN100 QNH3013INS BECMG 2221/2222 11015G25KT 9999 VCTS SCT100 QNH3008INS BECMG 2300/2301 VRB06KT 9999 NSW SCT100 QNH3006INS TX34/2223Z TN24/2212Z KBIH 220520Z 2206/2306 34006KT P6SM SCT250 FM221900 16011G18KT P6SM FEW100 SCT180 SCT250 FM222200 16015G22KT P6SM VCTS SCT100CB SCT150 BKN200 FM230200 15010KT P6SM SCT120 BKN180 KBIL 220522Z 2206/2306 VRB05KT P6SM SKC FM221800 09007KT P6SM FEW240 KBIS 220523Z 2206/2306 VRB03KT P6SM SKC FM221100 VRB03KT 4SM BR SCT035 FM221400 VRB05KT P6SM SCT250 KBIX 221000Z 2210/2316 VRB06KT 9999 VCSH SCT020 QNH2298INS TEMPO 2210/2214 3200 SHRA BKN015 BECMG 2215/2216 26010KT 9000 SHRA VCTS SCT020CB BKN035 QNH2996INS TEMPO 2218/2222 VRB10G15KT 1600 +TSRA BR OVC010CB BECMG 2301/2302 VRB06KT 9999 NSW SCT020 QNH2995INS BECMG 2310/2311 27006KT 8000 SHRA BKN015 QNH2994INS TX28/2218Z TN24/2210Z KBJC 220712Z 2207/2306 33008KT P6SM FEW060 SCT120 FM221000 VRB04KT P6SM BKN020 BKN100 FM221600 06006KT P6SM BKN040 BKN100 FM222200 12012KT P6SM SCT050 BKN100 PROB30 2222/2301 VRB20G30KT 5SM TSRA BKN050CB FM230400 15008KT P6SM VCSH SCT050 BKN100 KBJI 220520Z 2206/2306 VRB03KT P6SM FEW250 FM221700 33007KT P6SM SCT060 FM230500 00000KT P6SM SKC KBKE 220520Z 2206/2306 VRB04KT P6SM SCT250 KBKF 220900Z 2209/2315 18009KT 9999 SCT015 BKN020 BKN100 QNH3034INS BECMG 2212/2213 16009KT 9999 SCT015 BKN030 QNH3036INS BECMG 2216/2217 VRB06KT 9999 FEW025 SCT070 QNH3039INS BECMG 2221/2222 14012KT 9999 VCTS SCT050CB BKN090 QNH3030INS TEMPO 2223/2303 VRB20G35KT 8000 -TSRA BKN050CB BECMG 2303/2304 19009KT 9999 NSW SCT035 BKN060 QNH3035INS BECMG 2312/2313 VRB06KT 9999 SCT100 QNH3029INS TX30/2223Z TN15/2212Z KBKW 220926Z 2209/2306 19004KT P6SM VCSH SCT100 TEMPO 2210/2212 5SM -SHRA OVC025 FM221300 22005KT P6SM SHRA VCTS BKN030CB TEMPO 2213/2215 VRB15G25KT 3SM TSRA OVC024CB FM221900 24009KT 5SM SHRA OVC035 FM230200 26007KT 6SM -SHRA OVC009 FM230400 29006KT P6SM OVC008 KBLF 220602Z 2206/2306 24004KT P6SM -SHRA VCTS SCT030 OVC050CB TEMPO 2206/2210 VRB15KT 2SM TSRA OVC020CB FM221100 27005KT 6SM BR SCT007 BKN025 BKN100 FM221500 26009KT 6SM SHRA VCTS BKN035CB TEMPO 2215/2219 2SM TSRA OVC030CB FM222100 24007KT P6SM VCSH SCT015 BKN040 OVC250 FM230300 29006KT 5SM -SHRA SCT007 OVC015 KBLH 220520Z 2206/2306 18010KT P6SM SCT150 BKN180 BKN250 FM221900 17015G22KT P6SM FEW120 SCT160 BKN250 FM230300 21010KT P6SM SCT160 BKN250 KBLI 220522Z 2206/2306 18006KT P6SM FEW250 FM221800 20010KT P6SM FEW250 KBLV 221015Z 2210/2314 VRB06KT 9000 -RA BKN003 OVC010 QNH2990INS TEMPO 2210/2212 8000 -TSRA BKN015CB BECMG 2216/2217 02010G15KT 9999 NSW FEW030 QNH2997INS BECMG 2308/2309 VRB06KT 9999 FEW045 QNH3011INS TX29/2221Z TN18/2308Z KBMG 220520Z 2206/2306 VRB03KT P6SM VCSH OVC090 FM220800 VRB04KT P6SM VCSH SCT008 OVC019 FM221600 36007KT P6SM VCSH OVC020 FM221900 01008KT P6SM VCSH BKN050 FM222200 01008KT P6SM SCT090 LTD TO CLD VIS AND WIND TIL 221300 KBMI 220521Z 2206/2306 03007KT P6SM BKN080 FM221700 03010G18KT P6SM SCT150 FM230100 01004KT P6SM SKC KBNA 220540Z 2206/2306 21003KT P6SM BKN250 FM220800 22005KT 6SM -SHRA VCTS OVC050CB FM221300 24006KT P6SM VCSH OVC050 FM221900 26006KT 4SM TSRA OVC025CB FM230300 36008KT 5SM -SHRA BR VCTS OVC015CB FM230500 36008KT 6SM -SHRA OVC007 KBNO 220520Z 2206/2306 VRB04KT P6SM VCTS SCT120CB SCT250 FM220730 VRB04KT P6SM BKN250 KBOI 220520Z 2206/2306 VRB05KT P6SM SCT250 KBOS 220905Z 2209/2312 32010KT P6SM SCT110 BKN250 FM221400 05006KT P6SM BKN110 FM221800 08010KT P6SM VCSH BKN060 BKN200 FM222100 07010KT 5SM +SHRA OVC020 FM222300 06010KT 4SM +SHRA BR OVC015 FM230100 04010G17KT 3SM +SHRA BR OVC010 FM230500 03007KT 3SM BR OVC008 FM230800 01005KT 4SM +SHRA BR OVC008 KBPI 220533Z 2206/2306 VRB05KT P6SM SKC FM221600 15006KT P6SM SKC FM222100 24011KT P6SM SCT120 FM230200 33007KT P6SM SKC KBPK 220520Z 2206/2306 22006KT P6SM -SHRA VCTS OVC030CB FM221400 34009G15KT 5SM -SHRA BR SCT012 OVC025 TEMPO 2214/2218 3SM BR FM221800 36012G20KT 6SM BR OVC025 FM222200 01013G19KT P6SM SCT250 FM230000 VRB06KT P6SM SKC KBPT 220520Z 2206/2306 19004KT P6SM SKC FM221300 24006KT P6SM VCTS SCT025CB BKN050 PROB30 2216/2222 3SM -TSRA BKN025CB FM230100 VRB03KT P6SM BKN150 KBRD 220520Z 2206/2306 VRB03KT P6SM SKC FM221800 34010KT P6SM SCT150 FM230000 33006KT P6SM SCT150 KBRL 220946Z 2210/2306 36006KT P6SM OVC120 FM221200 36006KT P6SM SCT200 KBRO 220520Z 2206/2306 15008KT P6SM FEW025 BKN250 FM221500 15013G19KT P6SM SCT040 BKN250 FM221900 14016G23KT P6SM VCSH SCT025 BKN050 FM230300 13011KT P6SM VCSH SCT025 BKN050 KBTL 220530Z 2206/2306 02008KT P6SM BKN080 FM221800 36010KT P6SM SCT250 FM230100 35005KT P6SM SKC KBTM 220520Z 2206/2306 20012KT P6SM SKC FM220800 07005KT P6SM SKC FM221800 09010KT P6SM BKN120 KBTR 221001Z 2210/2306 13005KT P6SM FEW006 TEMPO 2210/2212 1SM BR OVC003 FM221400 25004KT P6SM BKN035 FM221800 25006KT P6SM VCTS BKN030CB FM230200 25003KT P6SM OVC250 KBTV 220534Z 2206/2306 35004KT P6SM SCT100 FM221500 34005KT P6SM VCSH BKN100 FM222000 21005KT P6SM -RA OVC070 FM230200 18005KT P6SM VCSH OVC050 KBUF 220920Z 2209/2306 VRB03KT P6SM OVC080 FM221300 23004KT P6SM BKN035 FM222000 28004KT P6SM BKN040 FM230000 31004KT P6SM BKN050 FM230500 30006KT P6SM SCT080 KBUR 220539Z 2206/2306 12006KT P6SM SKC FM220800 VRB03KT P6SM SKC FM222000 18010KT P6SM SKC FM230400 12006KT P6SM SKC KBVI 220521Z 2206/2306 34004KT P6SM BKN050 FM220800 VRB03KT 6SM -RA BKN035 TEMPO 2208/2211 3SM -TSRA BKN015CB FM221100 35008KT 6SM -RA VCTS OVC010CB FM221800 36007KT P6SM VCSH BKN030 NOT SKED KBVO 220520Z 2206/2306 VRB14KT P6SM -RA VCTS BKN060CB BKN120 FM220800 01011KT P6SM BKN015 FM221700 02012G18KT P6SM SCT040 FM230100 01005KT P6SM FEW250 KBWG 220531Z 2206/2306 30005KT 6SM -SHRA VCTS OVC050CB TEMPO 2206/2208 3SM -TSRA BKN035CB FM220900 22005KT P6SM OVC100 FM221200 24010KT P6SM VCSH SCT017 BKN035 OVC050 FM221500 27009KT P6SM -SHRA VCTS SCT025 OVC035CB FM222100 35008KT P6SM BKN025 KBWI 220842Z 2209/2312 26004KT P6SM SCT050 FM221600 22007KT P6SM SHRA VCTS BKN050CB FM222000 26008KT 5SM SHRA OVC050 FM231000 32008KT 6SM SHRA OVC015 KBYI 220520Z 2206/2306 VRB06KT P6SM SKC FM222100 08006KT P6SM FEW120 FM230200 22006KT P6SM FEW200 KBZN 220523Z 2206/2312 VRB05KT P6SM SKC FM230000 14009KT P6SM VCTS SCT080CB BKN100 PROB30 2300/2306 VRB15G25KT TS BKN080CB FM230600 VRB06KT P6SM FEW100 SCT180 KCAE 220855Z 2209/2306 22005KT P6SM FEW250 FM221500 23012KT P6SM SCT060 SCT250 FM230100 19009KT P6SM BKN200 KCAK 220818Z 2208/2306 03005KT P6SM VCSH BKN100 TEMPO 2210/2212 BKN015 FM221200 03006KT P6SM OVC015 TEMPO 2212/2216 OVC009 FM221600 01008KT P6SM OVC020 FM222100 35007KT P6SM BKN100 KCAR 220520Z 2206/2306 30006KT P6SM BKN050 FM221000 32006KT P6SM SCT090 FM221700 29007KT P6SM SCT100 FM222000 26005KT P6SM SCT100 FM230300 15003KT P6SM BKN100 KCBM 221000Z 2210/2315 17006KT 8000 BR BKN003 QNH2995INS BECMG 2214/2215 31009KT 9999 NSW SCT030 QNH2989INS BECMG 2219/2220 36009KT 9999 VCSH BKN045 QNH2985INS TEMPO 2300/2304 VRB10G15KT 4800 -TSRA BKN007CB BECMG 2307/2308 02006KT 8000 BR BKN009 QNH2993INS BECMG 2314/2315 02012G18KT 9999 NSW SCT045 QNH2997INS TX31/2221Z TN23/2212Z KCDC 220524Z 2206/2306 14005KT P6SM FEW150 FM222000 22010KT P6SM FEW150 FM230200 16005KT P6SM SCT150 KCDR 220536Z 2206/2306 04007KT P6SM SCT030 FM220800 13004KT P6SM BKN012 FM221400 15010KT P6SM SCT010 BKN040 FM230200 14010KT P6SM SCT200 KCDS 220941Z 2210/2306 02015KT P6SM FEW015 SCT025 SCT200 TEMPO 2210/2214 SCT015 KCEC 220829Z 2208/2306 20004KT 6SM BR OVC003 TEMPO 2210/2214 3SM BR FM221700 21005KT P6SM OVC005 FM222000 20009KT P6SM BKN007 FM222200 22010KT P6SM SCT007 KCEF 221000Z 2210/2316 35007KT 9999 SCT080 BKN200 QNH2984INS BECMG 2215/2216 35009KT 9999 SCT025 BKN050 OVC080 QNH2978INS TEMPO 2216/2221 8000 -SHRA BKN025 BECMG 2220/2221 04009KT 6000 -RA BR BKN010 OVC020 QNH2977INS BECMG 2222/2223 01010G15KT 3200 +RA BR BKN007 OVC010 QNH2977INS BECMG 2301/2302 VRB06KT 8000 RA BR SCT007 BKN015 OVC070 QNH2976INS BECMG 2305/2306 VRB06KT 9999 -RA BKN015 BKN070 QNH2977INS BECMG 2314/2315 VRB06KT 9999 NSW BKN015 BKN150 QNH2979INS TX27/2220Z TN17/2310Z KCGI 220520Z 2206/2306 VRB03KT P6SM VCSH SCT040 BKN080 TEMPO 2206/2210 4SM -SHRA BR SCT050 BKN100 FM221000 00000KT P6SM VCSH SCT021 BKN100 FM221300 VRB04KT 6SM -SHRA BR SCT022 OVC030 FM222300 02010KT 6SM -SHRA BR SCT030 BKN090 FM230000 02010KT P6SM FEW035 SCT100 KCHA 220526Z 2206/2306 19004KT P6SM BKN100 FM221400 21007KT P6SM VCTS SCT035CB BKN120 PROB30 2220/2224 4SM TSRA BR OVC025CB FM230000 VRB04KT P6SM -SHRA OVC035 PROB30 2300/2306 3SM TSRA BR BKN020CB KCHO 220533Z 2206/2306 VRB04KT P6SM SCT050 FM221600 23009KT P6SM SHRA VCTS BKN070CB FM222000 23010G17KT P6SM SHRA BKN080 FM230200 23006KT 5SM SHRA OVC045 KCHS 220520Z 2206/2306 23008KT P6SM FEW025 FM222000 19011G17KT P6SM SCT050 FM230000 19010KT P6SM SCT250 KCID 220520Z 2206/2306 35006KT P6SM SCT040 BKN250 FM221200 36007KT P6SM FEW040 SCT250 FM230100 35007KT P6SM FEW250 KCKB 220926Z 2209/2306 00000KT P6SM VCSH BKN018 BKN050 TEMPO 2211/2212 5SM -SHRA OVC025 FM221500 21005KT 6SM -SHRA VCTS OVC035CB TEMPO 2215/2217 VRB15G25KT 3SM TSRA OVC025CB FM221800 24008KT 6SM SHRA OVC016 FM222100 29007KT 6SM -SHRA OVC009 FM230300 36004KT P6SM OVC013 KCKV 220802Z 2208/2306 22003KT P6SM VCSH SCT020 SCT070 BKN250 FM221200 24006KT P6SM VCSH OVC025 FM221500 25009KT P6SM VCSH OVC050 FM221800 30007KT 4SM TSRA OVC015CB FM230200 36009KT 5SM -SHRA BR OVC025 KCLE 220858Z 2209/2312 04008KT P6SM VCSH BKN030 TEMPO 2210/2212 6SM -SHRA FM221200 02008KT P6SM OVC050 FM221800 36010KT P6SM BKN100 FM230000 36009KT P6SM SCT100 KCLL 220523Z 2206/2306 15010KT P6SM SCT015 SCT250 FM220900 19005KT P6SM SCT015 FM221100 20004KT P6SM BKN015 BKN250 TEMPO 2211/2213 OVC010 FM221500 23007KT P6SM SCT035 SCT250 FM222300 17006KT P6SM VCSH SCT040 OVC250 FM230200 VRB05KT P6SM VCTS BKN035CB OVC250 PROB30 2303/2306 01010G15KT TSRA KCLM 220522Z 2206/2306 28008KT P6SM FEW250 FM222100 31010G15KT P6SM FEW250 KCLT 220952Z 2210/2312 23005KT P6SM BKN250 FM221400 23008G18KT P6SM SCT050 FM222000 22012KT P6SM VCSH BKN060 PROB30 2222/2304 4SM TSRA OVC025CB FM231000 22005KT 6SM -SHRA BR SCT007 BKN050 KCMA 220659Z 2207/2306 VRB03KT P6SM BKN008 FM221600 24006KT P6SM SCT010 FM222000 26010KT P6SM SKC FM230500 VRB03KT P6SM SKC KCMH 221010Z 2210/2306 21006KT P6SM VCSH OVC015 TEMPO 2210/2213 OVC008 FM221300 31006KT P6SM VCSH OVC008 FM221700 33008KT P6SM VCSH OVC015 FM222100 01007KT P6SM BKN035 KCMI 220521Z 2206/2306 01008KT P6SM SCT060 BKN120 FM221600 02011G20KT P6SM SCT150 KCMX 220520Z 2206/2306 VRB04KT P6SM FEW200 FM221400 30013KT P6SM FEW070 FM230200 30006KT P6SM VCSH BKN070 KCNM 220635Z 2207/2306 34014KT P6SM FEW090 BKN110 FM221600 01011G21KT P6SM SCT045 OVC070 TEMPO 2222/2302 VRB15G25KT 6SM TSRA BKN040CB FM230200 28007KT P6SM FEW040 OVC070 KCNU 220520Z 2206/2306 02011G19KT P6SM VCTS SCT008 BKN012CB FM220800 01013KT P6SM SCT008 BKN015 FM221500 02015G22KT P6SM SKC KCNY 220533Z 2206/2306 24003KT P6SM SKC FM221900 22006KT P6SM SKC FM230000 27005KT P6SM SKC FM230300 16006KT P6SM SKC KCOD 220533Z 2206/2306 VRB05KT P6SM SKC FM221600 14006KT P6SM SKC FM222000 05007KT P6SM VCTS SCT100CB BKN150 FM230200 VRB08G15KT P6SM VCSH BKN120 FM230400 20007KT P6SM SCT120 LTD TO CLD VIS AND WIND KCOE 220520Z 2206/2306 04008KT P6SM SKC FM221500 04014KT P6SM VCSH SCT090 BKN250 FM221700 04012KT P6SM VCTS SCT090CB BKN250 FM222100 03011KT P6SM BKN120 BKN250 FM230400 05006KT P6SM FEW250 KCOF 221000Z 2210/2316 11006KT 9999 VCSH SCT025 QNH3002INS BECMG 2215/2216 12010KT 9999 VCTS FEW030CB SCT180 QNH3003INS BECMG 2219/2220 12008KT 9999 NSW FEW180 QNH2995INS BECMG 2306/2307 14006KT 9999 VCSH SCT020 BKN150 QNH2993INS TX32/2217Z TN26/2310Z KCON 220905Z 2209/2306 36003KT P6SM SCT060 FM221800 03005KT P6SM -RA BKN025 OVC040 FM222100 02006KT 4SM RA BR OVC015 KCOS 220731Z 2208/2306 VRB06KT P6SM FEW050 BKN150 FM221200 15006KT P6SM FEW030 SCT140 SCT200 FM221600 16008KT P6SM SCT050 SCT200 FM222100 17014KT P6SM VCTS SCT050CB BKN200 FM230200 14010KT P6SM VCSH BKN050 BKN100 KCOT 220522Z 2206/2306 13008KT P6SM FEW020 BKN250 FM221400 15010KT P6SM SCT025 BKN150 FM222100 12012G18KT P6SM SCT080 FM230200 14010KT P6SM SKC KCOU 220847Z 2209/2306 02010KT 6SM -SHRA BKN009 OVC015 FM221200 01011KT P6SM BKN040 FM221800 01012G18KT P6SM SCT050 BKN250 FM230100 01009KT P6SM SKC KCPR 220533Z 2206/2306 06014G20KT P6SM SCT030 FM220730 09006KT P6SM FEW015 BKN025 FM221500 10006KT P6SM FEW015 FM221800 09010KT P6SM FEW100 FM222300 10012G18KT P6SM SCT100 BKN150 FM230400 09010KT P6SM SCT150 KCPS 220948Z 2210/2306 01007KT 6SM -TSRA SCT009 OVC025CB TEMPO 2210/2212 2SM TSRA OVC015CB FM221200 01008KT P6SM VCSH OVC035 FM221800 01011G18KT P6SM SCT040 BKN120 FM230100 01009KT P6SM SKC KCRE 220529Z 2206/2306 22008KT P6SM SKC FM221500 23013G20KT P6SM FEW040 SCT250 FM230200 20013KT P6SM SCT250 KCRG 220520Z 2206/2306 VRB02KT P6SM SCT250 FM221500 20006KT P6SM SCT040 FM221900 13009KT P6SM VCTS FEW020CB SCT050 BKN090 FM230000 18006KT P6SM SCT050 BKN250 KCRP 220522Z 2206/2306 15010KT P6SM FEW022 BKN250 FM221000 17006KT P6SM SCT018 BKN250 FM221500 17012G18KT P6SM SCT025 BKN150 FM230100 15008KT P6SM FEW035 KCRQ 220520Z 2206/2306 VRB04KT P6SM OVC010 FM221600 26007KT P6SM SCT010 SCT150 FM230200 VRB04KT P6SM SCT010 KCRW 220926Z 2209/2306 16003KT P6SM VCSH SCT050 FM221400 22005KT 6SM SHRA VCTS OVC035CB TEMPO 2214/2216 VRB15G25KT 3SM TSRA OVC026CB FM222200 22007KT 6SM -SHRA OVC022 FM230000 30006KT P6SM OVC008 KCSG 220541Z 2206/2306 VRB03KT P6SM SCT120 SCT250 FM221500 26007KT P6SM SCT040 SCT150 BKN250 FM221800 26007KT P6SM VCSH SCT050 BKN120 PROB30 2219/2224 6SM TSRA BKN040CB KCSM 220520Z 2206/2306 02018G28KT P6SM SCT025 SCT250 TEMPO 2209/2213 BKN025 FM230100 05012KT P6SM SCT250 KCSV 220928Z 2209/2306 VRB03KT P6SM VCSH SCT007 BKN230 FM221400 24007KT P6SM VCSH OVC050 FM222000 25005KT 4SM TSRA OVC050CB FM230000 26004KT 4SM -TSRA OVC025CB FM230500 32005KT 2SM -SHRA BR VCTS OVC007CB KCTB 220523Z 2206/2306 13007KT P6SM SKC FM230000 11008KT P6SM SCT100 BKN250 KCUB 220855Z 2209/2306 VRB03KT P6SM FEW250 FM221500 23010KT P6SM SCT060 SCT250 FM230100 20005KT P6SM BKN200 KCVG 221008Z 2210/2312 25003KT P6SM OVC004 FM221300 27008KT P6SM -SHRA OVC008 FM221600 33010KT P6SM -SHRA OVC015 FM222200 36008KT P6SM BKN040 FM230600 36005KT P6SM SCT100 KCVS 221000Z 2210/2316 36015G25KT 9999 BKN160 QNH3018INS BECMG 2211/2212 04012G20KT 9999 NSW SCT080 BKN160 QNH3020INS BECMG 2220/2221 06010G18KT 8000 RA BKN060 QNH3022INS BECMG 2300/2301 06012KT 9999 NSW BKN060 QNH3024INS BECMG 2303/2304 09010KT 9999 BKN040 QNH3027INS BECMG 2309/2310 12008KT 9999 BKN030 QNH3021INS BECMG 2314/2315 15008KT 9999 BKN050 QNH3035INS TX26/2220Z TN17/2212Z KCWA 220520Z 2206/2306 02004KT P6SM BKN100 FM221000 VRB03KT P6SM SCT100 FM221800 32008KT P6SM SCT050 FM230000 30006KT P6SM FEW050 LTD TO CLD VIS AND WIND TIL 221100 KCXO 220918Z 2209/2306 22003KT 5SM BR SCT015 SCT250 FM221500 25006KT P6SM SCT025 FM222100 VRB05KT P6SM VCTS SCT040CB BKN250 FM230000 17005KT P6SM SCT080 BKN250 FM230500 VRB05KT P6SM VCSH FEW030 SCT070 BKN250 KCXP 220543Z 2206/2306 VRB03KT P6SM SCT150 FM222200 25010KT P6SM VCTS SCT080CB SCT150 FM230000 27014G21KT P6SM BKN150 FM230500 30008KT P6SM BKN150 KCYS 220836Z 2207/2306 15007KT 5SM BR OVC003 TEMPO 2208/2211 2SM BR OVC002 FM221600 18010KT P6SM SCT007 BKN020 FM222200 17010G18KT P6SM VCTS SCT030 BKN050CB FM230200 17014KT P6SM BKN100 KDAA 220900Z 2209/2315 25006KT 9999 FEW035 QNH2983INS BECMG 2214/2215 24012G18KT 9999 SCT050 QNH2980INS TEMPO 2217/2220 24015G25KT -TSRA BKN025CB BECMG 2300/2301 27009KT 9999 BKN020 QNH2980INS BECMG 2305/2306 29009KT 6000 -SHRA OVC010 QNH2980INS BECMG 2308/2309 30009KT 8000 -RA OVC010 QNH2985INS BECMG 2311/2312 32009KT 9999 NSW BKN020 QNH2987INS TX33/2217Z TN19/2308Z KDAB 220544Z 2206/2306 00000KT P6SM FEW150 OVC200 FM221400 15005KT P6SM SCT025 FM221800 10008KT P6SM VCTS SCT030CB BKN080 FM222200 11007KT P6SM FEW030 BKN150 FM230100 21002KT P6SM BKN250 KDAG 220520Z 2206/2306 26010KT P6SM SCT250 FM221500 30006KT P6SM VCSH SCT120 BKN150 FM221900 05009KT P6SM VCTS SCT100CB BKN150 FM230100 25011KT P6SM SCT120 BKN150 NOT SKED KDAL 220912Z 2209/2306 18010KT P6SM SCT250 FM221300 27008KT P6SM SCT050 FM221500 34013KT P6SM SCT050 FM230200 02016KT P6SM SCT250 KDAN 220602Z 2206/2306 21005KT P6SM FEW060 SCT200 FM221700 24010G18KT P6SM VCSH SCT060 FM222200 25009G17KT 6SM SHRA VCTS BKN040CB FM230300 23003KT P6SM BKN080 OVC250 KDAY 220751Z 2208/2306 28006KT P6SM VCSH OVC012 TEMPO 2208/2212 BKN005 FM221200 32008KT P6SM VCSH OVC008 FM221600 34010KT P6SM VCSH OVC015 FM222100 36010KT P6SM BKN040 FM230400 36008KT P6SM SCT100 KDBQ 220520Z 2206/2306 36006KT P6SM SCT040 BKN250 FM221200 02008KT P6SM FEW050 SCT120 FM230200 34005KT P6SM SKC KDCA 220842Z 2209/2312 30006KT P6SM SCT050 FM221600 23010G17KT P6SM SHRA VCTS BKN050CB FM222100 26010KT 5SM SHRA OVC050 FM230900 32008KT 6SM SHRA OVC025 KDDC 220920Z 2209/2306 03011KT P6SM BKN006 FM221200 01012KT P6SM BKN015 FM221500 03014KT P6SM SCT030 KDEC 220521Z 2206/2306 02006KT P6SM SCT035 BKN080 FM221600 01010G18KT P6SM SCT150 KDEN 220709Z 2207/2312 15007KT P6SM SCT080 BKN120 FM221000 17008KT P6SM SCT025 BKN110 FM221600 12009KT P6SM BKN040 BKN100 FM222200 15012G20KT P6SM SCT050 BKN080 PROB30 2223/2302 VRB20G30KT 5SM TSRA BKN050CB FM230400 15008KT P6SM VCSH SCT050 BKN100 FM230700 18009KT P6SM FEW100 SCT220 KDET 220528Z 2206/2306 03006KT P6SM BKN100 OVC250 FM221500 36009KT P6SM BKN250 FM230000 34006KT P6SM SCT250 KDFW 220912Z 2209/2312 18011KT P6SM SCT250 FM221300 27008KT P6SM SCT050 FM221500 34013KT P6SM SCT050 FM230200 02016KT P6SM SCT250 KDHN 220520Z 2206/2306 VRB04KT P6SM SCT250 FM221900 20009KT P6SM VCTS BKN040CB FM222100 20009KT 4SM -TSRA BKN040CB FM222300 21005KT P6SM SCT040 KDHT 221019Z 2210/2306 02012KT P6SM -RA BKN020 OVC040 FM221400 04014KT P6SM OVC035 FM222100 07010KT P6SM SCT250 KDIJ 220520Z 2206/2306 12005KT P6SM FEW150 FM222100 25007KT P6SM SCT120 FM230300 11006KT P6SM SCT100 SCT200 LTD TO CLD VIS AND WIND KDIK 220523Z 2206/2306 VRB06KT P6SM SKC KDLH 220520Z 2206/2306 34004KT P6SM SCT120 FM221800 32010KT P6SM SCT150 FM230100 32005KT P6SM SCT060 KDLS 220822Z 2208/2306 VRB05KT P6SM SKC FM221200 VRB05KT P6SM FEW150 FM221800 31012KT P6SM SKC FM230400 32008KT P6SM FEW150 KDMA 220600Z 2206/2312 VRB06KT 9999 BKN150 QNH2998INS BECMG 2216/2217 27012KT 9999 SCT100 QNH3003INS BECMG 2220/2221 32012G18KT 9999 VCTS BKN120CB QNH2995INS BECMG 2221/2222 VRB25G35KT 8000 TSRA BKN100CB QNH2990INS TEMPO 2223/2224 VRB30G40KT BECMG 2304/2305 16012KT 9999 NSW BKN100 QNH3002INS TX40/2222Z TN25/2212Z KDMN 220520Z 2206/2306 04009KT P6SM FEW110 SCT150 FM221500 09010G15KT P6SM FEW070 SCT140 BKN200 FM222200 10012G20KT P6SM VCTS SCT070CB BKN140 OVC220 KDNL 220855Z 2209/2306 22005KT P6SM FEW250 FM221600 23010KT P6SM SCT060 SCT250 FM230100 19007KT P6SM BKN200 KDOV 220800Z 2208/2314 25009KT 9999 SCT050 QNH2981INS BECMG 2217/2218 23015G20KT 9999 SCT040 BKN060 QNH2972INS BECMG 2220/2221 25020G35KT 4800 TSRA BKN010CB OVC040 QNH2971INS BECMG 2300/2301 26015G20KT 4800 RA BKN030 OVC050 QNH2979INS TX34/2220Z TN23/2210Z KDPA 220943Z 2210/2306 01010KT P6SM BKN250 FM221300 04010G15KT P6SM BKN250 FM222000 01012G19KT P6SM SKC KDRO 220533Z 2206/2306 35004KT P6SM SKC FM222000 23006KT P6SM VCSH SCT100 FM222200 25005KT P6SM VCSH BKN100 FM230000 10009KT 6SM -SHRA BR BKN090 FM230100 10010KT P6SM BKN100 KDRT 220536Z 2206/2306 11011KT P6SM SCT250 KDSM 220530Z 2206/2306 34006KT P6SM SCT100 BKN150 FM221800 01011KT P6SM BKN060 FM230100 33004KT P6SM SKC KDTW 220902Z 2209/2312 36008KT P6SM FEW060 SCT100 BKN250 FM230000 34006KT P6SM SCT250 FM230600 30004KT P6SM SKC KDUG 220540Z 2206/2306 33006KT P6SM FEW120 BKN250 FM221000 VRB04KT P6SM FEW120 SCT250 FM221900 07009KT P6SM SCT100 SCT250 FM222200 08010KT P6SM VCTS BKN100CB BKN250 FM230200 05008KT P6SM VCSH BKN100 KDUJ 221011Z 2210/2306 VRB02KT 2SM SHRA BR BKN003 FM222000 30004KT P6SM OVC010 FM230000 30004KT P6SM BKN120 KDVL 220520Z 2206/2306 VRB04KT P6SM SKC FM222000 VRB04KT P6SM SCT060 FM230200 00000KT P6SM SKC KDVT 220520Z 2206/2306 25012KT P6SM FEW150 BKN250 FM220800 VRB05KT P6SM SCT150 BKN250 FM221700 24007KT P6SM BKN150 BKN200 FM222100 25011G18KT P6SM FEW110 SCT150 BKN250 FM230400 15016G22KT P6SM BKN100 OVC150 NOT SKED KDYS 220600Z 2206/2312 18012KT 9999 FEW120 QNH2998INS BECMG 2215/2216 33012KT 9999 SCT100 QNH3001INS TEMPO 2221/2302 VRB12G18KT 9999 VCTS BKN035CB BECMG 2301/2302 03009KT 9999 FEW050 QNH3005INS TX36/2220Z TN24/2212Z KEAR 220520Z 2206/2306 04009KT P6SM BKN060 FM221600 02009G13KT P6SM SKC FM222100 03008KT P6SM FEW100 KEAT 220520Z 2206/2306 VRB03KT P6SM SKC FM220900 30007KT P6SM SCT250 FM222100 18004KT P6SM SCT120 BKN250 FM230100 27006KT P6SM FEW250 KEAU 220520Z 2206/2306 35005KT P6SM BKN080 FM220800 36003KT P6SM SKC FM221700 33008KT P6SM FEW050 FM230100 30004KT P6SM SKC KECG 220520Z 2206/2306 21009KT P6SM SKC FM221600 22012G20KT P6SM SKC FM221900 22014G22KT P6SM SCT060 FM230000 21012KT P6SM SCT100 KECP 220858Z 2209/2306 VRB04KT P6SM -RA BKN020 FM221400 18009KT P6SM VCTS BKN040CB FM221900 19008KT P6SM BKN040 FM230100 VRB02KT P6SM SCT040 KEED 220520Z 2206/2306 23010KT P6SM FEW250 FM220900 VRB05KT P6SM BKN250 FM221800 19010G17KT P6SM BKN150 FM230000 21009KT P6SM BKN150 KEET 220902Z 2209/2306 18003KT P6SM SCT050 BKN100 FM221100 00000KT P6SM SCT007 OVC020 FM221500 23005KT P6SM SCT030 SCT250 FM222100 23007KT P6SM VCSH SCT030 BKN250 PROB30 2223/2305 2SM TSRA BKN030CB KEFD 220400Z 2204/2310 17006KT 9999 SCT040 QNH2993INS BECMG 2205/2206 16006KT 9999 BKN020 BKN120 QNH2996INS BECMG 2213/2214 17008KT 9999 FEW025 SCT100 QNH2994INS BECMG 2218/2219 18010KT 9000 -SHRA SCT025 BKN050 BKN100 QNH2992INS TEMPO 2220/2224 VRB15G25KT 6000 -TSRA BKN035CB BECMG 2300/2301 20009KT 9999 NSW FEW070 QNH2989INS BECMG 2309/2310 25006KT 9999 SCT030 QNH2996INS TX33/2222Z TN25/2212Z KEGE 220533Z 2206/2306 11003KT P6SM SKC FM222000 31006KT P6SM SCT250 FM230000 35007KT P6SM SCT250 FM230400 10005KT P6SM SCT250 KEGI 220900Z 2209/2315 12005KT 9999 FEW026 SCT090 SCT250 QNH2999INS BECMG 2217/2218 20010KT 9999 VCTS SCT030CB SCT090 BKN250 QNH2997INS BECMG 2219/2220 22009KT 9999 NSW FEW030 SCT090 BKN250 QNH2995INS BECMG 2300/2301 33005KT 9999 FEW025 FEW090 SCT250 QNH2993INS BECMG 2309/2310 23008KT 4800 -SHRA VCTS BKN020CB BKN150 QNH2991INS TX32/2219Z TN21/2210Z LAST NO AMDS AFT 2209 NEXT 2213 KEKN 220926Z 2209/2306 00000KT P6SM SCT100 FM221500 22005KT 6SM SHRA VCTS OVC035CB TEMPO 2215/2217 VRB15G25KT 3SM TSRA OVC025CB FM230100 29005KT 6SM SHRA OVC014 FM230500 33004KT 6SM -SHRA OVC008 KEKO 220521Z 2206/2306 VRB05KT P6SM FEW150 FM222100 21009KT P6SM VCTS BKN140CB FM230400 18005KT P6SM BKN150 KEKS 220523Z 2206/2306 VRB05KT P6SM SKC FM221800 22009G17KT P6SM VCTS SCT080CB BKN100 PROB30 2221/2303 VRB15G30KT TS BKN080CB FM230300 34009KT P6SM SCT090 BKN120 KELD 220540Z 2206/2306 14003KT P6SM SKC TEMPO 2210/2213 3SM BR FM221600 24007KT P6SM SCT040 FM222000 25007KT P6SM VCTS BKN050CB TEMPO 2222/2302 VRB15G25KT 2SM TSRA BKN030CB FM230200 02010KT P6SM -TSRA BKN050CB OVC100 FM230300 02008KT 4SM BR VCSH OVC007 KELM 220832Z 2209/2306 VRB03KT P6SM BKN070 FM221100 30003KT P6SM -SHRA OVC035 FM221400 05004KT 5SM -SHRA OVC025 FM221700 05004KT 5SM -SHRA OVC009 FM230100 02003KT P6SM BKN009 KELP 221017Z 2210/2306 05010KT P6SM VCTS SCT080CB SCT100 BKN150 FM221200 08011KT P6SM SCT140 BKN200 FM222100 10012G20KT P6SM VCTS SCT070CB BKN140 OVC220 KELY 220521Z 2206/2306 18009KT P6SM FEW300 FM221900 20010G18KT P6SM SCT130 SCT300 FM230200 19008KT P6SM FEW140 BKN250 KEND 221000Z 2210/2316 01015G25KT 9999 FEW015 BKN020 QNH3001INS TEMPO 2210/2215 BKN015 BECMG 2216/2217 02012G18KT 9999 BKN030 QNH3014INS BECMG 2221/2222 04012G18KT 9999 SCT060 QNH3011INS BECMG 2302/2303 VRB06KT 9999 FEW040 QNH3014INS BECMG 2314/2315 06012G18KT 9999 SKC QNH3026INS TX30/2222Z TN21/2212Z KENV 220524Z 2206/2306 VRB04KT P6SM SKC FM221500 11008KT P6SM SKC FM230200 VRB05KT P6SM BKN150 KENW 220520Z 2206/2306 02005KT P6SM FEW060 BKN200 FM221000 03008KT P6SM BKN060 BKN150 FM221400 02011G17KT P6SM SCT070 BKN200 FM230100 VRB04KT P6SM SKC KERI 220820Z 2208/2306 VRB03KT P6SM VCSH BKN100 TEMPO 2208/2212 6SM -SHRA FM221200 01006KT P6SM OVC030 FM221800 35008KT P6SM OVC050 FM230000 36006KT P6SM BKN100 KEUG 220520Z 2206/2306 30010KT P6SM FEW200 FM220700 20004KT P6SM SKC FM221200 19003KT P6SM BKN025 FM221800 33005KT P6SM SKC KEUL 220520Z 2206/2306 VRB06KT P6SM SCT250 KEVV 220520Z 2206/2306 VRB04KT P6SM VCSH SCT029 BKN090 FM221100 VRB04KT P6SM VCSH SCT021 OVC029 FM221200 VRB04KT 6SM SHRA BR SCT008 OVC024 FM222000 36010KT 6SM -SHRA BR SCT035 BKN040 FM230200 36007KT P6SM FEW060 SCT100 KEVW 220524Z 2206/2306 08008KT P6SM SKC FM221800 26010KT P6SM SCT120 FM230300 09006KT P6SM FEW120 KEWN 220527Z 2206/2306 22007KT P6SM SKC FM221700 21013G20KT P6SM SCT050 FM230000 20010KT P6SM SCT060 KEWR 220832Z 2209/2312 02004KT P6SM SCT060 BKN150 FM221400 07005KT P6SM BKN050 FM221700 12006KT P6SM VCSH SCT030 BKN050 FM222000 VRB04KT 3SM SHRA BR BKN025 FM230000 01007KT 3SM SHRA BR OVC015 FM231000 33014KT 2SM SHRA BR OVC009 KEYW 220902Z 2209/2306 12005KT P6SM VCSH SCT025 FM221700 VRB03KT P6SM VCSH SCT025 BKN040 KFAF 221000Z 2210/2316 23012KT 9999 FEW050 QNH2988INS BECMG 2212/2213 23012G20KT 9999 FEW040 QNH2981INS BECMG 2223/2224 22012G25KT 9999 SCT050 BKN070 QNH2978INS TEMPO 2302/2305 4800 -TSRA BKN045CB BECMG 2305/2306 22010KT 9999 FEW025 BKN050 QNH2983INS TEMPO 2312/2316 29009KT 4800 -TSRA OVC020CB TX35/2220Z TN26/2310Z KFAR 220520Z 2206/2306 VRB04KT P6SM SKC FM222000 33007KT P6SM SCT060 FM230200 00000KT P6SM SKC KFAT 220525Z 2206/2306 31007KT P6SM FEW120 KFAY 220524Z 2206/2306 22008KT P6SM SKC FM221500 20012G18KT P6SM SCT250 FM221800 22013G23KT P6SM SCT050 BKN250 PROB30 2220/2224 VRB15G30KT 2SM TSRA BKN030CB FM230100 23007KT P6SM BKN200 KFBG 220900Z 2209/2315 21006KT 9999 FEW200 QNH2994INS BECMG 2215/2216 22012G18KT 9999 FEW060 QNH2990INS BECMG 2222/2223 22015G20KT 9000 -SHRA SCT060 QNH2987INS TEMPO 2223/2303 23020G35KT 8000 -TSRA BKN030CB BKN060 BECMG 2302/2303 VRB06KT 9999 NSW SCT040 510103 QNH2989INS TX36/2220Z TN24/2211Z KFCS 220936Z 2209/2311 VRB06KT 9999 SCT200 QNH3035INS BECMG 2218/2219 18009KT 9999 SCT070 QNH3030INS TEMPO 2221/2224 VRB20G30KT 8000 -TSRA BKN040CB BECMG 2304/2305 18009KT 9999 BKN015 OVC035 QNH3040INS BECMG 2308/2309 09006KT 9999 OVC060 QNH3043INS TX26/2223Z TN14/2212Z KFDY 220946Z 2210/2306 04008KT P6SM VCSH OVC020 TEMPO 2210/2212 3SM -SHRA BKN005 BKN009 FM221200 02010KT P6SM OVC035 FM221800 36009KT P6SM BKN150 KFFO 220925Z 2209/2309 21009KT 9999 BKN015 QNH2983INS BECMG 2213/2214 01012G18KT 9999 OVC030 QNH2986INS BECMG 2216/2217 01009KT 9999 BKN030 QNH2993INS BECMG 2219/2220 36009KT 9999 SCT030 QNH2996INS TX25/2221Z TN20/2303Z KFHU 221004Z 2210/2316 24009KT 9999 FEW130 QNH3014INS BECMG 2220/2221 30015G25KT 9999 VCTS SCT100CB QNH3010INS TEMPO 2222/2304 VRB25G35KT 9000 TSRA BKN080CB BECMG 2305/2306 31014KT 9999 VCTS BKN100CB QNH3015INS BECMG 2309/2310 32005KT 9999 VCSH SCT040 BKN080 QNH3023INS TX31/2220Z TN20/2212Z KFKL 220859Z 2209/2306 35008KT 6SM -RA OVC010 FM221900 36007KT P6SM OVC015 FM222300 35006KT P6SM BKN120 KFLG 220529Z 2206/2306 VRB03KT P6SM SCT110 FM221800 22011KT P6SM BKN110 TEMPO 2219/2223 02020G35KT OVC100 FM230200 VRB03KT P6SM SCT110 KFLL 220846Z 2209/2312 34005KT P6SM FEW025 FM221400 08008KT P6SM SCT035 FM221700 09012KT P6SM VCTS SCT030CB BKN120 PROB30 2218/2224 TSRA BKN035CB FM230100 14006KT P6SM VCSH SCT030 BKN120 FM230700 23005KT P6SM SCT025 BKN100 KFLO 220529Z 2206/2306 21007KT P6SM SKC FM221800 22011G18KT P6SM SCT050 SCT250 FM230300 20008KT P6SM SCT150 KFMH 220542Z 2206/2306 30004KT P6SM FEW015 BKN060 FM221200 02005KT P6SM SCT250 FM222000 09008KT P6SM VCSH BKN040 FM222300 08008KT P6SM +SHRA BKN015 FM230100 07007KT 6SM +SHRA BR OVC008 FM230300 10007KT 3SM BR VCSH OVC008 KFMN 220534Z 2206/2306 VRB06KT P6SM SCT150 FM220700 10011KT P6SM SCT150 FM221900 19010KT P6SM SCT120 FM222300 09018G28KT P6SM VCTS BKN120CB FM230100 11015G25KT P6SM VCSH BKN090 KFMY 220527Z 2206/2306 VRB03KT P6SM FEW030 BKN200 FM221400 11006KT P6SM SCT030 SCT200 FM221900 25007KT P6SM VCTS SCT030CB SCT100 BKN200 FM230200 VRB03KT P6SM FEW030 BKN200 KFNT 220528Z 2206/2306 03004KT P6SM FEW090 BKN250 FM221700 36010KT P6SM SCT250 FM230200 03004KT P6SM SKC KFOD 220530Z 2206/2306 34005KT P6SM FEW070 KFOE 220520Z 2206/2306 35008KT P6SM SCT012 TEMPO 2206/2209 BKN012 FM220900 36011KT P6SM BKN040 FM221400 01011KT P6SM SCT250 KFPR 220544Z 2206/2306 00000KT P6SM SCT250 FM221400 11008KT P6SM SCT025 FM221700 10010KT P6SM VCTS SCT030CB BKN080 FM222000 11008KT P6SM FEW030 BKN250 FM230100 VRB02KT P6SM FEW022 BKN250 KFRI 220500Z 2205/2311 02009KT 9999 BKN015 QNH3003INS BECMG 2213/2214 03012G18KT 9999 SCT025 BKN100 QNH3020INS BECMG 2223/2224 03009KT 9999 SKC QNH3018INS TX27/2221Z TN20/2211Z KFSD 220520Z 2206/2306 35006KT P6SM FEW250 FM221400 01009KT P6SM SKC FM221800 01010KT P6SM FEW035 FM230100 VRB04KT P6SM FEW250 KFSM 220520Z 2206/2306 16006KT P6SM SCT120 BKN150 FM220800 VRB10KT P6SM VCTS SCT030 BKN060CB BKN120 FM221400 30011KT P6SM VCSH BKN025 BKN035 FM221900 01013KT P6SM SCT030 BKN040 FM230200 01008KT P6SM FEW250 KFST 220520Z 2206/2306 14008KT P6SM FEW250 FM221600 08012G22KT P6SM SCT045 BKN170 FM230200 36005KT P6SM FEW040 OVC070 KFTK 220900Z 2209/2315 23006KT 9999 BKN020 QNH2991INS BECMG 2212/2213 25006KT 8000 -SHRA OVC010 QNH2994INS BECMG 2217/2218 34010G15KT 8000 -SHRA OVC010 QNH2994INS BECMG 2220/2221 36012G18KT 9999 NSW SCT025 QNH2997INS TX25/2220Z TN17/2309Z KFTW 220912Z 2209/2306 18009KT P6SM SCT250 FM221300 27008KT P6SM SCT050 FM221500 34015KT P6SM SCT050 FM230200 02016KT P6SM SCT250 KFTY 220541Z 2206/2306 00000KT P6SM SCT050 SCT250 FM221500 25006KT P6SM SCT030 BKN100 FM221800 23007KT P6SM VCSH SCT040 BKN090 PROB30 2219/2224 6SM TSRA BKN040CB FM230400 22005KT P6SM VCSH BKN040 KFVE 220520Z 2206/2306 31006KT P6SM SCT050 FM221000 32006KT P6SM FEW080 FM221600 29007KT P6SM SCT080 FM222200 24003KT P6SM SCT080 FM230500 00000KT P6SM BKN070 KFWA 220641Z 2207/2306 34005KT P6SM BKN020 TEMPO 2207/2209 5SM -RA BR BKN009 OVC020 FM221000 02006KT P6SM SCT080 BKN150 FM221600 36010KT P6SM SCT035 BKN150 FM230100 35006KT P6SM SKC KFXE 220846Z 2209/2306 VRB03KT P6SM SCT250 FM221400 07006KT P6SM SCT035 FM221700 08010KT P6SM VCTS SCT030CB BKN120 PROB30 2218/2224 TSRA BKN035CB FM230000 VRB04KT P6SM VCSH SCT030 BKN120 KFYV 220520Z 2206/2306 VRB10KT P6SM VCTS SCT025 BKN060CB BKN120 TEMPO 2207/2209 4SM -TSRA BKN025 BKN040CB FM221300 35010KT P6SM VCSH BKN015 FM221800 01011KT P6SM SCT015 BKN025 FM222000 01012G18KT P6SM SCT030 SCT045 FM230100 01005KT P6SM FEW250 KGBD 220520Z 2206/2306 02011KT P6SM SCT025 FM221400 02012G18KT P6SM SKC KGCC 220520Z 2206/2306 15014KT P6SM SCT040 KGCK 221001Z 2210/2306 04010KT P6SM BKN006 FM221200 02012KT P6SM BKN030 FM221300 02014KT P6SM BKN080 KGCN 220529Z 2206/2306 VRB03KT P6SM SKC FM221800 22011KT P6SM BKN130 FM230200 VRB03KT P6SM SCT130 KGDV 220520Z 2206/2306 VRB06KT P6SM SKC FM221700 13010KT P6SM SKC KGEG 220520Z 2206/2306 04004KT P6SM FEW150 FEW250 FM221500 05007KT P6SM VCSH SCT090 BKN250 FM221700 05007KT P6SM VCTS SCT090CB BKN250 FM222100 04005KT P6SM BKN120 BKN250 FM230400 04003KT P6SM FEW120 FEW250 KGFA 220302Z 2203/2309 VRB06KT 9999 SKC QNH3019INS BECMG 2218/2219 06009KT 9999 FEW100 SCT180 QNH3006INS BECMG 2306/2307 VRB06KT 9999 FEW100 SCT180 QNH3006INS TX32/2223Z TN11/2211Z KGFK 220520Z 2206/2306 VRB04KT P6SM SKC FM222000 32007KT P6SM SCT060 FM230200 VRB03KT P6SM SKC KGFL 220534Z 2206/2306 00000KT P6SM SCT250 FM221200 VRB03KT P6SM BKN100 BKN250 FM221400 36004KT P6SM VCSH BKN050 OVC080 FM221600 01005KT 5SM -RA BR BKN025 OVC050 FM221800 02006KT 4SM -RA BR OVC015 TEMPO 2218/2222 2SM RA OVC007 FM222300 VRB03KT 5SM -RA BR BKN007 OVC015 FM230400 00000KT P6SM OVC025 KGGG 220540Z 2206/2306 19010KT P6SM SKC TEMPO 2211/2215 BKN020 FM221500 24007KT P6SM SCT040 FM222000 28009KT P6SM VCTS BKN040CB FM230000 32008KT P6SM BKN100 FM230300 01006KT P6SM BKN100 KGGW 220520Z 2206/2306 VRB06KT P6SM SKC FM221400 14012KT P6SM SKC KGJT 220533Z 2206/2306 VRB03KT P6SM SKC FM220800 11009KT P6SM SKC FM221700 14008KT P6SM SKC FM222000 24008KT P6SM SCT250 FM230300 11007KT P6SM FEW250 KGKY 220912Z 2209/2306 18009KT P6SM SCT250 FM221300 27008KT P6SM SCT050 FM221500 34015KT P6SM SCT050 FM230200 02016KT P6SM SCT250 KGLD 221000Z 2210/2306 05007KT P6SM SCT013 TEMPO 2210/2213 5SM BR BKN003 OVC013 FM221300 05008KT P6SM SCT025 FM221700 09008KT P6SM SCT045 KGLH 220522Z 2206/2306 20004KT P6SM FEW090 FM221000 22006KT P6SM BKN003 FM221500 24007KT P6SM BKN035 FM222100 23007KT P6SM VCTS SCT050CB BKN250 KGLS 220523Z 2206/2306 17009KT P6SM SCT016 FM221100 21007KT P6SM VCSH SCT015 SCT035 TEMPO 2212/2216 VRB10G25KT 5SM TSRA BKN025 OVC040CB FM221700 23008KT P6SM SCT025 BKN040 OVC250 FM230300 20008KT P6SM SCT250 KGMU 220538Z 2206/2306 24005KT P6SM SCT250 FM221400 24008G17KT P6SM SCT040 PROB30 2222/2302 4SM TSRA OVC025CB FM230200 23007KT P6SM VCSH BKN060 KGNV 220944Z 2210/2306 00000KT 6SM BR FEW001 FM221300 21005KT P6SM SCT040 FM222000 13009KT P6SM VCTS FEW020CB SCT050 BKN090 FM230100 19004KT P6SM SCT050 BKN250 KGON 220832Z 2209/2306 34004KT P6SM SCT050 SCT150 FM221000 02004KT P6SM SCT050 SCT150 FM221300 03005KT P6SM SCT050 BKN150 FM221700 14007KT P6SM BKN050 FM222200 VRB05KT 3SM SHRA BR BKN025 FM230200 35010KT 2SM SHRA BR BKN010 KGPI 220520Z 2206/2306 VRB05KT P6SM SKC FM221800 09005KT P6SM SCT120 KGPT 220520Z 2206/2306 00000KT P6SM SKC FM221400 24004KT P6SM SCT025 FM221800 20007KT P6SM VCTS OVC050CB FM230100 21006KT P6SM BKN250 KGRB 220520Z 2206/2306 07006KT P6SM SCT050 BKN100 FM220700 03004KT P6SM SCT040 BKN100 FM221000 35004KT P6SM SCT100 TEMPO 2210/2211 BKN100 FM221600 35007G15KT P6SM SCT050 FM222100 32006KT P6SM SCT050 FM230000 29004KT P6SM FEW050 KGRF 220500Z 2205/2311 25006KT 9999 SKC QNH2992INS BECMG 2220/2221 26009KT 9999 SKC QNH3005INS BECMG 2223/2224 27009KT 9999 SKC QNH3006INS BECMG 2302/2303 VRB06KT 9999 BKN020 QNH3008INS BECMG 2305/2306 VRB06KT 9999 BKN015 QNH3011INS TX32/2222Z TN12/2212Z KGRI 220520Z 2206/2306 02007KT P6SM BKN060 FM221600 02010G14KT P6SM SKC FM222100 02009KT P6SM FEW100 KGRK 220800Z 2208/2314 15006KT 9999 SKC QNH2995INS BECMG 2212/2213 23008KT 9999 FEW050 QNH2996INS BECMG 2217/2218 34010KT 9000 -SHRA SCT040 SCT070 QNH2992INS TEMPO 2223/2304 VRB12G20KT 4800 -TSRA BKN040CB BECMG 2307/2308 35008KT 9999 NSW SCT025 BKN040 QNH3000INS BECMG 2312/2313 36008KT 9999 BKN025 QNH3006INS TX35/2221Z TN24/2211Z KGRR 220530Z 2206/2306 02009KT P6SM BKN080 FM221500 36010G20KT P6SM SCT050 FM230100 35005KT P6SM SKC KGSB 220400Z 2204/2310 22007KT 9999 FEW250 QNH2993INS BECMG 2214/2215 24010G15KT 9999 FEW040 SCT250 QNH2988INS BECMG 2219/2220 21012G18KT 9999 VCTS SCT050CB QNH2984INS TEMPO 2221/2223 20015G23KT 8000 -TSRA BKN050CB BECMG 2301/2302 21010KT 9999 NSW SCT030 BKN250 WS020/20030KT QNH2986INS TX37/2219Z TN24/2210Z KGSO 220524Z 2206/2306 22008KT P6SM FEW050 BKN250 FM221500 24012G18KT P6SM SCT250 FM221800 22013G23KT P6SM SCT050 BKN250 PROB30 2220/2224 VRB15G30KT 2SM TSRA BKN030CB FM230000 23007KT P6SM VCSH BKN080 PROB30 2303/2306 4SM -TSRA BKN050CB KGSP 220538Z 2206/2306 24005KT P6SM SCT250 FM221400 24008G17KT P6SM SCT040 PROB30 2222/2302 4SM TSRA OVC025CB FM230200 23007KT P6SM VCSH BKN060 KGTB 220900Z 2209/2315 06006KT 9999 SCT080 QNH2989INS BECMG 2211/2212 06006KT 6000 -SHRA OVC020 QNH2985INS BECMG 2220/2221 09006KT 9999 NSW BKN015 OVC030 QNH2985INS BECMG 2301/2302 VRB06KT 9999 SCT050 QNH2987INS BECMG 2303/2304 VRB06KT 9999 FEW025 QNH2988INS TX19/2216Z TN13/2309Z KGTF 220523Z 2206/2306 VRB06KT P6SM SKC FM221800 09009KT P6SM FEW100 SCT250 FM230100 08008KT P6SM SCT100 BKN250 FM230300 12007KT P6SM SCT090 BKN200 KGTR 220943Z 2210/2306 17003KT 6SM BR BKN004 FM221400 21005KT P6SM BKN035 FM222100 22008KT P6SM VCTS SCT050CB BKN250 KGUC 220533Z 2206/2306 05009KT P6SM SKC FM220900 03004KT P6SM SCT250 FM222000 30006KT P6SM VCSH SCT100 FM230000 05008KT P6SM BKN100 FM230300 11007KT P6SM SCT150 KGUP 220534Z 2206/2306 VRB06KT P6SM SCT150 FM221500 10010KT P6SM SCT150 FM221800 12010KT P6SM SCT100 FM222300 12015G25KT P6SM VCTS BKN100CB FM230100 10012G20KT P6SM VCSH BKN090 KGUS 220755Z 2207/2309 35009KT 9999 SCT006 OVC015 QNH2988INS BECMG 2208/2209 01009KT 9999 BKN006 BKN020 QNH2990INS BECMG 2209/2210 01009KT 9999 SCT020 QNH2992INS BECMG 2216/2217 35012G18KT 9999 FEW100 QNH3000INS BECMG 2217/2218 35015G20KT 9999 FEW040 QNH3001INS TX24/2219Z TN17/2303Z KGUY 220903Z 2209/2306 06010KT P6SM SCT050 FM221100 03010KT P6SM BKN090 FM230000 07009KT P6SM FEW250 KGWO 220522Z 2206/2306 19004KT P6SM SCT130 FM221000 20004KT P6SM BKN015 FM221400 21005KT P6SM BKN035 FM222100 22007KT P6SM VCTS SCT050CB BKN250 KGYY 220943Z 2210/2306 36012KT P6SM BKN250 FM221300 04015G22KT P6SM SCT200 FM222000 01017G24KT P6SM SKC KHBG 220522Z 2206/2306 00000KT 6SM BR FEW090 FM220700 00000KT 4SM BR BKN007 FM221400 22003KT P6SM SCT035 FM222100 21004KT P6SM VCTS SCT050CB BKN250 FM230100 21004KT P6SM BKN090 KHCR 220524Z 2206/2306 00000KT P6SM SKC FM222000 23008KT P6SM SCT090 SCT130 FM230300 11003KT P6SM SCT130 KHDC 220520Z 2206/2306 00000KT P6SM SKC FM221400 23005KT P6SM SCT050 FM221800 24005KT P6SM VCTS BKN030CB FM230200 00000KT P6SM OVC250 KHDN 221015Z 2210/2306 09014KT P6SM SKC FM221900 27006KT P6SM SCT250 FM222100 31008KT P6SM SCT250 FM230200 08007KT P6SM SCT250 KHIB 220520Z 2206/2306 31003KT P6SM SCT150 TEMPO 2209/2212 3SM BR FM221700 33010KT P6SM SCT060 FM230000 32007KT P6SM SCT150 KHIE 220905Z 2209/2306 VRB02KT P6SM SCT100 OVC250 FM221800 VRB03KT P6SM -SHRA OVC050 FM230100 00000KT 4SM -RA BR OVC025 KHIO 220520Z 2206/2306 29010KT P6SM SKC FM220800 VRB03KT P6SM SKC FM222200 33004KT P6SM SKC KHKS 220522Z 2206/2306 17003KT P6SM FEW090 FM220700 19003KT 6SM BR BKN005 FM221000 20003KT 4SM BR BKN003 FM221400 22005KT P6SM SCT035 FM222100 22005KT P6SM VCTS SCT050CB BKN250 KHKY 220538Z 2206/2306 23005KT P6SM SCT250 FM221200 23003KT P6SM SCT040 FM221600 25009KT P6SM VCSH BKN060 PROB30 2218/2224 3SM TSRA OVC025CB FM230300 24003KT 6SM BR SCT015 BKN045 KHLG 221007Z 2210/2306 20004KT 5SM -SHRA BR BKN004 FM221600 23006KT 5SM -SHRA VCTS OVC007CB FM221800 28008KT 5SM -SHRA VCTS OVC012CB FM222000 36007KT P6SM VCSH BKN040 KHLN 220523Z 2206/2306 VRB06KT P6SM SKC FM222100 09010KT P6SM VCTS FEW080CB SCT120 PROB30 2223/2224 4SM TSRA BKN080CB FM230400 VRB05KT P6SM SCT100 KHMN 220907Z 2209/2315 25012KT 9999 SCT100 OVC120 QNH3009INS TEMPO 2215/2218 -SHRA BECMG 2217/2218 15015G25KT 9999 VCTS BKN070CB QNH3014INS TEMPO 2220/2224 VRB25G35KT 8000 -TSRA BKN060CB BECMG 2301/2302 15012G18KT 9000 -SHRA BKN100 QNH3017INS BECMG 2307/2308 25012KT 9999 NSW SCT080 QNH3028INS TX34/2222Z TN20/2212Z KHNB 220838Z 2209/2306 VRB04KT 6SM BR OVC004 FM221100 31007KT P6SM SCT008 BKN015 OVC030 TEMPO 2211/2214 BKN008 FM221500 35011KT P6SM -SHRA VCTS BKN015 BKN040CB FM221800 35011KT P6SM -SHRA SCT021 BKN040 FM222100 36011KT P6SM BKN100 KHND 220520Z 2206/2306 20009KT P6SM SCT250 FM221400 VRB05KT P6SM BKN250 FM222100 16009G16KT P6SM FEW100 SCT150 BKN200 FM230100 21008KT P6SM FEW100 SCT150 BKN200 KHOB 220741Z 2208/2306 02011KT P6SM BKN120 FM221600 04013G23KT P6SM SCT050 BKN170 FM230200 34006KT P6SM FEW045 BKN170 TEMPO 2302/2306 VRB15G25KT 6SM TSRA BKN040CB KHON 220520Z 2206/2306 34005KT P6SM FEW250 FM221200 34005KT P6SM FEW050 FM221900 36007KT P6SM FEW035 FM230100 VRB04KT P6SM SKC KHOP 220800Z 2208/2314 36009KT 8000 -SHRA BKN020 QNH2996INS TEMPO 2214/2217 30015G25KT 6000 -TSRA FEW005CB OVC010 BECMG 2220/2221 01012G18KT 9999 NSW BKN050 QNH2998INS BECMG 2222/2223 02006KT 9999 FEW050 QNH2998INS TX26/2216Z TN19/2308Z KHOT 220520Z 2206/2306 VRB02KT P6SM BKN250 FM221800 30006KT P6SM VCTS SCT025 BKN050CB TEMPO 2218/2222 4SM -SHRA BR BKN025 FM222200 02013KT P6SM SCT050 BKN100 FM230300 07010KT P6SM SCT100 BKN250 KHOU 220918Z 2209/2306 VRB03KT P6SM SCT020 OVC250 FM221400 25006KT P6SM VCSH SCT025 BKN035 FM221800 VRB05KT P6SM VCTS BKN035CB BKN250 PROB30 2219/2223 VRB10G25KT 3SM TSRA BKN030CB OVC060 FM230000 16006KT P6SM SCT040 BKN250 KHPN 220832Z 2209/2306 VRB04KT P6SM FEW050 BKN250 FM221400 08005KT P6SM BKN050 FM221700 10005KT P6SM VCSH SCT030 BKN050 FM222000 VRB04KT 3SM SHRA BR BKN020 FM230000 01004KT 2SM SHRA BR OVC009 NOT SKED KHQM 220901Z 2209/2306 29006KT P6SM FEW010 FM221200 27004KT 6SM BR BKN007 OVC012 FM221800 23008KT P6SM SCT015 BKN250 FM222000 24012KT P6SM SCT250 FM230400 27008KT P6SM OVC010 KHRL 220520Z 2206/2306 15008KT P6SM FEW025 BKN250 FM221500 15013G19KT P6SM SCT040 BKN250 FM221900 14016G23KT P6SM VCSH SCT025 BKN050 FM230300 13011KT P6SM VCSH SCT025 BKN050 KHRO 220858Z 2209/2306 22006KT P6SM -SHRA VCTS BKN010CB OVC025 FM221400 34009G15KT 5SM -SHRA BR SCT010 OVC025 TEMPO 2214/2218 3SM BR FM221800 36012G20KT 6SM BR OVC025 FM222200 01013G19KT P6SM SCT250 FM230000 VRB06KT P6SM SKC KHRT 221000Z 2210/2316 35005KT 7SM SCT025 SCT240 QNH2997INS BECMG 2214/2215 15008KT 7SM VCSH SCT030 SCT240 QNH2996INS BECMG 2216/2217 20009KT 7SM VCTS BKN030CB BKN240 QNH2992INS TEMPO 2217/2220 21015KT 3SM -TSRA BKN025CB BECMG 2221/2222 21006KT 7SM NSW SCT030 SCT240 QNH2991INS TX31/2218Z TN23/2210Z KHST 220005Z 2200/2306 09009KT 9999 SCT030 SCT150 QNH2998INS BECMG 2213/2214 08009KT 9999 SCT030 BKN100 QNH3000INS BECMG 2219/2220 08009KT 8000 -SHRA BKN030 BKN080 QNH2996INS BECMG 2223/2224 11009KT 9999 NSW FEW030 BKN050 QNH3000INS TX32/2219Z TN23/2209Z KHSV 220541Z 2206/2306 VRB04KT P6SM BKN050 FM221400 23007KT P6SM SHRA BKN040 PROB30 2216/2222 4SM -TSRA OVC030CB FM222300 27005KT P6SM VCTS BKN050CB PROB30 2223/2305 3SM TSRA OVC025CB KHTS 220926Z 2209/2306 20005KT 6SM -SHRA SCT025 SCT060 BKN080 FM221400 21005KT 6SM SHRA VCTS OVC027CB TEMPO 2214/2216 VRB15G25KT 3SM TSRA OVC026CB FM222000 23007KT 6SM -SHRA OVC027 FM222200 29006KT P6SM OVC008 FM230300 36005KT P6SM OVC018 KHUF 220520Z 2206/2306 34005KT P6SM VCSH SCT008 OVC017 FM221100 35006KT P6SM VCSH OVC045 FM221500 01008KT P6SM BKN040 FM222000 01011KT P6SM SCT090 KHUL 220927Z 2209/2306 VRB03KT P6SM SCT060 TEMPO 2209/2210 1 1/2SM BR FM221100 33007KT P6SM FEW100 FM221700 29005KT P6SM SCT100 FM230200 VRB03KT P6SM BKN070 FM230300 17003KT P6SM VCSH BKN060 KHUM 220520Z 2206/2306 19003KT P6SM SKC FM221500 22006KT P6SM BKN050 FM221800 23007KT P6SM VCTS BKN050CB FM230000 24006KT P6SM OVC250 KHUT 220520Z 2206/2306 02014G20KT P6SM FEW050 SCT200 FM220800 01013G19KT P6SM SCT015 BKN025 FM221500 03014G21KT P6SM SKC KHVR 220523Z 2206/2306 09007KT P6SM SKC FM221500 12011G18KT P6SM SKC FM230300 10009KT P6SM FEW100 FEW250 KHYA 220542Z 2206/2306 26004KT P6SM SCT060 FM221400 02007KT P6SM BKN200 FM222000 08008KT P6SM VCSH BKN040 FM222200 08008KT P6SM +SHRA BKN015 FM230400 11007KT 3SM +SHRA BR OVC003 FM230500 22007KT 2SM BR VCSH OVC003 NOT SKED KHYR 220817Z 2208/2306 00000KT P6SM SKC TEMPO 2208/2212 1SM BR OVC002 FM221200 VRB02KT P6SM SCT100 FM230400 VRB02KT P6SM SCT050 SCT100 KHYS 220520Z 2206/2306 01008KT P6SM BKN120 FM220700 01009KT P6SM BKN019 FM221300 01013KT P6SM SCT060 KIAB 221000Z 2210/2316 01015G20KT 9999 OVC015 QNH3009INS BECMG 2214/2215 02015G20KT 9999 SCT020 QNH3015INS BECMG 2301/2302 03009KT 9999 SKC QNH3015INS TX29/2221Z TN20/2212Z KIAD 220842Z 2209/2312 VRB03KT P6SM SCT050 FM221600 23010G17KT P6SM SHRA VCTS BKN050CB FM222100 26010KT 5SM SHRA OVC050 FM230900 32008KT 6SM SHRA OVC025 KIAG 220920Z 2209/2306 06003KT 6SM -RA BKN080 FM221200 00000KT P6SM OVC050 FM230200 33007KT P6SM BKN080 FM230300 33008KT P6SM SCT080 KIAH 220918Z 2209/2312 17003KT P6SM FEW020 BKN250 FM221100 00000KT P6SM FEW020 FM221600 25006KT P6SM VCSH SCT015 SCT035 FM221800 VRB05KT P6SM VCTS BKN035CB BKN250 PROB30 2220/2223 VRB10G25KT TSRA FM230000 16006KT P6SM SCT040 BKN250 FM230300 18009KT P6SM SCT025 BKN250 FM230500 VRB06KT P6SM VCSH FEW025 SCT060 OVC250 FM231000 29006KT P6SM VCTS BKN030CB OVC080 KICT 220520Z 2206/2306 02014G20KT P6SM SCT015 BKN200 FM220800 01013G19KT P6SM SCT015 BKN025 FM221500 01015G22KT P6SM SKC KIDA 220520Z 2206/2306 VRB06KT P6SM SKC FM222100 22006KT P6SM FEW120 FM230300 36006KT P6SM FEW200 KIFP 220520Z 2206/2306 16010KT P6SM FEW250 FM221000 VRB05KT P6SM SCT250 FM221600 20010KT P6SM SCT120 BKN150 FM222300 16010KT P6SM SCT120 BKN150 KILG 220521Z 2206/2306 VRB05KT P6SM FEW120 BKN200 FM222000 27010KT 6SM SHRA VCTS SCT040 OVC070CB FM222200 30010KT 6SM SHRA VCTS SCT030 OVC050CB FM230200 32006KT 4SM SHRA SCT015 OVC025 KILM 220529Z 2206/2306 23007KT P6SM SKC FM221500 24012G18KT P6SM FEW040 SCT250 FM222200 20013KT P6SM FEW250 KILN 220807Z 2208/2306 27008KT P6SM VCSH BKN005 FM221200 31008KT P6SM VCSH OVC008 FM221600 32010KT P6SM VCSH OVC015 FM222200 36010KT P6SM BKN040 FM230500 36008KT P6SM SCT100 KIND 220826Z 2208/2312 34005KT P6SM SCT020 BKN040 FM221400 01008KT P6SM VCSH BKN011 FM221600 01009KT P6SM BKN045 FM222100 36011KT P6SM SCT080 KINK 220520Z 2206/2306 13007KT P6SM BKN250 FM221600 07011G21KT P6SM SCT045 BKN170 FM230200 36007KT P6SM FEW040 BKN170 KINL 220520Z 2206/2306 VRB03KT P6SM SKC FM221800 31010G18KT P6SM SCT080 FM230000 31008KT P6SM SCT060 FM230300 VRB03KT P6SM VCSH SCT060 SCT120 KINS 220508Z 2205/2311 VRB06KT 9999 FEW180 QNH2993INS BECMG 2217/2218 12009KT 9999 FEW180 QNH2995INS TEMPO 2220/2301 13012G18KT BECMG 2302/2303 VRB06KT 9999 FEW180 QNH2996INS TX41/2222Z TN24/2213Z KINT 220524Z 2206/2306 22008KT P6SM FEW050 BKN250 FM221500 24012G18KT P6SM SCT250 FM221800 22013G23KT P6SM SCT050 BKN250 PROB30 2220/2224 VRB15G30KT 2SM TSRA BKN030CB FM230000 23007KT P6SM VCSH BKN080 PROB30 2303/2306 4SM -TSRA BKN050CB KINW 220529Z 2206/2306 27010KT P6SM SKC TEMPO 2223/2302 15020G40KT SCT130 FM230300 13012KT P6SM SCT130 KIPL 220520Z 2206/2306 14011KT P6SM FEW120 SCT150 BKN250 KIPT 220530Z 2206/2306 VRB04KT P6SM VCSH BKN040 FM221500 08003KT 5SM SHRA BR OVC025 FM221900 35005KT 5SM -SHRA BR OVC015 KISM 220544Z 2206/2306 00000KT P6SM BKN250 FM221400 14005KT P6SM SCT030 FM222000 13007KT P6SM VCTS SCT040CB BKN080 TEMPO 2221/2223 3SM TSRA BKN030CB FM230200 16003KT P6SM FEW040 BKN100 OVC250 KISN 220523Z 2206/2306 VRB06KT P6SM SKC KISO 220527Z 2206/2306 22007KT P6SM SKC FM221600 21013G20KT P6SM SCT050 FM230000 20010KT P6SM BKN060 LTD TO CLD VIS AND WIND KISP 220832Z 2209/2306 36005KT P6SM SCT050 BKN150 FM221600 11006KT P6SM BKN050 FM222100 VRB05KT 3SM SHRA BR BKN025 FM230100 VRB05KT 3SM SHRA BR OVC015 KITH 220832Z 2209/2306 00000KT P6SM SCT100 FM221200 03003KT P6SM -SHRA OVC035 FM221500 32003KT 5SM -SHRA OVC025 FM221700 VRB03KT 5SM -SHRA OVC009 FM230100 35003KT P6SM BKN009 KIWA 220520Z 2206/2306 25008KT P6SM SCT150 BKN250 FM220700 18006KT P6SM BKN150 BKN250 FM221800 28007KT P6SM FEW110 BKN150 BKN250 FM230300 13018G25KT P6SM FEW080 BKN110 OVC150 LTD TO CLD VIS AND WIND TIL 221200 KIWD 220830Z 2209/2306 00000KT 2SM BR SKC TEMPO 2209/2212 1/2SM FG FM221200 32008KT P6SM FEW040 FM230100 29005KT P6SM VCSH SCT050 BKN080 KIXD 220525Z 2206/2306 36011KT P6SM -RA SCT008 OVC025 FM220700 03008KT P6SM FEW015 FM221400 01012G21KT P6SM SCT100 FM230000 01010KT P6SM FEW250 KJAC 220533Z 2206/2306 01006KT P6SM SKC FM221500 VRB04KT P6SM SKC FM222000 19006KT P6SM SCT120 FM230200 01008KT P6SM SKC LTD TO CLD VIS AND WIND KJAN 220522Z 2206/2306 17003KT 6SM BR BKN005 FM221000 20003KT 4SM BR BKN003 FM221400 22005KT P6SM SCT035 FM222100 22005KT P6SM VCTS SCT050CB BKN250 KJAX 220520Z 2206/2306 VRB02KT P6SM SCT250 FM221600 21006KT P6SM SCT040 FM222000 13009KT P6SM VCTS FEW020CB SCT050 BKN090 FM230100 19006KT P6SM SCT050 BKN250 KJBR 220520Z 2206/2306 20005KT P6SM SKC FM221000 20005KT P6SM SCT030 OVC060 FM221200 24005KT P6SM VCSH FEW010 BKN040 FM221500 31008KT P6SM VCTS BKN035CB FM221800 35010KT P6SM -TSRA BKN030CB FM230000 04005KT P6SM BKN050 KJCT 220520Z 2206/2306 13010KT P6SM SKC FM221800 09010KT P6SM FEW050 FEW100 KJER 220520Z 2206/2306 06007KT P6SM SCT250 KJFK 220832Z 2209/2312 02004KT P6SM SCT050 BKN150 FM221400 08005KT P6SM BKN050 FM221700 14006KT P6SM VCSH SCT030 BKN050 FM222000 VRB06KT 3SM SHRA BR BKN025 FM230000 36008KT 3SM SHRA BR OVC015 FM231100 33014KT 2SM SHRA BR OVC009 KJHW 220920Z 2209/2306 03005KT 6SM -RA FEW060 OVC100 FM221100 09004KT 4SM -SHRA BR OVC025 FM221300 09004KT 4SM -SHRA BR OVC015 FM221500 VRB03KT 6SM BR VCSH OVC012 FM221600 VRB03KT P6SM OVC020 FM222100 34008KT P6SM BKN040 KJKL 220538Z 2206/2306 00000KT P6SM BKN090 FM221000 VRB04KT P6SM -SHRA VCTS BKN028CB FM230000 VRB03KT 4SM SHRA BR OVC012 FM230500 VRB03KT P6SM OVC024 KJLN 221000Z 2210/2306 VRB05KT P6SM SCT004 OVC025 TEMPO 2210/2212 5SM -RA BR BKN004 OVC015 FM221200 32007KT P6SM SCT004 OVC015 FM221600 01012G20KT P6SM BKN045 FM230200 01006KT P6SM SKC KJMS 220915Z 2209/2306 VRB03KT 6SM BR SKC TEMPO 2209/2212 3SM BR FM221400 VRB03KT P6SM SKC KJST 220918Z 2209/2306 31005KT P6SM VCSH BKN040 OVC100 TEMPO 2209/2212 2SM TSRA BR OVC009CB FM221200 19006KT 3SM SHRA BR SCT007 OVC015 FM221700 30008KT 3SM SHRA BR OVC005 KJXN 220530Z 2206/2306 02008KT P6SM BKN080 FM221800 36010KT P6SM SCT250 FM230100 35005KT P6SM SKC KLAF 220520Z 2206/2306 36006KT P6SM SCT010 OVC025 FM221200 02009KT P6SM BKN070 FM222000 36013KT P6SM SCT150 LTD TO CLD VIS AND WIND TIL 221300 KLAL 220644Z 2207/2306 VRB03KT P6SM SCT004 BKN200 FM221500 14005KT P6SM SCT030 SCT200 FM221800 22003KT P6SM VCTS SCT025CB BKN100 BKN200 FM230200 VRB03KT P6SM FEW030 BKN200 NOT SKED TIL 221100 KLAN 220530Z 2206/2306 02009KT P6SM BKN080 FM221500 36010G20KT P6SM SCT050 FM230100 35005KT P6SM SKC KLAR 220536Z 2206/2306 14012KT P6SM BKN035 FM221200 17012KT P6SM SCT040 BKN250 FM222000 06012G20KT P6SM VCTS BKN050CB BKN100 FM230300 15015G22KT P6SM BKN100 KLAS 220858Z 2209/2312 22009KT P6SM SCT250 FM221200 VRB05KT P6SM BKN250 FM221800 08008KT P6SM FEW150 BKN250 FM222200 15010G17KT P6SM FEW100 SCT150 BKN200 FM230200 22009KT P6SM FEW100 SCT150 BKN200 KLAW 220520Z 2206/2306 15008KT P6SM BKN150 FM220800 02016G25KT P6SM SCT025 SCT150 TEMPO 2212/2216 BKN025 FM230100 05011KT P6SM SKC KLAX 220909Z 2209/2312 29005KT P6SM OVC008 FM221600 25006KT P6SM SCT012 FM222100 26012KT P6SM SKC FM230400 25008KT P6SM SCT010 FM230700 25005KT P6SM OVC008 KLBB 220801Z 2208/2306 32007KT P6SM VCTS SCT060CB SCT100 BKN250 FM221100 05016KT P6SM FEW030 SCT100 BKN250 TEMPO 2213/2217 SCT015 KLBE 220521Z 2206/2306 34004KT P6SM BKN050 FM220900 VRB03KT 6SM -RA BKN035 TEMPO 2209/2212 5SM -TSRA BKN015CB FM221200 35008KT 6SM -RA VCTS OVC010CB FM221900 36007KT P6SM VCSH BKN025 KLBF 220531Z 2206/2306 06005KT P6SM BKN040 FM222000 10006KT P6SM FEW090 FM230000 11005KT P6SM SKC KLBL 220921Z 2209/2306 05009KT P6SM SCT200 FM221400 02014G22KT P6SM BKN080 FM221900 04012KT P6SM SCT120 KLBT 220529Z 2206/2306 21006KT P6SM SKC FM221700 22011G18KT P6SM SCT050 SCT150 FM222300 20009KT P6SM BKN150 NOT SKED KLBX 220523Z 2206/2306 18007KT P6SM SCT250 FM221500 24005KT P6SM VCSH SCT025 FM221700 VRB05KT P6SM VCTS BKN035CB BKN250 PROB30 2217/2219 VRB10G25KT 3SM TSRA BKN030CB OVC060 FM222100 16006KT P6SM VCSH SCT035 OVC250 FM230000 17008KT P6SM FEW030 BKN250 KLCH 220520Z 2206/2306 10004KT P6SM SKC FM221300 24006KT P6SM VCTS SCT025CB BKN050 PROB30 2216/2222 3SM -TSRA BKN025CB FM230100 VRB03KT P6SM BKN150 KLCK 221009Z 2210/2306 25006KT P6SM VCSH OVC015 TEMPO 2210/2213 BKN006 FM221300 31006KT P6SM VCSH OVC008 FM221700 33008KT P6SM VCSH OVC015 FM222100 01007KT P6SM BKN035 KLEB 220926Z 2209/2306 VRB02KT 5SM BR BKN001 FM221100 VRB03KT P6SM BKN100 FM221700 34003KT P6SM -RA BKN025 OVC040 FM222300 VRB03KT 4SM -RA BR OVC015 KLEE 220544Z 2206/2306 00000KT P6SM BKN250 FM221400 16005KT P6SM SCT030 FM222000 19006KT P6SM VCTS SCT040CB BKN080 TEMPO 2221/2223 3SM TSRA BKN030CB FM230200 18004KT P6SM FEW040 BKN100 OVC250 KLEX 221013Z 2210/2306 VRB05KT P6SM SCT007 BKN021 OVC080 TEMPO 2210/2212 BKN007 FM221400 24009KT P6SM BKN017 OVC040 FM221700 28010KT P6SM -SHRA VCTS SCT017 BKN025 OVC050CB FM222300 36011KT P6SM -SHRA SCT015 OVC050 FM230300 36007KT P6SM SCT025 OVC060 KLFI 220900Z 2209/2315 VRB06KT 9999 FEW200 QNH2991INS BECMG 2214/2215 23012G18KT 9999 FEW060 FEW200 QNH2988INS BECMG 2222/2223 23015G25KT 9999 SCT060 BKN100 QNH2980INS TEMPO 2304/2308 4800 -TSRA BKN030CB OVC100 BECMG 2307/2308 23012G18KT 9999 BKN030 OVC100 QNH2983INS TX36/2219Z TN26/2209Z KLFK 220819Z 2208/2306 16004KT P6SM OVC003 TEMPO 2209/2213 1/4SM FG OVC002 FM221300 25006KT P6SM SCT030 FM222000 28004KT P6SM VCTS BKN040CB FM230200 03004KT P6SM BKN100 KLFT 221024Z 2210/2306 00000KT 3SM BR BKN001 BKN100 TEMPO 2211/2213 P6SM NSW FEW006 BKN100 FM221300 24006KT P6SM VCTS SCT025CB BKN050 TEMPO 2216/2220 3SM -TSRA FEW019 BKN025CB FM230100 VRB03KT P6SM BKN150 KLGA 220832Z 2209/2312 VRB04KT P6SM SCT050 BKN150 FM221400 05007KT P6SM BKN050 FM221700 11006KT P6SM VCSH SCT030 BKN050 FM222000 VRB06KT 3SM SHRA BR BKN025 FM230000 01010KT 3SM SHRA BR OVC015 FM231000 33014KT 2SM SHRA BR OVC009 KLGB 221016Z 2210/2306 VRB03KT P6SM SKC FM221200 VRB03KT P6SM BKN008 FM221600 19006KT P6SM SKC FM222200 30012KT P6SM SKC FM230400 30006KT P6SM SKC KLGU 220524Z 2206/2306 VRB05KT P6SM SKC KLIT 220520Z 2206/2306 VRB05KT P6SM BKN250 FM221800 30009KT P6SM VCTS SCT025 BKN050CB TEMPO 2220/2224 4SM -SHRA BR BKN025 FM230400 02013KT P6SM BKN050 BKN100 KLLQ 220839Z 2209/2306 VRB05KT P6SM SCT005 SCT040 TEMPO 2209/2213 BKN005 FM221400 25006KT P6SM SCT040 FM222000 32009KT P6SM VCTS SCT025 BKN050CB TEMPO 2222/2302 4SM -SHRA BR BKN025 KLMT 220525Z 2206/2306 00000KT P6SM SKC FM222100 22012G18KT P6SM SCT100 FM230200 27010KT P6SM FEW100 KLND 220533Z 2206/2306 VRB05KT P6SM BKN080 FM221200 VRB05KT P6SM SCT120 FM222100 VRB08G15KT P6SM VCTS SCT090CB BKN150 FM230200 24007KT P6SM SCT150 KLNK 220520Z 2206/2306 01007KT P6SM SCT100 FM221300 36011KT P6SM SKC FM221600 01012G18KT P6SM SCT035 FM230000 01007KT P6SM SKC KLNS 220530Z 2206/2306 VRB05KT P6SM SCT050 BKN100 FM221700 20005KT P6SM VCSH BKN040 FM222100 34005KT 5SM -SHRA BR OVC015 KLOZ 220538Z 2206/2306 00000KT P6SM BKN120 FM220900 VRB03KT P6SM -SHRA VCTS BKN025CB FM230100 VRB04KT 5SM SHRA BR OVC016 KLRD 220522Z 2206/2306 14010KT P6SM BKN250 FM221800 12008KT P6SM FEW060 SCT150 FM222300 12012KT P6SM SKC KLRF 220700Z 2207/2313 VRB06KT 9999 FEW045 QNH2992INS BECMG 2220/2221 02010G15KT 9000 -SHRA SCT035 QNH2995INS TEMPO 2222/2302 VRB15G20KT 8000 -TSRA BKN020CB BKN080 BECMG 2302/2303 03012G18KT 8000 -SHRA BKN015 QNH3003INS BECMG 2305/2306 04006KT 9999 NSW SCT020 QNH3001INS BECMG 2309/2310 33012KT 9999 FEW045 QNH3004INS TX31/2220Z TN21/2312Z KLRU 220520Z 2206/2306 03006KT P6SM FEW120 SCT180 FM221200 04007KT P6SM SCT100 BKN150 FM221600 09010G17KT P6SM FEW070 SCT140 BKN200 FM222100 10012G20KT P6SM VCTS SCT070CB BKN140 OVC220 KLSE 220918Z 2209/2306 34008KT P6SM BKN050 OVC070 FM221700 33009KT P6SM SCT150 FM230000 31005KT P6SM SCT200 KLSF 220900Z 2209/2315 VRB06KT 8000 BR FEW020 SCT030 SCT050 QNH2999INS BECMG 2213/2214 22006KT 9999 NSW FEW030 FEW080 SCT100 QNH2999INS TEMPO 2219/2303 22010G15KT 6000 -TSRA BKN050CB BECMG 2302/2303 22006KT 9999 FEW025 SCT040 BKN050 QNH2994INS BECMG 2308/2309 25006KT 8000 BR SCT010 BKN020 QNH2991INS TX34/2219Z TN22/2209Z KLSV 220700Z 2207/2313 VRB06KT 9999 FEW220 QNH2985INS BECMG 2219/2220 14012G18KT 9999 VCSH FEW100 SCT120 BKN180 QNH2982INS BECMG 2303/2304 VRB06KT 9999 NSW FEW150 SCT180 BKN260 QNH2989INS TX41/2223Z TN24/2212Z KLTS 220905Z 2209/2315 03012KT 9999 SCT070 QNH2997INS BECMG 2211/2212 02012G22KT 9999 BKN020 BKN080 510052 QNH3003INS TEMPO 2213/2215 03015G25KT BECMG 2217/2218 03012G20KT 9999 FEW050 FEW090 QNH3005INS BECMG 2302/2303 05009KT 9999 SKC 510052 QNH3010INS TX30/2221Z TN22/2306Z KLUK 221008Z 2210/2306 VRB03KT P6SM VCSH OVC008 FM221300 27007KT P6SM -SHRA OVC008 FM221600 33010KT P6SM -SHRA OVC015 FM222200 36008KT P6SM BKN040 KLVK 220537Z 2206/2306 28005KT P6SM SKC FM220800 VRB04KT P6SM SKC TEMPO 2212/2216 4SM BR FM221700 27005KT P6SM SKC FM222100 28011KT P6SM SKC FM230500 28006KT P6SM SKC KLVM 220522Z 2206/2306 10005KT P6SM SKC FM221700 08012KT P6SM FEW200 FM222100 10013KT P6SM VCSH SCT070 KLVS 220534Z 2206/2306 01011KT P6SM BKN060 FM221000 02006KT P6SM VCSH OVC035 TEMPO 2210/2214 05012KT 5SM BR OVC015 FM221500 07012KT 6SM -RA OVC025 FM221800 12012KT P6SM VCSH OVC035 FM222300 02007KT P6SM VCSH BKN050 KLWB 220602Z 2206/2306 00000KT 6SM BR VCTS SCT015 BKN050CB TEMPO 2207/2211 3SM BR FEW002 BKN015 FM221100 VRB03KT P6SM VCSH BKN035 FM221700 24006KT 6SM SHRA VCTS BKN040CB OVC100 FM222300 27005KT P6SM VCSH SCT040 BKN100 OVC250 FM230300 29004KT 6SM -SHRA SCT010 OVC025 KLWS 220520Z 2206/2306 13003KT P6SM SKC FM221400 10005KT P6SM VCTS SCT100CB BKN250 FM221900 35005KT P6SM BKN120 BKN250 FM230000 19005KT P6SM FEW250 KLWT 220523Z 2206/2306 12007KT P6SM SKC FM230100 13008KT P6SM VCTS SCT080CB PROB30 2301/2305 VRB15G25KT TS BKN080CB KLYH 220602Z 2206/2306 VRB03KT P6SM FEW060 SCT200 TEMPO 2207/2211 3SM BR FEW004 FM221600 24007KT P6SM VCSH BKN040 FM222100 26009KT 6SM SHRA VCTS BKN050CB FM230200 21003KT 4SM BR SCT010 BKN050 KMAF 220520Z 2206/2306 12006KT P6SM FEW250 FM221600 07013G23KT P6SM SCT045 BKN170 FM230200 03010KT P6SM FEW040 SCT170 KMBG 220532Z 2206/2306 VRB04KT P6SM SKC= KABR 220532Z 2206/2306 02005KT P6SM SKC FM230200 VRB03KT P6SM SKC KMBL 220520Z 2206/2306 VRB04KT P6SM BKN120 FM221200 VRB04KT P6SM SCT250 FM221500 35010G18KT P6SM FEW250 FM222200 33007KT P6SM SKC KMBS 220528Z 2206/2306 05006KT P6SM BKN250 FM221600 36010KT P6SM SCT250 FM222200 02007KT P6SM SKC KMCB 221004Z 2210/2306 00000KT P6SM FEW014 FEW035 TEMPO 2210/2211 1/2SM FG BKN002 FM221400 26004KT P6SM SCT015 FM221800 25006KT P6SM VCTS BKN030CB FM230200 00000KT P6SM OVC050 KMCC 220520Z 2206/2306 20005KT P6SM SKC FM221700 21006KT P6SM SCT250 KMCE 220525Z 2206/2306 31006KT P6SM FEW120 KMCF 220900Z 2209/2315 VRB06KT 9999 FEW010 QNH3000INS BECMG 2214/2215 16009KT 9999 SCT030 BKN200 QNH2999INS BECMG 2217/2218 24009KT 9000 -SHRA VCTS FEW030CB BKN200 QNH2997INS TEMPO 2220/2300 15010G20KT 9000 -TSRA FEW030CB SCT100 BKN200 BECMG 2300/2301 31006KT 9999 NSW FEW040 SCT200 QNH2994INS TX32/2219Z TN23/2210Z KMCI 220549Z 2206/2306 03013KT P6SM FEW015 OVC100 TEMPO 2206/2207 BKN008 FM221400 01011G19KT P6SM SCT180 FM230000 02009KT P6SM FEW250 KMCK 220657Z 2207/2306 05010KT P6SM OVC040 FM220900 05010KT P6SM SCT060 KMCN 220541Z 2206/2306 19005KT P6SM FEW060 SCT250 FM221500 25006KT P6SM SCT035 SCT120 BKN250 FM221800 25006KT P6SM VCSH SCT050 BKN200 KMCO 220909Z 2209/2312 00000KT P6SM FEW250 FM221400 14006KT P6SM SCT030 FM221900 11008KT P6SM VCTS SCT040CB BKN080 TEMPO 2220/2222 3SM TSRA BKN030CB FM230100 14003KT P6SM FEW040 BKN100 OVC250 KMCW 220759Z 2208/2306 34007KT P6SM SKC FM221800 36011KT P6SM SCT050 FM230100 29004KT P6SM SKC KMDT 220530Z 2206/2306 17005KT P6SM SCT050 BKN100 FM221600 20005KT P6SM VCSH BKN035 FM222000 34006KT 4SM -SHRA BR OVC015 KMDW 220943Z 2210/2312 01012KT P6SM BKN250 FM221500 02012G18KT P6SM SCT100 BKN250 FM221800 02016G22KT P6SM SCT250 FM230200 36009KT P6SM SKC KMEI 220945Z 2210/2306 00000KT 1SM BR OVC002 FM221300 00000KT 4SM BR BKN005 FM221400 22003KT P6SM BKN015 FM221600 24005KT P6SM SCT035 FM222100 23005KT P6SM VCTS SCT050CB BKN250 KMEM 220955Z 2210/2312 20009KT P6SM VCTS SCT009 BKN040CB TEMPO 2210/2213 3SM TSRA OVC009CB FM221500 26007KT P6SM SCT020 BKN250 FM221800 28007KT P6SM VCTS BKN040CB OVC150 FM222100 34011G20KT 5SM TSRA OVC035CB FM230300 02010KT P6SM VCTS BKN040CB FM230700 02010KT P6SM BKN030 FM231100 02010KT P6SM SCT030 BKN100 KMER 220525Z 2206/2306 32006KT P6SM FEW120 KMFD 220945Z 2210/2306 01005KT P6SM VCSH OVC010 TEMPO 2210/2212 1/2SM FG OVC004 FM221200 02006KT P6SM OVC020 FM221800 36009KT P6SM OVC040 FM222100 35008KT P6SM BKN100 KMFE 220520Z 2206/2306 14010KT P6SM FEW025 BKN250 FM221500 14013G19KT P6SM FEW050 BKN250 FM221900 14016G23KT P6SM VCSH SCT025 BKN050 FM230300 13011KT P6SM VCSH SCT025 BKN050 KMFR 220525Z 2206/2306 00000KT P6SM SKC FM222300 32012G18KT P6SM FEW120 FM230400 35007KT P6SM SKC KMGE 220500Z 2205/2311 VRB06KT 9999 FEW050 QNH3003INS BECMG 2211/2212 23005KT 9999 BKN010 OVC040 QNH3005INS BECMG 2216/2217 24010KT 9999 VCTS BKN040CB BKN250 QNH3002INS TEMPO 2219/2224 VRB15G25KT 3200 -TSRAGR OVC010CB TX29/2219Z TN22/2211Z KMGM 220904Z 2209/2306 00000KT 4SM BR BKN007 OVC020 TEMPO 2209/2213 1SM BR FM221500 23007KT P6SM SCT030 SCT250 FM222100 23007KT P6SM VCSH SCT030 SCT250 PROB30 2221/2303 4SM TSRA BKN030CB KMGW 220858Z 2209/2306 22008KT P6SM BKN025 FM221600 24008KT 6SM -RA VCTS BKN015CB FM222200 36003KT P6SM VCSH OVC025 FM230200 34005KT P6SM BKN035 KMHK 220520Z 2206/2306 01008KT P6SM SCT025 TEMPO 2206/2208 BKN025 FM220800 01009KT P6SM BKN040 FM221300 02010KT P6SM SCT200 KMHR 220520Z 2206/2306 15005KT P6SM FEW250 FM221700 21006KT P6SM SCT250 KMHT 220905Z 2209/2306 35003KT P6SM FEW250 FM221700 07007KT P6SM -RA BKN025 OVC040 FM222000 05007KT 4SM RA BR OVC015 KMIA 220846Z 2209/2312 VRB03KT P6SM FEW025 FEW250 FM221400 07006KT P6SM SCT035 FM221700 08010KT P6SM VCTS SCT030CB BKN120 PROB30 2218/2224 TSRA BKN035CB FM230100 VRB03KT P6SM VCSH SCT030 BKN120 FM230700 VRB03KT P6SM SCT025 BKN100 KMIV 220521Z 2206/2306 VRB04KT P6SM FEW100 BKN200 FM221400 23007KT P6SM BKN180 FM222200 29008KT 6SM SHRA VCTS SCT050 OVC070CB FM230200 VRB05KT 5SM RA BR SCT015 OVC025 KMKC 220524Z 2206/2306 02010KT P6SM -RA BKN012 OVC070 FM220700 03009KT P6SM SCT014 FM221400 02011G19KT P6SM SCT100 FM230000 02010KT P6SM FEW250 KMKE 220856Z 2209/2312 01015G22KT P6SM BKN070 BKN200 FM221300 01010G18KT P6SM SCT060 BKN150 FM221800 03011G18KT P6SM SCT250 FM230100 VRB04KT P6SM SKC KMKG 220530Z 2206/2306 02009KT P6SM BKN080 FM221500 36010G20KT P6SM SCT050 FM230100 35005KT P6SM SKC KMKL 221001Z 2210/2306 16006KT P6SM SCT009 OVC090 FM221800 25007KT P6SM VCSH BKN030 FM222000 31008KT P6SM -TSRA BKN025CB FM230200 02005KT P6SM SCT025 BKN060 KMKT 220520Z 2206/2306 34007KT P6SM SKC FM221700 35010KT P6SM FEW050 FM230100 32005KT P6SM SKC KMLB 220544Z 2206/2306 15004KT P6SM SCT250 FM221400 10007KT P6SM SCT025 FM221700 10009KT P6SM VCTS SCT030CB BKN080 FM222000 11008KT P6SM FEW030 BKN250 FM230100 15003KT P6SM FEW022 BKN250 KMLC 220520Z 2206/2306 17006KT P6SM SCT120 BKN150 FM220800 VRB10KT P6SM VCTS BKN060CB BKN120 FM221400 35012KT P6SM BKN025 FM222100 01014G20KT P6SM SCT035 BKN045 FM230100 02007KT P6SM FEW250 KMLI 220520Z 2206/2306 36005KT P6SM SCT070 BKN200 FM221300 03007KT P6SM FEW050 SCT250 FM222100 01010KT P6SM FEW050 FEW200 FM230300 VRB04KT P6SM SKC KMLS 220522Z 2206/2306 11005KT P6SM SKC FM221700 12012KT P6SM SKC KMLU 220820Z 2208/2306 00000KT P6SM BKN005 TEMPO 2211/2214 3SM BR BKN015 FM221400 24005KT P6SM SCT030 FM221900 26008KT P6SM VCTS BKN040CB BKN250 TEMPO 2219/2223 VRB15G25KT 3SM -TSRA OVC030CB FM222300 23008KT P6SM BKN100 FM230300 23004KT P6SM BKN100 KMMH 220543Z 2206/2306 VRB03KT P6SM SCT140 FM221600 12008KT P6SM SCT140 FM222200 25010G20KT P6SM VCTS SCT070CB SCT140 FM230300 21006KT P6SM BKN150 KMMT 220700Z 2207/2313 20006KT 9999 FEW050 QNH2997INS BECMG 2214/2215 22009KT 9999 SCT050 QNH2991INS BECMG 2219/2220 21010G15KT 9000 -SHRA SCT060 QNH2993INS TEMPO 2220/2301 22012G18KT 8000 -TSRA BKN050CB BECMG 2301/2302 VRB06KT 9999 NSW SCT030 QNH2990INS TX35/2220Z TN23/2211Z KMOB 220520Z 2206/2306 00000KT P6SM VCSH SCT030 FM221200 VRB03KT P6SM VCSH BKN020 FM221800 20010KT P6SM VCTS SCT030CB SCT200 PROB30 2218/2224 VRB15G25KT 4SM TSRA BKN020CB FM230200 19004KT P6SM FEW040 SCT200 KMOD 220520Z 2206/2306 33008KT P6SM SKC KMOT 220523Z 2206/2306 VRB05KT P6SM SKC KMPV 220825Z 2208/2306 VRB03KT 6SM BR BKN120 TEMPO 2208/2212 1SM BR BKN001 FM221300 VRB03KT P6SM BKN090 FM221800 VRB03KT 6SM -RA BR SCT030 OVC050 FM230200 VRB03KT P6SM VCSH BKN025 KMQY 220540Z 2206/2306 18003KT P6SM BKN250 FM220830 20004KT 6SM -SHRA VCTS OVC050CB FM221330 21006KT P6SM VCSH OVC050 FM221930 26007KT 4SM TSRA OVC025CB FM230330 36008KT 5SM -SHRA BR VCTS OVC015CB FM230500 36008KT 6SM -SHRA OVC007 KMRB 220533Z 2206/2306 VRB03KT P6SM SCT050 FM220900 VRB03KT P6SM -SHRA BKN045 FM221600 24006KT P6SM SHRA VCTS OVC045CB FM222000 26007KT 5SM SHRA OVC045 KMRY 220537Z 2206/2306 25005KT P6SM OVC008 FM221100 23003KT P6SM OVC003 TEMPO 2213/2216 2SM BR OVC003 FM221600 27004KT P6SM OVC007 FM221800 28009KT P6SM SKC FM230500 23007KT P6SM BKN007 KMSL 220541Z 2206/2306 VRB03KT P6SM SCT070 BKN200 FM221500 25007KT P6SM VCTS BKN035CB PROB30 2216/2222 4SM -TSRA OVC025CB FM222200 28005KT P6SM VCTS BKN040CB PROB30 2222/2304 3SM TSRA OVC020CB KMSN 220520Z 2206/2306 VRB05KT P6SM BKN150 BKN200 FM220900 03005KT P6SM BKN060 BKN150 FM221500 02009KT P6SM SCT070 SCT200 FM221900 36010G16KT P6SM SCT250 FM230000 34005KT P6SM SKC KMSO 220520Z 2206/2306 VRB05KT P6SM SKC FM221900 07008KT P6SM BKN120 KMSP 220826Z 2208/2312 36006KT P6SM SKC FM221700 33009KT P6SM FEW050 FM230100 31006KT P6SM SKC KMSS 220534Z 2206/2306 01003KT P6SM FEW100 FM221200 VRB04KT P6SM BKN100 FM230200 VRB03KT P6SM SCT120 KMSY 220520Z 2206/2312 00000KT P6SM FEW016 FM221500 23005KT P6SM BKN030 TEMPO 2218/2222 2SM TSRA BKN025CB FM222300 24007KT P6SM VCSH SCT035 FM230200 25004KT P6SM SCT035 KMTC 220900Z 2209/2315 33006KT 9999 BKN080 QNH2990INS BECMG 2215/2216 34010G15KT 9999 FEW040 SCT200 QNH2995INS BECMG 2217/2218 34012G20KT 9999 SCT150 QNH2990INS BECMG 2223/2224 36009KT 9999 SKC QNH2995INS WND VRB06KT AFT 2303 TX25/2219Z TN17/2211Z LAST NO AMDS AFT 2309 NEXT 2311 KMTH 220903Z 2209/2306 07005KT P6SM SCT025 FM221700 VRB03KT P6SM VCSH SCT025 BKN040 KMTJ 221015Z 2210/2306 10013G28KT P6SM SKC FM221900 32007KT P6SM SKC FM222200 20010KT P6SM SCT250 FM230200 14006KT P6SM SCT250 KMTN 220533Z 2206/2306 VRB03KT P6SM SCT050 FM221600 22007KT P6SM SHRA VCTS BKN050CB FM222000 26008KT 5SM SHRA OVC050 KMTW 220520Z 2206/2306 03005KT P6SM BKN060 FM221000 35007KT P6SM SCT100 TEMPO 2210/2212 BKN100 FM221500 36009G15KT P6SM SKC FM222000 35004KT P6SM FEW050 FM230000 30004KT P6SM SKC KMUI 220430Z 2204/2301 34012G18KT 9999 FEW040 SCT060 QNH2981INS TEMPO 2204/2205 35020G35KT 4800 +TSRA OVC025CB BECMG 2209/2210 27006KT 9000 -SHRA BKN030 QNH2984INS BECMG 2214/2215 25006KT 8000 -SHRA OVC010 QNH2986INS TEMPO 2219/2222 25009KT 6000 -TSRA OVC015CB TX25/2204Z TN23/2208Z LAST NO AMDS AFT 2205 NEXT 2211 KMUO 221000Z 2210/2316 31012KT 9999 FEW110 QNH2992INS BECMG 2212/2213 12015G25KT 9999 FEW130 BKN180 QNH2991INS BECMG 2217/2218 31009KT 9999 FEW120 SCT200 QNH2993INS BECMG 2309/2310 31015G25KT 9999 VCTS BKN100 QNH2990INS TX38/2222Z TN18/2212Z KMVN 220520Z 2206/2306 VRB03KT P6SM VCSH SCT035 BKN080 FM221300 36006KT 6SM -SHRA BR SCT019 OVC035 FM221900 02009KT P6SM VCSH SCT045 BKN060 FM222200 02010KT P6SM VCSH FEW050 SCT100 FM230000 02007KT P6SM FEW040 SCT200 KMWH 220520Z 2206/2306 35007KT P6SM SKC FM220900 03006KT P6SM FEW100 BKN250 FM222100 19005KT P6SM SCT120 BKN250 FM230100 VRB03KT P6SM FEW250 KMYL 220520Z 2206/2306 VRB06KT P6SM BKN250 KMYR 220529Z 2206/2306 22007KT P6SM SKC FM221500 23013G20KT P6SM FEW040 SCT250 FM230100 20013KT P6SM FEW250 KNBC 2209/2309 21003KT 9999 SKC QNH3003INS FM221700 23015KT 9999 VCTS SCT040 BKN080 QNH2996INS TEMPO 2218/2223 VRB15G30KT 6000 TSRA BR SCT030CB BKN065 BECMG 2300/2302 22012KT 8000 SHRA BR SCT035 BKN070 QNH2993INS FM230600 20010KT 9999 SCT040 QNH2991INS T33/2218Z T27/2308Z KNBG 2207/2307 VRB05KT 9999 VCTS SCT005 BKN025CB OVC250 QNH2988INS TEMPO 2208/2214 VRB15G25KT 3200 -TSRA BKN020CB OVC100 BECMG 2214/2216 20008KT 6000 VCTS BR SCT020CB BKN100 BKN250 QNH2992INS BECMG 2303/2305 26008KT 9999 VCSH BKN020 OVC100 AUTOMATED SENSOR METWATCH 2207 TIL 2210 T24/2209Z T30/2220Z FN00182 KNCA 2209/2309 VRB06KT 9999 SKC QNH2996INS BECMG 2212/2214 23012KT 9999 SCT060 QNH2991INS TEMPO 2216/2222 23015G25KT T34/2217Z T26/2309Z KNEW 220520Z 2206/2306 14003KT P6SM SKC FM221400 25007KT P6SM SCT025 BKN100 FM221800 28009KT P6SM VCTS BKN050CB FM230200 24006KT P6SM OVC250 KNFG 2209/2309 22006KT 9999 SKC QNH2987INS TEMPO 2207/2213 8000 BR OVC009 FM221730 26007KT 9999 FEW015 QNH2988INS BECMG 2304/2306 VRB05KT 9999 BKN015 QNH2989INS T17/2213Z T29/2220Z KNFL 2207/2307 23009KT 9999 SCT120 QN2999INS BECMG 2223/2300 26013KT 9999 FEW050CB VCTS SCT120 QNH3000INS TEMPO 2223/2304 30017G24KT FM230600 VRB06KT 9999 FEW120 QNH3005INS AUTOMATED SENSOR METWATCH 2207 TIL 2214 T16/2211Z T37/2223Z FS30058 KNFW 2207/2307 15010KT 9999 FEW030 FEW250 QNH2989INS TEMPO 2209/2215 27008KT BECMG 2216/2218 34013KT 9999 VCSH FEW020 SCT100 BKN300 QNH2990INS BECMG 2303/2305 02013KT 9999 NSW FEW020 FEW250 QNH2992INS AUTOMATED SENSOR METWATCH 2207 TIL 2211 T23/2211Z T37/2221Z FN00182 KNGP 2210/2307 18007KT 9999 FEW018 SCT220 BKN300 QNH2990INS FM221200 17007KT 9999 FEW012 SCT018 BKN220 BKN300 612204 QNH2993INS TEMPO 2212/2214 VRB06KT FM221400 14007KT 9999 VCSH FEW015 SCT025 BKN200 BKN300 612006 QNH2997INS TEMPO 2214/2217 FEW014 BKN025 BKN200 OVC300 FM221900 13012KT 9999 VCTS FEW015 SCT025CB BKN180 BKN300 611808 QNH2990INS FM222300 12010KT 9999 FEW018 SCT180 BKN300 611808 QNH2990INS FM230200 15009KT 9999 FEW015 SCT150 BKN200 BKN300 612006 QNH2992INS FM230400 18008KT 9999 SCT012 SCT120 BKN150 BKN250 611509 612402 QNH2997INS AUTOMATED SENSOR METWATCH 2209 TIL 2211 T27/2212Z T33/2219Z 1002 FN20044 KNGU 2207/2307 22010G16KT 9999 FEW040 SCT250 QNH2983INS BECMG 2211/2213 23013G18KT 9999 SCT050 BKN250 QNH2980INS BECMG 2216/2218 23015G22KT 9999 SCT030 SCT050 BKN250 QNH2980INS BECMG 2218/2220 24017G24KT 9999 VCSH SCT020 BKN035 OVC060 QNH2979INS FM222200 2401724KT 9999 VCTS BKN020CB BKN035 OVC060 QNH2978INS TEMPO 2222/2304 VRB20G30KT 1600 TSRA BKN015CB BKN030 OVC050 QNH2979INS T27/2209Z T36/2218Z FN00182 KNHK 2210/2307 23008KT 9999 FEW050 FEW180 SCT300 QNH2979INS BECMG 2220/2221 24010KT 9999 VCTS SCT055CB SCT180 BKN300 QNH2977INS TEMPO 2221/2301 VRB35G50KT 3200 TSRA FEW035 BKN050CB OVC110 FM230100 23008KT 8000 -SHRA VCTS FEW030 SCT050CB OVC100 QNH2983INS T37/2220Z T21/2307Z 1035 FN20066 KNIP 2208/2307 VRB03KT 9999 SCT250 QNH3002INS FM221500 16008KT 9999 SCT035 SCT250 QNH3000INS FM221900 14010KT 9999 VCTS BKN045CB BKN250 QNH2996INS TEMPO 2219/2223 VRB20G35KT 2400 +TSRA BR SCT015 BKN035CB OVC060 FM222300 VRB05KT 9999 VCTS FEW025 SCT040CB BKN200 QNH2996INS FM230100 15006KT 9999 SCT040 SCT150 BKN250 QNH2998INS T24/2211Z T33/2420Z 0802 FN20019 KNJK 2207/2307 15009KT 9999 SCT150 BKN250 QNH2972INS TEMPO 2221/2303 16012KT VCTS SCT050CB BKN280 FM230300 27009KT 9999 SCT120 BKN250 QNH2974INS AUTOMATED SENSOR METWATCH 2207 TIL 2213 T25/2212Z T42/2222Z FS30135 KNKT 2209/2309 VRB06KT 9999 SKC QNH2996INS BECMG 2212/2214 23012KT 9999 SCT060 QNH2991INS TEMPO 2216/2222 23015G25KT T34/2217Z T26/2309Z KNKX 2209/2309 VRB05KT 9999 OVC005 QNH2989INS TEMPO 2209/2215 8000 BR BKN012 FM221630 VRB06KT 9999 BKN010 QNH2991INS BECMG 2217/2219 29008KT 9999 FEW015 QNH2988INS T18/2213Z T27/2222Z KNLC 2207/2307 34009KT 9999 FEW250 QNH2980INS AUTOMATED SENSOR METWATCH 2207 TIL 2215 T18/2211Z T36/2223Z FS30058 KNMM 2210/2307 VRB06KT 8000 BR FEW015 FEW300 QNH2993INS TEMPO 2210/2212 3200 BR OVC003 BECMG 2212/2214 19005KT 99999 SCT030 SCT120 QNH2996INS BECMG 2218/2220 24005KT 9999 VCTS SCT020CB OVC120 QNH2989INS T23/2210Z T28/2218Z 1005 FN00194 KNPA 2207/2307 20005KT 9999 SCT020 BKN120 OVC250 QNH2997INS BECMG 2213/2215 21010KT 9999 VCTS SCT020CB OVC120 QNH2999INS TEMPO 2216/2222 VRB15G25KT 3200 TSRA BKN020CB OVC120 BECMG 2223/2301 20008KT 9999 NSW SCT030 BKN120 QNH2985INS T25/2209Z T31/2120Z FN00182 KNQI 2207/2307 15013G18KT 9999 SCT030 SCT250 QNH2988INS BECMG 2215/2217 FEW100 QNH2990INS BECMG 2301/2303 18010KT SCT010 SCT030 BKN100 QNH2985INS AUTOMATED SENSOR METWATCH 2207 TIL 2212 T24/2210Z T36/2220Z FN00182 KNQX 2207/2307 09009KT 9999 FEW020 FEW250 QNH2992INS BECMG 2213/2215 10007KT 9999 VCTS SCT025CB SCT250 QNH2993INS BECMG 2219/2222 08005KT 9999 FEW025 BKN120 BKN250 AUTOMATED SENSOR METWATCH 2207 TIL 2210 T26/2210Z T33/2119Z FN00182 KNRB 2207/2307 12007KT 9999 FEW050 SCT200 QNH2999INS BECMG 2212/2214 18006KT 9999 FEW030 SCT070 BKN250 QNH3000INS BECMG 2220/2222 14010KT 9999 VCTS BKN050CB BKN150 QNH2995INS TEMPO 2123/2301 VRB25G35KT 1600 TSRA BKN035CB BKN050 BECMG 2302/2304 16008KT 9999 NSW FEW040 SCT060 QNH2992INS AUTOMATED SENSOR METWATCH 2207 TIL 2209 T25/2210Z T31/2218Z FN00182 KNSE 2207/2307 VRB04KT 9999 SCT020 BKN120 OVC250 QNH2997INS BECMG 2213/2215 19008KT 9999 VCTS SCT020CB OVC120 QNH2999INS TEMPO 2216/2222 VRB15G25KT 3200 TSRA BKN020CB OVC120 BECMG 2223/2301 VRB04KT 9999 NSW SCT030 BKN150 QNH2987INS AUTOMATED SENSOR METWATCH 2207 TIL 2211 T24/2209Z T33/2120Z FN00182 KNSI 2207/2307 30014KT 9999 BKN003 QNH2993INS FM221200 29010KT 3200 BR OVC003 QNH2992INS TEMPO 2212/2218 6000 BR FM221900 30012G18KT 9999 SCT012 SCT250 QNH2990INS FM230300 29015KT 9999 BKN005 QNH2991INS AUTOMATED SENSOR WATCH 2207 TIL 2215 T15/2212Z T22/2223Z FS30058 KNTD 2207/2307 VRB06KT 9999 BKN010 SCT250 QNH2989INS TEMPO 2209/2215 6000 BR OVC007 FM221500 26010KT 9999 FEW015 BKN250 QNH2992INS BECMG 2218/2220 26009KT 9999 SCT012 QNH2990INS AUTOMATED SENSOR METWATCH 2207 NEXT 2213 T16/2212Z T22/2222Z FS30135 KNTU 2207/2307 22010G18KT 9999 FEW040 SCT250 QNH2982INS BECMG 2211/2213 23013G20KT 9999 SCT050 BKN250 QNH2980INS BECMG 2216/2218 23015G22KT 9999 SCT030 SCT050 BKN250 QNH2980INS BECMG 2219/2221 24017G24KT 9999 VCSH SCT020 BKN035 OVC060 QNH2979INS FM222300 2401724KT 9999 VCTS BKN020CB BKN035 OVC060 QNH2978INS TEMPO 2223/2304 VRB20G30KT 1600 TSRA BKN015CB BKN030 OVC050 QNH2979INS T27/2209Z T36/2218Z FN00182 KNUW 2207/2307 VRB06KT 9999 FEW020 SCT250 QNH2994INS FM230200 25012KT 9999 FEW020 SCT250 QNH2999INS T12/2211Z T21/2223Z FS30058 KNXP 2209/2309 23008KT 9999 SKC QNH2987INS FM221800 15007KT 9999 SKC QNH3001INS BECMG 2220/2221 22012G22KT 9999 SKC QNH2994INS T23/2213Z T40/2222Z KNYG 2209/2309 35005KT 9999 SKC QNH2985INS BECMG 2213/2215 23010KT 9999 FEW060 SCT120 QNH2988INS TEMPO 2218/2300 20017G23KT T32/2217Z T26/2309Z KNYL 2209/2309 20010KT 9999 SKC QNH2974INS TEMPO 2215/2221 18015G25KT AUTOMATED SENSOR METWATCH 2209 TIL 2214 T30/2213Z T41/2221Z KNZY 2207/2307 VRB06KT 9999 SCT015 SCT180 QNH2989INS BECMG 2107/2109 VRB06KT 9999 BKN012 BKN150 QNH2988INS TEMPO 2209/2215 6000 BR BKN008 BKN150 FM221600 30009KT 9999 FEW020 SCT150 QNH2991INS FM230300 VRB06KT 9999 SCT015 QNH2989INS AUTOMATED SENSOR METWATCH 2207 TIL 2213 T18/2212Z T25/2221Z FS30135 KOAJ 220527Z 2206/2306 22007KT P6SM SKC FM221600 22014G22KT P6SM SCT050 FM230000 20010KT P6SM SCT060 LTD TO CLD VIS AND WIND KOAK 220537Z 2206/2312 31008KT P6SM FEW010 SCT200 FM221000 29005KT P6SM BKN010 FM221100 29004KT P6SM OVC008 FM221630 26006KT P6SM FEW012 FM222100 28012KT P6SM FEW012 FM230500 28008KT P6SM FEW010 KOFF 221000Z 2210/2316 01009KT 9999 FEW060 QNH3016INS BECMG 2214/2215 02012G18KT 9999 SKC QNH3020INS BECMG 2303/2304 VRB06KT 9999 SKC QNH3023INS TX26/2221Z TN15/2311Z KOFK 220520Z 2206/2306 36006KT P6SM SKC FM221600 36010KT P6SM FEW030 FM230000 02007KT P6SM FEW250 KOGB 220855Z 2209/2306 20005KT P6SM SKC FM221500 23010KT P6SM SCT060 SCT250 FM230100 19009KT P6SM BKN200 KOGD 220524Z 2206/2306 16007KT P6SM SKC FM221900 29006KT P6SM SKC FM230300 16005KT P6SM SKC KOKC 220936Z 2210/2306 01012KT P6SM BKN015 BKN080 FM221700 03016G24KT P6SM SCT025 SCT250 FM230100 05012KT P6SM SKC KOLF 220520Z 2206/2306 VRB06KT P6SM SKC FM222000 13010KT P6SM SKC FM230300 VRB06KT P6SM SKC KOLM 220522Z 2206/2306 16004KT P6SM FEW250 FM221300 22004KT P6SM SCT015 FM221800 25006KT P6SM FEW250 KOLS 220540Z 2206/2306 VRB04KT P6SM FEW120 BKN250 FM221900 30007KT P6SM FEW120 SCT250 FM222200 34008KT P6SM SCT090 BKN200 PROB30 2222/2301 VRB15G35KT 4SM -TSRA BKN090CB FM230100 05010KT P6SM VCSH BKN090 KOMA 220520Z 2206/2306 35007KT P6SM SCT100 FM221600 36012KT P6SM SCT035 FM230000 35007KT P6SM SKC KONP 220919Z 2209/2306 00000KT P6SM BKN005 OVC015 FM221000 00000KT P6SM OVC015 FM221800 32006KT P6SM SCT015 FM222200 32009KT P6SM OVC012 FM230100 34004KT P6SM OVC009 KONT 220520Z 2206/2312 VRB04KT P6SM FEW250 FM222200 26011KT P6SM SCT250 FM230500 VRB04KT P6SM SCT250 KOPF 220846Z 2209/2306 VRB03KT P6SM SKC FM221400 07008KT P6SM SCT035 FM221700 09010KT P6SM VCTS SCT030CB BKN120 PROB30 2218/2224 TSRA BKN035CB FM230100 VRB04KT P6SM VCSH SCT030 BKN120 KORD 220943Z 2210/2312 01012KT P6SM BKN250 FM221500 04012G18KT P6SM SCT100 BKN250 FM221800 02016G22KT P6SM SCT250 FM230200 36009KT P6SM SKC KORF 220520Z 2206/2306 23007KT P6SM SKC FM221400 23012G20KT P6SM SKC FM221900 23014G22KT P6SM SCT060 FM230000 22012KT P6SM SCT100 KORH 220542Z 2206/2306 31009KT P6SM SCT250 FM221600 08006KT P6SM VCSH BKN080 FM221900 07007KT P6SM +SHRA OVC040 FM222100 06007KT 4SM +SHRA OVC015 FM230000 04008KT 4SM +SHRA BR OVC015 KOSH 220520Z 2206/2306 04007KT P6SM BKN060 FM221000 02006KT P6SM BKN100 FM221200 34007KT P6SM SCT100 FM221700 35010KT P6SM SCT060 FM222300 32006KT P6SM SCT050 FM230200 29004KT P6SM SCT050 KOTH 220525Z 2206/2306 35004KT P6SM OVC012 FM221000 01003KT P6SM OVC009 FM221600 07003KT P6SM SKC FM222000 34012G18KT P6SM SKC FM230300 35009KT P6SM OVC012 KOTM 220530Z 2206/2306 36007KT P6SM SCT100 BKN150 FM221800 36011KT P6SM BKN050 FM230200 33005KT P6SM SCT050 KOUN 220949Z 2210/2306 35012KT P6SM SCT015 SCT080 TEMPO 2210/2212 BKN015 FM221200 01010KT P6SM BKN018 FM221600 03016G24KT P6SM SCT025 SCT250 FM230100 04011KT P6SM SKC KOWB 220520Z 2206/2306 24005KT P6SM VCSH SCT028 OVC090 FM221300 29005KT 6SM SHRA BR SCT013 OVC017 FM221700 32007KT 6SM SHRA BR SCT015 BKN022 FM222000 35008KT 6SM SHRA BR SCT019 BKN035 FM230300 01007KT P6SM FEW045 SCT090 KOXR 220659Z 2207/2306 30006KT P6SM SKC FM220800 VRB03KT P6SM BKN008 FM221600 25006KT P6SM SCT010 FM221900 26012KT P6SM SKC FM230300 25006KT P6SM SKC KOZR 220800Z 2208/2314 VRB06KT 4800 BR SCT020 QNH3000INS BECMG 2214/2215 23006KT 9999 NSW SCT020 QNH3003INS TEMPO 2219/2224 23010G20KT 6000 TSRA BKN020CB BECMG 2308/2309 VRB06KT 8000 BR SCT010 QNH2997INS TEMPO 2312/2314 8000 -SHRA BR TX32/2218Z TN23/2208Z KPAE 220522Z 2206/2306 01005KT P6SM FEW250 FM220900 VRB03KT P6SM FEW250 FM222000 27008KT P6SM FEW250 FM230100 36005KT P6SM SCT250 KPAH 220520Z 2206/2306 VRB04KT P6SM VCSH SCT024 BKN100 TEMPO 2206/2210 4SM -SHRA BR SCT024 BKN080 FM221400 31005KT 6SM SHRA BR SCT016 OVC024 FM221600 35006KT 6SM SHRA BR SCT019 OVC022 FM222300 02009KT 6SM SHRA BR SCT029 BKN045 FM230100 02009KT P6SM SCT045 BKN080 KPAM 221000Z 2210/2316 VRB06KT 9999 BKN020 BKN250 QNH2996INS BECMG 2214/2215 19009KT 9999 VCTS BKN030CB QNH2997INS BECMG 2218/2219 20009KT 9999 NSW FEW035 QNH2991INS BECMG 2309/2310 VRB06KT 9999 BKN030 QNH2993INS TX31/2217Z TN24/2305Z KPBF 220520Z 2206/2306 VRB05KT P6SM SCT250 FM221400 25006KT P6SM SCT040 FM222000 32009KT P6SM VCTS SCT025 BKN050CB TEMPO 2222/2302 4SM -SHRA BR BKN025 KPBG 220534Z 2206/2306 32004KT P6SM FEW100 FM221700 VRB03KT P6SM VCSH BKN100 FM222100 15005KT P6SM VCSH OVC060 FM230400 VRB03KT P6SM BKN100 KPBI 220846Z 2209/2306 34005KT P6SM SCT025 SCT250 FM221400 09008KT P6SM SCT035 FM221700 10010KT P6SM VCTS SCT030CB BKN120 PROB30 2218/2224 TSRA BKN035CB FM230100 10006KT P6SM VCSH SCT030 BKN120 KPDK 220541Z 2206/2306 VRB03KT P6SM SCT050 BKN060 FM221500 25007KT P6SM SCT030 BKN100 FM221800 23007KT P6SM VCSH SCT040 BKN090 PROB30 2219/2224 6SM TSRA BKN040CB FM230400 24005KT P6SM VCSH BKN040 KPDT 220520Z 2206/2306 12005KT P6SM SCT150 FM221800 31005KT P6SM SCT150 FM230000 32007KT P6SM SCT120 BKN150 FM230500 VRB05KT P6SM BKN120 KPDX 220853Z 2209/2306 32004KT P6SM FEW150 FM221300 VRB03KT P6SM SCT020 FM221900 32006KT P6SM SCT130 KPEQ 220520Z 2206/2306 10010KT P6SM SCT250 FM221600 06012G22KT P6SM SCT060 BKN170 FM230200 35008KT P6SM FEW050 OVC090 KPGA 220529Z 2206/2306 VRB06KT P6SM FEW150 KPGD 220527Z 2206/2306 VRB03KT P6SM SCT035 BKN200 FM221500 12006KT P6SM SCT035 SCT100 FM221900 24007KT P6SM VCTS SCT030CB SCT100 BKN200 FM230200 VRB03KT P6SM FEW030 BKN200 KPGV 220527Z 2206/2306 22007KT P6SM SKC FM221600 21013G20KT P6SM SCT050 FM230000 20010KT P6SM BKN060 LTD TO CLD VIS AND WIND KPHF 220520Z 2206/2306 22006KT P6SM SKC FM221400 23012KT P6SM SKC FM221900 23014G22KT P6SM SCT060 FM230000 22011KT P6SM BKN080 KPHL 220842Z 2209/2312 VRB05KT P6SM FEW120 BKN200 FM221600 23008KT P6SM SCT060 BKN100 FM222000 25010KT 6SM SHRA VCTS SCT040 OVC070CB FM222200 30010KT 6SM SHRA VCTS SCT030 OVC050CB FM230100 32006KT 4SM SHRA SCT015 OVC025 KPHX 220907Z 2209/2312 26010KT P6SM FEW120 BKN150 OVC250 FM221200 VRB05KT P6SM SCT120 BKN150 OVC200 TEMPO 2212/2216 12005KT FM221700 28006KT P6SM SCT150 BKN250 FM222100 25010G19KT P6SM FEW100 SCT150 SCT250 FM230400 14015G25KT P6SM VCSH BKN100 BKN150 BKN250 FM230600 14012KT P6SM VCSH BKN120 BKN200 KPIA 220521Z 2206/2306 03006KT P6SM BKN080 FM221400 03009KT P6SM SCT150 FM230100 36003KT P6SM SKC KPIB 220654Z 2207/2306 00000KT 1/4SM FG VV003 FM221300 00000KT 4SM BR BKN003 FM221500 22003KT P6SM SCT035 FM222100 21004KT P6SM VCTS SCT050CB BKN250 FM230100 21004KT P6SM BKN090 KPIE 220527Z 2206/2306 VRB04KT P6SM FEW030 BKN200 FM221500 11007KT P6SM SCT030 SCT200 FM221700 05006KT P6SM VCTS SCT030CB BKN200 FM222000 30007KT P6SM VCTS SCT030CB BKN100 BKN200 FM230200 VRB03KT P6SM FEW030 BKN200 KPIH 220520Z 2206/2306 VRB06KT P6SM SKC FM222000 25009KT P6SM SCT100 FM230300 VRB06KT P6SM FEW200 KPIR 220532Z 2206/2306 VRB04KT P6SM SKC KPIT 220925Z 2209/2312 VRB03KT 6SM -RA BR BKN015 TEMPO 2209/2211 1SM BR BKN002 FM221500 35008KT 6SM -RA VCTS OVC010CB FM221900 36007KT P6SM VCSH BKN040 FM222300 35006KT P6SM BKN120 KPKB 220926Z 2209/2306 16004KT P6SM BKN011 BKN100 FM221400 22004KT 5SM SHRA VCTS OVC018CB TEMPO 2214/2216 VRB15G25KT 3SM TSRA OVC024CB FM222100 32007KT P6SM OVC013 FM222300 35006KT P6SM OVC009 FM230300 35004KT P6SM BKN024 KPLN 220520Z 2206/2306 VRB03KT P6SM BKN120 FM221200 VRB03KT P6SM FEW250 FM222000 32013G21KT P6SM SKC FM230300 31006KT P6SM SKC KPMD 220539Z 2206/2306 25008KT P6SM SKC FM220700 19006KT P6SM SKC FM222300 24014G20KT P6SM SCT100 FM230200 26012KT P6SM SCT100 KPNA 220533Z 2206/2306 VRB05KT P6SM FEW120 FM222100 21007KT P6SM SCT100 BKN150 FM230200 30006KT P6SM SCT120 LTD TO CLD VIS AND WIND KPNC 220520Z 2206/2306 36014KT P6SM SCT018 BKN250 TEMPO 2206/2209 BKN018 FM220900 02015G24KT P6SM BKN018 FM221600 04018G26KT P6SM SCT025 SCT250 FM230000 04010KT P6SM SKC KPNE 220521Z 2206/2306 VRB05KT P6SM FEW120 BKN200 FM222000 28008KT 6SM +SHRA VCTS SCT040 OVC070CB FM230000 34004KT 4SM SHRA BR SCT015 OVC025 KPNS 220520Z 2206/2306 20003KT P6SM FEW023 FM221200 VRB03KT P6SM VCSH BKN020 FM221800 20010KT P6SM VCTS SCT030CB SCT200 PROB30 2218/2224 VRB15G25KT 4SM TSRA BKN020CB FM230200 21006KT P6SM FEW040 SCT200 KPOB 220900Z 2209/2315 21006KT 9999 FEW200 QNH2994INS BECMG 2215/2216 22012G18KT 9999 FEW060 QNH2990INS BECMG 2222/2223 22015G20KT 9000 -SHRA SCT060 QNH2987INS TEMPO 2223/2303 23020G35KT 8000 -TSRA BKN030CB BKN060 BECMG 2302/2303 VRB06KT 9999 NSW SCT040 510103 QNH2989INS TX36/2220Z TN24/2211Z KPOE 220840Z 2208/2314 VRB06KT 8000 BR BKN003 QNH2994INS TEMPO 2208/2213 SCT003 BECMG 2212/2213 29009KT 9999 NSW SCT035 QNH2995INS TEMPO 2219/2223 03010G15KT 8000 -TSRA BKN020CB BECMG 2222/2223 36006KT 9000 -SHRA BKN045 QNH2996INS TX30/2221Z TN22/2212Z KPOU 220534Z 2206/2306 00000KT P6SM SCT100 BKN250 FM221100 VRB03KT P6SM BKN100 BKN250 FM221400 36004KT P6SM VCSH BKN050 OVC080 FM221700 36006KT 5SM -RA BR BKN025 OVC050 FM222000 35005KT 3SM -RA BR OVC015 TEMPO 2220/2224 2SM RA OVC007 FM230000 VRB03KT 5SM -RA BR BKN007 OVC015 KPQI 220926Z 2209/2306 VRB03KT 5SM BR SCT060 TEMPO 2209/2210 1 1/2SM BR FM221300 32007KT P6SM FEW100 FM221700 29007KT P6SM SCT100 FM222200 25003KT P6SM BKN100 FM230100 19003KT P6SM BKN100 KPRB 220539Z 2206/2306 20006KT P6SM SKC FM221300 VRB03KT 6SM BR SCT004 FM221600 21008KT P6SM SKC FM222200 20015G25KT P6SM SKC FM230200 21008KT P6SM SKC KPRC 220529Z 2206/2306 22005KT P6SM SCT120 FM221800 27011KT P6SM BKN120 FM230300 19005KT P6SM SCT120 KPSC 220520Z 2206/2306 34007KT P6SM SCT150 FM220900 VRB05KT P6SM SCT150 FM221800 34005KT P6SM SCT150 KPSF 220534Z 2206/2306 VRB03KT P6SM SCT250 FM221200 VRB03KT P6SM BKN100 BKN250 FM221500 33004KT P6SM VCSH BKN050 OVC080 FM221700 35006KT 5SM -RA BR BKN025 OVC050 FM222000 36005KT 4SM -RA BR SCT006 OVC015 TEMPO 2221/2301 2SM RA OVC006 FM230100 VRB03KT 5SM -RA BR OVC007 KPSM 220905Z 2209/2306 VRB03KT P6SM BKN250 FM221500 08005KT P6SM BKN100 FM222000 08007KT P6SM -RA BKN025 OVC040 FM222200 04006KT 4SM RA BR OVC015 KPSP 220520Z 2206/2306 VRB04KT P6SM SKC FM221800 11008KT P6SM FEW150 FM230400 32007KT P6SM SCT250 KPTK 220528Z 2206/2306 03006KT P6SM BKN100 OVC250 FM221500 36009KT P6SM BKN250 FM230000 34006KT P6SM SCT250 KPUB 220732Z 2208/2306 VRB06KT P6SM FEW060 BKN150 FM221200 VRB06KT P6SM FEW030 SCT150 SCT200 FM221600 13008KT P6SM SCT050 SCT200 FM222100 10014KT P6SM SCT050 BKN200 FM230200 08008KT P6SM VCSH BKN050 BKN100 KPUW 220520Z 2206/2306 07002KT P6SM SKC FM221400 09005KT P6SM VCTS SCT090CB BKN250 FM222000 04005KT P6SM BKN120 BKN250 FM230400 09002KT P6SM FEW250 KPVD 220907Z 2209/2306 35010KT P6SM SCT250 FM221400 05005KT P6SM BKN250 FM221700 11007KT P6SM VCSH BKN080 FM222100 09008KT P6SM -SHRA OVC015 FM230000 05007KT 5SM +SHRA OVC015 FM230400 01006KT 3SM +SHRA BR OVC008 KPVU 220524Z 2206/2306 14005KT P6SM SKC FM222200 28006KT P6SM FEW090 SCT150 FM230400 13005KT P6SM SCT150 KPVW 220531Z 2206/2306 15008KT P6SM SCT100 BKN250 FM221000 05015KT P6SM SCT025 SCT100 BKN250 TEMPO 2212/2215 BKN015 KPWM 220905Z 2209/2306 31003KT P6SM SCT090 FM221400 09005KT P6SM BKN100 FM221800 12007KT 6SM -RA BR OVC050 FM230000 03005KT 4SM RA BR OVC015 KPWT 220522Z 2206/2306 00000KT P6SM FEW250 FM221200 19003KT P6SM FEW005 FM221600 20008KT P6SM FEW250 FM230300 04005KT P6SM SCT250 KQD3 220940Z 2209/2309 26012G20KT 5000 HZ SKC QNH2950INS BECMG 2211/2212 34009KT 9000 HZ SKC QNH2953INS BECMG 2217/2218 VRB06KT 9999 NSW SKC QNH2956INS BECMG 2304/2305 26012G18KT 9999 SKC QNH2956INS TX44/2211Z TN32/2304Z KQN3 220911Z 2209/2315 19009KT 9999 BKN030 BKN080 QNH2982INS BECMG 2214/2215 VRB06KT 9999 FEW020 SCT080 QNH2978INS TEMPO 2220/2302 VRB25G40KT 4800 -TSRA BKN030CB BECMG 2305/2306 21009KT 9999 SCT050 QNH2988INS TX35/2215Z TN27/2305Z KQRH 220909Z 2209/2309 28012G20KT 8000 HZ SKC QNH2950INS BECMG 2210/2211 30012KT 9000 HZ SKC QNH2947INS BECMG 2216/2217 VRB06KT 9999 NSW SKC QNH2953INS BECMG 2305/2306 26012G18KT 9999 SKC QNH2956INS TX44/2211Z TN32/2304Z KRAP 220522Z 2206/2306 VRB05KT P6SM BKN050 FM221500 14012KT P6SM FEW050 NOT SKED KRBG 220525Z 2206/2306 VRB03KT P6SM SKC FM222100 35010KT P6SM SKC FM230400 36005KT P6SM SKC KRBL 220520Z 2206/2306 VRB05KT P6SM FEW250 FM222100 16011G17KT P6SM SKC KRDD 220520Z 2206/2306 VRB05KT P6SM FEW250 FM222100 19010G17KT P6SM SKC KRDG 220521Z 2206/2306 VRB05KT P6SM FEW120 BKN200 FM221800 24008KT P6SM SHRA VCTS SCT040 OVC060CB FM230000 31004KT 4SM SHRA BR SCT015 OVC025 KRDM 220520Z 2206/2306 35005KT P6SM SCT150 FM220800 VRB03KT P6SM FEW120 SCT150 FM221800 33007KT P6SM FEW150 FM222300 33010KT P6SM SCT120 KRDR 221000Z 2210/2316 36009KT 9999 SKC QNH3025INS BECMG 2215/2216 33010G15KT 9999 SCT060 QNH3030INS BECMG 2220/2221 31009KT 9999 FEW060 QNH3025INS WND VRB06KT AFT 2303 TX28/2220Z TN09/2210Z KRDU 220524Z 2206/2306 22008KT P6SM FEW250 FM221500 22012G18KT P6SM SCT250 FM221800 22013G23KT P6SM SCT050 BKN250 PROB30 2220/2224 VRB15G30KT 2SM TSRA BKN030CB FM230100 23007KT P6SM FEW050 BKN120 KRFD 220943Z 2210/2306 02009KT P6SM FEW060 OVC180 FM221500 04010G15KT P6SM FEW250 FM222100 01011G17KT P6SM FEW120 FM222300 01008KT P6SM FEW200 KRHI 220520Z 2206/2306 VRB03KT P6SM BKN120 FM221000 VRB03KT P6SM SCT100 FM221800 32009KT P6SM SCT050 FM230000 29004KT P6SM SCT050 KRIC 220520Z 2206/2306 22007KT P6SM SKC FM221600 23014G22KT P6SM SCT060 FM222200 23012KT P6SM BKN060 FM230000 25007KT 5SM SHRA BKN080 FM230200 22006KT 4SM SHRA BKN080 KRIL 220533Z 2206/2306 10007KT P6SM SKC FM222000 29007KT P6SM FEW250 FM222300 33008KT P6SM SCT250 FM230300 10006KT P6SM SCT250 KRIV 220400Z 2204/2310 VRB06KT 9999 FEW130 SCT230 QNH2993INS BECMG 2219/2220 31009KT 9999 SCT140 BKN230 QNH2992INS TEMPO 2222/2302 31012G18KT BECMG 2303/2304 31006KT 9999 FEW140 SCT250 QNH2997INS TX36/2222Z TN17/2213Z KRIW 220533Z 2206/2306 07010KT P6SM BKN080 FM221200 VRB05KT P6SM SCT100 FM222200 10005KT P6SM VCTS SCT100CB BKN150 FM230200 VRB06KT P6SM SCT120 KRKD 220905Z 2209/2306 VRB03KT P6SM SCT100 FM222100 13005KT P6SM OVC050 FM230000 00000KT 6SM RA BR OVC050 KRKS 220533Z 2206/2306 06012G19KT P6SM SCT120 FM220900 08011KT P6SM FEW120 FM221800 VRB05KT P6SM SKC FM222100 26010KT P6SM SCT120 FM230400 07010KT P6SM SCT120 KRME 220832Z 2209/2306 10003KT P6SM FEW100 FM221600 08005KT 5SM -SHRA OVC025 FM221800 07003KT 5SM -SHRA OVC015 FM230300 07003KT P6SM BKN025 KRND 220900Z 2209/2315 17006KT 9999 SCT015 QNH2997INS BECMG 2211/2212 17006KT 9999 SCT008 BKN015 QNH2999INS TEMPO 2212/2214 BKN008 BECMG 2214/2215 16006KT 9999 SCT015 BKN150 QNH2996INS BECMG 2216/2217 16009KT 9999 SCT150 QNH2992INS BECMG 2308/2309 VRB06KT 9000 -SHRA SCT015 BKN025 QNH2993INS TEMPO 2310/2312 VRB10G15KT 6000 -TSRA BKN015CB BECMG 2313/2314 36010KT 9999 NSW SCT025 BKN050 QNH3004INS TX35/2222Z TN25/2212Z KRNH 220520Z 2206/2306 36003KT P6SM SKC FM221700 33008KT P6SM FEW050 FM230100 31003KT P6SM SKC KRNO 220543Z 2206/2306 VRB03KT P6SM SCT150 FM222200 28010KT P6SM VCTS SCT080CB SCT150 FM230000 27014G21KT P6SM BKN150 FM230500 30008KT P6SM BKN150 KROA 220602Z 2206/2306 VRB03KT P6SM FEW060 SCT200 FM221200 26004KT P6SM VCSH BKN040 FM221800 26007KT 6SM SHRA VCTS BKN040CB FM230000 28008KT P6SM SCT015 OVC060 KROC 220920Z 2209/2306 00000KT P6SM FEW090 OVC140 FM221300 24004KT P6SM OVC050 FM221500 21006KT P6SM OVC020 FM230200 VRB03KT P6SM BKN035 KROG 220520Z 2206/2306 VRB12KT P6SM VCTS SCT025 BKN060CB BKN120 TEMPO 2206/2209 3SM -TSRA BKN025 BKN040CB FM221000 31011KT P6SM VCSH BKN015 FM221800 01014KT P6SM SCT015 BKN025 FM222100 01014G20KT P6SM SCT030 SCT045 FM230100 01007KT P6SM FEW250 KROW 220534Z 2206/2306 03011KT P6SM VCSH SCT050 BKN100 FM221500 01018KT P6SM VCSH OVC050 FM222000 04007KT P6SM VCSH BKN070 TEMPO 2221/2301 5SM -RA BR OVC050 KRSL 220520Z 2206/2306 01011KT P6SM SCT025 FM221400 02012G18KT P6SM SKC KRST 220550Z 2206/2306 34006KT P6SM SCT090 FM221600 35012KT P6SM SCT150 FM230000 20006KT P6SM SCT200 KRSW 220527Z 2206/2306 VRB03KT P6SM FEW035 BKN200 FM221500 09006KT P6SM SCT035 SCT200 FM221900 28007KT P6SM VCTS SCT030CB SCT100 BKN200 FM230200 VRB03KT P6SM FEW030 BKN200 KRUT 220534Z 2206/2306 12003KT P6SM SCT100 TEMPO 2206/2208 4SM BR SCT008 FM221300 VRB03KT P6SM VCSH BKN120 FM221600 VRB04KT 6SM -RA BR OVC050 FM222000 11003KT 4SM -RA BR OVC015 KRVS 220520Z 2206/2306 VRB15KT P6SM VCTS SCT030 BKN060CB BKN120 TEMPO 2206/2207 4SM -TSRA SCT025 BKN040CB FM220900 35010KT P6SM BKN015 FM221300 36012KT P6SM BKN025 BKN035 FM221900 02014G20KT P6SM SCT040 FM230100 02007KT P6SM FEW250 KRWF 220520Z 2206/2306 33006KT P6SM SKC FM221600 34007KT P6SM FEW050 FM230100 33004KT P6SM SKC KRWI 220524Z 2206/2306 22008KT P6SM SKC FM221500 20012G18KT P6SM SCT250 FM221800 22013G23KT P6SM SCT050 BKN250 PROB30 2220/2224 VRB15G30KT 2SM TSRA BKN030CB FM230100 23007KT P6SM BKN200 KRWL 220536Z 2206/2306 07011KT P6SM FEW060 FM221500 08008KT P6SM SCT040 BKN250 FM222100 32008KT P6SM VCTS SCT050CB BKN250 FM230200 07008KT P6SM BKN100 KRYY 220541Z 2206/2306 VRB03KT P6SM SCT120 SCT250 FM221500 27008KT P6SM SCT030 BKN080 FM221800 23007KT P6SM VCSH SCT040 BKN090 PROB30 2219/2224 6SM TSRA BKN040CB FM230400 24005KT P6SM VCSH BKN040 KSAC 220520Z 2206/2306 21006KT P6SM SKC KSAF 220534Z 2206/2306 14012G22KT P6SM BKN050 FM221200 12018G28KT P6SM BKN040 FM221800 15012G18KT P6SM BKN080 FM222100 14018G28KT P6SM VCSH BKN070 TEMPO 2222/2301 5SM TSRA OVC050CB KSAN 220850Z 2209/2312 VRB04KT P6SM OVC011 FM221600 29006KT P6SM FEW013 FM221900 29009KT P6SM SCT150 FM230300 VRB04KT P6SM SCT015 FM231000 VRB04KT P6SM BKN010 KSAT 221014Z 2210/2312 16008KT P6SM SCT015 TEMPO 2210/2214 BKN015 FM221400 17006KT P6SM SCT250 FM230900 34005KT P6SM VCSH SCT050 SCT250 KSAV 220520Z 2206/2306 23006KT P6SM FEW030 FM221900 18010G15KT P6SM BKN050 FM230100 17008KT P6SM SCT080 BKN250 KSAW 220520Z 2206/2306 VRB03KT P6SM FEW200 FM221400 33011KT P6SM SCT050 FM230100 30005KT P6SM BKN070 KSBA 220847Z 2209/2306 09006KT 6SM BR OVC004 FM221500 16005KT P6SM SCT007 FM222200 24008KT P6SM SKC FM230300 VRB03KT P6SM SKC KSBD 220520Z 2206/2306 VRB04KT P6SM FEW100 FM221900 26009KT P6SM FEW150 FM230400 VRB04KT P6SM FEW150 KSBN 220528Z 2206/2306 01008KT P6SM SCT080 BKN150 FM221500 36013G20KT P6SM SCT250 FM222300 36005KT P6SM SKC KSBP 220846Z 2209/2306 28005KT P6SM OVC003 FM221100 VRB03KT 2SM BR OVC003 FM221600 VRB03KT P6SM BKN008 FM221700 31010KT P6SM SKC FM230500 31005KT P6SM SKC KSBY 220520Z 2206/2306 22004KT P6SM SKC FM221600 23012G20KT P6SM SCT050 FM222100 22013G20KT P6SM BKN060 FM230000 24009KT 5SM SHRA BKN080 KSCK 220520Z 2206/2306 33009KT P6SM SKC KSDF 220857Z 2209/2312 VRB04KT P6SM SCT007 BKN040 OVC200 TEMPO 2210/2212 BKN007 FM221200 24005KT P6SM SCT008 BKN015 OVC040 FM221400 27009KT P6SM VCSH BKN018 OVC035 FM221700 32014KT P6SM -SHRA VCTS SCT025 OVC070CB FM222000 35014KT P6SM -SHRA SCT025 OVC070 FM222300 36010KT P6SM SCT040 OVC100 KSDL 220520Z 2206/2306 26009KT P6SM FEW120 SCT150 BKN250 FM220700 VRB05KT P6SM SCT150 BKN250 FM221700 24007KT P6SM FEW110 BKN150 BKN200 FM222100 25012G17KT P6SM SCT100 SCT150 BKN250 FM230400 15016G22KT P6SM BKN100 OVC150 KSDY 220520Z 2206/2306 VRB06KT P6SM SKC KSEA 220901Z 2209/2312 VRB03KT P6SM SCT250 FM221100 20004KT P6SM FEW250 FM221900 26008KT P6SM FEW250 FM230400 34005KT P6SM SCT250 KSEZ 220529Z 2206/2306 VRB05KT P6SM SCT120 FM222000 27011KT P6SM BKN120 FM230300 VRB05KT P6SM SCT120 KSFB 220544Z 2206/2306 00000KT P6SM BKN250 FM221400 15006KT P6SM SCT030 FM221900 12008KT P6SM VCTS SCT040CB BKN080 TEMPO 2220/2222 3SM TSRA BKN030CB FM230100 18003KT P6SM FEW040 BKN100 OVC250 KSFF 220520Z 2206/2306 02002KT P6SM SKC FM221500 06002KT P6SM VCSH SCT090 BKN250 FM221700 06003KT P6SM VCTS SCT090CB BKN250 FM222100 06005KT P6SM BKN120 BKN250 FM230400 04002KT P6SM FEW250 KSFO 220911Z 2209/2312 29009KT P6SM FEW003 FEW180 FM221000 28005KT P6SM OVC012 FM221600 32005KT P6SM FEW014 FM222100 29018KT P6SM FEW014 FM230300 28015KT P6SM FEW010 KSGF 221001Z 2210/2306 VRB05KT P6SM -RA OVC007 FM221100 36007KT 6SM -RA BR BKN007 OVC015 FM221600 01015G25KT P6SM BKN045 FM230300 01006KT P6SM FEW150 KSGJ 220520Z 2206/2306 23004KT P6SM SCT250 FM221500 14009KT P6SM SCT040 FM221700 12012KT P6SM VCTS FEW020CB SCT050 BKN090 FM222100 13012KT P6SM SCT070 BKN250 FM230100 19006KT P6SM BKN250 KSGR 220523Z 2206/2306 16005KT P6SM SCT015 SCT250 TEMPO 2206/2207 BKN016 FM221000 VRB03KT P6SM SCT015 FM221600 25006KT P6SM VCSH FEW015 SCT035 FM221900 VRB05KT P6SM VCTS BKN035CB BKN250 PROB30 2221/2224 VRB10G25KT TSRA FM230000 18009KT P6SM SCT040 BKN250 KSGU 220524Z 2206/2306 VRB05KT P6SM FEW200 FM222200 25010KT P6SM SCT200 FM230400 VRB04KT P6SM BKN200 KSHR 220522Z 2206/2306 VRB04KT P6SM SCT040 FM221800 13007KT P6SM FEW090 KSHV 220540Z 2206/2306 23005KT P6SM OVC300 TEMPO 2210/2214 BKN020 FM221400 26008KT P6SM SCT040 FM222100 27009KT P6SM VCTS BKN040CB FM230000 31008KT P6SM SCT050 BKN100 FM230300 01006KT P6SM OVC050 KSJC 220537Z 2206/2306 32008KT P6SM FEW003 SCT060 BKN100 FM221000 VRB03KT P6SM FEW015 FM221800 VRB03KT P6SM SKC FM222000 30010KT P6SM SKC FM230500 30005KT P6SM SKC KSJS 220538Z 2206/2306 00000KT P6SM BKN090 FM221900 23006KT 5SM -SHRA VCTS OVC045CB FM222300 VRB05KT 3SM -SHRA BR VCTS OVC014CB FM230500 VRB04KT P6SM OVC021 KSJT 220520Z 2206/2306 13008KT P6SM SKC FM221700 03012KT P6SM FEW050 SCT100 FM222100 06012KT P6SM VCTS SCT050CB FM230100 05012KT P6SM SCT050 KSKA 220300Z 2203/2309 06006KT 9999 SKC QNH2997INS BECMG 2215/2216 05006KT 9999 -SHRA SCT080 BKN120 QNH2995INS BECMG 2221/2222 03006KT 9999 NSW SCT120 BKN150 QNH2996INS TX32/2223Z TN15/2212Z KSKF 221055Z 2210/2316 VRB06KT 9999 SCT015 QNH2991INS TEMPO 2210/2214 OVC015 BECMG 2214/2215 12010KT 9999 SCT060 SCT150 QNH2984INS TEMPO 2300/2304 16015G25KT BECMG 2308/2309 34010G20KT 9999 VCSH BKN060 BKN250 QNH2994INS BECMG 2312/2313 03010G20KT 9999 NSW SCT060 QNH2999INS TX37/2222Z TN24/2211Z KSLC 220905Z 2209/2312 15009KT P6SM FEW100 FM221900 32008KT P6SM FEW150 FM230400 16007KT P6SM SCT150 FM231000 18011KT P6SM SCT100 BKN150 KSLE 220520Z 2206/2306 28006KT P6SM SKC FM220700 VRB03KT P6SM SKC FM221900 33005KT P6SM SKC KSLI 220500Z 2205/2311 25009KT 9999 FEW100 QNH2984INS BECMG 2211/2212 VRB06KT 9999 BKN015 BKN160 QNH2983INS BECMG 2217/2218 25009KT 9999 SCT150 QNH2989INS TX29/2223Z TN16/2214Z KSLK 220534Z 2206/2306 00000KT P6SM SCT100 TEMPO 2206/2209 3SM BR SCT002 FM221300 VRB03KT P6SM VCSH BKN090 FM222000 VRB03KT 6SM -RA BR SCT015 OVC035 FM230100 00000KT P6SM VCSH BKN040 KSLN 220520Z 2206/2306 01011KT P6SM SCT015 BKN030 FM221400 01012G18KT P6SM SKC KSME 220538Z 2206/2306 00000KT P6SM BKN120 FM220830 VRB03KT P6SM -SHRA VCTS BKN025CB FM230100 VRB05KT P6SM OVC013 KSMF 220520Z 2206/2306 18007KT P6SM SCT250 KSMN 220520Z 2206/2306 VRB05KT P6SM SKC FM221500 13006KT P6SM BKN120 KSMO 220539Z 2206/2306 VRB03KT P6SM BKN008 FM221600 24008KT P6SM SCT012 FM230400 VRB03KT P6SM SKC KSMX 220846Z 2209/2306 VRB03KT 2SM BR OVC002 FM221100 VRB03KT 1/2SM FG VV002 FM221600 VRB03KT 3SM BR BKN004 FM221800 30008KT P6SM SCT008 FM222200 30012KT P6SM SKC FM230300 VRB03KT 5SM BR BKN008 KSNA 220751Z 2208/2306 VRB04KT P6SM BKN009 FM221400 VRB05KT P6SM FEW015 FM221900 22008KT P6SM SCT200 FM230400 VRB04KT P6SM SCT250 KSNS 220537Z 2206/2306 33007KT P6SM OVC007 FM221800 30008KT P6SM SKC FM222100 29013KT P6SM SKC FM230200 30010KT P6SM SKC FM230400 31008KT P6SM OVC007 KSNY 220536Z 2206/2306 07011KT 6SM BR OVC008 FM221500 14010KT P6SM SCT005 BKN020 FM221900 16010KT P6SM SCT020 BKN050 FM230200 13010KT P6SM BKN050 KSOA 220520Z 2206/2306 11010KT P6SM SKC FM221900 09010KT P6SM FEW100 KSPI 220521Z 2206/2306 03006KT P6SM VCSH SCT030 BKN060 TEMPO 2206/2209 6SM -SHRA BKN030 FM221400 01010KT P6SM SCT150 FM230100 01004KT P6SM SKC KSPS 220520Z 2206/2306 15010KT P6SM BKN150 FM221000 02016G25KT P6SM SCT025 SCT150 TEMPO 2214/2217 BKN025 FM230100 05013KT P6SM SKC KSRQ 220527Z 2206/2306 09005KT P6SM FEW030 BKN200 FM221500 13006KT P6SM SCT030 SCT200 FM221700 24008KT P6SM VCTS SCT030CB SCT100 BKN200 FM222100 28007KT P6SM VCTS SCT030CB BKN100 BKN200 FM230200 VRB03KT P6SM FEW030 BKN200 KSSC 220700Z 2207/2313 21009KT 9999 SKC QNH2996INS BECMG 2217/2218 21010G15KT 9999 FEW045 QNH2993INS BECMG 2219/2220 21012G18KT 9999 VCTS SCT050CB QNH2992INS BECMG 2223/2224 20009KT 9999 NSW FEW150 SCT250 QNH2990INS TX35/2219Z TN25/2210Z KSSF 220536Z 2206/2306 14007KT P6SM SCT040 FM221000 VRB02KT P6SM BKN015 FM221400 17006KT P6SM SCT250 KSSI 220520Z 2206/2306 22006KT P6SM SCT250 FM222000 15011KT P6SM VCTS FEW020CB SCT050 BKN090 FM230100 19008KT P6SM SCT050 BKN250 KSTC 220520Z 2206/2306 35004KT P6SM SKC FM221600 33009KT P6SM FEW050 FM230100 31005KT P6SM SKC KSTJ 220520Z 2206/2306 01008KT P6SM FEW015 FEW030 OVC100 FM220700 03008KT P6SM FEW015 FM221300 01010G18KT P6SM FEW200 FM230000 01009KT P6SM FEW200 KSTL 220946Z 2210/2312 06007KT 5SM -TSRA BKN030CB OVC080 TEMPO 2210/2212 2SM TSRA OVC015CB FM221200 01008KT P6SM VCSH OVC035 FM221800 01011G18KT P6SM SCT040 BKN120 FM230100 01009KT P6SM SKC KSTS 220537Z 2206/2306 16004KT P6SM SKC FM221000 00000KT P6SM SKC TEMPO 2212/2216 3SM BR OVC004 FM221630 16005KT P6SM SCT008 FM221800 17008KT P6SM SKC FM230400 15005KT P6SM SKC KSUA 220544Z 2206/2306 00000KT P6SM SCT250 FM221400 11008KT P6SM SCT025 FM221700 10010KT P6SM VCTS SCT030CB BKN080 FM222000 10008KT P6SM SCT025 BKN250 FM230200 12003KT P6SM FEW020 BKN250 KSUN 220520Z 2206/2312 32010KT P6SM FEW110 FM221600 14006KT P6SM SCT150 BKN250 FM222100 15008KT P6SM SCT100 FM230400 32010KT P6SM SCT150 LTD TO CLD VIS AND WIND TIL 221300 KSUS 220947Z 2210/2306 04006KT 5SM -TSRA BKN030CB OVC080 TEMPO 2210/2212 2SM TSRA OVC015CB FM221200 01008KT P6SM VCSH OVC035 FM221800 01011G18KT P6SM SCT040 BKN120 FM230100 01009KT P6SM SKC KSUU 220500Z 2205/2309 23012G18KT 9999 SKC QNH2984INS BECMG 2222/2223 23015G25KT 9999 SKC QNH2983INS TX35/2222Z TN14/2212Z KSUX 220520Z 2206/2306 36006KT P6SM SCT120 FM220700 36006KT P6SM FEW250 FM222100 01010KT P6SM FEW040 FM230100 01005KT P6SM SKC KSVN 220945Z 2209/2310 19009KT 9999 FEW060 QNH2997INS TEMPO 2218/2222 16009KT 9000 -TSRA BKN040CB BECMG 2306/2307 20009KT 9999 SCT040 QNH2996INS TX31/2219Z TN23/2211Z KSWF 220832Z 2209/2312 VRB05KT P6SM FEW150 SCT250 FM221300 05005KT P6SM BKN050 BKN100 FM221700 VRB04KT 3SM SHRA BR OVC025 FM222000 02010KT 3SM SHRA BR BKN015 OVC025 FM230000 05006KT 3SM SHRA BR OVC008 FM230600 35010KT 2SM SHRA BR OVC005 NOT SKED KSYM 220538Z 2206/2306 00000KT P6SM VCSH BKN070 FM220730 29006KT 5SM -SHRA BR BKN025 FM220900 19005KT P6SM SCT040 FM221400 28006KT P6SM VCTS OVC035CB FM222000 32006KT 4SM -TSRA BR OVC025CB FM230000 VRB05KT P6SM OVC027 KSYR 220832Z 2209/2306 24004KT P6SM SCT100 FM221400 26004KT P6SM -SHRA OVC035 FM221600 05003KT 5SM -SHRA OVC025 FM230300 30004KT P6SM BKN035 KSZL 220837Z 2208/2309 03010G15KT 9999 -RA BKN007 QNH2996INS BECMG 2209/2210 03010G15KT 9999 NSW FEW050 SCT100 QNH3001INS BECMG 2222/2223 01010G15KT 9999 SKC QNH3010INS TX30/2221Z TN20/2309Z KTCC 220534Z 2206/2306 02015KT P6SM VCTS OVC100CB FM220900 04015G22KT P6SM VCSH OVC040 FM221200 05015KT P6SM VCSH OVC025 FM221800 07012KT P6SM VCSH OVC060 FM222300 06007KT P6SM BKN070 KTCL 220904Z 2209/2306 00000KT P6SM SCT100 SCT250 FM221100 00000KT P6SM SCT008 OVC020 TEMPO 2212/2213 4SM BR BCFG SCT007 OVC015 FM221500 22005KT P6SM SCT030 SCT250 FM222000 22008KT P6SM VCSH SCT030 BKN250 PROB30 2222/2304 2SM TSRA BKN030CB KTCM 220500Z 2205/2311 23006KT 9999 SKC QNH2992INS BECMG 2305/2306 VRB06KT 9999 BKN015 QNH3004INS TX26/2300Z TN12/2213Z KTCS 220520Z 2206/2306 36007KT P6SM SCT100 BKN200 FM221500 04012G20KT P6SM SCT090 BKN150 FM222100 10011G20KT P6SM VCTS SCT070CB BKN140 OVC220 KTEB 220832Z 2209/2312 VRB04KT P6SM SCT050 BKN150 FM221400 08005KT P6SM BKN050 FM221700 11006KT P6SM VCSH SCT030 BKN050 FM222000 VRB04KT 3SM SHRA BR BKN025 FM230000 01005KT 4SM -SHRA BR OVC015 FM230900 33014KT 2SM SHRA BR OVC009 KTEX 220533Z 2206/2306 14006KT P6SM FEW150 FM221800 26007KT P6SM VCSH SCT100 FM230100 VRB04KT P6SM SCT100 FM230500 13006KT P6SM BKN200 KTIK 220900Z 2209/2315 01009KT 9999 FEW015 SCT080 QNH2991INS BECMG 2213/2214 01012G18KT 9999 OVC020 QNH3008INS BECMG 2217/2218 02012G18KT 9999 BKN040 QNH3006INS BECMG 2301/2302 04009KT 9999 FEW050 QNH3012INS BECMG 2305/2306 VRB06KT 9999 SKC QNH3016INS TX29/2221Z TN22/2212Z KTIX 220921Z 2209/2306 00000KT P6SM SKC FM221400 14006KT P6SM SCT025 FM221800 12008KT P6SM VCTS SCT030CB BKN080 FM222100 11008KT P6SM FEW030 BKN250 FM230100 15003KT P6SM BKN250 NOT SKED TIL 221100 KTLH 220520Z 2206/2306 VRB03KT P6SM SCT250 FM221800 22006KT 4SM -TSRA BKN040CB FM222100 18006KT P6SM VCSH BKN040 FM230100 VRB03KT P6SM SCT040 KTMB 220846Z 2209/2306 VRB03KT P6SM SKC FM221400 08008KT P6SM SCT035 FM221700 08010KT P6SM VCTS SCT030CB BKN120 PROB30 2218/2224 TSRA BKN035CB FM230000 VRB03KT P6SM VCSH SCT030 BKN120 KTOI 220906Z 2209/2306 00000KT 4SM BR OVC020 TEMPO 2211/2213 1SM BR BKN007 FM221500 24005KT P6SM SCT030 SCT250 FM222000 24006KT P6SM VCSH SCT030 SCT250 PROB30 2220/2301 4SM TSRA BKN030CB KTOL 220816Z 2208/2306 36005KT P6SM VCSH BKN035 TEMPO 2209/2212 BKN025 FM221200 01009KT P6SM BKN070 FM221800 36010KT P6SM BKN150 KTOP 220520Z 2206/2306 02008KT P6SM SCT015 BKN035 TEMPO 2206/2209 BKN015 FM220900 36011KT P6SM BKN060 FM221400 01011KT P6SM SCT250 KTPA 220853Z 2208/2312 VRB03KT P6SM FEW030 BKN200 FM221500 16006KT P6SM SCT030 SCT200 FM221800 24007KT P6SM VCTS SCT030CB BKN200 FM222100 31007KT P6SM VCTS SCT030CB BKN100 BKN200 FM230200 VRB03KT P6SM FEW030 BKN200 KTPH 220521Z 2206/2306 VRB06KT P6SM SKC FM221900 19015G25KT P6SM SCT150 SCT300 FM230300 19010G18KT P6SM FEW150 SCT250 KTRI 221013Z 2210/2306 00000KT P6SM VCTS BKN020 OVC028CB TEMPO 2210/2212 23012G20KT 1SM +TSRA FEW015 OVC020CB FM221230 23004KT P6SM BKN025 FM221500 23008KT P6SM VCTS SCT030CB BKN120 PROB30 2221/2301 4SM -TSRA BKN025CB FM230100 VRB04KT 5SM -SHRA BR BKN025 PROB30 2301/2306 2SM TSRA BR OVC020CB KTRK 220543Z 2206/2306 VRB03KT P6SM SCT140 FM222200 23014G21KT P6SM VCTS SCT080CB SCT150 FM230000 23014G21KT P6SM BKN150 FM230300 24008G15KT P6SM BKN150 FM230400 22004KT P6SM BKN150 KTRM 220520Z 2206/2306 34007KT P6SM SKC FM220900 VRB04KT P6SM SKC FM222000 14010KT P6SM FEW150 FM230400 33007KT P6SM SCT250 KTTD 220520Z 2206/2306 32005KT P6SM SKC KTTN 220521Z 2206/2306 VRB05KT P6SM FEW120 BKN200 FM221800 24008KT P6SM SHRA VCTS SCT040 OVC060CB FM230000 35004KT 4SM SHRA BR SCT015 OVC030 KTUL 220520Z 2206/2306 VRB15KT P6SM VCTS SCT030 BKN060CB BKN120 TEMPO 2206/2207 4SM -TSRA SCT025 BKN040CB FM220900 35011KT P6SM BKN015 FM221300 35013KT P6SM BKN025 BKN035 FM221900 01015G22KT P6SM SCT040 FM230100 01008KT P6SM FEW250 KTUP 221002Z 2210/2306 19004KT P6SM SCT080 FM221500 26006KT P6SM BKN025 FM222200 31010KT P6SM -TSRA BKN025CB FM230200 04005KT 3SM BR VCTS BKN020CB KTUS 220540Z 2206/2306 16006KT P6SM SCT120 BKN250 FM221900 31008KT P6SM SCT100 SCT250 FM222200 34006KT P6SM VCTS SCT100CB BKN250 PROB30 2223/2301 VRB15G35KT 4SM -TSRA BKN100CB FM230200 04010KT P6SM VCSH BKN100 KTVC 220520Z 2206/2306 VRB03KT P6SM BKN120 FM221200 VRB03KT P6SM SCT250 FM221900 34010G18KT P6SM SKC FM222200 34010KT P6SM SKC FM230200 31006KT P6SM SKC KTVF 220520Z 2206/2306 VRB03KT P6SM SKC FM221800 32006KT P6SM SCT050 FM230200 00000KT P6SM SKC KTVL 220543Z 2206/2306 VRB03KT P6SM SCT140 FM221700 03006KT P6SM FEW080 FM222200 20010G18KT P6SM VCTS SCT080CB SCT150 FM230000 20011G17KT P6SM BKN150 FM230300 20004KT P6SM BKN150 KTWF 220520Z 2206/2306 16008KT P6SM SCT250 FM230300 20012KT P6SM OVC250 KTXK 220540Z 2206/2306 21003KT P6SM SKC FM221600 26010KT P6SM SCT040 FM222000 31010G17KT P6SM VCTS BKN040CB FM230200 35008KT P6SM BKN100 FM230300 02006KT P6SM OVC025 KTYR 220540Z 2206/2306 18006KT P6SM SKC TEMPO 2211/2215 BKN020 FM221500 24008KT P6SM SCT040 FM222000 33010KT P6SM VCTS SCT040CB FM230200 01007KT P6SM BKN100 KTYS 220526Z 2206/2306 22007KT P6SM BKN060 OVC100 TEMPO 2206/2208 -SHRA SCT030 BKN040 FM221100 22005KT P6SM VCSH SCT020 BKN040 FM221500 23010KT P6SM VCTS SCT035CB BKN120 PROB30 2220/2224 4SM TSRA OVC025CB FM230000 26006KT P6SM -SHRA OVC035 PROB30 2300/2306 3SM TSRA BR BKN020CB KUAO 220520Z 2206/2306 VRB04KT P6SM SKC KUES 220520Z 2206/2306 05005KT P6SM SCT060 OVC180 FM220900 04005KT P6SM BKN060 OVC150 FM221500 02009KT P6SM SCT070 SCT200 FM221800 01010G17KT P6SM SCT250 FM230100 VRB04KT P6SM FEW250 KUIN 220520Z 2206/2306 02008KT P6SM VCSH OVC035 TEMPO 2206/2210 5SM -SHRA OVC025 FM221200 02008KT P6SM SCT040 BKN120 FM221800 02012G18KT P6SM SCT050 BKN250 FM230100 01008KT P6SM SKC KUKI 220520Z 2206/2306 VRB03KT P6SM SKC FM222300 30009KT P6SM SKC KUNV 221024Z 2210/2306 VRB03KT P6SM VCSH SCT030 BKN150 TEMPO 2210/2211 1SM +SHRA BR OVC025 FM221300 VRB04KT 2SM SHRA BR OVC025 FM221500 33006KT 5SM -SHRA BR OVC015 KUTS 220523Z 2206/2306 VRB04KT P6SM SCT250 FM220800 22003KT P6SM SCT025 TEMPO 2210/2213 BKN017 FM221500 24008KT P6SM SCT025 BKN250 FM222300 VRB04KT P6SM VCSH SCT040 OVC250 FM230200 VRB05KT P6SM VCTS BKN040CB BKN080 OVC250 PROB30 2303/2306 01010G15KT TSRA KVAD 220800Z 2208/2314 24004KT 9999 FEW250 QNH3001INS BECMG 2219/2220 24006KT 8000 -SHRA BKN040 BKN150 QNH2997INS TEMPO 2220/2223 24015G25KT 4800 -TSRA BKN025CB BECMG 2301/2302 24004KT 9999 NSW SCT040 SCT150 BKN250 QNH2997INS BECMG 2306/2307 24004KT 9999 FEW250 QNH2997INS TX32/2220Z TN22/2308Z KVCT 220522Z 2206/2306 14009KT P6SM FEW020 BKN250 TEMPO 2209/2213 5SM BR BKN015 FM221400 20006KT P6SM SCT025 BKN150 PROB30 2218/2222 -SHRA KVEL 220533Z 2206/2306 29005KT P6SM SKC FM221200 01006KT P6SM FEW250 FM222000 34007KT P6SM BKN100 FM222300 30005KT P6SM FEW250 KVGT 220520Z 2206/2306 23008KT P6SM SCT250 FM220900 35006KT P6SM BKN250 FM221700 15009KT P6SM FEW150 BKN250 FM230200 21008KT P6SM FEW100 SCT150 BKN200 KVIS 220525Z 2206/2306 29005KT P6SM FEW120 KVLD 220520Z 2206/2306 VRB03KT P6SM SCT250 FM221900 22005KT P6SM VCTS BKN040CB FM222100 VRB04KT P6SM SCT040 KVNY 220539Z 2206/2306 10005KT P6SM SKC FM220800 VRB03KT P6SM SKC FM222000 14008KT P6SM SKC FM230400 10005KT P6SM SKC KVOK 220900Z 2209/2315 VRB06KT 9999 BKN085 QNH3005INS BECMG 2214/2215 36012G18KT 9999 SCT050 QNH3015INS BECMG 2220/2221 36012KT 9999 BKN060 QNH3010INS WND 33009KT AFT 2300 BECMG 2302/2303 VRB06KT 9999 SCT050 QNH3015INS TX23/2220Z TN15/2211Z KVPS 220900Z 2209/2315 01007KT 9999 FEW020 SCT090 SCT250 QNH2996INS BECMG 2212/2213 15009KT 9999 VCSH SCT025 SCT090 BKN250 QNH3003INS BECMG 2213/2214 19010KT 9999 VCTS SCT030CB BKN090 BKN250 QNH2997INS TEMPO 2214/2217 20012G18KT 8000 -TSRA BKN030CB BKN250 BECMG 2218/2219 22009KT 9999 NSW FEW030 SCT090 BKN250 QNH2995INS BECMG 2300/2301 22006KT 9999 FEW025 FEW090 SCT250 QNH3000INS BECMG 2307/2308 22006KT 8000 -SHRA BKN025 QNH2994INS TX32/2219Z TN24/2210Z KVQQ 220520Z 2206/2306 00000KT 5SM BR FEW002 SCT250 FM220800 00000KT 3SM BR SCT002 FM221200 19004KT P6SM SCT050 FM221900 13009KT P6SM VCTS FEW020CB SCT050 BKN090 FM230100 19004KT P6SM SCT050 BKN250 KVRB 220544Z 2206/2306 00000KT P6SM SCT250 FM221400 10007KT P6SM SCT025 FM221700 09008KT P6SM VCTS SCT030CB BKN080 FM222000 10008KT P6SM FEW030 BKN250 FM230100 13003KT P6SM FEW022 BKN250 KVTN 220531Z 2206/2306 04004KT P6SM SCT100 FM222300 08008KT P6SM FEW200 FM230000 10006KT P6SM SKC KWJF 220539Z 2206/2306 24008KT P6SM SKC FM222200 23015G22KT P6SM SCT100 FM230300 26015KT P6SM SCT100 KWMC 220521Z 2206/2306 VRB06KT P6SM FEW150 SCT250 FM222100 25010G18KT P6SM VCTS SCT130CB SCT250 FM230300 25009KT P6SM VCTS BKN140CB KWRB 220500Z 2205/2311 VRB06KT 9999 FEW065 QNH2991INS BECMG 2308/2309 VRB06KT 9999 BKN010 QNH2992INS TX34/2219Z TN22/2211Z KWRI 221000Z 2210/2316 VRB04KT 9999 FEW070 SCT130 QNH2979INS BECMG 2217/2218 25010G15KT 9000 -SHRA BKN045 QNH2971INS TEMPO 2220/2224 27015G25KT 6000 TSRA BKN020CB BECMG 2311/2312 24006KT 9999 NSW SCT050 BKN070 QNH2975INS TX31/2219Z TN21/2306Z KWRL 220533Z 2206/2306 11007KT P6SM SCT120 FM221200 VRB04KT P6SM SCT120 FM222300 VRB10G15KT P6SM VCTS SCT100CB BKN150 FM230200 12007KT P6SM SCT120 KWWR 220520Z 2206/2306 03014G22KT P6SM SCT025 BKN250 TEMPO 2208/2212 BKN025 FM222300 06010KT P6SM SCT250 KWYS 220523Z 2206/2306 00000KT P6SM SKC FM221800 22007KT P6SM VCTS FEW080CB FEW250 FM230100 VRB05KT P6SM FEW080 FEW250 KXNA 220520Z 2206/2306 VRB12KT P6SM VCTS SCT025 BKN060CB BKN120 TEMPO 2206/2209 2SM TSRA BKN025 BKN040CB FM221000 32011KT P6SM VCSH BKN015 FM221700 01014KT P6SM SCT015 BKN025 FM222000 01015G21KT P6SM SCT030 SCT045 FM230100 01008KT P6SM FEW250 KYIP 220528Z 2206/2306 03006KT P6SM BKN100 OVC250 FM221500 36009KT P6SM BKN250 FM230000 34006KT P6SM SCT250 KYKM 220520Z 2206/2306 25005KT P6SM SKC FM220900 25005KT P6SM FEW150 FM221700 VRB05KT P6SM FEW150 FM230300 27006KT P6SM SCT150 KYNG 220819Z 2208/2306 04005KT P6SM VCSH SCT040 BKN100 TEMPO 2210/2212 6SM -SHRA OVC025 FM221200 01007KT P6SM OVC030 FM221800 35008KT P6SM OVC040 FM222100 34006KT P6SM BKN100 KZZV 220806Z 2208/2306 34004KT P6SM -RA BKN015 FM221500 22008KT 4SM -RA VCTS BKN010CB FM221900 36003KT P6SM VCSH BKN035 L 220440Z 2206/2306 VRB02KT 9999 SCT035 BECMG 2207/2209 21012KT BECMG 2216/2218 VRB02KT LATI 220500Z 2206/2306 VRB03KT CAVOK TEMPO 2210/2217 34010KT FEW040 LBBG 220500Z 2206/2306 VRB04KT CAVOK BECMG 2208/2210 12012KT BECMG 2218/2220 VRB04KT LBGO 220500Z 2206/2306 VRB04KT CAVOK TEMPO 2214/2219 VRB16G26KT 5000 TSRA SCT040CB SCT050 BECMG 2218/2220 28010KT LBPD 220500Z 2206/2306 VRB04KT CAVOK PROB40 TEMPO 2215/2220 TSRA FEW040CB SCT060 BECMG 2219/2221 28014KT LBSF 220500Z 2206/2306 VRB04KT CAVOK PROB40 TEMPO 2212/2221 TSRA FEW040CB SCT050 LBWN 220500Z 2206/2306 VRB04KT CAVOK BECMG 2208/2210 12012KT BECMG 2218/2220 VRB04KT LCLK 220530Z 2206/2306 20007KT 9999 FEW025 BECMG 2209/2212 22017KT BECMG 2218/2221 32006KT LCPH 220530Z 2206/2306 34007KT 9999 FEW020 BECMG 2208/2211 28012KT BECMG 2216/2220 35009KT LCRA 220720Z 2209/2303 25010KT CAVOK BECMG 2300/2303 07005KT LDDU 220525Z 2206/2306 09005KT CAVOK TX30/2212Z TN23/2303Z BECMG 2212/2214 29008KT PROB30 TEMPO 2213/2216 TS FEW040CB BECMG 2217/2219 02020KT PROB40 TEMPO 2218/2301 02020G35KT LDOS 220525Z 2206/2306 32010KT CAVOK TX31/2214Z TN18/2303Z LDPL 220525Z 2206/2306 05008KT CAVOK TX31/2212Z TN20/2303Z TEMPO 2207/2211 06012KT BECMG 2212/2214 28008KT BECMG 2218/2220 06005KT LDRI 220525Z 2206/2306 03006KT CAVOK TX32/2213Z TN22/2303Z TEMPO 2210/2217 32006KT LDSP 220525Z 2206/2306 VRB02KT CAVOK TX33/2213Z TN22/2303Z PROB30 TEMPO 2209/2216 23008KT PROB30 TEMPO 2211/2216 TSRA FEW040CB TEMPO 2218/2222 05007KT LDZA 220525Z 2206/2306 VRB02KT CAVOK TX31/2214Z TN18/2303Z TEMPO 2208/2216 05006KT LDZD 220525Z 2206/2306 03005KT CAVOK TX34/2213Z TN20/2304Z TEMPO 2207/2211 04008KT TEMPO 2211/2217 32008KT BECMG 2217/2219 04008KT LEAL 220500Z 2206/2306 06009KT 9999 FEW040 TX34/2212Z TN23/2206Z BECMG 2206/2208 08015KT TEMPO 2209/2217 07015G25KT BECMG 2219/2221 06007KT LEAM 221018Z 2210/2309 08022KT CAVOK TX37/2214Z TN25/2305Z PROB40 TEMPO 2210/2219 06024G34KT BECMG 2219/2222 33009KT BECMG 2307/2309 08018KT LEAS 220800Z 2209/2309 08010KT 9999 FEW010 BKN025 TX25/2213Z TN17/2303Z PROB40 TEMPO 2215/2221 TSRA SCT030CB BECMG 2216/2218 VRB05KT TEMPO 2216/2218 02015KT PROB40 TEMPO 2221/2309 3000 BR PROB30 TEMPO 2302/2309 1500 BCFG LEBB 220500Z 2206/2306 VRB04KT 9999 SCT030 TX27/2214Z TN20/2206Z TEMPO 2212/2219 36011KT PROB30 TEMPO 2216/2222 TSRA SCT030CB LEBL 220857Z 2208/2306 VRB03KT CAVOK TX32/2212Z TN24/2306Z BECMG 2209/2211 19008KT BECMG 2218/2220 VRB03KT TEMPO 2222/2306 32006KT LEBZ 220500Z 2206/2306 28005KT CAVOK TX39/2216Z TN20/2206Z LECH 220500Z 2206/2306 VRB03KT 9999 FEW040 TX30/2212Z TN19/2206Z BECMG 2210/2212 14010KT BECMG 2218/2221 VRB03KT LECO 220800Z 2209/2309 VRB05KT 9999 SCT015 TX27/2214Z TN17/2302Z PROB40 TEMPO 2212/2220 33010KT TEMPO 2222/2309 3000 BR TEMPO 2300/2309 BKN005 PROB40 TEMPO 2300/2308 1500 BCFG BKN010 PROB30 TEMPO 2301/2307 0800 FG BKN003 LEDA 220800Z 2209/2309 10005KT 9999 FEW040 TX40/2215Z TN22/2305Z BECMG 2209/2211 16010KT TEMPO 2214/2219 17015G25KT FEW040TCU BECMG 2220/2222 08007KT LEGE 220500Z 2206/2306 VRB03KT 9999 FEW030 TX31/2212Z TN19/2206Z BECMG 2212/2214 18010KT PROB30 TEMPO 2214/2220 FEW040TCU BECMG 2218/2221 VRB03KT LEGR 220800Z 2209/2309 VRB03KT 9999 FEW075 TX39/2215Z TN21/2305Z BECMG 2212/2214 16016KT PROB40 TEMPO 2215/2219 16018G28KT BECMG 2222/2224 VRB03KT LEHC 220800Z 2209/2309 12010KT 9999 FEW040 TX38/2215Z TN21/2305Z TEMPO 2215/2219 14015G25KT BECMG 2220/2222 08012KT BECMG 2303/2304 09006KT LEIB 220906Z 2209/2309 06015KT 9999 FEW030 TX32/2212Z TN24/2305Z BECMG 2219/2221 04009KT LEJR 220500Z 2206/2306 06006KT CAVOK TX38/2214Z TN22/2206Z BECMG 2210/2213 16010KT BECMG 2215/2217 25010KT BECMG 2218/2221 VRB02KT LELC 220500Z 2206/2306 05015KT 9999 FEW015 TX30/2213Z TN24/2305Z PROB40 TEMPO 2210/2217 06016G26KT BECMG 2219/2222 35008KT LELL 220800Z 2209/2309 VRB03KT 9999 FEW030 TX35/2213Z TN20/2305Z BECMG 2211/2213 15010KT PROB30 2214/2217 FEW040TCU BECMG 2218/2220 VRB03KT LEMD 220500Z 2206/2312 VRB05KT CAVOK TX39/2215Z TN23/2305Z BECMG 2208/2210 16010KT PROB30 TEMPO 2219/2301 16015G25KT LEMG 220500Z 2206/2306 VRB03KT 9999 FEW025 TX31/2213Z TN23/2206Z BECMG 2207/2210 15009KT BECMG 2220/2223 29006KT PROB40 TEMPO 2301/2304 VRB03KT LEMH 220800Z 2209/2309 VRB03KT 9999 FEW030 TX32/2212Z TN23/2305Z BECMG 2209/2210 07012KT BECMG 2219/2221 04007KT LEMI 220500Z 2206/2306 01009KT 9999 FEW035 TX32/2213Z TN24/2206Z BECMG 2206/2209 07014KT BECMG 2219/2222 35009KT LEPA 220500Z 2206/2306 05005KT CAVOK TX37/2212Z TN22/2206Z BECMG 2209/2211 11010KT TEMPO 2210/2214 23012KT BECMG 2219/2221 05004KT LEPP 220800Z 2209/2309 VRB05KT 9999 FEW015 SCT035 TX38/2216Z TN23/2305Z TEMPO 2210/2218 15010KT BECMG 2305/2307 16013KT LERS 220800Z 2209/2309 VRB03KT 9999 FEW030 TX34/2213Z TN22/2305Z BECMG 2210/2212 18009KT BECMG 2218/2220 VRB03KT LESA 220709Z 2207/2306 VRB05KT CAVOK TX35/2215Z TN16/2305Z TEMPO 2212/2223 FEW040TCU TEMPO 2214/2222 VRB15G25KT 4000 TSRA SCT040CB LESO 220500Z 2206/2306 21004KT 9999 SCT030 TX28/2215Z TN21/2305Z TEMPO 2211/2217 01010KT LEST 220500Z 2206/2306 02008KT 9999 FEW015 TX31/2214Z TN15/2206Z TEMPO 2206/2207 3000 BR BKN005 PROB40 TEMPO 2206/2207 0800 FG LESU 220800Z 2209/2309 VRB03KT 9999 FEW060 TX34/2215Z TN18/2305Z BECMG 2212/2214 19010KT PROB40 TEMPO 2211/2218 19020KT 4000 TSRA SCT040CB BKN050 BECMG 2219/2221 VRB03KT LETO 220500Z 2206/2306 VRB05KT CAVOK TX39/2215Z TN22/2305Z BECMG 2208/2210 16010KT PROB30 TEMPO 2219/2301 16015G25KT LEVC 220500Z 2206/2306 VRB03KT CAVOK TX32/2213Z TN22/2206Z BECMG 2210/2212 10010KT BECMG 2218/2221 VRB03KT LEVD 220500Z 2206/2306 VRB05KT CAVOK TX35/2215Z TN17/2305Z TEMPO 2214/2220 FEW040TCU PROB30 TEMPO 2216/2220 VRB15G25KT 4000 TSRA SCT040CB LEVT 220500Z 2206/2306 VRB05KT 9999 SCT015 TX38/2216Z TN18/2206Z TEMPO 2206/2208 BKN010 TEMPO 2214/2219 03010KT PROB30 TEMPO 2218/2224 TSRA SCT030CB LEVX 220500Z 2206/2306 VRB04KT CAVOK TX29/2214Z TN17/2206Z TEMPO 2212/2219 28010KT LEXJ 220800Z 2209/2309 VRB05KT 9999 FEW030 TX31/2309Z TN20/2305Z TEMPO 2210/2216 05010KT PROB30 TEMPO 2214/2222 TSRA SCT030CB LEZG 220500Z 2206/2306 VRB03KT 9999 FEW040 TX38/2212Z TN23/2206Z BECMG 2210/2212 10010KT PROB30 TEMPO 2215/2219 FEW040CB LEZL 220800Z 2209/2309 VRB03KT CAVOK TX38/2216Z TN23/2305Z BECMG 2216/2219 21011KT BECMG 2300/2302 VRB03KT LFBC 220800Z 2209/2309 22003KT CAVOK BECMG 2213/2214 32010KT BECMG 2218/2220 04010KT BECMG 2220/2224 VRB03KT PROB30 TEMPO 2303/2306 SCT100TCU TEMPO 2306/2309 SCT100TCU LFBD 220500Z 2206/2312 05005KT CAVOK TX40/2312Z TN20/2206Z= LFBE 220500Z 2206/2306 VRB03KT CAVOK LFBE 220500Z 2206/2306 VRB03KT CAVOK= LFBI 220500Z 2206/2306 02005KT CAVOK LFBG 220800Z 2209/2309 08005KT CAVOK= LFOC 220800Z 2209/2309 VRB02KT CAVOK LFBH 220500Z 2206/2306 01008KT CAVOK BECMG 2213/2215 30012KT BECMG 2220/2222 01010KT BECMG 2301/2303 08010KT LFBI 220500Z 2206/2306 02005KT CAVOK= LFLB 220500Z 2206/2306 VRB02KT CAVOK BECMG 2209/2211 34010KT BECMG 2220/2222 VRB03KT LFBL 220500Z 2206/2306 07005KT CAVOK BECMG 2300/2302 VRB02KT LFBO 220500Z 2206/2312 VRB02KT CAVOK BECMG 2210/2212 07005KT BECMG 2220/2221 14008KT TEMPO 2302/2305 VRB02KT LFBP 220500Z 2206/2306 VRB03KT CAVOK TEMPO 2212/2218 09010KT LFBT 220500Z 2206/2306 VRB02KT CAVOK LFBU 220500Z 2206/2306 04005KT CAVOK= LFOH 220500Z 2206/2306 15004KT CAVOK LFBZ 220730Z 2207/2306 VRB02KT CAVOK TEMPO 2207/2209 BKN050TCU TEMPO 2210/2212 09010KT TEMPO 2221/2301 26012KT PROB30 TEMPO 2222/2224 27015G25KT LFCR 220500Z 2206/2306 VRB02KT CAVOK TEMPO 2212/2218 29005KT BECMG 2218/2220 VRB03KT BECMG 2300/2302 12005KT LFJL 220500Z 2206/2306 30005KT CAVOK LFKB 220800Z 2209/2309 06010KT CAVOK TX30/2212Z TN22/2304Z BECMG 2218/2220 24004KT BECMG 2308/2309 04010KT LFKC 220800Z 2209/2309 35010KT CAVOK TX31/2211Z TN20/2303Z BECMG 2218/2220 18004KT BECMG 2308/2309 35010KT LFKF 220800Z 2209/2309 22010KT CAVOK BECMG 2216/2218 06008KT LFKJ 220800Z 2209/2309 22010KT CAVOK BECMG 2218/2220 06004KT BECMG 2308/2309 23010KT LFKS 220800Z 2209/2309 11005KT CAVOK= LFMY 220800Z 2209/2309 28003KT CAVOK BECMG 2210/2212 20012KT BECMG 2218/2220 VRB02KT LFLB 220500Z 2206/2306 VRB02KT CAVOK BECMG 2209/2211 34010KT BECMG 2220/2222 VRB03KT LFLC 220800Z 2209/2309 VRB03KT CAVOK TEMPO 2215/2217 05005KT LFLL 220500Z 2206/2312 36005KT CAVOK LFLP 220800Z 2209/2309 VRB02KT CAVOK BECMG 2210/2212 33007KT BECMG 2220/2222 VRB03KT LFLS 220800Z 2209/2309 VRB03KT CAVOK BECMG 2209/2211 36006KT BECMG 2219/2222 09005KT LFLX 220500Z 2206/2312 06006KT CAVOK LFLY 220500Z 2206/2306 36007KT CAVOK LFMD 220800Z 2209/2309 16010KT CAVOK BECMG 2219/2221 VRB03KT PROB30 TEMPO 2300/2307 BKN013 BECMG 2307/2309 16010KT LFMH 220800Z 2209/2309 VRB03KT CAVOK TEMPO 2216/2217 35005KT LFMI 220800Z 2209/2309 VRB03KT CAVOK BECMG 2210/2212 20015KT TEMPO 2216/2221 FEW010 BECMG 2218/2220 VRB05KT TEMPO 2302/2305 02005KT LFMK 220800Z 2209/2309 VRB02KT CAVOK BECMG 2210/2212 09010KT LFML 220800Z 2209/2315 26007KT CAVOK TX33/2212Z TN21/2303Z BECMG 2211/2212 20013KT TEMPO 2216/2218 FEW010 BECMG 2218/2220 VRB03KT BECMG 2307/2309 26007KT LFMN 220800Z 2209/2315 14006KT 9999 FEW016 TEMPO 2213/2217 FEW050TCU BECMG 2219/2221 VRB05KT PROB30 TEMPO 2300/2307 BKN013 BECMG 2307/2309 14005KT LFMO 220800Z 2209/2309 VRB02KT CAVOK BECMG 2210/2212 34012KT BECMG 2218/2220 18012KT BECMG 2300/2302 VRB02KT LFMP 220800Z 2209/2309 07005KT CAVOK LFMT 220800Z 2209/2309 VRB02KT CAVOK BECMG 2210/2212 21012KT BECMG 2220/2222 VRB02KT PROB30 2222/2305 BKN006 LFMU 220800Z 2209/2309 VRB03KT CAVOK BECMG 2209/2211 18010KT BECMG 2220/2222 07007KT PROB30 TEMPO 2300/2305 BKN006 LFMV 220800Z 2209/2309 VRB03KT CAVOK BECMG 2214/2216 21015KT BECMG 2218/2220 16008KT BECMG 2220/2222 VRB03KT LFMY 220800Z 2209/2309 28003KT CAVOK BECMG 2210/2212 20012KT BECMG 2218/2220 VRB02KT LFOA 220800Z 2209/2309 05005KT CAVOK LFOB 220500Z 2206/2306 VRB02KT CAVOK LFOC 220800Z 2209/2309 VRB02KT CAVOK LFOE 220800Z 2209/2309 15003KT CAVOK LFOH 220500Z 2206/2306 15004KT CAVOK LFOJ 220800Z 2209/2309 VRB02KT CAVOK LFOK 220500Z 2206/2306 03005KT CAVOK LFOP 220500Z 2206/2306 13005KT CAVOK LFOT 220500Z 2206/2306 07005KT CAVOK LFPB 220500Z 2206/2306 VRB03KT CAVOK LFPG 220500Z 2206/2312 VRB03KT CAVOK TX35/2312Z TN19/2306Z BECMG 2307/2309 09010KT LFPO 220500Z 2206/2312 VRB03KT CAVOK BECMG 2210/2212 08005KT LFPV 220800Z 2209/2309 18004KT CAVOK LFQQ 220500Z 2206/2312 21005KT CAVOK BECMG 2220/2222 VRB02KT BECMG 2303/2306 07007KT LFRB 220500Z 2206/2312 24005KT 9000 BKN005 PROB30 TEMPO 2206/2207 0800 BCFG BECMG 2207/2209 BKN011 TEMPO 2212/2215 VRB03KT BECMG 2215/2218 01007KT BECMG 2209/2212 CAVOK PROB30 TEMPO 2303/2306 4000 BR LFRD 220500Z 2206/2306 VRB03KT CAVOK PROB30 TEMPO 2206/2207 3000 BR BECMG 2212/2214 36010KT BECMG 2222/2224 VRB03KT PROB30 TEMPO 2302/2305 3000 BR LFRH 220530Z 2206/2306 03005KT 0500 FG BKN004 BKN008 PROB40 TEMPO 2206/2207 0300 FG VV/// BECMG 2206/2209 9999 NSW BKN020 BECMG 2210/2213 25010KT CAVOK BECMG 2222/2224 03005KT LFRI 220500Z 2206/2306 01005KT CAVOK LFRL 220500Z 2206/2306 20005KT 3000 BR BKN003 TEMPO 2206/2207 0700 BCFG VV/// BECMG 2207/2209 9999 NSW SCT012 BECMG 2220/2221 04008KT PROB30 TEMPO 2303/2306 4000 BR LFRM 220500Z 2206/2306 VRB03KT CAVOK LFRN 220500Z 2206/2306 VRB03KT CAVOK PROB30 TEMPO 2206/2207 1500 BR BECMG 2216/2218 36010KT BECMG 2222/2224 VRB03KT LFRQ 220833Z 2208/2306 VRB01KT 4000 BR VV/// BECMG 2208/2210 9999 NSW BKN020 BECMG 2220/2222 01010KT LFRS 220500Z 2206/2312 32004KT CAVOK LFRZ 220500Z 2206/2306 33005KT CAVOK LFSB 220500Z 2206/2306 33004KT CAVOK LFSI 220800Z 2209/2309 VRB02KT CAVOK LFSO 221036Z 2210/2309 CNL LFST 220500Z 2206/2306 VRB03KT CAVOK LFSX 220800Z 2209/2309 24008KT CAVOK LFTH 220800Z 2209/2309 15010KT CAVOK BECMG 2212/2214 22010KT BECMG 2219/2221 VRB03KT BECMG 2306/2308 13005KT LFTW 220800Z 2209/2309 VRB03KT CAVOK BECMG 2211/2213 20013KT BECMG 2220/2222 VRB05KT LFVP 220800Z 2209/2218 02010KT 6000 RA OVC003 BECMG 2209/2212 34020KT 9999 SCT015 SCT040 PROB30 TEMPO 2209/2212 3500 BR BKN003 LGAV 220500Z 2206/2306 02016KT 9999 FEW025 TEMPO 2206/2216 02018G28KT LGEL 220500Z 2206/2306 35010KT 9999 FEW025 TEMPO 2206/2216 01015G25KT LGIR 220500Z 2206/2306 29018KT 9999 FEW025 LGKO 220500Z 2206/2306 35017KT 9999 FEW025 TEMPO 2212/2216 34017G27KT LGKR 220500Z 2206/2306 VRB05KT 9999 FEW025 TEMPO 2209/2215 28010KT LGKV 220500Z 2206/2306 VRB03KT CAVOK BECMG 2210/2212 21010KT 9999 FEW030 SCT080 BECMG 2218/2220 VRB03KT CAVOK BECMG 2302/2304 05012KT LGPZ 220500Z 2206/2306 05010KT 9999 FEW020 BECMG 2209/2211 28012KT BECMG 2218/2220 VRB05KT LGRP 220500Z 2206/2306 24010KT 9999 FEW020 LGSA 220500Z 2206/2306 33010KT 9999 FEW025 LGSR 220500Z 2206/2306 35022KT 9999 FEW020 LGTS 220500Z 2206/2306 VRB03KT CAVOK BECMG 2212/2214 18010KT 9999 FEW030 BECMG 2218/2220 VRB03KT CAVOK BECMG 2302/2304 34012KT LHBP 220515Z 2206/2306 03004KT CAVOK BECMG 2212/2214 35009KT BECMG 2223/2301 VRB03KT LHPA 220515Z 2206/2306 VRB03KT CAVOK BECMG 2208/2211 35009KT BECMG 2215/2218 VRB03KT LIBC 220500Z 2206/2306 02010KT CAVOK= LIBR 220500Z 2206/2306 VRB05KT CAVOK BECMG 2206/2208 01012KT LIBD 220500Z 2206/2306 VRB05KT CAVOK BECMG 2207/2210 02012KT BECMG 2216/2218 VRB05KT LIBP 220500Z 2206/2306 VRB05KT CAVOK BECMG 2210/2212 06010KT BECMG 2216/2218 VRB05KT LIBR 220500Z 2206/2306 VRB05KT CAVOK BECMG 2206/2208 01012KT LICA 220500Z 2206/2306 VRB05KT 7000 SCT020 BECMG 2208/2210 27012KT BECMG 2218/2220 VRB05KT LICC 220500Z 2206/2306 27007KT CAVOK BECMG 2208/2210 05012KT BECMG 2219/2221 VRB05KT LICD 220500Z 2206/2306 VRB05KT CAVOK LICJ 220500Z 2206/2306 VRB05KT CAVOK BECMG 2207/2209 02015KT BECMG 2218/2220 VRB05KT LICR 220500Z 2206/2306 36015KT CAVOK LIEA 220500Z 2206/2306 VRB05KT CAVOK BECMG 2209/2211 28010KT BECMG 2217/2219 VRB05KT LIEE 220500Z 2206/2306 VRB05KT CAVOK BECMG 2209/2211 16012KT BECMG 2218/2220 VRB05KT LIEO 220500Z 2206/2306 VRB05KT CAVOK BECMG 2209/2211 06012KT BECMG 2218/2220 VRB05KT LIMC 220500Z 2206/2312 22007KT CAVOK LIME 220500Z 2206/2306 23008KT CAVOK LIMF 220500Z 2206/2306 VRB05KT 9999 SCT050 LIMJ 220500Z 2206/2306 16008KT CAVOK LIML 220500Z 2206/2306 24007KT CAVOK LIMP 220500Z 2206/2306 VRB05KT CAVOK LIMZ 220500Z 2206/2306 VRB05KT 9999 SCT050 LIPB 220500Z 2206/2306 VRB05KT CAVOK BECMG 2212/2214 18010KT BECMG 2218/2220 VRB05KT LIPE 220500Z 2206/2306 VRB05KT CAVOK LIPH 220500Z 2206/2306 VRB05KT CAVOK LIPO 220500Z 2206/2306 25008KT CAVOK LIPQ 220500Z 2206/2306 08008KT CAVOK LIPY 220500Z 2206/2306 VRB05KT CAVOK BECMG 2209/2211 06010KT BECMG 2216/2218 VRB05KT LIPZ 220500Z 2206/2312 VRB05KT CAVOK LIRA 220500Z 2206/2306 VRB05KT CAVOK BECMG 2209/2211 24010KT BECMG 2217/2219 VRB05KT LIRF 220500Z 2206/2312 02007KT BECMG 2208/2210 29015KT BECMG 2218/2220 VRB05KT LIRN 220500Z 2206/2306 VRB05KT CAVOK BECMG 2209/2211 26010KT BECMG 2217/2219 VRB05KT LIRP 220500Z 2206/2306 12005KT CAVOK BECMG 2210/2212 27010KT BECMG 2219/2221 12005KT LIRQ 220500Z 2206/2306 VRB05KT CAVOK LIRZ 220500Z 2206/2306 VRB05KT CAVOK LJLJ 220800Z 2209/2309 13005KT 9999 FEW040 SCT250 PROB30 TEMPO 2210/2217 FEW045CB BKN050 BECMG 2218/2220 30002KT CAVOK BECMG 2307/2309 12005KT FEW050 LJMB 220800Z 2209/2309 17005KT 9999 FEW040 SCT210 PROB30 TEMPO 2210/2217 FEW040CB SCT050 BECMG 2217/2219 VRB02KT CAVOK BECMG 2307/2309 16005KT FEW050 LKCV 220500Z 2206/2306 VRB02KT CAVOK BECMG 2208/2210 SCT040 TEMPO 2210/2220 29006KT BECMG 2214/2216 CAVOK LKKB 220500Z 2206/2306 21005KT CAVOK TEMPO 2210/2215 26008KT SCT045TCU BECMG 2218/2220 31006KT LKKV 220500Z 2206/2312 23004KT CAVOK TEMPO 2209/2216 29008KT BECMG 2307/2310 35006KT LKMT 220500Z 2206/2312 22006KT CAVOK TEMPO 2206/2208 3000 BR NSC TEMPO 2210/2216 9999 -SHRA SCT043TCU BECMG 2301/2304 03010KT 9999 BKN030 TEMPO 2304/2310 6000 -RA BKN017 LKNA 220500Z 2206/2306 30005KT CAVOK TEMPO 2211/2216 SCT045TCU BECMG 2218/2220 VRB02KT LKPD 220500Z 2206/2306 VRB02KT CAVOK BECMG 2208/2210 SCT025 BECMG 2210/2212 27006KT BECMG 2213/2215 CAVOK BECMG 2220/2222 VRB02KT LKPR 220500Z 2206/2312 23006KT CAVOK TEMPO 2209/2216 26012KT BECMG 2307/2309 33008KT LKTB 220500Z 2206/2312 29006KT CAVOK TEMPO 2210/2216 9999 SCT050TCU BECMG 2306/2309 35010KT LLBG 220506Z 2206/2306 23006KT 9999 SCT025 BECMG 2207/2209 29010KT CAVOK BECMG 2218/2220 VRB04KT 9999 SCT017 TX32/2210Z TN23/2304Z LLER 220503Z 2206/2306 01016KT CAVOK PROB40 2216/2219 34020G30KT TX39/2213Z TN26/2304Z LLHA 220502Z 2206/2306 24005KT 9999 SCT020 BECMG 2207/2209 27010KT FEW025 BECMG 2213/2215 30006KT SCT017 TX30/2210Z TN25/2304Z LLHZ 220501Z 2206/2306 VRB03KT 9999 SCT020 BECMG 2207/2209 28010KT FEW025 BECMG 2213/2215 30005KT SCT017 TX30/2210Z TN23/2304Z LLIB 220503Z 2206/2306 VRB03KT 9999 FEW015 BECMG 2207/2209 28008KT CAVOK BECMG 2218/2220 VRB03KT TX33/2212Z TN20/2304Z LMML 220500Z 2206/2306 29010KT CAVOK PROB30 2300/2306 9000 LOWG 220515Z 2206/2306 VRB02KT CAVOK TX29/2214Z TN17/2303Z PROB30 TEMPO 2206/2207 1200 BCFG FEW001 TEMPO 2210/2215 14007KT 9999 FEW050CB LOWI 220515Z 2206/2306 27004KT 9999 FEW015 BKN300 TX30/2215Z TN16/2304Z BECMG 2210/2212 08008KT FEW080 BECMG 2217/2219 27003KT CAVOK LOWK 220515Z 2206/2306 VRB02KT CAVOK TX30/2215Z TN17/2304Z BECMG 2208/2210 08005KT 9999 FEW050 TEMPO 2214/2218 FEW060TCU LOWL 220515Z 2206/2306 VRB02KT CAVOK TX29/2214Z TN17/2304Z TEMPO 2212/2217 28010KT 9999 FEW050 LOWS 220515Z 2206/2306 15008KT CAVOK TX29/2214Z TN17/2303Z BECMG 2208/2210 34006KT 9999 FEW070 BKN160 BECMG 2218/2220 15006KT CAVOK LOWW 220815Z 2209/2315 34010KT CAVOK TX32/2315Z TN19/2303Z BECMG 2217/2219 29005KT BECMG 2305/2307 34012KT TEMPO 2307/2314 34018KT LPAZ 220500Z 2206/2312 21015KT 9999 FEW012 BECMG 2209/2211 FEW008 BKN015 TEMPO 2211/2222 5000 RADZ BR SCT004 BKN008 PROB30 TEMPO 2213/2219 21020G30KT BECMG 2222/2224 27012KT SCT012 LPBJ 220509Z 2206/2306 29005KT CAVOK BECMG 2216/2218 31015KT BECMG 2218/2220 28005KT LPFR 220500Z 2206/2306 06007KT CAVOK BECMG 2212/2215 25010KT BECMG 2222/2224 33008KT BECMG 2302/2305 12008KT LPLA 220712Z 2206/2306 19018KT 9999 FEW006 BKN016 TEMPO 2206/2208 21020G30KT 6000 -RA SCT006 BKN013 PROB40 TEMPO 2208/2211 21023G35KT 2500 +TSRA BKN007 SCT018CB BECMG 2212/2215 29008KT FEW015 SCT030 BECMG 2222/2224 VRB02KT PROB40 TEMPO 2301/2304 7000 -RA SCT008 LPMA 220500Z 2206/2306 02013KT 9999 SCT016 PROB40 TEMPO 2206/2218 01020G30KT LPMR 220854Z 2209/2306 33005KT 9999 OVC004 BECMG 2209/2211 31010KT FEW018 BECMG 2218/2220 BKN005 PROB30 2302/2306 0300 FG BKN002 LPMT 220510Z 2206/2306 34008KT CAVOK LPOV 220701Z 2207/2306 16005KT 3000 BR BKN003 PROB30 2207/2208 1500 BR BKN002 BECMG 2208/2210 28005KT 9999 NSW FEW018 BECMG 2213/2215 34008KT BECMG 2221/2224 BKN006 PROB40 2302/2306 VRB02KT 0400 FG BKN002 LPPD 220500Z 2206/2306 21015KT 9999 FEW006 SCT012 TEMPO 2208/2220 5000 RADZ BR SCT004 BKN008 PROB30 TEMPO 2210/2218 21020G30KT 3000 TSRA BKN004 FEW020TCU BECMG 2220/2224 30010KT SCT015 LPPR 220633Z 2206/2306 VRB03KT CAVOK BECMG 2210/2212 27005KT 9999 FEW015 TEMPO 2211/2218 5000 BR BKN008 BECMG 2212/2215 31010KT BECMG 2220/2223 VRB03KT 3000 BR BKN004 PROB30 TEMPO 2303/2306 1200 PRFG BKN001 LPPS 220500Z 2206/2312 03012KT 9999 SCT015 TEMPO 2206/2312 FEW015 BKN030 LPPT 220500Z 2206/2312 34007KT CAVOK BECMG 2215/2217 34013KT BECMG 2300/2303 VRB03KT 9999 SCT012 TEMPO 2303/2306 BKN008 BECMG 2309/2312 36007KT CAVOK LQBK 220500Z 2206/2306 02005KT CAVOK TX29/2214Z TN17/2303Z LQMO 220500Z 2206/2306 34005KT CAVOK TX35/2214Z TN19/2303Z PROB30 TEMPO 2211/2216 TSRA FEW040CB SCT050 TEMPO 2218/2306 04012KT LQSA 220500Z 2206/2306 35006KT 9999 SCT045 TX27/2214Z TN16/2303Z TEMPO 2209/2220 RA PROB40 2212/2216 TSRA FEW035CB BKN045 LQTZ 220500Z 2206/2306 27005KT CAVOK TX28/2214Z TN16/2303Z PROB30 TEMPO 2207/2211 SHRA FEW035TCU SCT050 LRBO 220500Z 2206/2306 02010KT 9999 SKC BECMG 2211/2213 SCT050 BKN100 TEMPO 2216/2220 02020G30KT 5000 TSRA BKN040CB LRBS 220500Z 2206/2306 VRB04KT CAVOK BECMG 2214/2216 03012KT PROB40 TEMPO 2217/2222 VRB18KT 5000 -TSRA SCT045CB TEMPO 2222/2303 5000 -TSRA SCT040CB LRCK 220500Z 2206/2306 VRB03KT CAVOK BECMG 2213/2215 14010KT PROB30 TEMPO 2218/2222 VRB20KT 5000 TSRA SCT040CB BECMG 2222/2224 35010KT LRCT 220500Z 2206/2306 34006KT 9999 SCT120 TEMPO 2211/2215 34015KT 7000 TSRA SCT040CB BKN060 LROP 220500Z 2206/2306 VRB04KT CAVOK BECMG 2214/2216 03012KT PROB40 TEMPO 2217/2222 VRB18KT 5000 -TSRA SCT045CB TEMPO 2222/2303 5000 -TSRA SCT040CB LRSB 220500Z 2206/2306 VRB04KT CAVOK PROB30 TEMPO 2209/2212 VRB18KT 5000 -TSRA SCT040CB TEMPO 2212/2217 VRB20G30KT 3000 TSRA SCT010 BKN035CB TEMPO 2301/2304 3000 BR LRTR 220500Z 2206/2306 VRB04KT CAVOK BECMG 2206/2208 34012KT BECMG 2217/2219 VRB04KT LRTZ 220500Z 2206/2306 15012KT 9999 SKC TEMPO 2208/2214 SCT030 BECMG 2220/2222 36014KT SCT050 BKN100 TEMPO 2302/2306 5000 -TSRA FEW010 BKN025CB BKN070 LSGG 220825Z 2209/2315 05007KT 9999 FEW070 SCT300 TX32/2215Z TN18/2304Z TX34/2315Z BECMG 2217/2219 VRB02KT CAVOK LSMA 220925Z 2210/2316 06010KT CAVOK TEMPO 2210/2216 9999 FEW050 BECMG 2216/2218 VRB03KT BECMG 2308/2310 06010KT LSMD 220925Z 2210/2316 VRB03KT CAVOK TEMPO 2210/2216 9999 FEW050 LSME 220925Z 2210/2316 VRB03KT CAVOK TEMPO 2210/2216 9999 FEW050 LSMM 220925Z 2210/2316 VRB03KT 9999 FEW050 TEMPO 2210/2218 07010KT BECMG 2216/2219 CAVOK TEMPO 2308/2316 07010KT LSMP 220925Z 2210/2316 04007KT CAVOK BECMG 2220/2222 VRB02KT LSZH 220825Z 2209/2315 VRB02KT CAVOK TX31/2215Z TN15/2304Z TX33/2315Z PROB40 TEMPO 2214/2220 06006KT BECMG 2308/2310 04007KT LTAC 220440Z 2206/2306 VRB02KT 9999 SCT040 BECMG 2210/2212 03015KT BECMG 2216/2218 VRB02KT CAVOK LTAG 220440Z 2206/2306 VRB02KT CAVOK BECMG 2208/2210 21012KT BECMG 2216/2218 VRB02KT BECMG 2218/2220 SCT035 LTAI 220440Z 2206/2306 32012KT CAVOK BECMG 2212/2215 18012KT BECMG 2217/2221 34009KT LTAJ 220440Z 2206/2306 33008KT CAVOK BECMG 2210/2212 25012KT BECMG 2214/2216 31012KT BECMG 2222/2224 VRB02KT LTAP 220440Z 2206/2306 03008KT 9999 SCT040 BECMG 2206/2209 03018KT PROB40 TEMPO 2211/2215 03020G30KT BECMG 2217/2221 VRB02KT CAVOK BECMG 2300/2303 SCT040 LTAT 220440Z 2206/2306 31009KT CAVOK LTAU 220440Z 2206/2306 03008KT 9999 BKN033 PROB40 TEMPO 2211/2215 36015G25KT -SHRA FEW025CB BKN030 BECMG 2216/2218 SCT040 BECMG 2223/2302 BKN030 LTAZ 220440Z 2206/2306 02008KT 9999 BKN035 BECMG 2206/2208 02015G25KT BECMG 2211/2214 02020G35KT SCT040 BECMG 2216/2219 CAVOK BECMG 2220/2222 02008KT BECMG 2300/2303 SCT035 LTBA 220440Z 2206/2312 04012KT 9999 FEW032 BECMG 2208/2211 CAVOK BECMG 2222/2301 FEW025 BECMG 2307/2310 CAVOK LTBJ 220440Z 2206/2306 35015KT CAVOK BECMG 2208/2210 36017G27KT BECMG 2221/2224 35012KT LTBR 220440Z 2206/2306 VRB02KT CAVOK BECMG 2210/2213 36012KT BECMG 2215/2218 VRB02KT LTBS 220440Z 2206/2306 01013KT CAVOK BECMG 2207/2209 22012KT FEW030 BECMG 2216/2218 VRB02KT CAVOK LTBU 220440Z 2206/2306 03012KT 9999 FEW032 BECMG 2209/2212 CAVOK LTCC 220440Z 2206/2306 VRB02KT CAVOK BECMG 2210/2212 FEW040 TEMPO 2211/2213 23012KT BECMG 2216/2218 CAVOK LTCE 220440Z 2206/2306 VRB02KT CAVOK BECMG 2209/2212 06012KT SCT040 BECMG 2214/2217 VRB02KT CAVOK LTCG 220440Z 2206/2306 VRB02KT 8000 -SHRA BKN033 TEMPO 2206/2209 4000 BR SCT012 BKN028 BECMG 2207/2209 29012KT BECMG 2209/2211 SCT012 BKN028 PROB40 2216/2220 3500 SHRA BKN008 BKN025 BECMG 2220/2222 VRB02KT LTCJ 220440Z 2206/2306 VRB02KT CAVOK LTCS 220440Z 2206/2306 33008KT CAVOK BECMG 2210/2212 26010KT BECMG 2301/2303 01007KT LTFC 220820Z 2208/2306 03015G25KT 9999 FEW035 BECMG 2215/2218 03009KT CAVOK LTFE 220440Z 2206/2306 VRB02KT CAVOK BECMG 2206/2208 03014KT BECMG 2213/2215 33012KT BECMG 2218/2220 VRB02KT LTFJ 220440Z 2206/2306 03007KT CAVOK BECMG 2206/2209 03017KT BECMG 2216/2219 03007KT PROB40 TEMPO 2301/2305 4000 BR SCT011 LTFM 220440Z 2206/2312 04014KT 9999 FEW028 BECMG 2207/2211 CAVOK BECMG 2222/2301 07004KT FEW025 BECMG 2302/2305 04014KT BECMG 2307/2310 CAVOK LUKK 220520Z 2206/2306 32009KT CAVOK TEMPO 2206/2212 SCT040CB PROB40 TEMPO 2209/2212 34018G28KT -TSRA BKN040CB TEMPO 2218/2301 5000 TSRA BKN035CB LWOH 220830Z 2209/2309 VRB02KT CAVOK BECMG 2211/2213 02008KT SCT040 PROB30 TEMPO 2216/2221 VRB20KT TSRA FEW033CB BKN050 LWSK 220830Z 2209/2309 VRB02KT CAVOK BECMG 2210/2213 01012KT SCT050 PROB30 TEMPO 2215/2221 02015G25KT TSRA FEW033CB BKN040 LYBE 220500Z 2206/2306 29006KT 9999 SCT040 TX30/2214Z TN17/2303Z TEMPO 2208/2216 33016KT LYBT 220500Z 2206/2306 32005KT 9999 SCT040 TX30/2214Z TN16/2303Z TEMPO 2209/2215 34015KT LYKV 220500Z 2206/2306 32005KT 9999 SCT040 TX29/2213Z TN14/2303Z TEMPO 2210/2216 VRB15G25KT 5000 TSRA SCT030CB SCT033 LYNI 220500Z 2206/2306 VRB02KT CAVOK TX31/2213Z TN16/2303Z BECMG 2207/2209 33014KT TEMPO 2209/2217 33015G25KT PROB40 TEMPO 2212/2217 33020G35KT 5000 TSRA SCT033CB SCT040 LYPG 220500Z 2206/2306 16005KT 9999 FEW040 TX36/2213Z TN22/2303Z LYTV 220500Z 2206/2306 23006KT 9999 FEW040 TX33/2213Z TN20/2303Z BECMG 2215/2217 02014KT LYVR 220500Z 2206/2306 28006KT CAVOK TX30/2213Z TN15/2303Z TEMPO 2208/2214 33018KT PROB30 TEMPO 2210/2213 5000 TSRA SCT033CB SCT040 LZIB 220500Z 2206/2306 32007KT CAVOK TEMPO 2210/2216 33013KT 9999 SCT045 BECMG 2218/2220 VRB02KT BECMG 2304/2306 30006KT LZKZ 220500Z 2206/2306 01006KT CAVOK TEMPO 2210/2216 02012KT 9999 SCT045 SCT090 PROB40 TEMPO 2212/2216 -SHRA BKN040 FEW050TCU BECMG 2222/2300 SCT037 BKN070 TEMPO 2300/2306 02015KT 7000 RA SCT025 OVC050 LZTT 220500Z 2206/2306 24008KT 9999 FEW012 SCT070 BECMG 2208/2210 04007KT SCT045 PROB40 TEMPO 2210/2215 -SHRA BKN040 BECMG 2216/2218 VRB02KT BECMG 2221/2223 FEW043 BKN060 TEMPO 2300/2306 6000 RA SCT018 OVC040 MHLC 220430Z 2206/2306 10008KT 9999 FEW024 TX32/2221Z TN22/2212Z BECMG 2210/2212 14004KT FEW024 BECMG 2215/2217 SCT024TCU BECMG 2219/2221 07015KT SCT024CB MHLM 220430Z 2206/2306 08008KT 9999 SCT028 SCT080 TX32/2221Z TN23/2212Z BECMG 2210/2212 18004KT FEWO026 BKN080 BECMG 2214/2216 FEW030 BECMG 2220/2222 06010KT SCT028CB BECMG 2301/2303 FEW026 MHRO 220430Z 2206/2306 09020KT 9999 FEW022 TX31/2221Z TN27/2212Z BECMG 2210/2212 10008KT BECMG 2218/2220 08020KT FEW020CB MHTG 220430Z 2206/2306 36004KT 9999 FEW026 TX29/2221Z TN16/2212Z BECMG 2218/2220 08008KT SCT030TCU BECMG 2302/2304 00000KT MKJP 220515Z 2206/2306 34004KT 9999 FEW022 BECMG 2213/2215 14019KT PROB40 TEMPO 2218/2224 TS SCT018 FEW020CB BECMG 2301/2303 34004KT MKJS 220515Z 2206/2306 13005KT 9999 FEW022 BECMG 2213/2215 07016KT TEMPO 2218/2302 SHRA BKN018 SCTO2OCB BECMG 2300/2302 VRB02KT MMAA 220452Z 2206/2312 03005KT P6SM SCT015 BKN300 TX32/2220Z TN26/2212Z FM221600 23010KT P6SM SCT015 SCT300 FM230200 03005KT P6SM SCT015CB BKN080 TEMPO 2302/2306 5SM TSRA BKN015CB MMAN 220413Z 2206/2306 11012KT P6SM SCT250 FM220900 12005KT P6SM SCT015 TEMPO 2210/2214 BKN015 FM221600 12010KT P6SM SCT020 FM222200 12012KT P6SM BKN020 PROB40 2223/2303 3SM TSRA MMAS 220418Z 2206/2306 23010KT 5SM HZ SCT040CB BKN090 OVC200 TEMPO 2206/2209 4SM TSRA BKN020CB FM220900 21005KT P6SM BKN020 BKN090 BKN200 FM221800 04010KT P6SM SCT020 BKN250 PROB40 2300/2304 5SM TSRA BKN020CB FM230400 07005KT 5SM HZ SCT020CB BKN250 MMBT 220406Z 2206/2306 34005KT P6SM SCT020 BKN100 BKN200 FM221800 24010KT P6SM SCT020 BKN250 BECMG 2221/2222 BKN020CB TEMPO 2223/2303 5SM TSRA FM230300 35005KT 5SM -RA SCT015CB BKN100 BKN250 MMCB 220406Z 2206/2306 07005KT 5SM HZ SCT020 SCT080 BKN200 TEMPO 2210/2214 5SM -RA BKN020 FM221800 17010KT P6SM SCT020 BKN250 TEMPO 2223/2303 3SM TSRA BKN015CB OVC070 FM230300 02005KT 4SM TSRA BKN015CB OVC100 MMCE 220451Z 2206/2306 07005KT P6SM SCT020 BKN280 FM221500 12010KT P6SM SCT020 BKN250 PROB40 2223/2303 5SM TSRA BKN020CB FM230300 08006KT P6SM SCT020 BKN250 MMCL 220424Z 2206/2306 12005KT P6SM SCT020 BKN080 TEMPO 2206/2208 5SM RA FM220900 20005KT P6SM SCT020 BKN250 FM221600 23010KT P6SM SCT020 FM230200 23008KT P6SM SCT020CB BKN080 MMCM 220451Z 2206/2306 00000KT P6SM SCT020 BKN100 TEMPO 2210/2214 BKN020 FM221800 11010KT P6SM SCT020 BKN250 BECMG 2302/2303 13005KT MMCN 220431Z 2206/2306 19005KT P6SM SCT020 SCT100 BKN200 TEMPO 2206/2209 5SM TSRA BKN020CB FM221700 22005KT P6SM SCT020 BKN250 TEMPO 2223/2303 5SM TSRA BKN020CB FM230300 21005KT P6SM SCT020 BKN100 BKN250 MMCP 220451Z 2206/2306 10005KT P6SM BKN120 FM221800 13010KT P6SM SCT020 BKN250 TEMPO 2223/2303 5SM TSRA BKN020CB FM230300 13008KT P6SM SCT020CB BKN250 MMCS 220413Z 2206/2306 20005KT P6SM SCT080 BKN250 FM221600 08015G25KT P6SM SCT020 SCT250 PROB40 2222/2302 5SM TSRA BKN015CB FM230300 08008KT P6SM SCT080 BKN250 MMCU 220413Z 2206/2306 33005KT P6SM SCT020 FM221800 06015KT P6SM SCT020 FM230200 06008KT P6SM SCT020 MMCV 220507Z 2206/2306 17010KT 6SM HZ SKC FM221800 16010G20KT P6SM SCT020 BKN250 TEMPO 2223/2303 5SM TSRA BKN020CB FM230300 13005G15KT P6SM SCT020CB BKN250 MMCZ 220402Z 2206/2312 12005KT P6SM SCT250 FM221600 12010KT P6SM SCT015 TEMPO 2218/2222 BKN015 FM230200 12005KT P6SM SCT015 MMDO 220431Z 2206/2306 00000KT P6SM SCT080 BKN200 FM221800 18010KT P6SM SCT020 BKN250 PROB40 2300/2304 5SM -TSRA BKN020CB FM230400 13005KT P6SM SCT020 BKN250 MMEP 220418Z 2206/2306 00000KT 5SM HZ OVC080 TEMPO 2210/2214 3SM BR FM221400 01005KT 5SM HZ SCT020 FM222000 24010KT P6SM SCT020 BKN250 TEMPO 2223/2303 5SM TSRA BKN020CB FM230300 03005KT 5SM -RA SCT020 BKN100 BKN250 MMGL 220441Z 2206/2312 10005KT P6SM BKN015 OVC080 TX26/2220Z TN15/2212Z TEMPO 2206/2208 5SM RA FM220900 30005KT P6SM SCT020 BKN080 FM221900 30010KT P6SM SCT020 BKN250 FM222300 23012KT P6SM BKN020CB OVC080 TEMPO 2223/2303 2SM TSRA MMGM 220431Z 2206/2306 31005KT P6SM SCT140 FM221800 16010KT P6SM SCT020 TEMPO 2300/2304 5SM TSRA BKN020CB FM230400 20005KT 5SM -RA SCT020CB BKN250 MMHO 220714Z 2207/2306 36010G20KT 6SM -RA BKN050 OVC120 TEMPO 2207/2209 4SM TSRA BKN020CB FM220900 00000KT P6SM SCT030 BKN120 FM221800 22005KT P6SM SCT020 BKN040 BECMG 2220/2221 22010KT TEMPO 2301/2305 5SM TSRA BKN020CB MMIA 220418Z 2206/2306 00000KT 5SM -RA SCT020 BKN100 BECMG 2207/2208 4SM HZ FM221800 23010KT P6SM SCT020 BKN250 TEMPO 2222/2302 5SM TSRA BKN020CB FM230300 24005KT 5SM -RA SCT020CB BKN040 BKN100 MMIO 220413Z 2206/2306 36005KT P6SM SCT250 FM221800 36010KT P6SM SCT020 PROB40 2223/2303 3SM TSRA BKN020CB FM230400 03005KT P6SM SCT020 BKN250 MMLM 220431Z 2206/2306 19015KT P6SM SCT020 TEMPO 2206/2210 5SM TSRA BKN020CB FM221800 15005KT P6SM SCT020 BKN250 TEMPO 2300/2304 5SM TSRA BKN020CB FM230400 31005KT 5SM -TSRA SCT020CB BKN080 BKN250 MMLO 220418Z 2206/2306 11010KT 5SM -RA BKN030CB BKN070 OVC220 TEMPO 2206/2209 4SM TSRA FM220900 00000KT 5SM HZ SCT020 BKN070 BKN220 FM221700 07010KT P6SM SCT020 BKN250 TEMPO 2223/2303 4SM TSRA BKN015CB FM230300 29005KT 5SM -TSRA SCT030CB BKN040 OVC100 MMLP 220424Z 2206/2306 20005KT P6SM SCT250 FM221600 33010KT P6SM SCT020 SCT100 PROB40 2222/2302 5SM RA BKN020 FM230200 18005KT P6SM SCT020 BKN100 MMLT 220431Z 2206/2306 21005KT P6SM SCT040 BKN200 FM221800 20010KT P6SM SCT120 BKN250 BECMG 2301/2302 21005KT MMMA 220507Z 2206/2306 16013KT P6SM SCT020 BKN200 FM221800 16015G25KT P6SM SCT020 BKN250 BECMG 2303/2304 16010KT MMMD 220812Z 2208/2312 12008KT 6SM HZ BKN004 BKN090 TX35/2220Z TN22/2212Z BECMG 2209/2210 2SM BR TEMPO 2210/2214 1SM BR VV005 FM221400 12010KT 4SM HZ BKN020 PROB40 2218/2222 5SM TSRA BKN020CB FM222300 12012KT P6SM SCT020 SCT300 FM230200 12005KT P6SM SCT300 MMML 220424Z 2206/2306 15008KT P6SM BKN250 FM221800 16010KT P6SM SCT250 FM230200 14005KT P6SM SCT100 BKN250 MMMM 220441Z 2206/2312 03005KT P6SM SCT020CB BKN080 TEMPO 2206/2208 3SM TSRA FM220900 06005KT 5SM HZ SCT020 BKN080 TEMPO 2210/2214 2SM BR BKN015 FM221800 12008KT P6SM SCT020CB BKN080 TEMPO 2221/2301 2SM TSRA BKN015CB MMMT 220451Z 2206/2306 36010KT 6SM -RA BKN020CB OVC070 TEMPO 2206/2210 4SM TSRA OVC020CB FM221000 19005KT 5SM -RA SCT020 BKN250 FM221600 05005KT 5SM HZ SCT020 BKN250 TEMPO 2223/2303 3SM TSRA BKN020CB FM230300 29005KT 5SM -TSRA BKN020CB OVC090 MMMX 220452Z 2206/2312 06005KT P6SM SCT020 BKN080 TX24/2221Z TN14/2212Z TEMPO 2206/2210 5SM RA BKN020 FM221000 03005KT P6SM SCT020 BKN100 TEMPO 2210/2214 BKN015 FM221900 06010KT P6SM SCT020 BKN250 FM222100 08012KT P6SM BKN020CB OVC080 TEMPO 2222/2302 2SM TSRA MMMY 220413Z 2206/2312 08012KT P6SM SCT250 TX38/2222Z TN23/2212Z FM220900 08005KT P6SM SCT015 TEMPO 2210/2214 BKN015 FM221600 12010KT P6SM SCT020 FM222300 12015KT P6SM BKN020 PROB40 2223/2303 3SM TSRA BKN015CB MMMZ 220424Z 2206/2312 03005KT P6SM SCT030 BKN100 TX33/2221Z TN24/2212Z FM221600 23010KT P6SM SCT080 FM230100 23008KT P6SM SCT020CB BKN080 FM230300 02005KT P6SM SCT080 BKN250 MMNL 220507Z 2206/2306 15010KT P6SM BKN250 FM221700 13010G20KT P6SM SCT020 BKN250 TEMPO 2300/2304 SCT020CB VC TS FM230400 14010KT P6SM SCT020 BKN250 MMOX 220406Z 2206/2306 29005KT 5SM -RA SCT015 OVC120 TEMPO 2206/2210 5SM TSRA BKN015CB FM221700 03005KT 5SM HZ SCT020 BKN250 BECMG 2222/2223 OVC025CB TEMPO 2223/2303 1SM TSRA OVC010CB FM230300 04010KT 5SM RA BKN020CB BKN080 OVC250 MMPA 220507Z 2206/2306 12010KT 6SM HZ SCT020 BKN250 TEMPO 2210/2214 3SM -RA BR BKN020 FM221700 09010KT P6SM BKN020 BKN250 TEMPO 2222/2302 4SM TSRA BKN020CB FM230200 15005KT 5SM -TSRA SCT020CB BKN100 BKN250 MMPB 220406Z 2206/2306 34005KT P6SM SCT015 BKN250 FM221700 13010KT P6SM SCT020 BKN250 BECMG 2221/2222 BKN020CB TEMPO 2223/2303 4SM TSRA FM230300 05005KT 5SM -RA SCT020CB BKN080 BKN250 MMPG 220507Z 2206/2306 11010KT P6SM SCT040 BKN250 BECMG 2207/2208 13005KT FM221800 09010G20KT P6SM SCT020 BECMG 2303/2304 21007KT MMPN 220418Z 2206/2306 00000KT 5SM HZ SCT020 OVC250 FM221800 18010KT P6SM SCT020 BKN250 TEMPO 2223/2303 5SM TSRA BKN020CB FM230300 19005KT 5SM -TSRA BKN020CB BKN100 BKN250 MMPQ 220451Z 2206/2306 09010KT 6SM HZ SCT030 BKN200 TEMPO 2206/2210 5SM TSRA BKN020CB FM221800 12005KT 6SM HZ SCT020 BKN250 TEMPO 2223/2303 5SM TSRA BKN020CB FM230300 14005KT 5SM -RA SCT020 BKN050 BKN250 MMPR 220441Z 2206/2312 02005KT P6SM SCT020 BKN080 TX29/2220Z TN22/2212Z TEMPO 2206/2208 5SM RA BKN020 FM220900 03005KT P6SM SCT080 BKN250 FM221600 20010KT P6SM SCT080 BKN250 FM222200 23008KT P6SM SCT020CB BKN080 TEMPO 2222/2302 3SM TSRA MMPS 220406Z 2206/2306 34005KT P6SM SCT075 BKN250 FM221800 24010KT P6SM SCT020 BKN250 TEMPO 2223/2303 4SM TSRA BKN020CB FM230300 01006KT 5SM -TSRA SCT020CB BKN090 BKN250 MMQT 220418Z 2206/2306 26005KT 6SM HZ BKN020CB BKN120 BKN250 TEMPO 2206/2209 4SM TSRA FM220900 00000KT 4SM BR HZ BKN015 BKN250 FM221400 05005KT 6SM HZ SCT020 BKN250 TEMPO 2223/2303 4SM TSRA BKN030CB FM230300 07005KT 5SM -TSRA SCT020CB BKN040 BKN090 MMRX 221013Z 2210/2306 11005KT 3SM BR HZ FM221400 12008KT P6SM SCT020 FM221700 14010G20KT P6SM SCT020 BKN300 PROB40 2300/2304 SCT020CB VC TS FM230400 15010KT P6SM SCT020 BKN250 MMSD 220431Z 2206/2306 13010KT P6SM SCT020 TEMPO 2210/2214 5SM -TSRA BKN020CB FM221400 20010KT P6SM SCT020 BKN250 PROB40 2223/2303 6SM -TSRA BKN020CB FM230300 23005KT P6SM BKN040 BKN090 MMSL 220431Z 2206/2306 13010KT P6SM SCT020 TEMPO 2210/2214 5SM -TSRA BKN020CB FM221400 20010KT P6SM SCT020 BKN250 PROB40 2223/2303 6SM -TSRA BKN020CB FM230300 23005KT P6SM BKN040 BKN090 MMSP 220441Z 2206/2312 13005KT P6SM SCT020 SCT250 TX27/2221Z TN14/2212Z FM221600 13010KT P6SM SCT020 FM222200 13012KT P6SM BKN020 PROB40 2222/2302 3SM TSRA BKN015CB MMTC 220413Z 2206/2306 06005KT P6SM SCT250 FM221700 06010KT P6SM SCT030 FM230300 06005KT P6SM SCT250 MMTG 220402Z 2206/2306 30005KT P6SM SCT020 BKN250 TEMPO 2210/2214 2SM BR SCT010 FM221700 33010KT P6SM SCT020 FM222200 30012KT P6SM BKN020CB OVC080 TEMPO 2222/2302 3SM TSRA BKN015CB FM230300 30005KT P6SM SCT020 BKN080 MMTJ 220653Z 2207/2312 27005KT 6SM HZ OVC012 TX25/2221Z TN16/2212Z TEMPO 2210/2214 3SM BR FM221600 30010KT 5SM HZ SCT012 FM230400 03005KT 5SM HZ SCT015 FM230900 00000KT 5SM HZ OVC012 MMTM 220452Z 2206/2306 13008KT 6SM HZ SCT250 FM221700 16015KT P6SM SCT015 SCT250 PROB40 2300/2304 5SM TSRA BKN015CB MMTO 220452Z 2206/2312 00000KT 6SM HZ SCT015 BKN070 TX22/2221Z TN09/2212Z TEMPO 2206/2209 5SM RA BKN015 FM220900 00000KT 3SM HZ SCT015 BKN070 FM221500 06005KT 5SM HZ SCT015 FM222100 06012KT P6SM BKN015CB OVC080 TEMPO 2222/2302 2SM TSRA MMTP 220402Z 2206/2312 00000KT P6SM SCT300 FM221800 24010KT P6SM SCT020 SCT100 FM230200 00000KT P6SM SCT030 BKN250 MMUN 220402Z 2206/2312 06005KT P6SM SCT015 SCT250 TX33/2219Z TN27/2212Z FM221600 12010KT P6SM SCT015 SCT250 PROB40 2222/2302 5SM TSRA BKN015CB FM230300 08005KT P6SM SCT015 SCT250 MMVA 220451Z 2206/2306 30010KT 6SM TS BKN016CB BKN050 TEMPO 2206/2210 4SM TSRA FM221000 13005KT 4SM HZ BKN015 BKN250 TEMPO 2210/2214 3SM BR FM221800 13010KT P6SM SCT020 BKN250 TEMPO 2223/2303 5SM TSRA BKN020CB FM230300 29008KT P6SM SCT020 BKN250 MMVR 220452Z 2206/2306 03005KT P6SM SCT015 SCT250 TX32/2220Z TN24/2212Z TEMPO 2208/2212 5SM TSRA BKN015CB FM221400 08005KT P6SM SCT015 BKN250 FM222200 06010KT P6SM SCT015CB BKN080 TEMPO 2222/2302 3SM TSRA BKN015CB MMZC 220441Z 2206/2312 20005KT P6SM SCT100 SCT250 TX24/2221Z TN13/2212Z FM221800 03010KT P6SM SCT020 SCT250 PROB40 2222/2302 4SM TSRA BKN020CB FM230300 03005KT P6SM SCT020 BKN080 MMZH 220406Z 2206/2306 31005KT P6SM BKN100 BKN250 FM221800 24010KT P6SM SCT020 BKN250 TEMPO 2223/2303 5SM TSRA BKN020CB FM230300 30005KT 5SM HZ SCT020 BKN250 MMZO 220441Z 2206/2306 25005KT P6SM SCT020CB BKN080 TEMPO 2206/2208 3SM TSRA BKN020CB FM220900 03005KT P6SM SCT020 BKN250 FM221600 24010KT P6SM SCT020 BKN250 TEMPO 2222/2302 3SM TSRA BKN015CB MPDA 220300Z 2200/2212 CNL MPMG 220300Z 2200/2212 CNL MPPA 220300Z 2200/2306 CNL= MPMG 220300Z 2200/2212 CNL MPTO 220500Z 2206/2312 00000KT 9999 FEW015CB BECMG 2210/2214 02006KT 9000 SCT017 PROB30 TEMPO 2218/2222 15008KT 7000 TSRA FEW015CB BKN080 MRLB 220500Z 2206/2306 09008KT 9999 FEW045 TX35/2219Z TN24/2210Z TEMPO 2210/2215 29003KT BECMG 2216/2218 08007KT TEMPO 2221/2302 28004KT RA MROC 220500Z 2206/2306 08004KT 9999 FEW040 SCT100 TX30/2218Z TN20/2211Z TEMPO 2206/2210 VRB02KT BCFG BECMG 2216/2218 25005KT TEMPO 2220/2224 SHRA SCT015TCU BECMG 2302/2304 10005KT MRPV 220500Z 2206/2306 09006KT 9999 FEW040 SCT100 TX28/2218Z TN19/2211Z BECMG 2216/2218 29005KT TEMPO 2220/2224 SHRA FEW015TCU BECMG 2300/2303 10006KT MUCC 220500Z 2206/2306 06007KT 9000 SCT020 BECMG 2207/2209 VRB03KT BECMG 2213/2215 09010KT BECMG 2301/2303 VRB03KT MUCM 220500Z 2206/2306 VRB03KT 9000 SCT020 BECMG 2215/2217 04010KT BECMG 2301/2303 VRB03KT MUCU 220500Z 2206/2306 36005KT 9000 SCT020 BECMG 2213/2215 18010KT TEMPO 2218/2224 SCT018CB BKN020 BECMG 2301/2303 36005KT SCT020 MUGM 2207/2307 33008KT 9999 FEW250 QNH2982INS BECMG 2214/2216 13015KT 9999 VCTS SCT030CB SCT280 QNH2988INS BECMG 2223/2301 34008KT 9999 SCT030 SCT250 QNH2996INS T23/2210Z T33/2219Z 0731 FN00182 MUHA 220500Z 2206/2306 13003KT 9000 FEW030 BECMG 2214/2216 09008KT TEMPO 2220/2300 VRB10KT 5000 TSRA FEW020CB BKN030 BECMG 2303/2305 VRB03KT MUHG 220500Z 2206/2306 VRB03KT 9000 SCT020 BECMG 2215/2217 04010KT BECMG 2301/2303 VRB03KT MUSC 220500Z 2206/2306 VRB03KT 9000 SCT020 BECMG 2215/2217 08010KT TEMPO 2218/2224 3000 TSRA SCT018CB BKN020 BECMG 2301/2303 VRB03KT MUVR 220500Z 2206/2306 VRB03KT 9000 SCT020 BECMG 2215/2217 06010KT TEMPO 2218/2224 VRB10KT 3000 TSRA SCT018CB BKN020 BECMG 2301/2303 VRB03KT MWCR 220300Z 2200/2224 CNL NCRG 220508Z 2206/2306 03012KT 9999 -SHRA BKN015 BKN040 PROB40 TEMPO 2206/2209 4000 SHRA BKN012 TEMPO 2206/2209 01015G25KT FM220900 34015KT 8000 -RA SCT008 BKN015 BKN040 TEMPO 2209/2224 34015G25KT 2000 +TSRA BKN006 SCT015CB NFFN 220508Z 2206/2306 15011KT 9999 FEW030 NFNA 220509Z 2206/2306 17009KT 9999 SCT025 NFTF 220509Z 2206/2306 23015KT 9999 SCT015 PROB40 TEMPO 2206/2208 25018G28KT NFTV 220510Z 2206/2306 24008KT 9999 SCT017 BKN040 NGFU 220510Z 2206/2306 14008KT 9999 SCT020 PROB40 TEMPO 2209/2224 5000 TSRA FEW018CB NGTA 220509Z 2206/2306 12007KT 9999 -SHRA SCT018 BKN040 TEMPO 2206/2218 4000 TSRA BKN015 FEW018CB PROB40 TEMPO 2218/2224 5000 TSRA BKN015 FEW018CB NIUE 220510Z 2206/2306 25010KT 9999 SCT018 BKN030 BKN100 PROB30 TEMPO 2206/2212 5000 SHRA BKN015 NLWF 220923Z 2209/2306 15012KT 9999 SCT012 BKN020 TEMPO 2209/2218 2500 SHRA BKN010 SCT016TCU NLWW 220500Z 2206/2306 20008KT 9999 SCT023 TEMPO 2206/2218 4500 SHRA FEW018TCU NSFA 220509Z 2206/2306 01008KT 9999 -SHRA BKN024 PROB40 TEMPO 2206/2224 5000 TSRA FEW018CB NSTU 220901Z 2209/2306 VRB03KT P6SM FEW020 FM221000 18010KT 4SM SHRA BR BKN020 OVC040 FM230000 16012KT P6SM FEW020 SCT040 NTAA 220500Z 2206/2312 05010KT 9999 FEW023 BECMG 2218/2220 04015G25KT BECMG 2302/2304 05010KT FM230600 05010KT 9999 FEW020 SCT050 BKN250 NVSC 220430Z 2206/2306 13516KT 9999 FEW020 BKN040 PROB40 INTER 2206/2209 9000 -SHRA BKN018 NVSG 220430Z 2206/2306 13515KT 9999 SCT020 BKN040 NVSL 220430Z 2206/2306 13015KT 9999 FEW020 BKN040 NVSP 220430Z 2206/2306 13013KT 9999 FEW020 BKN040 NVSS 220430Z 2206/2306 13513KT 9999 FEW020 BKN040 PROB30 INTER 2206/2209 9000 -SHRA BKN018 NVVA 220430Z 2206/2306 14013KT 9999 FEW020 BKN040 PROB30 INTER 2209/2212 9000 -SHRA BKN018 NVVV 220430Z 2206/2306 13013KT 9999 FEW020 BKN040 NVVW 220430Z 2206/2306 14013KT 9999 FEW020 BKN040 NWWD 220500Z 2206/2306 16010KT 9999 FEW050 BECMG 2206/2208 VRB02KT BECMG 2223/2301 18010KT NWWE 220927Z 2209/2306 CNL NWWK 220500Z 2206/2306 14010KT 9999 FEW035 BKN060 BECMG 2208/2210 04005KT BECMG 2222/2224 18012KT NWWV 220927Z 2209/2306 CNL NWWW 220500Z 2206/2306 14012KT 9999 FEW033 BECMG 2206/2208 VRB02KT BECMG 2223/2301 16010KT NZAA 220505Z 2206/2306 22010KT 9999 FEW020 BECMG 2207/2209 16005KT PROB40 2214/2223 0500 FG BECMG 2300/2302 22010KT NZCH 220924Z 2209/2306 VRB02KT 9999 OVC012 TEMPO 2210/2215 BKN008 PROB40 2212/2214 0400 FG FM221500 VRB02KT 8000 -DZ BKN004 OVC016 TEMPO 2215/2306 2500 DZ BKN003 FM230000 VRB02KT 8000 -DZ BKN006 OVC016 NZWN 220505Z 2206/2306 20010KT 9999 FEW008 BECMG 2206/2208 03005KT BECMG 2220/2222 16010KT BKN006 OAHR 220500Z 2206/2306 07012G28KT CAVOK TEMPO 2206/2212 03018G35KT 5000 BLDU NSC BECMG 2215/2217 03013KT 9000 NSC BECMG 2220/2222 03006KT CAVOK BECMG 2300/2302 VRB03KT BECMG 2303/2305 05012KT OAIX 220700Z 2207/2313 01009KT 9999 FEW150 FEW250 QNH2978INS BECMG 2207/2208 35012G18KT 9999 FEW150 QNH2975INS BECMG 2208/2209 35015G25KT 9999 FEW150 520009 QNH2973INS BECMG 2210/2211 35020G30KT 9999 FEW150 520009 QNH2975INS TEMPO 2213/2216 35025G35KT 530009 BECMG 2222/2223 35012G18KT 9999 SKC QNH2988INS BECMG 2223/2224 35009KT 9999 SKC QNH2973INS BECMG 2308/2309 35012G18KT 9999 FEW150 QNH2970INS BECMG 2310/2311 35015G25KT 9999 FEW150 520009 QNH2966INS TX38/2210Z TN26/2301Z OAJL 220800Z 2208/2314 01012KT 9999 SKC QNH2948INS BECMG 2215/2216 VRB06KT 9000 HZ SCT070 QNH2956INS BECMG 2307/2308 08010G15KT 9999 NSW SKC QNH3003INS TX39/2210Z TN26/2300Z OAKB 220740Z 2207/2306 02012G22KT 9999 FEW060 TEMPO 2211/2216 03020G35KT BECMG 2219/2220 01012KT CAVOK BECMG 2220/2221 VRB02KT OAKN 220700Z 2207/2313 29009KT 8000 HZ SKC QNH2956INS BECMG 2220/2221 19006KT 4000 DU SKC QNH2960INS BECMG 2304/2305 27009KT 5000 DU SKC QNH2956INS TX42/2211Z TN29/2301Z OAMS 220550Z 2206/2306 27013G25KT 5000 -BLDU SKC TEMPO 2206/2208 27020G30KT 4000 BLDU SKC BECMG 2208/2210 27013G23KT 7000 NSW SKC BECMG 2213/2215 21012KT 8000 NSW SKC BECMG 2300/2302 27010KT 9999 NSW SKC OBBI 220500Z 2206/2312 33008KT CAVOK PROB30 TEMPO 2218/2304 4000 HZ SCT008 OEDF 220230Z 2206/2312 01015KT 8000 NSC BECMG 2218/2220 VRB05KT OEJN 220500Z 2206/2312 30010G20KT 7000 FEW040 BECMG 2220/2222 VRB03KT OEKK 220500Z 2206/2220 35015KT 7000 NSC TEMPO 2208/2216 4000 DU BLDU OEMA 220500Z 2206/2312 25008G18KT CAVOK BECMG 2218/2220 VRB03KT OERK 220500Z 2206/2312 35015KT CAVOK OETF 220500Z 2206/2224 03012KT 7000 FEW030 BECMG 2210/2212 30010G20KT OIAA 220530Z 2206/2312 30008KT 7000 NSC TEMPO 2209/2218 30015G25KT 5000 SA/DU OIAW 220530Z 2206/2312 17004KT 7000 NSC TEMPO 2215/2221 29015G25KT 5000 SA/DU OIBK 220530Z 2206/2312 12010KT 6000 NSC TEMPO 2206/2212 12020KT BECMG 2212/2214 12006KT BECMG 2221/2222 3000 BR/HZ SCT030 BECMG 2403/2305 12010KT 5000 HZ NSC TEMPO 2306/2312 12022KT OICI 220530Z 2206/2312 12002KT 8000 NSC TEMPO 2213/2220 27014G24KT 5000 SA/DU OIFM 220530Z 2206/2312 32008KT 8000 NSC TEMPO 2210/2215 06014G22KT 6000 SCT040 BKN100 TEMPO 2215/2221 09018G24KT BECMG 2301/2303 4000 HZ BECMG 2305/2307 7000 NSC TEMPO 2312/2315 36018 OIIE 220530Z 2206/2312 16006KT CAVOK TEMPO 2206/2212 15014G24KT 7000 SCT040 SCT100 OIII 220530Z 2206/2312 08006KT 8000 FEW035 BKN090 TEMPO 2208/2213 15010G17KT 7000 FEW030CB SCT035 BKN090 PROB30 5000 TSRA SCT030CB SCT035 BKN090 BECMG 2215/2217 8000 NSC OIKB 220530Z 2206/2312 14010KT 5000 HZ FEW030 TEMPO 2208/2212 14018KT BECMG 2220/2222 3000 BR/HZ SCT020 BKN080 BECMG 2406/2307 5000 HZ FEW030 TEMPO 2306/2312 14020KT 4000 SA OIKK 220530Z 2206/2312 32008KT 7000 FEW040 SCT100 TEMPO 2209/2215 32016KT FEW035CB SCT040 SCT100 TEMPO 2309/2312 32018KT FEW0340TCU SCT100 OIMM 220530Z 2206/2312 04006KT CAVOK TEMPO 2209/2216 04014G24KT TEMPO 2309/2312 04014G24KT OISL 220530Z 2206/2312 11004KT CAVOK TEMPO 2215/2221 18015G28KT 7000 FEW030CB SCT035 SBKN100 PROB40 5000 TSRA SCT035CB SCT040 BKN090 OISS 220530Z 2206/2312 33004KT 6000 FEW040 BKN100 TEMPO 2212/2118 06014G20KT 6000 FEW035CB SCT040 BKN100 TEMPO 2309/2312 FEW035CB SCT040 BKN100 OITR 220530Z 2206/2312 30008KT 7000 FEW040 SCT090 TEMPO 2212/2218 09019KT SCT035 OITT 220530Z 2206/2312 30010KT 8000 FEW040 BKN100 TEMPO 2212/2215 27016KT 6000 SCT035 TEMPO 2218/2224 09018G28KT 5000 SA OIZC 220530Z 2206/2312 16006KT 6000 FEW030 SCT100 TEMPO 2209/2216 18020KT 4000 SA BECMG 2216/2218 3000 HZ/BR BKN030 BECMG 2304/2306 6000 FEW030 TEMPO 2309/2312 18022KT 4000 SA OIZH 220530Z 2206/2312 03010KT 5000 DU NSC TEMPO 2206/2214 03020KT 3000 DU/SA BECMG 2216/2218 7000 TEMPO 2218/2224 03020KT BECMG 2300/2302 03006KT OJAI 220500Z 2206/2312 30012KT 7000 NSC TEMPO 2208/2215 04008KT 5000 HZ NSC OJAM 220500Z 2206/2312 32008KT 5000 HZ NSC TEMPO 2208/2215 03008KT OJAQ 220500Z 2206/2312 36012KT CAVOK OKAS 220806Z 2208/2313 32015G25KT 9999 FEW210 QNH2944INS BECMG 2215/2216 30009KT 9999 SKC QNH2945INS BECMG 2304/2305 33012G18KT 9999 SCT200 QNH2947INS BECMG 2307/2308 33015G25KT 8000 HZ SKC QNH2943INS TX47/2212Z TN32/2302Z OKBK 220445Z 2206/2312 34012G22KT 7000 SKC TEMPO 2206/2210 4000 BLDU OLBA 220400Z 2206/2312 24016KT 8000 SCT026 BECMG 2214/2216 23008KT 9999 FEW026 BECMG 2222/2224 16004KT BECMG 2306/2308 25014KT OMAA 220500Z 2206/2312 19007KT 5000 DU NSC BECMG 2207/2209 32012KT 8000 NSW BECMG 2218/2220 06005KT BECMG 2301/2303 15012KT PROB30 TEMPO 2302/2306 15020KT 3000 BLDU BECMG 2308/2310 34012KT OMAD 220500Z 2206/2312 19010KT 5000 DU NSC BECMG 2207/2209 32012KT 8000 NSW BECMG 2218/2220 06005KT BECMG 2301/2303 16014KT PROB30 2302/2306 4000 DU BECMG 2308/2310 33012KT OMAL 220500Z 2206/2312 19008KT 8000 NSC BECMG 2209/2211 34010KT PROB30 TEMPO 2211/2215 VRB20G30KT 3000 BLDU FEW045CB BECMG 2216/2218 09008KT BECMG 2221/2223 16010KT BECMG 2308/2310 06010KT OMDB 220457Z 2206/2312 17012KT 8000 NSC PROB30 TEMPO 2206/2210 4000 DU BECMG 2208/2210 34014KT BECMG 2218/2220 09008KT BECMG 2302/2304 15010KT BECMG 2308/2310 35014KT OMDW 220457Z 2206/2312 17014KT 4000 DU NSC BECMG 2208/2210 34015KT 8000 NSW BECMG 2216/2218 06007KT BECMG 2302/2304 14010KT BECMG 2309/2311 35015KT OMFJ 220500Z 2206/2312 09010KT 6000 SCT020 BECMG 22/14/2216 15005KT BECMG 2304/2306 11010KT OMRK 220457Z 2206/2312 13009KT 8000 NSC BECMG 2208/2210 35012KT BECMG 2216/2218 09012KT BECMG 2308/2310 01010KT OMSJ 220457Z 2206/2312 16010KT 8000 NSC PROB30 TEMPO 2206/2210 3500 DU BECMG 2208/2210 35014KT BECMG 2216/2218 09008KT BECMG 2302/2304 15010KT BECMG 2309/2311 35014KT OODQ 220500Z 2206/2306 08012KT 7000 SCT020 PROB30 TEMPO 2206/2212 BKN015 BECMG 2212/2214 14012KT PROB30 TEMPO 2220/2305 4000 BR BKN010 OOMS 220500Z 2206/2312 05013KT 8000 NSC BECMG 2217/2219 VRB02KT BECMG 2306/2308 05014KT OOSA 220500Z 2206/2312 19010KT 4000 HZ SCT006 BKN012 OVC020 BECMG 2208/2210 6000 SCT008 BKN014 BECMG 2216/2218 VRB03KT 4000 -DZ SCT005 BKN008 OVC018 OOSH 220500Z 2206/2312 07010KT 8000 NSC BECMG 2214/2216 VRB02KT BECMG 2306/2308 05012KT OPBW 220345Z 2206/2224 13005KT 4000 HZ FEW120 TX40/2210Z FM221400 36010KT 3000 FU SCT120 OPDG 220345Z 2206/2224 36010KT 6000 SCT120 TX40/2210Z FM221400 05010KT 4000 FU FEW040 SCT120 OPGD 220330Z 2206/2306 18007G17KT 4000 HZ SCT020 BECMG 2218/2220 16010KT 3000 HZ SCT020 TEMPO 2300/2304 VRB03KT 2000 FU SCT020 OPIS 220300Z 2206/2312 11010KT 5000 HZ FEW040 SCT100 PROB40 TEMPO 2206/2209 12015G25KT 3000 TSRA FEW030CB SCT040 OVC100 PROB30 TEMPO 2221/2224 14015G25KT 3000 TSRA FEW030CB SCT040 BKN100 PROB40 TEMPO 2304/2308 12015G25KT 4000 TSRA FEW030CB SCT040 OVC100 OPKC 220400Z 2206/2312 25010G20KT 6000 FEW030 BECMG 2218/2220 26007G17KT 6000 SCT020 TEMPO 2300/2304 28010KT 4000 HZ SCT020 OPLA 220345Z 2206/2312 13008KT 4000 FU SCT040 TX36/2310Z TN27/2300Z PROB30 TEMPO 2210/2214 35015G35KT 2000 -TSRA FEW030CB SCT040 BKN100 TEMPO 2222/2303 03015G35KT 2000 TSRA FEW030CB SCT040 BKN100 OPMT 220345Z 2206/2224 05005KT 4000 HZ FEW120 TX39/2210Z PROB30 TEMPO 2212/2215 36020KT 2000 BLDU FEW040 SCT120 FM221800 13005KT 3500 FU SCT120 OPNH 220330Z 2206/2312 16007G15KT 6000 NSC BECMG 2217/2219 14007KT 4000 HZ NSC TEMPO 2300/2304 16005KT 4000 HZ NSC OPPS 220345Z 2206/2312 15015KT 4000 HZ SCT040 SCT100 TEMPO 2211/2214 15015G25KT 4000 HZ FEW030TCU SCT040 SCT100 BECMG 2216/2218 15015G25KT 4000 VCTS FEW030TCU/CB SCT040 SCT100 TEMPO 2221/2224 TS FEW030CB SCT040 BKN100 BECMG 2302/2304 15015KT 4000 HZ SCT040 SCT100 OPRK 220345Z 2206/2224 13010KT 5000 HZ FEW120 TX42/2210Z FM221400 36005KT 4000 FU SCT120 OPSK 220330Z 2206/2312 16007G17KT 4000 HZ NSC BECMG 2217/2219 14007KT 4000 HZ NSC TEMPO 2300/2304 VRB03KT 3000 HZ NSC ORAA 2205/2305 33010G15KT 8000 HZ SKC QNH2952INS BECMG 2216/2217 34005KT 8000 HZ SKC QNH2950INS TX44/2211Z TN28/2302Z ORBD 220250Z 2203/2309 30009KT 8000 DUHZ SKC QNH2953INS BECMG 2205/2207 31013G19KT 9000 HZ SKC QNH2944INS WND 270V350 TEMPO 2209/2215 29021G28KT 6000 BLDU BECMG 2215/2216 31011KT 8000 DUFU SKC QNH2945INS BECMG 2305/2306 34011G17KT 8000 HZ SKC QNH2952INS TX46/2211Z TN27/2302Z ORQW 2205/2305 27010G15KT 7000 HZ SKC QNH2952INS BECMG 2217/2218 34008KT 7000 HZ SKC QNH2953INS TX43/2211Z TN26/2302Z ORR3 2205/2305 32012G17KT 5000 HZ SKC QNH2945INS BECMG 2217/2218 35010KT 6000 HZ SKC QNH2946INS TEMPO 2302/2305 3200 FU TX44/2211Z TN30/2302Z ORSH 2205/2305 29013G18KT 6000 HZ SKC QNH2948INS BECMG 2216/2217 34008KT 7000 HZ SKC QNH2950INS TX44/2211Z TN28/2302Z ORTL 2205/2305 34012KT 7000 HZ SKC QNH2949INS BECMG 2208/2209 34017G22KT 5000 HZ SKC QNH2939INS BECMG 2215/2216 34010KT 6000 HZ SKC QNH2940INS TX48/2211Z TN32/2302Z OSDI 2206/2312 22010KT CAVOK TEMPO 2212/2218 24015G25KT OSLK 2206/2306 23012KT 9999 FEW030 BECMG 2220/2222 16005KT 9999 FEW030 OTBD 220502Z 2206/2312 14008KT 7000 NSC PROB30 TEMPO 2220/2304 5000 HZ TEMPO 2223/2202 26005KT TEMPO 2303/2307 33007KT BECMG 2308/2310 05008KT OTBH 220800Z 2208/2314 VRB06KT 9000 HZ SKC QNH2945INS TEMPO 2300/2305 5000 BR BECMG 2304/2305 07009KT 8000 HZ SKC QNH2942INS TX45/2212Z TN29/2302Z OTHH 220506Z 2206/2312 31009KT 6000 NSC TEMPO 2209/2221 13008KT PROB30 TEMPO 2220/2304 5000 HZ TEMPO 2222/2300 23005KT TEMPO 2301/2304 30007KT BECMG 2309/2312 04008KT PAAQ 220520Z 2206/2306 18005KT 6SM FU BKN060 FM220900 36005KT P6SM FEW050 PABE 220527Z 2206/2306 VRB04KT P6SM OVC025 FM220800 VRB03KT P6SM OVC015 PABR 220539Z 2206/2306 12003KT P6SM OVC014 FM220900 16010KT 3SM BR OVC010 FM222100 25012KT P6SM BKN030 FM230300 09007KT P6SM SCT050 BKN100 PABT 220540Z 2206/2306 22005KT P6SM BKN025 FM222200 23005KT 6SM FU SCT040 PACD 220527Z 2206/2306 VRB06KT P6SM VCSH SCT015 OVC025 FM220900 13006KT P6SM SCT015 PACV 220520Z 2206/2306 26005KT P6SM VCSH SCT009 BKN015 OVC030 PADL 220527Z 2206/2306 VRB03KT P6SM SCT050 FM221500 VRB03KT P6SM VCFG OVC007 FM221800 VRB04KT P6SM BKN015 FM222100 VRB06KT P6SM SKC PADQ 220520Z 2206/2306 07005KT P6SM FEW040 SCT060 FM220800 29005KT P6SM FEW020 BKN050 PADU 220527Z 2206/2306 VRB06KT P6SM SCT015 OVC025 TEMPO 2206/2210 OVC015 PAED 220300Z 2203/2309 25009KT 9999 FEW040 QNH3002INS BECMG 2209/2210 VRB06KT 9999 SCT040 QNH3001INS BECMG 2220/2221 25009KT 9999 FEW050 SCT160 QNH2995INS TX24/2223Z TN14/2212Z PAEI 220400Z 2204/2310 VRB06KT 9999 FEW040 QNH3004INS BECMG 2205/2206 26006KT 9999 SCT040 QNH3001INS BECMG 2222/2223 25009KT 9999 SCT060 SCT250 QNH2991INS TX25/2301Z TN11/2212Z PAEN 220520Z 2206/2306 24005KT P6SM SKC FM221200 25006KT 1SM BR BKN003 FM221700 21004KT P6SM FEW040 PAFA 220540Z 2206/2312 VRB04KT P6SM FEW060 PAGA 220540Z 2206/2306 22008KT P6SM BKN035 TEMPO 2206/2208 BKN025 PAGK 220520Z 2206/2306 34005KT P6SM FEW060 SCT100 PAGS 220526Z 2206/2306 25005KT P6SM FEW005 SCT080 FM220900 VRB03KT P6SM BCFG SCT004 FM221700 24006KT P6SM SKC LTD TO CLD VIS AND WIND PAGY 220526Z 2206/2306 22003KT P6SM SCT100 LTD TO CLD VIS AND WIND PAHN 220526Z 2206/2306 VRB04KT P6SM SCT100 LTD TO CLD VIS AND WIND PAHO 220520Z 2206/2306 VRB04KT P6SM SCT050 BKN200 PAIL 220527Z 2206/2306 23007KT P6SM BKN050 FM221300 VRB02KT P6SM SCT015 BKN050 FM222100 VRB04KT P6SM SKC PAJN 220526Z 2206/2306 25004KT P6SM FEW035 SCT100 FM220800 VRB03KT P6SM BCFG FEW005 SCT080 FM221800 24009KT P6SM SKC PAKN 220527Z 2206/2306 VRB05KT P6SM BKN025 FM221400 VRB04KT P6SM VCFG BKN003 FM221800 VRB02KT P6SM SCT100 PAKT 220526Z 2206/2306 14005KT P6SM FEW030 BKN120 FM221300 33007KT P6SM BKN100 LTD TO CLD VIS AND WIND 2206/2215 PAKW 220526Z 2206/2306 20005KT P6SM FEW005 BKN070 FM220900 VRB02KT 3SM BR SCT002 BKN070 FM221600 03004KT P6SM FEW004 BKN080 LTD TO CLD VIS AND WIND PAMC 220540Z 2206/2306 24005KT 5SM FU SCT035 FM221200 00000KT 2SM FU BKN035 FM222200 VRB03KT 5SM FU BKN035 PANC 220520Z 2206/2312 VRB04KT P6SM FEW040 SCT200 FM222100 26007KT P6SM FEW050 SCT120 PAOM 220626Z 2206/2306 21011KT 6SM -RA BR BKN005 OVC010 FM220900 18008KT 2SM BR OVC005 FM222000 18006KT P6SM BKN015 PAOR 220540Z 2206/2306 VRB03KT P6SM SCT060 PAOT 220540Z 2206/2306 21015KT P6SM SCT080 FM221000 16008KT P6SM OVC050 PAPG 220526Z 2206/2306 VRB04KT P6SM SCT100 FM221300 VRB02KT 2SM BR SCT002 BKN100 FM221600 07005KT P6SM FEW003 SCT100 LTD TO CLD VIS AND WIND 2206/2215 PAQT 220539Z 2206/2306 28004KT P6SM OVC015 FM221400 24010KT 4SM BR BKN030 FM230000 29007KT P6SM SCT030 BKN050 PASC 220539Z 2206/2306 27005KT P6SM BKN015 OVC027 FM221200 23010KT 3SM BR BKN015 FM222100 20005KT P6SM BKN030 FM230300 02010KT P6SM SCT025 BKN050 PASD 220527Z 2206/2306 VRB03KT P6SM SKC FM221200 VRB02KT P6SM SCT025 LTD TO CLD VIS AND WIND PASI 220526Z 2206/2306 30007KT P6SM SCT060 FM221100 34003KT P6SM BCFG FEW005 BKN100 FM221600 29005KT P6SM BKN060 PASN 220527Z 2206/2306 17007KT P6SM OVC010 FM221000 15006KT 1 1/2SM BR OVC005 PASY 220840Z 2208/2312 24018KT 1600 BR OVC002 QNH2989INS TX09/2304Z TN07/2220Z PATA 220540Z 2206/2306 27005KT 6SM FU SCT035 PATK 220520Z 2206/2306 22006KT P6SM SCT060 PAUN 220540Z 2206/2306 21005KT P6SM BKN015 BKN025 FM222200 29006KT P6SM SCT025 BKN035 PAVD 220520Z 2206/2306 24006KT P6SM FEW020 SCT045 LTD TO CLD VIS AND WIND PAWG 220526Z 2206/2306 VRB04KT P6SM FEW060 SCT120 FM221700 32005KT P6SM SCT100 LTD TO CLD VIS AND WIND 2206/2215 PAYA 220840Z 2209/2306 00000KT 6SM BR BKN003 BKN100 FM221500 VRB02KT 5SM BR OVC008 FM222000 30005KT P6SM FEW008 OVC015 LTD TO CLD VIS AND WIND PGRO 220524Z 2206/2306 10011KT P6SM VCSH FEW020 SCT050 PGSN 220524Z 2206/2306 10011KT P6SM VCSH SCT020 SCT050 PGUA 221000Z 2210/2316 12010KT 9999 SCT017 BKN040 QNH2975INS TEMPO 2210/2216 9000 -SHRA TEMPO 2312/2316 8000 -SHRA VCTS BKN019CB BKN150 TX31/2305Z TN25/2216Z PGUM 220524Z 2206/2312 10011KT P6SM VCSH SCT020 SCT050 PGWT 220524Z 2206/2306 10011KT P6SM VCSH FEW020 SCT050 PHJR 220541Z 2206/2306 06012G18KT P6SM FEW025 SCT050 FM220800 06010KT P6SM FEW025 SCT050 FM221900 07013G20KT P6SM FEW025 BKN045 FM230500 07008KT P6SM FEW020 BKN040 NOT SKED PHKO 220901Z 2209/2306 14007KT P6SM SKC FM222000 22009KT P6SM VCSH SCT030 OVC060 PHLI 220541Z 2206/2306 06014KT P6SM VCSH FEW020 BKN050 PHMK 220541Z 2206/2306 05010G16KT P6SM SKC FM222000 05014G20KT P6SM SCT020 PHNG 2209/2309 08010KT 9999 FEW020 SCT030 QNH2996INS TEMPO 2209/2215 08012G18KT BKN025 BKN045 FM222000 09012KT 9999 FEW025 SCT035 SCT060 QNH2995INS TEMPO 2221/2303 09012G18KT 8000 -SHRA BKN025 TEMPO 2303/2309 8000 -SHRA BKN025 BKN035 T23/2213Z T27/2223Z PHNL 220901Z 2209/2312 06010KT P6SM FEW025 SCT050 FM221900 07013G20KT P6SM FEW025 BKN045 FM230500 07008KT P6SM FEW020 BKN040 PHNY 220901Z 2209/2306 05008KT P6SM SKC FM222000 05012KT P6SM BKN025 FM230400 VRB06KT P6SM SKC PHOG 220901Z 2209/2306 06011KT P6SM FEW030 SCT050 FM221800 05016G27KT P6SM FEW030 SCT060 FM230500 06012G18KT P6SM FEW030 SCT060 LTD TO VIS AND WIND TIL 221600 PHTO 220541Z 2206/2306 23005KT P6SM VCSH BKN050 FM222000 12010KT P6SM VCSH SCT020 OVC050 PKMJ 220524Z 2206/2306 06011KT P6SM FEW015 SCT050 PKWA 220524Z 2206/2306 06005KT P6SM SCT020 SCT050 PLCH 220509Z 2206/2306 09008KT 9999 SCT020 PMDY 220901Z 2209/2306 08011KT P6SM FEW025 FM221200 09015KT P6SM VCSH SCT025 BKN050 TEMPO 2212/2216 3SM SHRA BR BKN020 OVC035 FM221600 08014KT P6SM SCT020 SCT040 PTKK 220524Z 2206/2306 14006KT P6SM FEW018 SCT040 PTPN 212339Z 2200/2224 VRB06KT P6SM VCSH SCT018 SCT040 PTRO 220524Z 2206/2306 25011KT P6SM VCSH SCT017 BKN120 TEMPO 2214/2218 3SM SHRA BKN016 BKN120 PTSA 212339Z 2200/2224 06006KT P6SM FEW020 SCT050 PTYA 220524Z 2206/2306 VRB06KT P6SM VCSH SCT016 BKN120 PWAK 220600Z 2206/2312 10010G15KT 8000 -SHRA SCT020 BKN060 QNH2978INS TX32/2301Z TN26/2215Z AUTO FCST LIMITED METWATCH 2206 TIL 2214 RCFN 220500Z 2206/2306 18005KT 9999 FEW015 BKN032 TEMPO 2206/2212 FEW010 BKN020 BKN040 BECMG 2212/2214 30005KT BECMG 2300/2302 18005KT RCKH 220500Z 2206/2312 18005KT 9999 FEW015 BKN032 TEMPO 2206/2212 20013G25KT FEW010 BKN018 BKN040 TEMPO 2218/2224 FEW010 BKN020 BKN040 TEMPO 2304/2310 25010KT RCMQ 220500Z 2206/2306 24010KT 9999 FEW012 BKN025 BKN080 TX31/2306Z TN25/2221Z TEMPO 2207/2212 8000 -RA FEW012 BKN016 BKN040 BECMG 2213/2216 FEW012 SCT060 TEMPO 2218/2223 FEW012 BKN100 BECMG 2302/2305 FEW012 BKN050 RCNN 220500Z 2206/2306 21010KT 9999 FEW012 BKN060 TX30/2206Z TN24/2220Z BECMG 2212/2215 12004KT TEMPO 2301/2305 6000 RA FEW010 BKN025 RCSS 220742Z 2207/2306 30005KT 9999 FEW015 BKN032 TEMPO 2207/2211 27010KT 1200 TSRA FEW010 FEW012CB BKN016 BKN040 BECMG 2211/2213 09005KT BECMG 2300/2302 30005KT RCTP 220500Z 2206/2312 25010KT 9999 FEW015 BKN032 TEMPO 2207/2211 30013KT 5000 SHRA FEW010 FEW012CB BKN020 BKN040 BECMG 2212/2214 18005KT BECMG 2300/2302 27008KT TEMPO 2306/2312 30013KT FEW010 FEW012TCU BKN022 BKN040 RJAA 220508Z 2206/2312 02006KT 6000 FEW002 BKN004 TEMPO 2206/2213 4000 BR BECMG 2213/2215 3000 BR TEMPO 2215/2221 1500 BR BECMG 2221/2300 12008KT 8000 NSW FEW012 BKN020 BECMG 2309/2312 02008KT FEW005 BKN008 RJAH 220511Z 2206/2312 06006KT 6000 FEW005 BKN008 TEMPO 2206/2211 4000 BR FEW003 BKN005 BECMG 2211/2213 3000 BR FEW001 BKN003 TEMPO 2213/2221 1500 BR BECMG 2221/2300 18006KT 8000 NSW FEW008 BKN015 BECMG 2309/2312 04005KT 4000 BR FEW005 BKN008 RJBB 220822Z 2208/2312 21012KT 9999 -SHRA FEW015 BKN040 TEMPO 2215/2218 4000 SHRA BR RJCB 220508Z 2206/2312 15011KT 9999 FEW008 BKN015 TEMPO 2210/2212 4000 BR FEW002 BKN005 TEMPO 2212/2221 0700 FG VV001 TEMPO 2221/2300 3000 BR FEW002 BKN005 TEMPO 2306/2312 FEW003 BKN006 RJCC 220505Z 2206/2312 16016KT 9999 FEW008 BKN015 TEMPO 2210/2215 FEW005 BKN008 TEMPO 2215/2300 2000 -SHRA BR FEW001 BKN003 TEMPO 2300/2306 4000 -SHRA BR FEW003 BKN005 TEMPO 2306/2312 4000 -SHRA BR FEW003 BKN008 RJCH 220514Z 2206/2312 10016KT 9999 FEW008 BKN015 TEMPO 2206/2212 FEW005 BKN008 TEMPO 2212/2215 4000 -SHRA BR FEW005 BKN008 TEMPO 2215/2221 3000 SHRA BR BKN005 BKN025 FEW025CB TEMPO 2221/2300 4000 -SHRA BR FEW003 BKN005 TEMPO 2300/2312 FEW005 BKN008 RJCK 220511Z 2206/2312 18011KT 9999 FEW008 BKN015 TEMPO 2206/2212 FEW005 BKN008 TEMPO 2212/2215 1500 BR FEW001 BKN003 TEMPO 2215/2300 0700 FG VV001 TEMPO 2306/2312 FEW005 BKN008 RJCM 220517Z 2206/2312 18020KT 9999 FEW020 RJEC 220510Z 2206/2312 19018KT 9999 FEW030 BECMG 2211/2213 18008KT RJFF 220511Z 2206/2312 27005KT 9999 FEW015 SCT030 BECMG 2209/2211 16006KT BECMG 2300/2303 30008KT BECMG 2309/2312 14004KT RJFK 220506Z 2206/2312 27005KT 9999 FEW010 SCT025 TEMPO 2215/2218 4000 BR TEMPO 2218/2300 3000 BR FEW003 BKN008 BKN015 RJFM 220653Z 2206/2312 15005KT 9000 -SHRA FEW015 SCT030 BKN050 BECMG 2207/2209 24004KT RJFO 220637Z 2206/2312 14005KT 9000 -SHRA FEW005 SCT020 BKN030 RJFR 220950Z 2209/2312 06006KT 9999 FEW015 SCT025 BKN035 BECMG 2210/2212 24005KT BECMG 2303/2306 28007KT RJFS 220508Z 2206/2312 20012KT 9999 FEW020 SCT030 RJFT 220511Z 2206/2312 22006KT 9999 FEW008 SCT010 BKN040 TEMPO 2210/2215 4000 BR TEMPO 2215/2300 1500 -SHRA BR FEW001 BKN003 BKN010 RJFU 220505Z 2206/2312 24010KT 9999 FEW010 SCT030 BECMG 2209/2211 20008KT BECMG 2303/2306 24008KT BECMG 2309/2312 20006KT RJGG 220733Z 2207/2312 15012KT 8000 -SHRA FEW010 BKN020 TEMPO 2207/2210 4000 TSRA BR FEW010 BKN020 FEW025CB TEMPO 2210/2212 4000 SHRA BR BECMG 2218/2221 32005KT BECMG 2300/2303 20006KT BECMG 2309/2312 28010KT RJNK 220511Z 2206/2312 22010KT 9999 FEW020 SCT060 TEMPO 2215/2218 4000 -SHRA BR FEW004 BKN008 RJNS 220956Z 2209/2312 35004KT 6000 -SHRA FEW005 BKN012 TEMPO 2209/2215 3000 TSRA BR FEW003 BKN005 FEW015CB TEMPO 2215/2218 3000 SHRA BR FEW003 BKN005 BECMG 2303/2306 18006KT RJNT 220510Z 2206/2312 21007KT 9999 FEW020 BKN040 BECMG 2300/2303 30005KT TEMPO 2303/2306 TS FEW015 BKN025 FEW030CB RJOA 221013Z 2210/2312 25004KT 2000 -SHRA BR BCFG FEW000 SCT005 BKN009 TEMPO 2210/2212 0300 -SHRA FG VV001 TEMPO 2212/2300 0900 -SHRA FG FEW000 SCT001 BKN003 BECMG 2300/2303 9000 NSW FEW008 SCT015 BKN025 RJOB 220509Z 2206/2312 23007KT 7000 -SHRA FEW003 SCT008 BKN015 TEMPO 2206/2209 4000 -SHRA BR BCFG FEW000 SCT005 BKN008 TEMPO 2213/2216 4000 -SHRA BR BCFG FEW000 SCT005 BKN008 TEMPO 2218/2300 3000 BR BCFG FEW000 SCT005 BKN008 RJOC 220508Z 2206/2312 26015KT 9999 FEW025 SCT045 TEMPO 2221/2303 FEW005 BKN008 BKN015 RJOH 220505Z 2206/2312 26015KT 9999 FEW020 SCT040 TEMPO 2221/2303 FEW005 BKN008 BKN015 RJOI 2205/2305 22007KT 9999 FEW007 BKN020 OVC040 QNH2973INS TEMPO 2206/2216 8000 -SHRA BR SCT005 BKN015 FM221200 22004KT 9000 BR FEW010 BKN020 OVC040 QNH2972INS BECMG 2221/2223 24007KT 9999 NSW BKN025 BKN250 QNH2971INS BECMG 2302/2304 25009KT 9999 SCT025 SCT120 OVC250 QNH2968INS T24/2220Z T29/2305Z RJOK 220510Z 2206/2312 20006KT 7000 -SHRA FEW005 SCT010 BKN020 BECMG 2212/2214 35005KT BECMG 2300/2303 17005KT BECMG 2309/2312 34005KT RJOM 220509Z 2206/2312 24006KT 9999 FEW010 SCT020 BKN045 TEMPO 2207/2210 4000 SHRA BR BECMG 2210/2212 20005KT RJOO 220508Z 2206/2312 22011KT 9999 FEW015 BKN040 TEMPO 2206/2209 3000 TSRA BR FEW008 SCT015 FEW020CB BKN025 BECMG 2210/2212 32004KT TEMPO 2215/2218 4000 SHRA BR BECMG 2221/2300 08006KT BECMG 2306/2309 24007KT RJOT 220512Z 2206/2312 24006KT 8000 -SHRA FEW002 SCT015 BKN020 TEMPO 2206/2215 4000 SHRA BR FEW001 BKN009 BKN015 RJSA 220506Z 2206/2312 02005KT 9999 FEW010 BKN030 BKN040 TEMPO 2215/2221 1500 -SHRA BR FEW001 BKN003 BKN008 BECMG 2218/2221 21007KT BECMG 2303/2306 02005KT RJSF 220512Z 2206/2312 14005KT 9999 FEW010 BKN015 BKN020 TEMPO 2206/2212 3000 BR FEW003 BKN008 BKN015 TEMPO 2212/2221 1500 BR FEW002 BKN005 BKN010 RJSK 220511Z 2206/2312 13008KT 9999 FEW010 BKN030 BKN040 TEMPO 2212/2218 4000 SHRA BR RJSN 220509Z 2206/2312 35004KT 9999 FEW020 BKN040 BECMG 2207/2209 16005KT TEMPO 2216/2221 4000 SHRA BR BECMG 2300/2303 30005KT RJSS 220507Z 2206/2312 13008KT 8000 -RA FEW005 BKN008 BKN015 BECMG 2207/2209 3000 -SHRA BR FEW002 BKN005 BKN008 TEMPO 2209/2212 1500 -SHRA BR TEMPO 2212/2221 0700 -SHRA FG TEMPO 2221/2303 1500 SHRA BR RJTT 220806Z 2208/2312 04006KT 9999 FEW015 BKN030 TEMPO 2208/2212 4000 -RA BR FEW005 BKN008 BECMG 2210/2212 20008KT TEMPO 2221/2303 4000 -SHRA BR FEW005 BKN008 BECMG 2300/2303 05006KT BECMG 2306/2309 08010KT RJTY 220740Z 2207/2311 05006KT 8000 BR SCT007 OVC100 QNH2970INS TEMPO 2212/2218 VRB06KT 4800 -RA BR OVC009 BECMG 2303/2305 VRB06KT 9999 NSW OVC015 QNH2966INS TX27/2304Z TN20/2221Z RKJB 220500Z 2206/2312 22006KT 6000 SCT010 BKN025 TN23/2220Z TX28/2305Z BECMG 2212/2213 3500 BR TEMPO 2216/2220 1200 BKN005 BECMG 2300/2301 18012KT 6000 NSW RKJK 221030Z 2210/2313 VRB06KT 4800 BR BKN002 QNH2966INS TEMPO 2210/2216 3200 BR BECMG 2302/2303 22009KT 9999 NSW SKC QNH2964INS TX30/2305Z TN25/2219Z RKNY 220500Z 2206/2312 26013KT CAVOK TN26/2221Z TX33/2306Z BECMG 2214/2215 26015G25KT BECMG 2223/2224 26010KT BECMG 2306/2307 20007KT BECMG 2309/2310 26008KT RKPC 220500Z 2206/2312 26010KT 9999 FEW030 BKN180 TN24/2220Z TX31/2305Z BECMG 2211/2212 18005KT BECMG 2215/2216 4200 BR BKN010 BKN030 BECMG 2220/2221 09005KT 7000 NSW FEW030 BKN180 BECMG 2300/2301 22015G25KT BECMG 2306/2307 06010KT RKPK 220500Z 2206/2312 18010KT 9000 SCT040 BKN200 TN22/2220Z TX31/2305Z BECMG 2213/2214 33006KT BECMG 2302/2303 18010KT RKSG 220300Z 2203/2309 30009KT 4800 BR SCT015 BKN030 QNH2968INS BECMG 2205/2206 30010KT 6000 BR FEW018 SCT035 QNH2967INS BECMG 2208/2209 VRB06KT 4800 BR BKN020 QNH2967INS BECMG 2214/2215 VRB04KT 0800 FG BKN007 BKN010 QNH2972INS BECMG 2221/2222 VRB04KT 3200 BR OVC008 QNH2969INS BECMG 2301/2302 VRB04KT 4800 BR SCT015 BKN030 QNH2963INS TX28/2206Z TN21/2219Z RKSI 220500Z 2206/2312 22010KT 6000 FEW010 SCT030 TN23/2221Z TX29/2305Z BECMG 2211/2212 2800 BR TEMPO 2217/2220 16006KT 0400 FG BKN001 BECMG 2221/2222 3500 BECMG 2223/2224 6000 NSW RKSM 220500Z 2206/2312 21006KT 9000 BR BKN030 BECMG 2213/2214 21006KT 4800 BR BKN020 BECMG 2215/2216 21006KT 3200 BR BKN015 BECMG 2301/2302 21006KT 4800 BR BKN030 VIS 9999 NSW AFT 2303 TN25/2221Z TX32/2306Z RKSO 220300Z 2203/2309 25012KT 8000 HZ SCT020 BKN030 QNH2966INS BECMG 2213/2214 VRB06KT 4800 BR BKN010 QNH2969INS BECMG 2218/2219 VRB06KT 3200 BR BKN007 QNH2969INS TEMPO 2220/2223 1600 BR BKN005 BECMG 2302/2303 22009KT 9000 HZ SCT010 QNH2962INS TX32/2206Z TN24/2217Z RKSS 220500Z 2206/2312 24007KT 6000 FEW010 SCT025 TN23/2221Z TX31/2306Z BECMG 2215/2216 20005KT 4200 BR BECMG 2217/2218 17005KT 2800 BKN010 BECMG 2222/2223 4200 BECMG 2300/2301 6000 NSW FEW010 SCT030 BECMG 2302/2303 24007KT RKTN 220500Z 2206/2312 31009KT 9999 SCT030 TN24/2221Z TX33/2307Z BECMG 2211/2212 13006KT RKTU 220500Z 2206/2312 24008KT 9999 BKN030 TX32/2207Z TN24/2221Z BECMG 2217/2218 06006KT 4800 BR SCT015 BKN030 BECMG 2220/2221 3200 BKN015 BKN030 BECMG 2300/2301 24006KT 4800 SCT015 BKN030 BECMG 2302/2303 9999 NSW TEMPO 2303/2309 24008KT 9000 -SHRA BKN030 BKN200 ROAH 220505Z 2206/2312 15010KT 9999 FEW020 RODN 220800Z 2208/2314 12009KT 9999 FEW010 SCT015 QNH2976INS TEMPO 2217/2221 BKN015 BECMG 2300/2301 VRB06KT 8000 HZ SCT015 QNH2976INS TX34/2306Z TN26/2220Z ROIG 220506Z 2206/2312 15008KT 9999 SCT015 BECMG 2300/2303 12007KT ROTM 2209/2309 12008KT 9999 FEW015 SCT190 QNH2979INS FM222100 VRB06KT 8000 BR SCT015 BKN100 QNH2980INS T28/2222Z T33/2304Z RPLB 220500Z 2206/2306 25008KT 9999 FEW020 BKN300 TX32/2206Z TN24/2222Z TEMPO 2206/2212 VRB03KT 8000 TS -SHRA FEW018CB SCT020 BKN080 RPLC 220500Z 2206/2312 22010KT 7000 SCT020 BKN100 TX31/2206Z TN25/2221Z TEMPO 2206/2212 34008KT 6000 -TSRA FEW015CB SCT020 OVC090 RPLI 220500Z 2206/2306 25006KT 9999 FEW018 SCT100 BKN280 TEMPO 2206/2212 14010KT 8000 -TSRA FEW017CB SCT018 OVC100 RPLL 220500Z 2206/2312 26007KT 9999 FEW025 BKN300 TX32/2206Z TN27/2222Z TEMPO 2206/2212 29012KT -TSRA FEW022CB SCT023 OVC100 TEMPO 2212/2218 32010KT -SHRA FEW023CB SCT100 BKN250 RPMD 220500Z 2206/2306 16006KT 9999 FEW016 SCT290 TEMPO 2206/2212 18010KT -SHRA FEW015CB BKN090 BKN290 RPMR 220500Z 2206/2306 16006KT 9999 FEW018 SCT080 TEMPO 2206/2212 18010KT -SHRA FEW017CB BKN080 RPMZ 220500Z 2206/2306 14005KT 9999 FEW017 SCT090 BKN300 TEMPO 2206/2212 20008KT -SHRA FEW016CB FEW017 OVC090 RPVD 220500Z 2206/2306 14006KT 9999 FEW015 SCT080 BKN220 TEMPO 2206/2212 18012KT 8000 -TSRA FEW014CB SCT015 BKN080 RPVM 220500Z 2206/2312 25004KT 9999 FEW020 BKN300 TEMPO 2206/2212 20006KT 9000 -SHRA FEW018CB FEW020 BKN100 TEMPO 2212/2218 33005KT 8000 -TSRA FEW018CB FEW020 OVC090 RPVP 220500Z 2206/2306 18006KT 9999 FEW019 SCT080 BKN240 TEMPO 2206/2212 15010KT FEW017CB SCT019 BKN080 SAAR 220500Z 2206/2306 16010KT 9999 SCT030 TX16/2218Z TN05/2210Z BECMG 2208/2211 18005KT SCT030 BKN100 BECMG 2215/2217 18015KT BECMG 2222/2224 16005KT CAVOK SABE 220500Z 2206/2306 19008KT CAVOK TX14/2218Z TN10/2210Z BECMG 2212/2215 SCT030 BKN060 BECMG 2120/2123 16010KT CAVOK SACO 220500Z 2206/2306 23010KT 9999 SCT030 TX15/2218Z TN06/2210Z BECMG 2212/2215 18010KT CAVOK SADF 220500Z 2206/2306 18010KT CAVOK TX14/2218Z TN07/2210Z BECMG 2208/2210 18005KT SCT030 BECMG 2212/2215 BKN030 SCT0600 BECMG 2220/2223 17010KT CAVOK SAEZ 220500Z 2206/2306 18010KT CAVOK TX14/2218Z TN08/2206Z BECMG 2218/2220 16008KT BECMG 2300/2302 13006KT 8000 DZ BKN040 BKN100 SAME 220500Z 2206/2306 18005KT CAVOK TX13/2218Z TN03/2211Z BECMG 2213/2216 09010KT 9999 SCT040 SANT 220500Z 2206/2306 23015KT 5000 FU OVC040 TX18/2218Z TN13/2210Z 2213/2216 18010KT 9999 BKN030 SARE 220500Z 2206/2306 05010KT CAVOK TX27/2215Z TN20/2210Z BECMG 2215/2217 20015KT 9999 SCT020 SCT070 PROB30 2219/2223 20020KT 8000 -RA SCT020 BKN050 BECMG 2223/2301 7000 RA BKN010 OVC020 SARF 220500Z 2206/2306 05020KT CAVOK TX29/2215Z TN20/2210Z BECMG 2208/2210 05010KT BECMG 2218/2220 20015KT 9999 SCT030 SCT100 BECMG 2223/2301 20010KT 7000 RA BKN020 BKN030 SARI 220500Z 2206/2306 05005KT CAVOK TX27/2218Z TN15/2210Z PROB30 TEMPO 2215/2221 02015KT BECMG 2301/2303 14015KT 9999 BKN025 BKN070 SARP 220500Z 2206/2306 05005KT CAVOK TX27/2218Z TN18/2210Z PROB30 TEMPO 2215/2221 05015KT 9999 SCT025 FEW045TCU BECMG 2223/2301 18010KT 9999 BKN025 BKN070 SASA 220500Z 2206/2306 27005KT CAVOK TX18/2118Z TN09/2210Z TEMPO 2209/2212 36005KT 1200 BR BKN010 BECMG 2213/2215 09010KT 9999 BKN025 SASJ 220500Z 2206/2306 32010KT CAVOK TX20/2218Z TN11/2210Z BECMG 2207/2210 23020G30KT 3000 BLDU BKN025 BECMG 2213/2216 20015KT 9999 BKN030 SAVC 220500Z 2206/2306 27015KT CAVOK TX11/2219Z TN01/2211Z BECMG 2210/2213 27015G25KT SAWE 220500Z 2206/2306 25013KT CAVOK TX04/2219Z TNM01/2210Z BECMG 2208/2211 27015G25KT SAWG 220500Z 2206/2306 27015G25KT 9999 SCT030 OVC060 TX06/2219Z TN00/2212Z PROB30 TEMPO 2208/2213 9000 -SHRA BKN040 OVC050 BECMG 2217/2220 27020G30KT SAWH 220500Z 2206/2306 27010KT SCT040 BKN060 TX04/2219Z TNM01/2112Z TEMPO 2208/2213 8000 SHRA BKN025 OVC045 BECMG 2216/2218 27010G20KT SAZM 220500Z 2206/2306 27005KT CAVOK TX12/2218Z TN06/2210Z BECMG 2212/2214 24010KT SCT030 BKN060 BECMG 2300/2301 25005KT 6000 SCT015 SAZN 220500Z 2206/2306 27010KT CAVOK TX09/2218Z TN00/2211Z BECMG 2212/2214 25015KT BECMG 2221/2224 27005KT SAZS 220500Z 2206/2306 29010KT 9999 FEW020 SCT050 TX01/2218Z TNM06/2210Z TEMPO 2210/2213 VRB03KT NSC BECMG 2215/2218 29015G25KT SCT030 SBAF 220300Z 2206/2218 36007KT CAVOK TN17/2209Z TX28/2218Z BECMG 2216/2218 26007KT RMK PER SBAN 220400Z 2206/2218 09008KT CAVOK TN16/2207Z TX25/2217Z BECMG 2212/2214 20008KT 9999 FEW030 RMK PCQ SBAR 220400Z 2206/2306 15010KT 9999 SCT015 TN24/2207Z TX26/2216Z BECMG 2307/2309 SCT012 FEW020TCU BECMG 2213/2215 15015KT SCT020 BECMG 2219/2221 17010KT FEW020 FEW025TCU RMK PEN SBAT 220331Z 2206/2218 00000KT CAVOK TN18/2210Z TX34/2218Z BECMG 2212/2214 09008KT RMK PHQ SBBE 220331Z 2206/2306 08005KT CAVOK TN23/2210Z TX31/2218Z BECMG 2213/2215 SCT020 BECMG 2220/2222 15010KT BKN035 BECMG 2223/2301 09005KT CAVOK RMK PHQ SBBI 220300Z 2206/2218 07004KT CAVOK TN09/2209Z TX23/2218Z PROB40 2206/2210 5000 BR NSC BECMG 2212/2214 02005KT BECMG 2214/2216 33010KT RMK PER SBBR 220400Z 2206/2306 11008KT CAVOK TN14/2207Z TX26/2217Z BECMG 2212/2214 08008KT 9999 SCT045 BECMG 2300/2302 00000KT CAVOK RMK PCQ SBBU 220300Z 2206/2218 04007KT CAVOK TN17/2209Z TX29/2218Z RMK PER SBBV 220331Z 2206/2306 09008KT 9999 SCT030TN24/2209Z TX29/2219Z PROB30 2206/2208 6000 TSRA BKN030 FEW040CB BECMG 2211/2213 5000 RA SCT012 BKN030 BECMG 2215/2217 9999 NSW SCT010 BKN025 BECMG 2219/2221 BKN025 FEW035TCU BECMG 2222/2224 FEW030 RMK PHQ SBBW 220400Z 2206/2218 00000KT CAVOK TN15/2208Z TX32/2217Z BECMG 2214/2216 13005KT RMK PCQ SBCF 220400Z 2206/2306 09008KT CAVOK TN11/2208Z TX22/2217Z BECMG 2212/2214 23008KT 9999 SCT025 BECMG 2220/2222 03003KT CAVOK BECMG 2302/2304 27006KT RMK PCQ SBCG 220300Z 2206/2306 03010KT CAVOK TN21/2208Z TX32/2218Z BECMG 2213/2215 35013KT BECMG 2220/2222 03008KT RMK PER SBCJ 220331Z 2206/2218 11007KT CAVOK TN22/2210Z TX30/2218Z RMK PHQ SBCO 220300Z 2206/2218 10005KT CAVOK TN18/2208Z TX28/2218Z BECMG 2212/2214 03005KT BECMG 2214/2216 34007KT RMK PER SBCP 220300Z 2206/2218 00000KT 9999 FEW010 TN17/2210Z TX25/2218Z BECMG 2212/2214 07015KT FEW015 RMK PGY SBCR 220300Z 2206/2306 05008KT CAVOK TN22/2208Z TX34/2218Z RMK PER SBCT 220300Z 2206/2306 09003KT CAVOK TN09/2209Z TX23/2218Z PROB40 2206/2210 5000 BR NSC BECMG 2212/2214 02005KT BECMG 2214/2216 33010KT BECMG 2220/2222 08005KT RMK PER SBCY 220300Z 2206/2306 02005KT CAVOK TN25/2208Z TX32/2217Z BECMG 2210/2212 32005KT BECMG 2214/2216 03005KT BECMG 2218/2220 34005KT BECMG 2300/2302 05005KT RMK PGY SBDN 220300Z 2206/2218 07009KT CAVOK TN18/2208Z TX30/2218Z RMK PER SBEG 220331Z 2206/2306 33002KT CAVOK TN23/2209Z TX33/2218Z BECMG 2213/2215 03008KT FEW020 BECMG 2216/2218 08010KT SCT030 FEW035TCU BECMG 2222/2301 32003KT CAVOK RMK PHQ SBFI 220300Z 2206/2306 10009KT CAVOK TN18/2208Z TX28/2218Z BECMG 2213/2215 02012KT BECMG 2221/2223 09007KT RMK PER SBFL 220300Z 2206/2306 34007KT 9999 FEW015 TN17/2206Z TX25/2217Z BECMG 2212/2214 01011KT FEW035 BECMG 2221/2223 33007KT RMK PER SBFN 220400Z 2206/2218 15010KT 9999 SCT021 TN26/2208Z TX28/2217Z RMK PEN SBFZ 220400Z 2206/2306 10010KT 8000 BKN015 TN25/2206Z TX28/2217Z BECMG 2212/2214 09015KT 9999 SCT025 BECMG 2221/2223 08010KT FEW022 RMK PEN SBGL 220300Z 2206/2312 12005KT CAVOK TN15/2209Z TX28/2216Z PROB30 2209/2211 4000 BR BECMG 2212/2214 05005KT BECMG 2216/2218 16007KT FEW030 BECMG 2221/2223 07005KT CAVOK BECMG 2300/2302 12005KT BECMG 2309/2311 07005KT RMK PGY SBGO 220400Z 2206/2306 10008KT CAVOK TN16/2207Z TX28/2217Z BECMG 2212/2214 18009KT 9999 FEW040 BECMG 2300/2302 13003KT CAVOK RMK PCQ SBGR 220203Z 2206/2312 07005KT CAVOK TN11/2209Z TX24/2218Z BECMG 2210/2212 06010KT BECMG 2215/2217 31005KT BECMG 2219/2221 08003KT PROB40 2222/2303 00000KT RMK PGF SBGW 220300Z 2206/2218 05007KT CAVOK TN15/2209Z TX28/2218Z RMK PER SBIH 220331Z 2206/2218 00000KT CAVOK TN23/2210Z TX33/2218Z BECMG 2212/2214 08008KT BECMG 2216/2218 SCT025 RMK PHQ SBIL 220400Z 2206/2218 19010KT 8000 SCT015 TN20/2208Z TX27/2215Z BECMG 2213/2215 16010KT 9999 SCT020 BECMG 2215/2217 SCT025 FEW030TCU RMK PEN SBIZ 220331Z 2206/2218 00000KT CAVOK TN22/2209Z TX33/2218Z BECMG 2210/2213 11012KT RMK PHQ SBJP 220400Z 2206/2306 20006KT 9999 SCT020 TN22/2206Z TX29/2217Z BECMG 2213/2215 13015KT BKN017 BECMG 2219/2221 16010KT SCT025 FEW030TCU BECMG 2223/2301 19005KT FEW015 RMK PEN SBJV 220300Z 2206/2218 30004KT 4000 BR FEW002 BKN010 TN15/2206Z TX24/2218Z TEMPO 2206/2210 0800 FG BKN002 BECMG 2210/2212 8000 BKN015 BECMG 2212/2214 07007KT FEW030 RMK PER SBKG 220400Z 2206/2218 15005KT 8000 SCT012 TN20/2207Z TX25/2217Z PROB30 2208/2211 4000 RA BR BKN008 BECMG 2212/2214 12010KT 9999 BKN015 BECMG 2215/2217 14015KT BKN020 RMK PEN SBKP 220203Z 2206/2306 07005KT CAVOK TN14/2209Z TX26/2218Z BECMG 2210/2212 04010KT BECMG 2214/2216 01005KT BECMG 2220/2222 06005KT BECMG 2223/2301 10005KT RMK PGF SBLO 220300Z 2206/2218 08005KT CAVOK TN15/2208Z TX29/2218Z RMK PER SBME 220300Z 2206/2218 03005KT 9999 SCT020 TN17/2208Z TX24/2218Z BECMG 2212/2214 06010KT SCT030 RMK PGY SBMN 220400Z 2206/2218 05008KT CAVOK TN25/2208Z TX30/2217Z BECMG 2209/2211 07005KT 9999 FEW015 BECMG 2212/2214 SCT020 BECMG 2216/2218 SCT020 FEW025TCU RMK PEN SBMO 220400Z 2206/2218 16005KT 8000 SCT012 TN22/2208Z TX26/2217Z BECMG 2211/2213 BKN015 FEW030TCU BECMG 2214/2216 16015KT 9999 BKN020 RMK PEN SBMQ 220331Z 2206/2306 08008KT 9999 SCT012TN23/2209Z TX33/2219Z BECMG 2214/2216 SCT020 BECMG 2304/2306 SCT010 RMK PHQ SBNF 220300Z 2206/2306 26004KT 5000 BR BKN008 TN16/2206Z TX22/2216Z BECMG 2209/2211 8000 FEW004 BKN009 BECMG 2211/2213 9999 NSW SCT015 BECMG 2213/2215 06005KT FEW025 BECMG 2223/2301 26004KT 9000 SCT010 RMK PER SBNT 220400Z 2206/2218 19008KT 8000 SCT017 TN23/2210Z TX28/2217Z BECMG 2208/2210 SCT015 FEW025TCU BECMG 2215/2217 13015KT SCT023 RMK PEN SBPB 220400Z 2206/2218 13010KT 9999 FEW015 TN24/2211Z TX34/2217Z BECMG 2214/2216 08010KT SCT020 RMK PEN SBPJ 220400Z 2206/2218 09005KT CAVOK TN19/2208Z TX34/2217Z BECMG 2212/2214 09008KT RMK PCQ SBPL 220400Z 2206/2218 14015KT 9999 SCT023 TN21/2209Z TX29/2217Z BECMG 2214/2216 17015KT FEW025 RMK PEN SBPS 220400Z 2206/2218 16010KT 9999 SCT020 TN21/2206Z TX24/2217Z BECMG 2214/2216 02010KT BKN020 FEW025TCU RMK PEN SBRB 220300Z 2206/2218 23005KT CAVOK TN21/2207Z TX30/2218Z BECMG 2210/2212 00000KT BECMG 2213/2215 02005KT BECMG 2216/2218 35005KT SCT030 FEW035TCU RMK PGY SBRF 220400Z 2206/2306 15010KT 8000 SCT013 TN25/2206Z TX28/2215Z BECMG 2214/2216 16015KT SCT023 FEW025TCU BECMG 2218/2220 SCT025 BECMG 2223/2301 17010KT FEW025 RMK PEN SBRJ 220300Z 2206/2218 14005KT CAVOK TN18/2209Z TX27/2218Z BECMG 2208/2210 33005KT BECMG 2215/2217 16005KT FEW025 RMK PGY SBRP 220203Z 2206/2218 09005KT CAVOK TN15/2209Z TX26/2217Z BECMG 2211/2213 06010KT RMK PGF SBSC 220300Z 2206/2218 01005KT CAVOK TN17/2209Z TX27/2218Z BECMG 2216/2218 24007KT RMK PER SBSG 220400Z 2206/2306 23005KT 9999 SCT015 TN23/2206Z TX28/2216Z BECMG 2213/2215 16015KT SCT023 BECMG 2220/2222 SCT020 FEW025TCU BECMG 2223/2301 19005KT SCT017 RMK PEN SBSJ 220300Z 2206/2306 04005KT 9999 FEW020 TN12/2208Z TX24/2218Z PROB30 2207/2211 09005KT 4000 BR BKN005 BECMG 2213/2215 11005KT BECMG 2218/2220 02005KT BECMG 2221/2223 12005KT BECMG 2300/2302 07005KT FEW015 RMK PGY SBSL 220331Z 2206/2306 07005KT CAVOK TN25/2209Z TX31/2218Z BECMG 2212/2214 11012KT BKN020 BECMG 2218/2220 06005KT FEW020 RMK PHQ SBSM 220300Z 2206/2218 01010KT CAVOK TN22/2206Z TX27/2218Z BECMG 2206/2208 01015G25KT BECMG 2212/2214 01012KT BECMG 2214/2216 27007KT 9999 SCT035 RMK PER SBSN 220331Z 2206/2306 16003KT CAVOK TN22/2209Z TX31/2218Z BECMG 2212/2214 08010KT BECMG 2216/2218 SCT025 BECMG 2222/2224 14003KT CAVOK RMK PHQ SBSP 220203Z 2206/2218 04008KT CAVOK TN14/2209Z TX24/2217Z PROB30 2215/2218 33008KT RMK PGF SBSV 220400Z 2206/2306 15010KT 8000 SCT017 TN25/2206Z TX27/2216Z PROB30 TEMPO 2206/2212 5000 RA BKN008 FEW025TCU BECMG 2217/2219 SCT020 FEW023TCU BECMG 2221/2223 SCT017 RMK PEN SBTE 220400Z 2206/2218 16010KT CAVOK TN24/2209Z TX32/2217Z BECMG 2212/2214 13010KT 9999 SCT030 RMK PEN SBTT 220300Z 2206/2306 00000KT CAVOK TN22/2211Z TX30/2217Z BECMG 2218/2220 08005KT SCT020 FEW030TCU BECMG 2221/2223 16005KT RMK PGY SBUG 220300Z 2206/2218 04012KT CAVOK TN20/2206Z TX26/2218Z BECMG 2212/2214 9999 SCT040 PROB40 2214/2216 RA SCT030 BECMG 2216/2218 18008KT RMK PER SBUL 220203Z 2206/2218 05010KT CAVOK TN14/2209Z TX23/2217Z RMK PGF SBUR 220203Z 2206/2218 07005KT CAVOK TN15/2209Z TX24/2217Z BECMG 2211/2213 04010KT RMK PGF SBVH 220300Z 2206/2218 09005KT CAVOK TN18/2211Z TX31/2218Z BECMG 2212/2214 03010KT RMK PGY SBVT 220400Z 2206/2218 33005KT 8000 SCT012 TN16/2207Z TX29/2217Z BECMG 2213/2215 15008KT BKN020 RMK PEN SBYS 220400Z 2206/2218 00000KT CAVOK TN04/2208Z TX24/2217Z TEMPO 2209/2212 5000 BR NSC RMK PCQ SCAR 220450Z 2206/2306 03004KT 8000 OVC020 TN16/2206Z TX18/2218Z BECMG 2212/2214 24004KT BECMG 2217/2219 22012KT BKN030 BECMG 2222/ 2300 18004KT OVC025 SCAT 220430Z 2206/2306 18004KT 9999 FEW015 BKN200 TN10/2206Z TX14 /2218Z BECMG 2211/2213 34010KT OVC013 BECMG 2217/2219 24015KT SCT020 BKN200 BECMG 2300/2302 04004KT OVC017 SCBA 220410Z 2206/2306 31020KT 9999 SCT035 TNM03/2208Z TX04/2218Z BECMG 2208/2210 FEW025 BKN035 TEMPO 2213/2218 31020G30KT SCT025 OVC035 BECMG 2219/2221 32020G30KT SCT035 BKN180 TEMPO 2221/2301 32020KT BKN040 SCT210 BECMG 2303/2305 31017KT BKN035 SCCF 220430Z 2206/2306 11015KT CAVOK TN02/2206Z TX19/2218Z BECMG 2214/2215 09004KT BECMG 2216/2218 27020KT TEMPO 2218/2220 29025G35KT BECMG 2223/2301 25010KT BECMG 2302/2304 11010KT SCCI 220429Z 2206/2306 27012KT 9999 FEW016 BKN030 TNM01/2211Z TX04/2220Z BECMG 2209/2211 8000 -RASN -SN FEW010 BKN020 BECMG 2215/2217 26020G35KT TEMPO 2215/2219 27030G45KT BECMG 2300/2302 23020G30KT BECMG 2304/2306 9999 NSW FEW030 SCDA 220455Z 2206/2306 23004KT 9999 OVC025 TN16/2206Z TX18/2217Z BECMG 2215/2217 24010KT BKN030 BECMG 2222/2224 20004KT OVC020 SCEL 220502Z 2206/2306 16004KT 4000 BR FEW020 TX10/2219Z TN01 /2211Z BECMG 2208/2210 2000 BR NSC TEMPO 2211/2214 VRB02KT 0800 BCFG BECMG 2218/2220 19008KT TEMPO 2222/2304 15008KT SCFA 220527Z 2206/2306 19004KT 9999 OVC020 TN13/2210Z TX15/ 2216Z BECMG 2212/2214 14004KT BECMG 2215/2217 20015KT BKN030 BECMG 2221/ 2223 SCT015 OVC020 TEMPO 2302/2308 8000 -DZ OVC015 BECMG 2304/2306 17008KT SCIE 220415Z 2206/2306 18005KT 9999 FEW020 TX12/2218Z TN03/2210Z TEMPO 2207/2211 CAVOK BECMG 2212/2214 21005KT CAVOK TEMPO 2218/2222 18010KT BECMG 2300/2302 9999 SCT040 SCIP 220400Z 2206/2306 05006KT 9999 SCT020 BKN040 TN17/2210Z TX22/2220Z TEMPO 2208/2214 03012KT 5000 SHRA SCT012 BKN030 BECMG 2215/2217 02017KT BECMG 2223/2300 01015KT TEMPO 2302/2305 03012KT 5000 SHRA SCT012 BKN030 SCQP 220404Z 2206/2306 31005KT 9999 SCT020 TN02/2212Z TX10/2219Z TEMPO 2206/2215 05004KT 9999 -SHRA BKN017 SCT025 BECMG 2216/2217 VRB02KT SCT030 BECMG 2218/2220 20004KT BECMG 2221/2223 CAVOK SCTE 220544Z 2206/2306 VRB02KT 9999 FEW040 TNM01/2208Z TX08/2219Z TEMPO 2207/2213 01002KT 1000 BCFG SCT003 SCT040 BECMG 2213/2215 01006KT FEW010 SCT018 SCT040 BECMG 2216/2218 33007KT BKN020 BKN035 TEMPO 2218/2221 30010KT 9000 -SHRA FEW012 BKN020 BECMG 2222/2224 26004KT BKN018 SCT040 BECMG 2301/2303 VRB02KT 9999 SCT016 SEGU 220430Z 2206/2306 23008KT 9999 BKN020 BKN100 FM221300 20005KT 9999 SCT023 SCT100 FM221800 16006KT 9999 SCT023 FM230000 22014KT CAVOK TX31/2220Z TN22/2210Z SELT 220430Z 2206/2306 18008KT 9999 FEW010 BKN030 BECMG 2214/2215 18018KT BKN030 BECMG 2223/2224 17008KT TX17/2219Z TN07/2211Z SEMT 220430Z 2206/2306 20010KT 9999 BKN020 BECMG 2214/2215 SCT020 TX29/2220Z TN21/2210Z SEQM 220430Z 2206/2306 VRB03KT 9999 FEW010 BKN026 BECMG 2216/2217 SCT033 BECMG 2218/2219 34012KT TX26/2219Z TN09/2211Z SGAS 220425Z 2206/2306 05014KT CAVOK TX32/2219Z TN22/2209Z BECMG 2211/2213 02010G20KT 9999 SCT030 BECMG 2215/2218 05015KT 9999 BKN030 PROB30 2220/2223 VRB08KT 8000 TSRA BKN020 FEW040CB SGCO 220425Z 2206/2306 04008KT CAVOK TX34/2219Z TN24/2209Z BECMG 2209/2212 03012G20KT 9999 SCT027 BECMG 2214/2216 02015KT 9999 BKN027 BECMG 2221/2223 VRB08KT 9999 BKN027 SGEN 220425Z 2206/2306 06015KT CAVOK TX28/2219Z TN20/2209Z BECMG 2208/2211 05010KT 9999 9999 SCT030 2212/2215 VRB06KT 9999 BKN027 PROB40 2218/2221 16010KT 5000 TSRA BKN020 FEW040CB BECMG 2223/2301 21010KT 8000 DZ OVC015 SGES 220425Z 2206/2306 04008KT CAVOK TX28/2219Z TN19/2209Z BECMG 2213/2216 05014KT 9999 BKN027 BECMG 2218/2221 05012G20KT 9999 BKN027 BECMG 2222/2300 14006KT 9999 SCT027 SKBG 220430Z 2206/2306 VRB02KT 9999 SCT015 SCT080 BECMG 2214/2216 32009KT TEMPO 2222/2302 DZRA SCT010CB BKN070 TX30/2218Z TN20/2211Z SKBO 220430Z 2206/2306 VRB03KT 9999 SCT017 SCT080 BECMG 2214/2216 14014KT TEMPO 2219/2224 DZRA BKN023 BECMG 2300/2302 VRB03KT FEW020 TX19/2218Z TN09/2211Z SKBQ 220430Z 2206/2306 01013KT 9999 FEW015 PROB40 TEMPO 2220/2223 FEW015CB TX34/2217Z TN26/2210Z SKCC 220430Z 2206/2306 18016KT 9999 SCT020 TX35/2219Z TN27/2211Z SKCG 220430Z 2206/2306 VRB03KT 9999 FEW015 BECMG 2214/2216 34012KT TX34/2218Z TN25/2211Z SKCL 220430Z 2206/2306 VRB03KT 9999 FEW030 BKN100 TEMPO 2209/2212 7000 VCFG DZ SCT030 BECMG 2219/2220 35012KT TX32/2219Z TN19/2211Z SKLT 220430Z 2206/2306 00000KT CAVOK TEMPO 2210/2212 5000 DZ BCFG SCT005 BECMG 2214/2216 05006KT 9999 FEW020 TX32/2218Z TN22/2211Z SKPE 220430Z 2206/2306 VRB03KT 9999 FEW017 SCT080 BECMG 2215/2217 12014KT FEW017TCU PROB40 2219/2223 5000 TSRA SCT010CB BKN070 TX27/2219Z TN19/2211Z SKRG 220430Z 2206/2306 VRB02KT 9999 FEW017 SCT080 BECMG 2214/2216 12010KT SCT020 BKN070 TEMPO 2220/2224 5000 DZRA BKN015 SCT080 TX24/2218Z TN13/2211Z SKSP 220430Z 2206/2306 06010KT 9999 FEW015 TX32/2219Z TN27/2211Z SLAL 220440Z 2206/2306 34005KT 9999 NSC TX20/2219Z TN05/2211Z BECMG 2215/2217 34012KT BECMG 2302/2304 00000KT SLCB 220440Z 2206/2306 00000KT 9999 NSC TX24/2219Z TN04/2211Z BECMG 2215/2217 25010KT SCT036 FEW039CB SLCO 220440Z 2206/2306 00000KT 9999 NSC TX34/2220Z TN21/2211Z BECMG 2212/2214 30008KT BECMG 2223/2301 00000KT SLET 220440Z 2206/2306 33018KT 9999 SCT020 BKN070 TX28/2219Z TN22/2211Z BECMG 2214/2216 33025G35KT BKN020 PROB30 TEMPO 2219/2223 6000 SHRA FEW027TCU BECMG 2303/2305 24005KT 6000 RA SCT010 BKN020 BKN070 SLLP 220440Z 2206/2306 04004KT 9999 FEW010 TX13/2220Z TNM04/2210Z PROB40 TEMPO 2208/2211 3000E VCFG BECMG 2213/2215 30010KT TEMPO 2218 /2221 31014G24KT FEW020CB SLPS 220440Z 2206/2306 00000KT 9999 NSC TX33/2219Z TN23/2211Z BECMG 2214/2216 09010G20KT BECMG 2223/2301 00000KT BKN070 SLTJ 220440Z 2206/2306 00000KT 9999 NSC TX25/2219Z TN05/2211Z BECMG 2214/2216 35010KT TEMPO 2219/2221 06010KT BECMG 2301/2303 00000KT SCT030 BKN070 SLTR 220440Z 2206/2306 00000KT 9999 NSC TX33/2220Z TN20/2211Z BECMG 2212/2214 34010KT BECMG 2300/2302 00000KT SLVR 220440Z 2206/2306 34018KT 9999 SCT020 BKN070 TX28/2219Z TN22/2211Z BECMG 2214/2216 34025G35KT BKN020 PROB30 TEMPO 2219/2223 6000 SHRA FEW027TCU BECMG 2303/2305 24005KT 8000 RA SCT010 BKN020 BKN070 SMJP 220400Z 2206/2306 08003KT 9999 SCT020 TX30/2216Z TN23/2209Z BECMG 2209/2210 00000KT 0800 FG BKN001 BECMG 2211/2212 10008KT 9999 SCT010 TEMPO 2216/2221 4000 SHRA FEW015CB SCT020 PROB40 TEMPO 2218/2220 VRB08G20KT 3000 TSRA FEW015CB SCT020 SMZO 220400Z 2206/2306 09004KT 9999 FEW010 SCT030 TX32/2218Z TN24/2209Z FM221200 09008KT 9999 SCT012 TEMPO 2215/2219 4000 SHRA FEW015CB SCT020 PROB40 TEMPO 2217/2219 VRB08G20KT 3000 TSRA FEW015CB SCT020 SOCA 220400Z 2206/2306 VRB02KT 9999 SCT020 TEMPO 2206/2306 3000 SHRA FEW012TCU PROB30 TEMPO 2206/2209 TSRA FEW010CB FM221400 07010KT 9999 SCT026 PROB30 TEMPO 2215/2221 TSRA FEW010CB SPCL 220500Z 2206/2306 33003KT 9999 FEW020 TX32/2219Z TN22/2211Z TEMPO 2210/2212 8000 BKN010 SCT080 BECMG 2213/2215 03003KT BKN020 PROB30 TEMPO 2219/2222 06010KT 5000 SHRA BKN015 FEW025TCU SPHI 220600Z 2206/2306 18010KT CAVOK TX23/2219Z TN16/2211Z FM221000 17006KT 9999 FEW010 BECMG 2213/2217 18012KT CAVOK FM230000 18010KT CAVOK SPJC 220645Z 2206/2306 18008KT 4000 -DZ BR FEW005 OVC0007 TX19/2218Z TN15/2211Z TEMPO 2211/2213 VRB03KT 3000 -DZ BR OVC005 BECMG 2214/2216 18010KT 9999 NSW SCT010 OVC015 BECMG 2223/2301 8000 OVC008 SPQT 220500Z 2206/2306 VRB02KT 9999 FEW015 SCT080 TX32/2219Z TN22/2211Z TEMPO 2210/2212 25003KT 5000 BR -RA BKN005 BKN080 TEMPO 2220/2223 03012KT 4000 SHRA BKN015 FEW025TCU BKN070 SPQU 220600Z 2206/2306 03006KT CAVOK TX22/2218Z TN09/2210Z BECMG 2214/2216 25010KT SPRU 220600Z 2206/2306 15004KT 5000 BR BKN017 TX20/2218Z TN14/2211Z BECMG 2208/2211 3000 BR SCT005 BKN016 BECMG 2214/2216 17010KT 8000 NSW BKN022 BECMG 2219/2221 FEW025 FM230400 15004KT 5000 BR SCT020 SPSO 220600Z 2206/2306 19004KT 8000 OVC013 TX17/2218Z TN13/2211Z TEMPO 2209/2212 VRB04KT 5000 BR BECMG 2214/2216 33008KT 8000 NSW FEW020 FM221900 24010KT CAVOK BECMG 2223/2302 8000 OVC015 SPTN 220600Z 2206/2306 24006KT 7000 SCT011 OVC020 TX18/2219Z TN12/2211Z TEMPO 2208/2210 4000 BR OVC010 FM221430 22005KT 8000 BKN030 FM221800 24008KT CAVOK SPZO 220600Z 2206/2306 04004KT 9999 NSC TX21/2219Z TN01/2211Z BECMG 2210/2212 VRB04KT TEMPO 2219/2223 29012KT SUAA 220530Z 2206/2306 16015KT 9999 BKN010 BKN070 TX12/2218Z TN09/2210Z TEMPO 2206/2212 3000 TSRA BKN008 FEW040CB OVC060 PROB30 TEMPO 2206/2209 23020G30KT GR SUCA 220530Z 2206/2306 18015KT 9999 BKN010 BKN070 TX12/2218Z TN08/2210Z TEMPO 2206/2212 3000 TSRA BKN008 FEW040CB OVC060 PROB30 TEMPO 2206/2209 23020G30KT GR SUDU 220530Z 2206/2306 36015KT 9999 BKN010 BKN070 TX13/2218Z TN08/2210Z TEMPO 2206/2214 2000 TSRA BKN005 FEW040CB OVC060 PROB30 TEMPO 2206/2212 23020G30KT GR BECMG 2206/2208 180015KT SULS 220530Z 2206/2306 17015KT 9999 BKN008 BKN070 TX12/2218Z TN09/2210Z TEMPO 2206/2212 2000 TSRA BKN005 FEW040CB OVC060 PROB30 TEMPO 2206/2209 23025G35KT GR SUMU 220530Z 2206/2306 19015KT 9999 BKN010 BKN070 TX12/2218Z TN09/2210Z TEMPO 2206/2212 3000 TSRA BKN008 FEW040CB OVC060 PROB30 TEMPO 2206/2209 23020G30KT GR SURV 220530Z 2206/2306 36010KT 9999 BKN010 BKN070 TX18/2218Z TN14/2210Z TEMPO 2206/2216 23015G25KT 3000 TSRA BKN008 FEW040CB OVC060 SUSO 220530Z 2206/2306 36010KT 9999 BKN010 BKN070 TX16/2218Z TN12/2210Z TEMPO 2206/2216 3000 TSRA BKN005 FEW040CB OVC060 PROB30 TEMPO 2206/2213 23020G30KT GR BECMG 2206/2208 180015KT SVBC 220400Z 2206/2306 06006KT 9999 FEW010 TX35/18Z TN25/08Z BECMG 2206/2210 05008KT 9000 -DZ SCT010 SVJC 220400Z 2206/2306 08004KT 9999 FEW013 TX34/18Z TN25/08Z BECMG 2206/2210 08015G18KT 9000 -DZ SCT013 SVMC 220400Z 2206/2306 09006KT 9999 FEW013 SCT016 TX35/19Z TN24/08Z BECMG 2206/2210 08006KT 9000 -DZ SCT013 SVMG 220400Z 2206/2306 08010KT 9999 FEW010 TX33/18Z TN25/08Z BECMG 2206/2210 08013KT 9000 -DZ SCT010 SVMI 220400Z 2206/2306 09006KT 9999 FEW016 SCT016 TX33/19Z TN24/08Z BECMG 2206/2210 09008KT 9000 -DZ SCT016 SVSA 220400Z 2206/2306 15006KT 9999 SCT020 TX32/18Z TN22/08Z BECMG 2206/2210 15008KT 9000 DZ SCT020 SCT090 SYCJ 220540Z 2206/2306 VRB02KT 9999 SCT014 TEMPO 2208/2210 5000 BR BECMG 2210/2112 07012KT 9999 BKN018 SCT037 TEMPO 2214/2220 VRB10KT 4000 SHRA FEW012CB BKN035 BKN080 BECMG 2222/2300 VRB02KT 9999 SCT014 SCT036 SYEC 220539Z 2206/2306 06008KT 9999 FEW016 TEMPO 2206/2210 5000 SHRA SCT014 BKN035 BECMG 2210/2212 08010KT 9999 BKN018 SCT038 PROB40 TEMPO 2214/2218 5000 SHRA BKN036 BECMG 2223/2301 05006KT 9999 SCT014 TAPA 220500Z 2206/2306 10011KT 9999 SCT020 PROB40 TEMPO 2300/2306 SHRA BKN014 BKN038 TBPB 220500Z 2206/2306 09014KT 9999 SCT018 PROB30 TEMPO 2206/2212 5000 SHRA BKN014 FEW015CB TEMPO 2213/2218 TSRA SCT012CB TFFF 220500Z 2206/2306 11010KT 9999 SCT025 PROB30 TEMPO 2206/2211 4000 SHRA SCT020TCU TEMPO 2211/2216 2000 SHRA BKN020TCU TEMPO 2219/2303 VRB15G25KT 2000 SHRA BKN012CB TFFR 220400Z 2206/2306 VRB02KT 9999 SCT025 PROB30 TEMPO 2206/2212 4000 SHRA SCT020TCU BECMG 2210/2212 12012KT TEMPO 2219/2304 VRB15G25KT 2000 SHRA BKN015CB TGPY 220400Z 2206/2306 10008KT 9999 SCT018 SCT038 PROB40 TEMPO 2212/2218 5000 SHRA TS FEW012CB BKN016 BKN036 TIST 220543Z 2206/2306 09005KT P6SM VCSH FEW025 FEW035 FM221300 12013KT P6SM SCT030 FM221500 13013KT P6SM VCSH SCT028 FM222300 09009KT P6SM SCT030 TISX 220543Z 2206/2306 05007KT P6SM -RA VCSH FEW035 SCT070 BKN090 FM221300 11013KT P6SM SCT025 FM221500 12012KT P6SM VCSH SCT027 FM222300 09010KT P6SM SCT025 FM230400 08007KT P6SM VCSH SCT024 SCT040 TJBQ 220543Z 2206/2306 10008KT P6SM SKC FM221400 07014KT P6SM SCT030 FM221700 07014KT P6SM VCTS SCT025CB BKN050 FM222300 10008KT P6SM FEW025 SCT060 FM230400 11005KT P6SM FEW024 NOT SKED TIL 221100 TJMZ 220543Z 2206/2306 07006KT P6SM FEW030 FEW050 FM221400 31008KT P6SM SCT025 FM221600 29010KT P6SM VCTS SCT025CB BKN050 PROB30 2218/2221 2SM +TSRA BKN025CB OVC035 FM222300 07006KT P6SM FEW025 SCT060 NOT SKED TJPS 220543Z 2206/2306 05003KT P6SM FEW030 FM221400 15015G22KT P6SM FEW030 FM221800 15016G24KT P6SM VCTS SCT030CB SCT060 FM222300 10010KT P6SM VCSH SCT030 TJSJ 220543Z 2206/2306 13004KT P6SM VCSH FEW028 FM221400 07016KT P6SM SCT030 FM221600 07015G22KT P6SM VCTS FEW024 SCT035CB SCT100 FM222300 09012KT P6SM VCSH SCT025 SCT035 SCT060 TKPK 220543Z 2206/2306 06008KT P6SM VCSH FEW022 FM221400 08013KT P6SM VCSH SCT018 FM221800 08011KT P6SM FEW019 FM230200 07012KT P6SM VCSH SCT016 NOT SKED TIL 221100 TKPN 220300Z 2200/2224 CNL TLPC 220500Z 2206/2306 10010KT 9999 SCT024 TEMPO 2206/2216 5000 SHRA FEW016CB BKN017 TLPL 220500Z 2206/2306 10018KT 9999 SCT024 TEMPO 2206/2216 5000 FEW016CB BKN017 TNCA 220432Z 2206/2306 09017KT 9999 FEW018 BECMG 2212/2214 10021G33KT TEMPO 2216/2306 BKN015 TNCB 220415Z 2206/2312 09017KT 9999 SCT018= TNCC 220430Z 2206/2306 10012KT 9999 FEW018 BECMG 2214/2216 11015G26KT TEMPO 2214/2306 BKN015 TNCM 220543Z 2206/2306 06009KT P6SM VCSH FEW019 FM221200 10010KT P6SM FEW020 FM221600 11010KT P6SM VCSH SCT022 FM222100 09011KT P6SM FEW018 FM230200 08011KT P6SM VCSH SCT018 TQPF 220300Z 2200/2224 CNL TRPG 220300Z 2200/2224 CNL TTCP 220400Z 2206/2306 11005KT 9999 SCT016 PROB40 TEMPO 2208/2212 7000 SHRA FEW012CB BKN015 BECMG 2211/2213 10015KT SCT020 TEMPO 2215/2219 5000 SHRA FEW012CB SCT016 BECMG 2223/2301 10005KT SCT016 TTPP 220400Z 2206/2306 11005KT 9999 SCT016 PROB40 TEMPO 2208/2212 7000 SHRA FEW012CB BKN015 BECMG 2211/2213 10015KT SCT020 TEMPO 2215/2219 5000 SHRA SCT015 PROB30 TEMPO 2215/2219 2000 TSRA FEW010CB BKN015 BECMG 2223/2301 10005KT SCT016 TUPJ 220300Z 2200/2224 CNL TVSA 220500Z 2206/2306 09012KT 9999 SCT018 TEMPO 2212/2218 5000 SHRA BKN014 FEW015CB TEMPO 2222/2302 TSRA SCT042CB TXKF 220533Z 2206/2306 25010KT 9999 FEW018 SCT300 UAAA 220500Z 2206/2306 30003G08MPS 9999 SCT050CB BKN100 TX36/2209Z TN19/2301Z TEMPO 2206/2208 02003MPS TEMPO 2208/2216 22007G16MPS 5000 BLDU PROB40 TEMPO 2208/2216 TS TEMPO 2216/2224 16003G10MPS UACC 220500Z 2206/2306 32010G15MPS 9999 SCT030CB BKN100 TX28/2208Z TN15/2223Z TEMPO 2206/2213 3100 TSRA BKN020CB BECMG 2216/2218 29006MPS UAII 220500Z 2206/2306 35003G08MPS CAVOK TX41/2210Z TN22/2301Z TEMPO 2206/2215 03005G10MPS TEMPO 2215/2303 09005MPS UAKK 220500Z 2206/2306 24008MPS 9999 SCT030CB BKN100 TX31/2209Z TN12/2223Z BECMG 2208/2210 29009MPS TEMPO 2208/2215 VRB17MPS 3100 TSRA SQ BKN020CB BECMG 2215/2217 29005MPS SCT030 UATE 220506Z 2206/2306 18009G15MPS CAVOK TX40/2210Z TN25/2301Z BECMG 2207/2209 27009G15MPS UATG 220500Z 2206/2306 07008MPS 9999 BKN030CB TX27/2211Z TN18/2301Z TEMPO 2206/2212 3100 -TSRA BECMG 2212/2213 04008G13MPS BECMG 2216/2217 02006MPS UATT 220500Z 2206/2306 30005MPS CAVOK TX31/2211Z TN17/2301Z TEMPO 2206/2213 27011MPS FM221300 27003MPS 9999 BKN050CB TEMPO 2213/2217 30008MPS UBBB 220509Z 2206/2306 32010KT 9999 SCT017 BKN100 TX31/2210Z TN24/2301Z BECMG 2207/2209 12008KT 9999 BKN010 BECMG 2210/2212 35014KT BECMG 2216/2218 33022G32KT UBBG 220538Z 2206/2306 31010KT 9999 FEW040 SCT100 TX35/2212Z TN23/2302Z TEMPO 2209/2212 VRB04KT BECMG 2212/2214 11016KT BECMG 2222/2224 VRB04KT UBBL 220526Z 2206/2306 07006KT 9999 NSC TX34/2211Z TN22/2302Z TEMPO 2206/2212 13012KT TEMPO 2218/2224 VRB04KT 5000 BR SCT005 UBBN 220507Z 2206/2306 09010KT 9999 FEW050 SCT100 TX40/2212Z TN25/2302Z TEMPO 2210/2219 15016G26KT UBBQ 220510Z 2206/2306 16008KT 9999 FEW030 SCT100 TX34/2211Z TN18/2301Z TEMPO 2206/2212 13014G24KT FEW030CB BKN030 UCFM 220816Z 2208/2306 34003G08MPS 9999 SCT050CB TEMPO 2208/2212 VRB12G17MPS 2000 TSRA BKN030CB BECMG 2212/2214 12003G08MPS TEMPO 2212/2218 22003G08MPS UCFO 220438Z 2206/2306 28003G08MPS 9999 FEW050CB TEMPO 2206/2212 25007G12MPS SCT030CB PROB40 TEMPO 2206/2212 TS BECMG 2212/2214 17005MPS UDSG 220502Z 2206/2306 24010KT 9999 FEW050 TEMPO 2210/2218 VRB24KT TS SCT040CB UDYZ 220505Z 2206/2306 20006KT 9999 FEW040 TEMPO 2212/2221 VRB16G26KT FEW040CB UEEE 220800Z 2209/2315 06003MPS 3200 FU NSC TX26/2209Z TN12/2219Z UERP 220800Z 2209/2309 VRB01MPS CAVOK TX26/2209Z TN19/2219Z UERR 220800Z 2209/2309 13005G10MPS CAVOK TX27/2306Z TN14/2218Z TEMPO 2209/2215 3000 HZ SCT030 UGKO 220500Z 2206/2306 25006KT 9999 SCT023 OVC040 TX26/2211Z TN21/2302Z TEMPO 2206/2210 3000 RA BR BKN017 TEMPO 2210/2216 26016KT TEMPO 2215/2222 2500 TSRA BKN017CB UGSB 220500Z 2206/2306 23007KT 9999 -RA SCT015 BKN030 TX23/2211Z TN20/2300Z TEMPO 2206/2214 24017KT 3000 SHRA SCT006 BKN017CB BECMG 2218/2220 13010KT UGTB 220500Z 2206/2306 32020KT CAVOK TX34/2212Z TN22/2302Z TEMPO 2210/2214 32010KT BECMG 2216/2218 32027G37KT SCT050CB UHBB 220755Z 2209/2309 25003MPS 9999 BKN020CB TEMPO 2215/2224 3100 BR BKN011 BKN015CB BECMG 2218/2220 34003MPS FM230000 34003MPS 9999 SCT011 BKN020CB UHHH 220749Z 2209/2315 VRB01MPS 9999 SCT010 SCT025CB TEMPO 2209/2214 3100 -SHRA FM221400 20003MPS 2000 -SHRA BR BKN006 BKN015CB FM230000 23003MPS 9999 SCT007 SCT020CB TEMPO 2300/2312 3100 -SHRA BKN006 BKN015CB UHMA 220749Z 2209/2309 20006MPS 9999 SCT011 BKN025CB TEMPO 2209/2212 25003MPS 2000 -TSRA BR BKN007 BKN020CB FM221200 28003G08MPS 5000 BR SCT007 BKN025 TEMPO 2212/2220 1100 BR BKN003 BKN015 FM222000 30006G11MPS 9999 SCT030 TEMPO 2220/2309 35003G08MPS -SHRA SCT015 BKN025CB UHMM 220750Z 2209/2315 36003G10MPS 9999 SCT040 TEMPO 2209/2212 VRB10MPS 6000 -TSRA FEW011 BKN030CB UHPP 220747Z 2209/2315 36003G10MPS 9999 SCT040 TEMPO 2215/2221 1000 BR VV003 FM230000 19003G12MPS 9999 BKN030CB TEMPO 2300/2315 3100 -SHRA BR BKN011 OVC020CB UHSS 220740Z 2209/2315 21004MPS 9999 SCT030CB UHWW 220800Z 2209/2309 26003MPS 9999 BKN011 BKN017CB TEMPO 2209/2211 3100 -SHRA BR FM221100 10003MPS 3100 BR BKN011 BKN020CB TEMPO 2211/2224 VRB01MPS 0400 FG VV002 FM230200 34003MPS 9999 SCT020CB TEMPO 2302/2309 5000 -SHRA BKN015CB UIAA 220800Z 2209/2309 04003G08MPS 9999 SCT040CB TEMPO 2218/2301 3100 BR UIBB 220800Z 2209/2309 16003MPS 4000 FU FEW002 SCT016CB PROB40 TEMPO 2209/2215 -TSRA UIII 220800Z 2209/2309 30003MPS 9999 BKN015CB TEMPO 2209/2221 VRB08MPS -TSRA BKN003 BKN007CB UIUU 220800Z 2209/2309 34006MPS 9999 SCT030CB TEMPO 2209/2224 04005G10MPS -TSRA UKBB 220501Z 2206/2306 26005G10MPS 9999 BKN030 TX27/2212Z TN14/2302Z TEMPO 2206/2218 VRB12G19MPS 1000 TSRAGR SQ BKN007 BKN015CB BECMG 2218/2220 31003G08MPS UKDD 220505Z 2206/2306 VRB01MPS CAVOK TX31/2212Z TN16/2302Z BECMG 2208/2210 30004G09MPS 9999 SCT030CB BKN040 PROB40 TEMPO 2210/2216 VRB07G13MPS 3100 -TSRA BKN015CB TEMPO 2216/2306 VRB09G15MPS 1100 TSRA SQ SCT005 BKN015CB UKDR 220504Z 2206/2306 24002MPS 9999 SCT030 SCT030CB TX32/2212Z TN17/2303Z TEMPO 2209/2218 VRB09G16MPS 2100 -TSRAGR SQ BKN015CB BECMG 2218/2220 34005MPS TEMPO 2220/2306 2500 -SHRA BKN015CB UKHH 220502Z 2206/2306 16002MPS 9999 SCT030CB TX30/2212Z TN18/2302Z TEMPO 2206/2218 20005G11MPS PROB40 TEMPO 2218/2224 28010G16MPS 2100 -TSRAGR BKN007 BKN020CB BECMG 2300/2301 28006MPS UKKK 220501Z 2206/2306 28003G08MPS 9999 BKN025 TX26/2211Z TN14/2302Z TEMPO 2206/2218 VRB12G19MPS 1200 TSRAGR SQ BKN005 BKN015CB BECMG 2218/2219 31004G09MPS UKKM 220507Z 2206/2306 28005MPS 9999 BKN030 TX26/2212Z TN15/2302Z TEMPO 2206/2218 VRB09G14MPS 2100 -TSRA BKN007 SCT020CB PROB40 TEMPO 2206/2218 30011G16MPS 1000 SHRA BKN005 BKN015CB BECMG 2218/2219 31004MPS TEMPO 2220/2306 2100 BR SCT005 UKLL 220503Z 2206/2306 28005MPS 2100 BR OVC002 TEMPO 2206/2208 0500 FG VV001 BECMG 2208/2209 9999 NSW BKN020 TEMPO 2209/2216 30007G12MPS 3000 -SHRA BKN010 BKN020CB BECMG 2216/2218 3000 BR BKN007 TEMPO 2218/2306 1100 -SHRA BR BKN003 BKN020CB UKOO 220511Z 2206/2306 19003MPS 6000 BKN010 SCT020CB TX32/2210Z TN19/2302Z PROB40 TEMPO 2206/2218 VRB09G18MPS 1000 TSRAGR SQ BKN003 BKN015CB BECMG 2218/2219 32005G11MPS 2100 -SHRA BR ULAA 220800Z 2209/2309 04003MPS 9999 SCT020 TEMPO 2209/2219 34003G08MPS SCT015 TEMPO 2219/2306 VRB01MPS 3100 BR FEW007 BKN011 ULLI 220758Z 2209/2309 10003MPS 9999 SCT020 TEMPO 2209/2219 04003MPS PROB40 TEMPO 2211/2216 3500 -TSRA BKN011 BKN020CB BECMG 2219/2221 4000 MIFG BR TEMPO 2221/2304 VRB01MPS 0700 FG ULMM 220750Z 2209/2309 21003MPS 9999 SCT030 TEMPO 2209/2223 18003MPS TEMPO 2223/2304 VRB01MPS 3100 BR FEW002 TEMPO 2304/2309 24003MPS UMGG 220500Z 2206/2306 28006MPS 9999 BKN025 TEMPO 2206/2208 16006MPS 2000 SHRA BKN005 BKN025CB TEMPO 2208/2220 VRB14MPS 2000 TSRA SQ BKN005 BKN030CB TEMPO 2220/2306 2000 BR BKN004 UMKK 220800Z 2209/2309 28007G12MPS 9999 BKN011 SCT020CB TEMPO 2209/2212 30009G14MPS 3100 -SHRA BKN013CB BECMG 2218/2220 27003G08MPS SCT011 BECMG 2306/2308 31003G08MPS UMMS 220502Z 2206/2306 29006MPS 9999 BKN020 TEMPO 2206/2220 VRB14MPS 1200 TSRA SQ SCT006 BKN025CB TEMPO 2220/2306 2100 -SHRA SCT005 BKN025C UNAA 220756Z 2209/2309 20003G10MPS 9999 SCT030CB TEMPO 2209/2215 4000 -SHRA FM221700 35003MPS 3200 FU BR SCT012 FM230400 36003G10MPS 9999 SCT020CB TEMPO 2304/2309 3500 -SHRA UNBB 220800Z 2209/2309 03003G08MPS 5000 FU SCT011 SCT030CB TEMPO 2209/2216 32003MPS 3100 FU SCT007 BKN020CB TEMPO 2216/2303 0300 FG FU SCT002 BKN020CB TEMPO 2303/2309 3100 BR FU BKN020CB UNEE 220800Z 2209/2309 30003MPS 5000 FU BKN020 TEMPO 2209/2215 3100 FU SCT011 BECMG 2215/2217 3100 BR BKN011 TEMPO 2218/2306 0300 FG VV001 UNKL 220755Z 2209/2309 10003G10MPS 5000 FU SCT020CB TEMPO 2209/2215 3100 -TSRA FU FM221500 22003MPS 3100 BR FU SCT012 BECMG 2302/2304 29003G10MPS 5000 FU UNNT 220800Z 2209/2309 01003G08MPS 3100 FU BR BKN016CB TEMPO 2217/2303 0800 FG BKN002 BKN011CB UNOO 220904Z 2209/2309 10006G11MPS 5000 FU SCT030CB TEMPO 2209/2214 VRB13MPS 3100 -TSRA BKN010 BKN030CB UOOO 220758Z 2209/2309 26003G08MPS 9999 SCT020CB TEMPO 2209/2212 30003G08MPS 3200 FU SCT005 BECMG 2212/2215 02003G08MPS TEMPO 2212/2224 1500 FU SCT004 BECMG 2218/2222 03006G13MPS BECMG 2303/2307 03009G16MPS URFF 220755Z 2209/2309 02005MPS 9999 SCT030CB BECMG 2218/2220 12003MPS PROB40 TEMPO 2306/2309 -TSRA URKA 220757Z 2209/2309 05005G10MPS 9999 SCT030CB TEMPO 2209/2218 02009G15MPS TEMPO 2218/2305 3100 BR SCT011 SCT030CB URKK 220758Z 2209/2309 06006G14MPS 9999 SCT030CB BECMG 2216/2218 04003G08MPS TEMPO 2221/2305 3100 BR SCT011 SCT040CB URMM 220800Z 2209/2309 27003G08MPS 9999 BKN030 TX26/2212Z TN18/2302Z TEMPO 2209/2303 VRB09G23MPS 3100 -TSRAGR SCT011 BKN020CB URRP 220755Z 2209/2309 23003G09MPS 9999 SCT030CB TX31/2212Z TN17/2302Z TEMPO 2209/2309 13003G08MPS URSS 220758Z 2209/2309 16005G10MPS 9999 BKN012 BKN030CB OVC100 TEMPO 2209/2212 VRB06G11MPS 2100 -TSRA BKN008 BKN020CB OVC100 BECMG 2212/2213 26006G11MPS TEMPO 2213/2217 VRB06G11MPS 2100 -TSRA BKN008 BKN020CB OVC100 BECMG 2217/2218 05006MPS TEMPO 2218/2306 VRB06G11MPS 2100 -TSRA BKN006 BKN020CB OVC100 BECMG 2306/2307 17005G10MPS SCT030CB BKN100 USCC 220800Z 2209/2309 28005G12MPS 9999 SCT020CB TEMPO 2209/2221 31007G15MPS 5000 -TSRA BKN015CB TEMPO 2221/2303 27003G08MPS 3100 BR USHH 220753Z 2209/2309 10008G13MPS 4000 HZ SCT030 BECMG 2215/2217 08003G08MPS USNN 220800Z 2209/2309 04003G08MPS 3100 FU BKN020 TEMPO 2209/2215 SCT011 BECMG 2215/2216 36003MPS USPP 220758Z 2209/2309 26003G13MPS 9999 SCT016CB TEMPO 2209/2216 28006G18MPS -TSRA BECMG 2216/2217 22003MPS USRR 220755Z 2209/2309 12003G08MPS 9999 SCT030 TEMPO 2209/2218 3100 FU SCT020 BECMG 2218/2220 04003MPS USSS 220759Z 2209/2309 29005G14MPS 9999 BKN015CB TEMPO 2209/2218 29005G18MPS 3100 -TSRAGR FM221800 27003G08MPS 3100 BR SCT011 FM230400 29003G14MPS 9999 SCT020CB USTR 220750Z 2209/2309 29005G12MPS 3100 -SHRA BR BKN005 BKN015CB TEMPO 2209/2215 1200 SHRA BR BKN003 BKN015CB BECMG 2215/2216 29003MPS TEMPO 2215/2303 0300 FG VV002 UTAA 220450Z 2206/2306 04018KT 6000 SCT050 TX41/2211Z TEMPO 2206/2214 09012G22KT BECMG 2216/2218 23012KT UTAK 220805Z 2208/2306 03018G28KT CAVOK TEMPO 2208/2212 27018G28KT 5000 BLDU TEMPO 2212/2216 36018KT SCT033 UTAM 220440Z 2206/2306 35012G22KT CAVOK TX41/2211Z TEMPO 2206/2214 32016G26KT 3000 DRDU BECMG 2214/2216 35014KT 6000 NSC UTAT 220445Z 2206/2306 04012KT CAVOK BECMG 2212/2214 35012KT UTAV 220430Z 2206/2306 07012KT CAVOK TX40/2207Z 530007 TEMPO 2206/2213 01018G28KT 3000 BLDU NSC 560006 BECMG 2213/2215 05010KT 5000 NSC 530003 TEMPO 2213/2302 VRB04KT 2000 HZ FU SKC UTDD 220900Z 2210/2222 VRB02MPS 6000 FEW066 SCT150 TEMPO 2210/2216 27005MPS UTFN 220500Z 2206/2306 14010KT 9999 SCT050CB TX39/2210Z TN26/2300Z PROB40 TEMPO 2209/2217 24014G24KT TS BKN050CB UTNN 220500Z 2206/2306 01010G20KT CAVOK UTNU 220500Z 2206/2306 02012G22KT CAVOK TX40/2210Z TEMPO 2206/2212 36008KT UTSA 220501Z 2206/2306 01014KT 7000 NSC TX41/2210Z TEMPO 2206/2216 03014G24KT 3500 -DS TEMPO 2216/2224 VRB03KT UTSB 220500Z 2206/2306 35014KT 7000 NSC TX41/2210Z TEMPO 2206/2216 01014G24KT 3500 -DS TEMPO 2216/2224 VRB03KT UTSS 220500Z 2206/2306 07010G20KT 9999 NSC TX40/2210Z TEMPO 2206/2214 33012G22KT BECMG 2217/2219 13008KT UTST 220500Z 2206/2306 25008G18KT 6000 NSC TX44/2211Z TEMPO 2206/2215 29017G27KT 2400 -DS UTTT 220500Z 2206/2306 24012KT 7000 NSC TX40/2210Z TEMPO 2206/2216 34012G22KT FEW060CB UUBW 220756Z 2209/2309 VRB01MPS 9999 SCT025 TX25/2212Z TN13/2302Z TEMPO 2210/2219 27007MPS 3100 -TSRA SCT020CB TEMPO 2220/2303 3100 BR FEW003 SCT011 TEMPO 2303/2309 12005MPS 3100 -SHRA FEW004 SCT011 BKN015CB UUDD 220755Z 2209/2315 30003MPS 9999 SCT020 TX25/2212Z TN14/2301Z TEMPO 2210/2218 24008G13MPS 3100 -TSRA SCT030CB PROB40 TEMPO 2220/2304 0300 FG FEW002 BECMG 2304/2306 11005MPS PROB40 TEMPO 2306/2315 -TSRA SCT030CB UUDL 220800Z 2209/2309 27003MPS 9999 BKN040 TEMPO 2209/2215 32008MPS UUEE 220750Z 2209/2309 27003G08MPS 9999 SCT030 TX24/2213Z TN14/2301Z PROB40 TEMPO 2209/2218 30009G14MPS 3100 -TSRA BKN015CB BECMG 2218/2220 08003MPS UUWW 220944Z 2209/2309 27003G08MPS 9999 BKN030 TX24/2212Z TN14/2302Z TEMPO 2209/2215 -TSRA SCT020CB BECMG 2216/2218 12003MPS PROB40 TEMPO 2300/2307 3100 -TSRA SCT004 BKN015CB UUYY 220800Z 2209/2309 02003G08MPS 6000 BKN011 BKN020CB TEMPO 2209/2212 VRB14MPS 1000 TSRA BR FEW005 BKN015CB TEMPO 2212/2218 VRB14MPS 3100 -TSRA FEW007 BKN015CB TEMPO 2218/2303 3100 -SHRA BR FEW007 BKN015CB BECMG 2300/2302 27003MPS TEMPO 2304/2309 24003MPS 3100 -SHRA BR FEW007 BKN015CB UWGG 220750Z 2209/2309 29003MPS 9999 BKN020 TX20/2215Z TN14/2303Z TEMPO 2209/2215 31006G12MPS -SHRA BKN011CB UWKD 220800Z 2209/2309 29005MPS 9999 BKN020 TX22/2212Z TN14/2301Z TEMPO 2209/2217 VRB15MPS 2100 -TSRAGR SQ BKN015CB UWKE 220745Z 2209/2309 25006G12MPS 9999 BKN020 TEMPO 2209/2221 28007G14MPS 2100 -TSRAGR BKN005 BKN011CB TEMPO 2221/2306 28003G09MPS 3100 BR BKN011 UWLW 220745Z 2209/2309 29005G11MPS 8000 SCT030 TEMPO 2209/2218 33008G14MPS 5000 -TSRA BKN015CB UWOO 220749Z 2209/2309 27007G13MPS 9999 BKN020 SCT030CB TX30/2211Z TN14/2301Z TEMPO 2209/2309 29009G14MPS 3100 -TSRA SCT011 SCT015CB UWUU 220759Z 2209/2309 28006G12MPS 9999 BKN030CB TEMPO 2209/2309 25007G18MPS 3100 -TSRAGR BKN011 BKN020CB UWWW 220759Z 2209/2309 27005MPS 9999 BKN030 TX26/2210Z TN14/2301Z TEMPO 2209/2218 VRB15MPS 1000 TSRA SQ BKN011CB TEMPO 2218/2304 30003G09MPS 3100 -SHRA BR SCT011CB BECMG 2304/2306 29006MPS TEMPO 2306/2309 31008G13MPS VAAH 220500Z 2206/2312 26002KT 5000 HZ FEW020 SCT080 BECMG 2211/2213 29003KT 4000 TEMPO 2213/2217 23004KT 2000 -TSRA FEW012 SCT018 FEW030CB BKN070 BECMG 2222/2224 4000 HZ SCT020 BKN080 BECMG 2301/2303 32003KT 2500 HZ TEMPO 2222/2302 23005G15KT 2000 -TSRA FEW012 SCT018 FEW030TCU BKB070 BECMG 2304/2306 29004KT 5000 HZ FEW020 SCT025 FEW030TCU BECMG 2310/2312 21006KT VABB 220500Z 2206/2312 26008KT 4000 HZ FEW020 SCT025 SCT100 TEMPO 2209/2221 2000 -SHRA RA SCT012 FEW025TCU BKN090 BECMG 2215/2217 32006KT 3000 HZ BECMG 2219/2221 26006KT BECMG 2300/2302 16006KT BECMG 2306/2308 26008KT 4000 HZ TEMPO 2300/2312 2000 -SHRA RA SCT012 FEW025TCU BKN090 VABJ 220330Z 2206/2218 29005KT 6000 FEW025 SCT090 BKN250 TEMPO 2209/2211 29010G20KT 4000 TSRA FEW008 SCT090 BKN250 FEW030TCU/CB VAKE 220800Z 2209/2218 22009KT 5000 RAHZ SCT020 SCT025 BKN080 BECMG 2216/2218 26009KT VAPO 220330Z 2206/2218 26006KT 6000 SCT020 SCT100 TEMPO 2210/2214 3000 TSRA SCT020 FEW030CB BKN080 VCBI 220500Z 2206/2312 25012KT 9999 SCT016 TX30/2207Z TN26/2300Z PROB30 TEMPO 2212/2215 7000 -TSRA/SHRA FEW012 BKN016 FEW020CB VDPP 220500Z 2206/2224 29008KT 9999 SCT017 TEMPO 2206/2211 27015G25KT 5000 TSRA SCT015 FEW017CB SCT040 VDSR 220500Z 2206/2224 26008KT 9999 SCT017 TEMPO 2206/2211 26015G25KT 5000 TSRA SCT015 FEW017CB SCT040 VDSV 220945Z 2206/2224 29009KT 9999 SCT017 TEMPO 2206/2211 5000 TSRA SCT015 FEW017CB SCT040 VEAB 220330Z 2206/2218 14008KT 6000 SCT025 SCT100 TEMPO 2214/2218 14010G20KT 3000 TSRA SCT025 FEW030CB BKN080 VEBD 220330Z 2206/2218 14008KT 3000 RABR SCT008 SCT015 FEW030TCU BKN080 TEMPO 2208/2212 0800 TSRA BKN008 SCT015 FEW030CB BKN080 VEBN 220500Z 2206/2312 25006KT 45000 HZ SCT025 BKN100 TEMPO 2209/2212 FEW030CB BECMG 2213/2215 VRB02KT 4000 HZ SCT020 BKN100 BECMG 2304/2306 25008KT 4000 HZ SCT020 BKN100 TEMPO 2309/2312 FEW030CB VECX 220330Z 2206/2218 11006KT 6000 FEW025 SCT100 TEMPO 2210/2212 14010KT 5000 TSRA SCT025 FEW030CB SCT100 VEGK 220330Z 2206/2218 11010KT 6000 SCT030 SCT090 TEMPO 2208/2210 3000 TSRA SCT015 SCT025 FEW030CB BKN090 VEJT 220330Z 2206/2218 23005KT 6000 SCT015 SCT025 BKN090 TEMPO 2307/2310 4000 TSRA SCT015 SCT025 FEW030CB BKN090 TEMPO 2312/2315 3000 TSRA SCT015 SCT025 FEW030CB BKN090 VEKU 220330Z 2206/2218 23008KT 3000 RABR SCT010 SCT020 BKN080 TEMPO 2214/2218 1500 TSRA SCT008 SCT018 FEW025TCU/CB BKN080 VERP 220500Z 2206/2312 20008KT 6000 FEW020 SCT025 BECMG 2210/2214 SCT020 SCT025 FEW030CB BECMG 2300/2302 21004KT 5000 HZ FEW020 SCT100 BECMG 2304/2306 FEW020 SCT025 TEMPO 2310/2314 32010KT 3000 -TSRA SCT020 SCT025 FEW030CB VETZ 220330Z 2206/2218 20008KT 6000 -RA CT020 FEW030TCU BKN090 TEMPO 2209/2210 20010KT 4000 TSRA SCT010 SCT015 FEW030CB OVC090 VGEG 220500Z 2206/2312 18010KT 4000 HZ SCT018 SCT110 BECMG 2216/2218 13008KT 3500 HZ/DZ SCT016 BKN100 BECMG 2300/2302 18010KT 3500 DZ/RA SCT015 BKN090 BECMG 2304/2306 19010KT 4000 HZ SCT015 BECMG 2309/2312 19012KT 3000 DZ/RA SCT015 BKN090 VGHS 220500Z 2206/2312 19010KT 4000 HZ SCT015 BKN100 TEMPO 2206/2212 20030KT 2000 RA/TSRA BKN007 FEW025CB OVC090 BECMG 2218/2220 18007KT 3500 HZ SCT012 BKN100 TEMPO 2221/2306 20025KT 2000 RA/TSRA SCT007 FEW025CB OVC090 VHHH 220500Z 2206/2312 16010KT 9999 FEW015 TX31/2206Z TX32/2306Z TN27/2222Z TEMPO 2206/2210 VRB05KT TEMPO 2210/2216 4000 SHRA FEW015CB SCT025 TEMPO 2212/2224 VRB05KT TEMPO 2222/2304 3500 -TSRA SHRA FEW015CB SCT025 BKN040 TEMPO 2300/2310 22010KT VIAG 220330Z 2206/2218 10010KT 6000 SCT025 SCT200 TEMPO 2212/2216 27010KT 5000 TSRA SCT020 FEW025CB SCT080 VIAR 220500Z 2206/2312 VRB02KT 2200 HZ SCT040 SCT100 BECMG 2208/2210 13005KT 3500 HZ TEMPO 2211/2213 FEW035CB BECMG 2218/2220 00000KT 2500 BR SCT035 BKN100 BECMG 2305/2307 32006KT 3500 HZ TEMPO 2309/2312 2000 -TSRA SCT035 FEW035 BKN090 VIAX 220330Z 2206/2218 16010KT 6000 SCT025 FEW030TCU SCT100 TEMPO 2210/2212 5000 TSHZ SCT020 FEW030CB BKN100 BECMG FM 2213 6000 NSW FEW30 BKN100 VICG 220330Z 2206/2218 16010KT 6000 FEW030 BKN090 TEMPO 2209/2212 3000 TSRA SCT025 FEW030CB BKN080 VICX 211530Z 2200/2212 09005KT 5000 RABR SCT020 BKN090 BEC 2203/2205 09010KT 6000 SCT025 BKN100 BEC 2206/2209 09010KT 6000 SCT025 FEW03CB BKN100 TEMPO 2210/2212 07010KT 5000 TSRA SCT020 FEW030CB BKN080 VIDP 220500Z 2206/2312 15006KT 2500 HZ FEW035 SCT100 BECMG 2208/2210 09008KT 3500 HZ SCT035 BKN100 BECMG 2210/2216 32010G20KT 1500 TSRA SCT030 FEW040CB BKN080 BECMG 2218/2220 VRB02KT 2500 BR BECMG 2305/2307 23005KT 3500 HZ BECMG 2308/2312 2000 -TSRA SCT035 FEW040CB BKN090 VIGR 220330Z 2206/2218 13008KT 6000 FEW030 SCT100 TEMPO 2208/2210 SCT025 SCT100 FEW030TCU/CB VIJO 220330Z 2206/2218 04010KT 6000 FEW030 TEMPO 2211/2214 03010G20KT 5000 TSRA SCT025 FEW030CB BKN090 VIJP 220500Z 2206/2312 11005KT 4000 HZ SCT030 SCT100 BECMG 2213/2215 18008KT 2500 HZ SCT035 SCT100 TEMPO 2208/2214 14010G20KT 1500 TSRA FEW035CB BECMG 2304/2306 14005KT 3000 HZ SCT030 SCT100 TEMPO 2306/2312 14010G20KT 1500 TSRA FEW035CB VIJR 220330Z 2206/2218 14010KT 6000 FEW030 SCT250 TEMPO 2210/2212 14015G25KT 2000 TSRA SCT010 FEW030CB BKN100 VIJU 220330Z 2206/2218 VRB02KT 6000 SCT030 SCT090 SCT180 TEMPO 2211/2213 TSRA FEWTCU/CB030 VAJM 220330Z 2206/2218 29015KT 6000 SCT020 SCT100 BKN250 TEMPO 2208/2211 3000 TSRA SCT020 FEW030CB BKN100 VILH 220330Z 2206/2218 27010KT 6000 FEW070 BKN100 TEMPO 2210/2212 29015KT FEW060 VILK 220500Z 2206/2312 16004KT 4000 HZ SCT020 BKN100 TEMPO 2208/2212 FEW030CB BECMG 2213/2215 VRB02KT 3000 HZ SCT020 BKN100 BECMG 2304/2306 25008KT 4000 HZ SCT020 BKN100 TEMPO 2308/2312 FEW030CB VISR 220330Z 2206/2218 VRB02KT 6000 SCT025 FEW030TCU TEMPO 2208/2212 24010G20KT 5000 TSRA SCT025 FEW030TCU/CB SCT100 VLLB 220500Z 2206/2306 14004KT 9999 SCT020 SCT060 BKN080 TEMPO 2214/2220 3000 BR SCT017 SCT040 OVC080 VLLN 220500Z 2206/2306 22004KT 8000 SCT020 BKN100 TEMPO 2214/2220 3000 BR SCT017 BKN093 VLPS 220500Z 2206/2306 18004KT 9999 SCT020 SCT050 BKN200 VLSK 220500Z 2206/2306 14006KT 8000 SCT020 BKN100 TEMPO 2214/2220 3000 BR SCT020 BKN093 VLVT 220500Z 2206/2306 18004KT 9999 SCT020 BKN050 TEMPO 2214/2220 3000 BR FEW020 BKN040 VMMC 220505Z 2206/2312 18008KT 9999 FEW015 SCT025 TEMPO 2206/2212 VRB18G28KT 2500 TSRA FEW008 SCT015CB TEMPO 2218/2224 3500 SHRA FEW010CB SCT020 VOBL 220500Z 2206/2312 27012KT 6000 SCT012 SCT080 TEMPO 2209/2218 4000 RA DZ SCT010 SCT018 FEW025CB BKN080 TEMPO 2300/2303 4000 BR SCT008 SCT012 TEMPO 2306/2312 4000 RA DZ SCT010 SCT012 FEW025CB BKN080 VOCB 220500Z 2206/2312 23010G20KT 6000 SCT015 BKN080 BECMG 2212/2213 23010KT BECMG 2306/2307 23010G20KT VOCI 220500Z 2206/2312 30010KT 4000 –RA HZ FEW008 SCT012 FEW025CB BKN080 TEMPO 2209/2214 2000 SHRA RA BECMG 2215/2216 VRB03KT 4000 –RA HZ FEW008 SCT012 BKN080 TEMPO 2222/2303 1500 RA BR BECMG 2303/2304 30010KT 4000 –RA HZ SCT012 BKN080 TEMPO 2308/2312 2000 RA SCT012 FEW025CB BKN080 VOCL 220500Z 2206/2312 32010KT 3000 –RA BR SCT006 SCT012 FEW025CB BKN080 TEMPO 2209/2214 1500 SHRA –RA SCT002 SCT012 FEW025CB OVC080 BECMG 2216/2217 VRB03KT 3000 RA BR FEW006 SCT012 BKN080 TEMPO 2222/2303 1500 RA MIFG SCT002 SCT012 BKN080 BECMG 2303/2304 4000 –RA HZ SCT012 BKN080 TEMPO 2308/2312 2000 RA FEW004 SCT012 FEW025CB BKN080 VOHS 220500Z 2206/2312 25008KT 5000 DZ –RA SCT015 SCT020 TEMPO 2210/2216 3000 -TSRA SCT010 SCT015 FEW030CB 0VC080 TEMPO 2223/2303 3000 BR DZ RA SCT010 SCT015 BKN090 BECMG 2304/2306 26008KT 6000 SCT015 SCT020 VOKN 220500Z 2206/2312 32010KT 3000 –RA BR SCT004 SCT012 FEW025CB BKN080 TEMPO 2209/2214 1000 SHRA –RA SCT002 SCT012 FEW025CB OVC080 BECMG 2216/2217 VRB03KT 3000 RA BR SCT006 SCT012 BKN080 TEMPO 2222/2303 1000 RA MIFG SCT002 SCT012 BKN080 BECMG 2303/2304 4000 –RA HZ SCT012 BKN080 TEMPO 2308/2312 2000 RA FEW004 SCT012 FEW025CB BKN080 VOMD 220500Z 2206/2312 27010G20KT 6000 SCT020 BKN100 TEMPO 2209/2215 4000 -TSRA/RA SCT018 FEW025CB BKN080 BECMG 2215/2216 27010KT BECMG 2306/2307 27010G20KT VOML 220500Z 2206/2312 26010KT 5000 DZ BR SCT006 SCT012 BKN080 TEMPO 2206/2212 3000 RA DZ SCT004 SCT012 FEW025CB OVC080 BECMG 2220/2221 VRB02KT TEMPO 2221/2303 3000 RA BR SCT006 SCT012 BKN080 BECMG 2302/2303 250/10KT TEMPO 2306/2312 3000 RA DZ SCT004 SCT010 FEW025CB BKN080 VOMM 220500Z 2206/2312 25010KT 5000 -DZ/BR FEW020 SCT100 TEMPO 2206/2212 4000 -TSRA/RA SCT018 FEW025CB BKN080 BECMG 2209/2210 18010KT BECMG 2215/2216 25010KT BECMG 2309/2310 18010KT VOTR 220500Z 2206/2312 27010G20KT 6000 SCT020 BKN100 VOTV 220500Z 2206/2312 34015G25KT 5000 –RA HZ SCT015 FEW025CB BKN080 TEMPO 2210/2214 2000 SHRA RA BECMG 2215/2216 3000 –RA HZ TEMPO 2222/2303 32010KT 2000 RA BR FEW008 SCT012 BKN080 BECMG 2303/2304 34010G20KT 4000 –RA HZ SCT012 FEW025CB BKN080 TEMPO 2308/2312 2500 SHRA RA VOVZ 220500Z 2206/2312 22006KT 5000 HZ FEW016 FEW022TCU TEMPO 2206/2210 3000 TSRA FEW016 FEW022TCU/CB OVC080 BECMG 2211/2213 15010KT 6000 FEW018 BKN090 BECMG 2217/2219 VRB02KT VRMG 220500Z 2206/2312 32008KT 9999 FEW018 TEMPO 2206/2212 5000 -SHRA FEW018CB VRMH 220500Z 2206/2312 27012KT 9999 FEW018 2206/2212 5000 -SHRA FEW017CB VRMM 220500Z 2206/2312 27013KT 9999 FEW018 TEMPO 2206/2212 5000 -SHRA FEW017CB VTBD 220500Z 2206/2312 21008KT 9999 FEW020 TEMPO 2210/2215 23015KT 6000 -TSRA FEW018CB SCT030 BKN100 VTBO 220500Z 2206/2306 21008KT 9999 FEW020 SCT100 TEMPO 2222/2302 VRB15KT 6000 -TSRA FEW018CB SCT022 BKN100 VTBS 220500Z 2206/2312 21008KT 9999 FEW020 TEMPO 2210/2215 24015KT 6000 -TSRA FEW018CB SCT030 BKN100 VTBU 220500Z 2206/2306 22010KT 9999 FEW020 BECMG 2211/2213 25006KT BECMG 2217/2219 35003KT VTCC 220500Z 2206/2312 24007KT 9999 BKN035 TEMPO 2209/2215 VRB15G25KT 3000 TSRA FEW020CB BKN035 TEMPO 2309/2312 VRB15G25KT 3000 TSRA FEW020CB BKN035 VTCH 220500Z 2206/2306 23007KT 9999 BKN025 TEMPO 2206/2212 VRB15G25KT 5000 TSRA FEW020CB BKN025 VTCL 220500Z 2206/2306 22007KT 9999 BKN030 TEMPO 2209/2215 VRB15G25KT 3000 TSRA FEW020CB BKN030 VTCN 220500Z 2206/2306 23007KT 9999 BKN025 TEMPO 2209/2215 VRB15G25KT 5000 TSRA FEW020CB BKN025 VTCP 220500Z 2206/2306 22007KT 9999 BKN025 TEMPO 2206/2212 VRB15G25KT 5000 TSRA FEW020CB BKN025 VTCT 220500Z 2206/2312 22007KT 9999 BKN025 TEMPO 2212/2218 VRB15G25KT 3000 TSRA FEW020CB BKN025 VTPB 220500Z 2206/2306 18005KT 9999 BKN025 TEMPO 2206/2212 VRB15G25KT 5000 TSRA FEW020CB BKN025 VTPH 220500Z 2206/2306 14008KT 9999 FEW030 BECMG 2214/2216 00000KT BECMG 2302/2304 14008KT VTPM 220500Z 2206/2306 25005KT 9999 BKN025 TEMPO 2206/2212 VRB15G25KT 5000 TSRA FEW020CB BKN025 VTPO 220500Z 2206/2306 24005KT 9999 BKN025 TEMPO 2206/2212 VRB15G25KT 4000 TSRA FEW020CB BKN025 VTPP 220500Z 2206/2306 23005KT 9999 BKN025 TEMPO 2209/2215 VRB15G25KT 3000 TSRA FEW020CB BKN025 VTPT 220500Z 2206/2306 27005KT 9999 BKN025 TEMPO 2206/2212 VRB15G25KT 3000 TSRA FEW020CB BKN025 VTSB 220500Z 2206/2306 25008KT 9999 FEW020 BECMG 2220/2222 5000 BR BECMG 2300/2302 9999 NSW VTSC 220500Z 2206/2306 05008KT 9999 FEW020 SCT100 TEMPO 2208/2214 VRB10G20KT 5000 TSRA FEW016CB SCT018 BKN100 VTSE 220500Z 2206/2306 24008KT 9999 SCT020 VTSF 220500Z 2206/2306 09007KT 9999 SCT020 TEMPO 2207/2213 VRB10G20KT 5000 TSRA FEW016CB SCT018 BKN100 VTSG 220500Z 2206/2306 24006KT 9999 FEW020 BECMG 2214/2216 00000KT BECMG 2220/2222 5000 BR VTSH 220500Z 2206/2306 06008KT 9999 FEW020 PROB40 TEMPO 2207/2213 VRB10G20KT 5000 TSRA FEW016CB SCT018 BKN100 BECMG 2221/2223 5000 BR BECMG 2301/2303 9999 NSW VTSK 220500Z 2206/2306 03008KT 9999 SCT020 PROB40 TEMPO 2207/2213 VRB10G20KT 5000 TSRA FEW016CB SCT018 BKN100 VTSM 220500Z 2206/2306 33008KT 9999 FEW020 PROB40 TEMPO 2207/2213 VRB10G20KT 5000 TSRA FEW016CB SCT018 BKN100 VTSP 220500Z 2206/2312 26008KT 9999 SCT020 BECMG 2214/2216 00000KT BECMG 2302/2304 26006KT VTSR 220500Z 2206/2306 28008KT 9999 SCT020 BECMG 2214/2216 00000KT BECMG 2304/2306 06006KT VTSS 220500Z 2206/2306 24008KT 9999 SCT020 TEMPO 2207/2213 VRB10G20KT 5000 TSRA FEW016CB SCT018 BKN100 BECMG 2221/2223 5000 BR BECMG 2301/2303 9999 NSW VTST 220500Z 2206/2306 24006KT 9999 FEW020 BECMG 2212/2214 00000KT BECMG 2222/2224 5000 BR VTUD 220500Z 2206/2306 23005KT 9999 SCT025 SCT100 TEMPO 2209/2212 VRB10G25KT 5000 TSRA FEW018CB BKN020 BKN080 VTUI 220500Z 2206/2306 23005KT 9999 SCT025 BKN100 TEMPO 2209/2212 VRB10G25KT 5000 TSRA FEW018CB BKN020 BKN080 VTUJ 220500Z 2206/2306 22007KT 9000 SCT030 VTUK 220500Z 2206/2306 22005KT 9999 SCT025 BKN100 TEMPO 2209/2212 VRB10G25KT 5000 TSRA FEW018CB BKN020 BKN080 VTUL 220500Z 2206/2306 17005KT 9999 SCT025 BKN100 TEMPO 2209/2212 VRB10G25KT 5000 TSRA FEW018CB BKN020 BKN080 VTUO 220500Z 2206/2306 23008KT 9000 SCT025 TEMPO 2211/2214 VRB15KT 5000 TSRA FEW018CB BKN025 VTUQ 220500Z 2206/2306 25007KT 9999 SCT025 VTUU 220500Z 2206/2306 20006KT 9000 SCT030 TEMPO 2209/2212 VRB15KT 5000 TSRA FEW018CB BKN025 VTUV 220500Z 2206/2306 24007KT 9999 SCT030 TEMPO 2208/2211 VRB15KT 5000 TSRA FEW018CB BKN025 VTUW 220500Z 2206/2306 20005KT 9999 SCT025 BKN100 TEMPO 2209/2212 VRB10G25KT 5000 TSRA FEW018CB BKN020 BKN080 VVCI 220500Z 2206/2306 14008KT 9000 FEW025 TEMPO 2210/2216 4000 TSRA SCT012 FEW027CB VVCR 220500Z 2206/2306 14011KT 9999 SCT015 SCT040 VVCT 220500Z 2206/2306 27008KT 9999 SCT015 SCT040 VVDN 220740Z 2208/2306 07010KT 9999 FEW015 SCT060 TEMPO 2208/2210 VRB15G25KT 4000 TSRA SCT012 FEW015CB BKN050 TEMPO 2210/2212 TS FEW013 FEW015CB SCT060 BECMG 2212/2213 21004KT VVNB 220500Z 2206/2306 12006KT 9000 FEW025 TEMPO 2210/2215 VRB15G25KT 3000 +TSRA SCT010 FEW027CB BKN040 VVPB 220500Z 2206/2306 27009KT 9999 FEW017 TEMPO 2208/2212 TS FEW015 FEW017CB SCT060 PROB40 TEMPO 2210/2212 4000 TSRA SCT015 FEW017CB BKN050 VVPQ 220500Z 2206/2306 28010KT 9999 SCT015 SCT040 VVTS 220500Z 2206/2312 30008KT 9999 SCT017 SCT040 TEMPO 2208/2212 TS SCT015 FEW017CB VYMD 220500Z 2206/2306 17012KT 7000 BKN020 FEW025CB TEMPO 2206/2212 18010G20KT 5000 -TSRA BKN018 FEW020CB BKN100 VYNT 220500Z 2206/2306 15010KT 6000 BKN017 FEW020CB OVC100 TEMPO 2206/2212 19010G16KT 4000 TSRA BKN015 FEW018CB OVC100 VYYY 220500Z 2206/2306 18008KT 6000 BKN015 FEW018CB BKN110 TEMPO 2206/2212 18005G15KT 3000 RA BKN012 FEW015CB OVC090 WAAA 220500Z 2206/2312 30010KT 9999 FEW020 BECMG 2212/2214 12005KT 8000 BECMG 2303/2305 18005KT WABB 220400Z 2206/2312 18005KT 9999 SCT018 BECMG 2210/2212 00000KT WADD 220500Z 2206/2306 12012KT 9999 SCT017 WADL 220500Z 2206/2306 12012KT 8000 SCT016 WALL 220500Z 2206/2312 21010KT 9999 SCT020 TEMPO 2223/2302 FEW018CB SCT020 WALS 220500Z 2206/2218 22006KT 9999 SCT018 WAMM 220500Z 2206/2312 36008KT 9999 SCT022 BECMG 2211/2213 15003KT FEW022 WAOO 220500Z 2206/2306 18007KT 9999 FEW020= WAQA 220500Z 2206/2218 00000KT 5000 -RA SCT012 BECMG 2206/2208 9999 NSW WAQD 220500Z 2206/2218 10008KT 9999 SCT015 WAQJ 220500Z 2206/2218 20006KT 9999 SCT011 WAQQ 220500Z 2206/2218 23005KT 9999 SCT015 WAQT 220500Z 2206/2218 00000KT 9999 SCT015 WARR 220500Z 2206/2306 10012KT 9999 FEW020 BECMG 2216/2218 25005KT 4000 HZ BECMG 2300/2302 12010KT 9999 NSW WATT 220500Z 2206/2306 09014KT 9999 FEW020 BECMG 2213/2215 11005KT BECMG 2202/2204 10014KT WBGB 220500Z 2206/2306 33006KT 9999 SCT016 TEMPO 2206/2210 3000 TSRA FEW015CB WBGG 220500Z 2206/2306 15006KT 9999 SCT020 TEMPO 2206/2210 3000 TSRA FEW015CB WBGR 220500Z 2206/2306 22006KT 9999 SCT016 TEMPO 2206/2210 4000 TSRA FEW015CB WBGS 220500Z 2206/2306 VRB03KT 9999 SCT018 TEMPO 2206/2210 3000 TSRA FEW015CB WBKK 220500Z 2206/2306 28007KT 9999 FEW014 TEMPO 2206/2210 4000 TSRA FEW010 FEW016CB SCT030 BECMG 2212/2214 11005KT WBKL 220500Z 2206/2306 25006KT 9999 FEW015 TEMPO 2208/2212 4000 TSRA SCT010 FEW014CB SCT040 WBKS 220612Z 2206/2306 09008KT 9999 FEW016 FEW017CB TEMPO 2206/2210 4000 TSRA FEW016CB SCT030 WBKW 220612Z 2206/2306 14007KT 9999 FEW017 TEMPO 2206/2210 5000 TSRA FEW017CB SCT030 BECMG 2214/2216 33005KT WBSB 220500Z 2206/2312 26012KT 9999 SCT016 FEW017CB TEMPO 2207/2209 20016KT 6000 SHRA TSRA TEMPO 2212/2214 4000 TSRA BECMG 2213/2215 20005KT WIDD 220500Z 2206/2306 17007KT 9999 FEW014 PROB30 TEMPO 2207/2211 7000 -RA FEW013CB SCT014 BECMG 2211/2212 16004KT WIEE 220500Z 2206/2306 25005KT 9999 FEW020 BECMG 2210/2212 35003KT SCT020 WIHH 220500Z 2206/2306 12010KT 6000 SCT020 BECMG 2212/2214 04005KT WIII 220500Z 2206/2312 06010KT 9999 FEW021 BECMG 2214/2216 VRB03KT 3000 HZ WIMM 220500Z 2206/2306 12010KT 9999 SCT018 BECMG 2212/2214 VRB03KT 5000 HZ WIPB 220500Z 2206/2218 08002KT 9999 SCT010 TEMPO 2208/2212 4000 RA FEW010CB BKN010 WIPP 220500Z 2206/2306 12006KT 9999 SCT010 TEMPO 2207/2211 3000 TSRA FEW010CB BKN011 WIPY 220500Z 2206/2218 15006KT 9999 SCT010 TEMPO 2206/2209 3000 TSRA FEW009CB BKN010 WITT 220500Z 2206/2306 16008KT 8000 SCT018 BECMG 2211/2213 VRB10KT 8000 WMAP 220500Z 2206/2306 VRB02KT 9999 FEW018 TEMPO 2206/2210 19005KT 4000 TSRA FEW017CB SCT018 WMBT 220500Z 2206/2306 VRB03KT 9999 FEW023 WMKA 220500Z 2206/2306 26007KT 9000 FEW020 BECMG 2211/2213 VRB03KT 9999 FEW030 BECMG 2223/2301 8000 FEW020 WMKB 220500Z 2206/2306 22010KT 9000 FEW020 TEMPO 2208/2212 FEW017CB BECMG 2213/2215 08005KT FEW024 WMKC 220500Z 2206/2306 35008KT 9999 FEW018 TEMPO 2208/2210 6000 TSRA FEW017CB SCT020 BECMG 2214/2216 VRB03KT WMKD 220500Z 2206/2306 VRB03KT 9999 FEW023 TEMPO 2209/2213 VRB06KT 7000 -TSRA FEW017CB WMKE 220500Z 2206/2306 14008KT 8000 FEW016 BECMG 2212/2214 VRB03KT WMKI 220500Z 2206/2306 03005KT 9999 FEW020 TEMPO 2207/2212 5000 TSRA FEW017CB WMKJ 220500Z 2206/2306 VRB03KT 9999 FEW018 TEMPO 2206/2210 19008KT 4000 TSRA FEW017CB SCT018 BECMG 2218/2219 4000 BR FEW010 BECMG 2300/2302 9999 NSW FEW018 WMKK 220500Z 2206/2312 17005KT 9999 FEW017CB TEMPO 2206/2210 19010KT 4000 TSRA FEW017CB SCT018 BECMG 2211/2212 VRB03KT FEW030 PROB30 TEMPO 2221/2301 16008KT 4000 TSRA FEW010 FEW017CB SCT018 WMKL 220500Z 2206/2306 20006KT 9999 FEW022 BECMG 2210/2212 VRB03KT FEW026 BECMG 2222/2300 07005KT FEW022 WMKM 220500Z 2206/2306 VRB03KT 9999 FEW017CB TEMPO 2206/2210 20006KT 4000 TSRA FEW017CB SCT018 BECMG 2211/2212 FEW025 PROB30 TEMPO 2220/2300 4000 TSRA FEW017CB SCT018 BECMG 2301/2302 FEW017CB WMKN 220500Z 2206/2306 07008KT 9999 FEW018 BECMG 2212/2214 VRB03KT WMKP 220500Z 2206/2306 22010KT 7000 FEW020 BECMG 2212/2214 VRB03KT 8000 FEW025 BECMG 2222/2300 05005KT 7000 FEW020 WMPA 220500Z 2206/2306 VRB03KT 9000 FEW020 WMSA 220500Z 2206/2306 VRB02KT 9999 FEW017CB TEMPO 2206/2210 02010G25KT 3000 TSRA FEW010 FEW016CB SCT018 BECMG 2212/2213 8000 FEW024 BECMG 2300/2302 9999 FEW017CB WPDL 220726Z 2208/2220 04012KT CAVOK FM221100 16006KT CAVOK WSAP 220800Z 2208/2312 19007KT 9999 FEW015 SCT020 TEMPO 2306/2309 3000 TSRA FEW012CB BKN015 WSSL 220800Z 2208/2312 19007KT 9999 FEW015 SCT020 TEMPO 2306/2309 3000 TSRA FEW012CB BKN015 WSSS 220800Z 2208/2312 19007KT 9999 FEW015 SCT020 TEMPO 2306/2309 3000 TSRA FEW012CB BKN015 YAMB 220507Z 2206/2224 02008KT 9999 -SHRA FEW045 SCT060 FM220900 VRB04KT 9999 SCT050 FM221400 VRB02KT 9999 MIFG FEW003 FM222300 30006KT 9999 FEW020 PROB40 2215/2222 0800 FG SCT002 YBAS 220517Z 2206/2306 10008KT CAVOK FM221500 30005KT CAVOK FM230000 10010KT CAVOK YBBN 220512Z 2206/2312 04010KT 9999 FEW035 FM221000 34005KT CAVOK FM221600 23005KT 9999 MIFG NSC FM222100 24005KT CAVOK FM230200 03010KT CAVOK FM231100 34007KT CAVOK YBCG 220513Z 2206/2306 01012KT CAVOK FM220900 32007KT CAVOK FM221400 28004KT 9999 MIFG NSC FM222100 26005KT CAVOK FM230100 01010KT CAVOK YBCS 220525Z 2206/2306 13013KT 9999 FEW030 FEW060 FM221000 16008KT 9999 SCT020 FM221200 17009KT 9999 -SHRA SCT020 BKN030 FM230100 14014KT 9999 -SHRA SCT015 BKN030 INTER 2214/2306 4000 SHRA BKN012 YBHM 220518Z 2206/2218 15016KT 9999 FEW040 SCT060 FM221200 15014KT 9999 SCT020 SCT060 TEMPO 2217/2218 9999 NSW BKN012 YBMA 220516Z 2206/2218 VRB05KT CAVOK YBRK 220528Z 2206/2306 07010KT 9999 -SHRA SCT060 FM220800 13005KT 9999 NSW FEW045 FM221200 VRB03KT 9999 FEW015 FM230000 13007KT 9999 FEW040 PROB30 2216/2223 0500 FG OVC001 YBRM 220516Z 2206/2306 16007KT CAVOK FM220700 23008KT CAVOK FM221300 15005KT CAVOK YBTL 220518Z 2205/2306 06012KT 9999 FEW040 FM221000 12005KT 9999 FEW020 FM221400 VRB03KT 9999 SCT015 SCT060 FM230200 06012KT 9999 SCT045 PROB30 2219/2222 1000 FG YCFS 220534Z 2206/2306 03012KT 9999 -SHRA SCT040 FM221000 32005KT CAVOK YCIN 220606Z 2208/2220 17005KT CAVOK YFRT 220809Z 2208/2220 27018KT CAVOK FM221000 24011KT CAVOK FM221400 VRB05KT CAVOK YGEL 221028Z 2210/2306 15008KT 9999 SCT040 FM221500 11006KT CAVOK YGLA 220528Z 2206/2218 10009KT 9999 FEW030 SCT050 FM221200 VRB03KT 9999 FEW015 PROB30 2217/2218 0500 FG OVC001 YHID 220522Z 2206/2306 11015KT 9999 SCT050 FM220900 13010KT 9999 FEW020 SCT050 FM221400 13008KT 9999 BKN020 FM222300 13015KT 9999 SCT020 BKN040 YLHI 220504Z 2206/2306 33005KT 9999 FEW050 FM221200 33005KT 9999 -SHRA SCT040 FM230300 33008KT 9999 NSW SCT030 YMAV 220523Z 2206/2306 35018G32KT CAVOK FM221200 33013KT 9999 -SHRA BKN045 BECMG 2221/2223 32020G34KT 9999 -SHRA FEW030 SCT045 YMHB 220701Z 2207/2306 01018G30KT 9999 FEW030 FM220800 36020G30KT 9999 SCT035 FM221200 33015G25KT 9999 -SHRA BKN040 FM221500 33012KT 9999 -SHRA BKN040 FM222100 33008KT 9999 FEW040 FM230300 30012KT 9999 SCT040 YMLT 220526Z 2206/2306 35015G25KT 9999 SCT015 BKN020 FM220900 34020G35KT 9999 -SHRA SCT015 BKN025 FM221500 34015G25KT 9999 -SHRA SCT015 BKN020 FM221800 33014KT 9999 -SHRA SCT015 BKN020 INTER 2211/2215 35025G45KT 4000 SHRA BKN010 INTER 2215/2306 4000 SHRA BKN015 RMK FM220600 MOD/SEV TURB BLW 5000FT TL221800 FM221800 MOD TURB BLW 5000FT T 11 10 10 09 Q 1005 1004 1003 1002 YMML 220821Z 2208/2312 36025G38KT CAVOK FM221300 36017G30KT 9999 -SHRA BKN045 FM222200 33015G25KT 9999 -SHRA SCT030 BKN045 INTER 2308/2312 5000 SHRA SCT020 YPAD 220512Z 2206/2312 34023G33KT CAVOK FM220700 27020G30KT 9999 -SHRA SCT020 BKN030 FM221000 30017KT 9999 -SHRA SCT020 BKN030 FM230000 30020KT 9999 NSW SCT030 SCT040 FM230600 29020KT 9999 -SHRA SCT020 BKN030 FM230900 24014KT 9999 -SHRA SCT020 BKN030 INTER 2208/2212 28022G35KT 3000 SHRA SCT012 BKN020 INTER 2212/2221 29020G32KT 5000 SHRA SCT015 BKN025 INTER 2306/2310 27020G30KT 5000 SHRA SCT015 BKN020 YPCC 220857Z 2209/2306 12012KT 9999 -SHRA SCT020 FM221200 12012KT 9999 -SHRA SCT015 INTER 2212/2306 5000 SHRA SCT010 YPDN 220520Z 2206/2312 32010KT CAVOK FM220900 24006KT CAVOK FM221400 10005KT 9999 MIFG FEW015 FM222200 11012KT CAVOK YPEA 220436Z 2206/2224 19004KT 9999 BKN045 FM221500 06003KT 9999 SCT035 PROB30 2220/2224 0300 FG BKN001 YPGV 220719Z 2208/2220 14010KT 9999 SCT030 YPJT 220425Z 2206/2224 19008KT 9999 FEW035 BKN045 FM221600 VRB03KT 9999 SCT035 YPKG 220500Z 2206/2306 24008KT 9999 SCT045 FM221600 VRB03KT CAVOK YPKU 220703Z 2208/2220 VRB05KT CAVOK YPLM 220514Z 2206/2306 15012KT CAVOK FM221000 15008KT CAVOK FM230100 09012KT CAVOK YPPD 220516Z 2206/2306 13008KT CAVOK FM230100 12016KT CAVOK YPPH 220505Z 2206/2312 19008KT 9999 SCT030 BKN040 FM221800 05004KT 9999 SCT030 FM230300 32007KT 9999 SCT040 BECMG 2306/2308 22008KT 9999 SCT040 YPTN 220518Z 2206/2306 11010KT CAVOK YPWR 220441Z 2206/2224 31020KT CAVOK FM220800 28012KT CAVOK FM221400 24010KT 9999 SCT030 YPXM 220359Z 2204/2306 12013KT 9999 BKN010 FM220800 12010KT 9999 -SHRA SCT005 BKN010 INTER 2208/2224 5000 SHRA BKN005 YSCB 220535Z 2206/2306 30012KT CAVOK FM221100 31006KT 9999 SCT020 FM230100 30018G28KT 9999 SCT030 YSDU 220454Z 2206/2224 33012KT CAVOK FM220800 33005KT CAVOK YSNF 220625Z 2206/2306 17012KT 9999 -SHRA FEW035 BKN045 INTER 2206/2209 4000 SHRA SCT025 INTER 2215/2306 4000 SHRA SCT020 YSRI 220509Z 2206/2306 02010KT CAVOK FM220900 VRB03KT CAVOK FM230000 31012KT CAVOK PROB30 2217/2222 2000 BR SCT001 YSSY 220505Z 2206/2312 34010KT CAVOK FM230400 31015KT CAVOK FM230800 30010KT CAVOK YSTW 220452Z 2206/2224 14014KT 9999 -SHRA NSC FM220800 14005KT CAVOK YTNK 220721Z 2208/2220 07008KT CAVOK YTRE 220703Z 2208/2220 24005KT 9999 -SHRA SCT040 BKN080 FM220900 27014KT CAVOK YWLM 220507Z 2206/2306 34012KT 9999 FEW040 FM220700 36008KT CAVOK FM222200 30014KT CAVOK FM230200 31018G28KT CAVOK ZBAA 220330Z 2206/2306 16004MPS 3500 BR NSC TX33/2207Z TN24/2221Z TEMPO 2215/2221 2400 SHRA BR FEW040CB BKN040 ZBHH 220302Z 2206/2306 06004MPS 3500 -SHRA BR BKN030 FEW040CB TX21/2207Z TN17/2222Z TEMPO 2207/2210 TSRA ZBSJ 220105Z 2206/2306 15004MPS 3500 -SHRA BKN040 TX33/2207Z TN20/2221Z TEMPO 2208/2214 -TSRA FEW030CB BKN040 ZBTJ 220301Z 2206/2306 18004MPS 5000 HZ NSC TX35/2206Z TN25/2220Z TEMPO 2216/2220 -TSRA FEW030CB BKN040 TEMPO 2220/2301 2500 RA ZBYN 220309Z 2206/2306 09004MPS 2500 -RA BR SCT040 TX27/2207Z TN19/2221Z TEMPO 2206/2210 SHRA BR FEW030CB SCT040 ZGGG 220304Z 2206/2306 18003MPS 8000 BKN033 TX34/2207Z TN27/2222Z TEMPO 2206/2212 2500 TSRA SCT011 SCT030CB BKN033 ZGHA 220207Z 2206/2306 18004MPS 6000 NSC TX36/2207Z TN28/2222Z TEMPO 2206/2210 -TSRA BKN013 FEW040CB BKN040 ZGKL 220316Z 2206/2306 17003MPS 9999 SCT030 BKN050 TX35/2207Z TN25/2223Z TEMPO 2206/2212 FEW030CB BKN040 ZGNN 220305Z 2206/2306 16003MPS 7000 SCT033 TX34/2207Z TN26/2222Z TEMPO 2206/2212 TSRA SCT010 FEW026CB BKN030 ZGOW 220302Z 2206/2306 20003MPS 6000 FEW015 SCT040 TX31/2206Z TN26/2222Z TEMPO 2206/2212 2500 SHRA FEW011 FEW026CB BKN030 ZGSZ 220315Z 2206/2306 17004MPS 6000 SCT040 TX31/2207Z TN28/2221Z TEMPO 2206/2210 TSRA SCT010 FEW020CB BKN030 ZHCC 220306Z 2206/2306 18003MPS CAVOK TX37/2207Z TN25/2222Z TEMPO 2206/2212 4000 -TSRA FEW030CB BKN040 ZHHH 220250Z 2206/2306 22003MPS 5000 HZ SCT020 TX35/2207Z TN27/2222Z TEMPO 2206/2210 3000 TSRA BR SCT011 SCT030CB OVC033 ZJHK 220303Z 2206/2306 18004MPS 9999 SCT020 TX35/2206Z TN27/2221Z TEMPO 2206/2212 TSRA SCT020 FEW026CB ZJSY 220302Z 2206/2306 20004MPS 9999 SCT020 TX33/2206Z TN28/2221Z TEMPO 2220/2302 SCT016 FEW025CB BKN040 ZKPY 220420Z 2206/2306 26004MPS 6000 BKN017 TX32/2206Z TN23/2220Z TEMPO 2216/2224 1000 BR BECMG 2302/2304 18004MPS ZKWS 220420Z 2206/2306 24006MPS CAVOK TX34/2206Z TN24/2220Z ZLLL 220301Z 2206/2306 20003MPS 6000 SCT023 TX27/2208Z TN12/2222Z TEMPO 2207/2212 33008MPS -TSRA SCT023 FEW033CB ZLXY 220318Z 2206/2306 26004G10MPS 2800 -RA BR NSC TX34/2305Z TN20/2222Z BECMG 2207/2208 3000 BR TEMPO 2206/2210 1400 SHRA FEW040CB OVC050 ZMUB 220440Z 2206/2312 VRB02MPS 9999 RA FEW023 FEW027CB BKN030 TX18/2207Z TN11/2221Z TEMPO 2206/2214 VRB08MPS TS SHRA FEW023 SCT027CB BKN030 TEMPO 2301/2312 VRB08MPS TS SHRA FEW023 SCT027CB BKN030 ZPPP 220118Z 2206/2306 22006MPS 9999 SCT023 BKN036 TX23/2208Z TN17/2223Z TEMPO 2209/2213 TSRA FEW023CB SCT023 BKN036 ZSAM 220301Z 2206/2306 19004G09MPS 6000 BKN026 TX33/2206Z TN27/2221Z TEMPO 2206/2212 TSRA SCT010 FEW023CB OVC026 ZSFZ 220307Z 2206/2306 19006MPS 6000 BKN015 TX31/2207Z TN26/2221Z PROB40 TEMPO 2206/2210 -TSRA BKN009 FEW025CB ZSHC 220305Z 2206/2306 20003MPS 3000 HZ NSC TX36/2207Z TN27/2221Z TEMPO 2207/2212 2800 TS BR FEW030CB BKN033 ZSNB 220224Z 2206/2306 17005MPS 4000 BR SCT030 TX35/2206Z TN26/2221Z TEMPO 2206/2210 TSRA BKN020 FEW030CB ZSNJ 220302Z 2206/2306 12004MPS 6000 SCT023 TX36/2206Z TN25/2221Z ZSOF 220301Z 2206/2306 16003MPS 5000 HZ NSC TX37/2207Z TN27/2221Z ZSPD 220328Z 2206/2306 17004MPS 6000 BKN015 TX35/2206Z TN27/2221Z TEMPO 2206/2212 TSRA BKN011 SCT030CB ZSQD 220302Z 2206/2306 18004MPS CAVOK TX36/2207Z TN26/2220Z ZSSS 220310Z 2206/2306 16004MPS 9999 BKN020 TX36/2206Z TN28/2221Z ZUCK 220311Z 2206/2306 03003MPS 6000 SCT050 TX34/2208Z TN25/2222Z TEMPO 2206/2209 TSRA SCT030 FEW040CB ZUGY 220301Z 2206/2306 18004MPS 6000 BKN033 TX31/2207Z TN24/2222Z TEMPO 2206/2210 FEW026CB BKN033 ZUUU 220324Z 2206/2306 02004MPS 4000 BR SCT040 TX28/2305Z TN22/2223Z TEMPO 2206/2210 -SHRA FEW030CB SCT040 ZWSH 220310Z 2206/2306 11004MPS CAVOK TX35/2209Z TN23/2300Z BECMG 2212/2213 32007MPS 9999 FEW040CB ZWWW 220310Z 2206/2306 33004MPS CAVOK TX33/2209Z TN24/2222Z BECMG 2213/2214 16004MPS ZYCC 220309Z 2206/2306 26004MPS 6000 FEW023 TX31/2206Z TN23/2221Z ZYHB 220302Z 2206/2306 28003MPS 5000 BR SCT020 TX30/2206Z TN20/2221Z ZYTL 220305Z 2206/2306 23004MPS CAVOK TX38/2206Z TN25/2220Z BECMG 2211/2212 13004MPS ZYTX 220128Z 2206/2306 23004MPS CAVOK TX36/2206Z TN26/2221Z